ENHM 281020Z 15043KT 9999 FEW057 BKN072 06/01 Q0997 W07/S5 UUOK 280400Z 11007G12MPS CAVOK M01/M05 Q1028 NOSIG RMK 12150060 KIWI 280953Z AUTO VRB06KT 10SM OVC080 02/M07 A2979 RMK AO2 SLP087 T00171072 KJMR 281036Z AUTO 00000KT 10SM CLR M08/M10 A3020 RMK AO2 KJMS 280956Z AUTO 16008KT 10SM OVC011 M02/M03 A3002 RMK AO2 CIG 008V012 SLP185 T10171033 PPIT 280956Z AUTO 35005KT 10SM BKN080 M02/M03 A2941 RMK AO2 SLP959 T10221028 FZRANO KIXA 281035Z AUTO 31004KT 10SM -DZ BKN034 OVC042 02/01 A2992 RMK AO2 UUOO 281030Z 10009G14MPS CAVOK 04/M13 Q1031 TEMPO 10012G17MPS RMK 12090060 KIXD 280953Z AUTO 11008KT 10SM BKN080 03/M03 A3010 RMK AO2 SLP195 T00331033 ENHV 272150Z 19024G36KT 9999 DRSN NSC M00/M05 Q1005 KM63 280956Z AUTO 10008KT 10SM CLR 17/M10 A3012 RMK AO2 SLP138 T01681100 PPIZ 281042Z AUTO 9SM BKN006 OVC011 M26/M29 A2986 RMK AO2 TSNO $ KIYA 281035Z AUTO 00000KT 10SM CLR 09/06 A3018 RMK AO2 T00860055 ENKB 281020Z 16006KT 100V190 9999 SCT050 09/M03 Q1003 FDSK 281000Z 18006KT 140V210 9999 SCT025 BKN035 23/17 Q1019 WS RWY20 KJNX 281035Z AUTO 00000KT 10SM CLR 02/02 A2993 RMK AO2 KIZA 281035Z AUTO 02003KT 1SM BR OVC001 10/09 A3010 RMK AO2 ENLA 281020Z AUTO 16045KT 2300NDV RA BKN013/// 05/03 Q1000 W///S4 KJOT 281035Z AUTO 00000KT 10SM CLR M07/M09 A3026 RMK AO2 T10681090 FDST 280900Z AUTO 22006KT //// // ////// 20/18 Q1020 KJQF 281035Z AUTO 32004KT 10SM SCT049 02/M03 A3000 RMK AO2 LBGO 281030Z AUTO 29010KT 9999 SCT021/// OVC027/// 12/09 Q1004 R99/29//94 NOSIG KIZG 280954Z AUTO 02005KT 10SM FEW047 SCT060 OVC080 01/M06 A2978 RMK AO2 SLP090 T00061056 ENKR 281020Z 21012KT 9999 BKN019 00/M03 Q1003 RMK WIND 731FT 22024KT ENLK 280950Z 16016KT 9999 SCT012 BKN025 04/01 Q1000 KM91 281035Z AUTO 01003KT 10SM CLR M04/M07 A3018 RMK KN03 281035Z AUTO 36004KT 10SM OVC065 M07/M11 A2992 RMK AO2 ENMH 280650Z 22022KT 9999 BKN025 M00/M03 Q1000 KLAA 280953Z AUTO 23007KT 10SM CLR 06/01 A3001 RMK AO2 SLP137 T00610011 ENNA 281020Z 18011KT CAVOK 01/M05 Q1002 RMK WIND 1800FT 25005KT ENML 280950Z 07006KT 9999 FEW050 SCT060 07/01 Q1004 ENNE 280950Z 22025KT 9999 FEW018 SCT030 06/00 Q0999 W///S5 KLAF 280954Z AUTO 34004KT 10SM CLR M09/M11 A3022 RMK AO2 SLP242 I1000 T10891106 TSNO KLBB 280953Z 12005KT 10SM CLR 07/02 A3005 RMK AO2 SLP145 T00670022 ENMS 280850Z 17010KT 9999 VCSH FEW020 BKN030 03/M01 Q1004 RMK WIND 412FT 19007KT ENOA 281020Z 16039KT 9999 BKN020 07/03 Q0999 W///S4 KLAL 280954Z 35006KT 12SM SKC 11/06 A3009 RMK FIRST ENNK 280950Z 03006KT 9999 FEW020 BKN040 02/M03 Q1003 KJTC 281035Z AUTO 18009KT 10SM CLR 05/M08 A3034 RMK AO2 KLAM 281035Z AUTO 00000KT 10SM CLR 09/M08 A3027 RMK AO2 T00881076 KLAN 280953Z 32005KT 10SM CLR M10/M15 A3021 RMK AO2 SLP245 T11001150 ENNM 280920Z VRB07KT 9999 FEW020 BKN040 05/M00 Q1006 KLBE 281035Z AUTO 32008KT 10SM -SN FEW002 SCT015 OVC036 M09/M13 A3003 RMK AO2 P0002 KLBF 280953Z AUTO 33005KT 10SM CLR M01/M02 A2996 RMK AO2 SLP145 T10111017 $ KJSO 281035Z AUTO 10003KT 10SM CLR 09/02 A3013 RMK AO2 T00950030 ENNO 271750Z 28003KT 230V010 9999 FEW050 03/01 Q1010 KLAR 280953Z AUTO 26010KT 10SM CLR 01/M06 A3014 RMK AO2 SLP145 T00111056 LATI 281050Z 32008KT 9999 BKN080 BKN130 15/05 Q1005 NOSIG VMMC 281030Z 13008KT 9999 FEW020 20/18 Q1016 NOSIG KLAS 280956Z 20009KT 10SM CLR 19/M04 A3001 RMK AO2 SLP141 T01941044 KJST 281014Z AUTO 31015KT 8SM -SN FEW013 SCT017 OVC025 M12/M16 A2986 RMK AO2 P0000 T11171161 KLBL 281035Z AUTO 25012KT 10SM CLR 09/00 A3001 RMK AO1 ENOL 281020Z 14013KT CAVOK 07/M04 Q1005 NOSIG KJSV 281035Z AUTO 08004KT 10SM -RA SCT100 06/02 A3009 RMK AO2 KLAW 280953Z AUTO 00000KT 10SM CLR 06/03 A3005 RMK AO2 SLP176 T00560033 KLAX 280953Z 00000KT 10SM CLR 15/13 A3005 RMK AO2 SLP174 T01500133 KLCG 281035Z AUTO 12005KT 10SM CLR M03/M06 A3008 RMK AO2 T10311056 KLCH 280953Z AUTO 00000KT 10SM CLR 08/06 A3015 RMK AO2 SLP218 T00830061 KLCI 280815Z AUTO 00000KT FEW045 FEW060 OVC075 01/M03 A2974 RMK AO1 KN38 281035Z AUTO 33007G16KT 1 3/4SM -SN SCT005 BKN013 OVC033 M08/M10 A2987 RMK AO2 ENQA 281020Z AUTO 16041KT 9999NDV BKN011/// BKN052/// 05/04 Q1001 W04/S5 KLBT 280954Z AUTO 01009KT 10SM FEW016 BKN032 OVC041 06/03 A2993 RMK AO2 SLP135 T00610033 KLCK 281035Z AUTO 36008KT 10SM SCT028 SCT034 BKN050 M07/M13 A3016 RMK AO2 T10711129 ENQC 281020Z AUTO 15039KT 9999NDV BKN012/// BKN056/// 06/03 Q1001 W///S5 ENOV 280950Z 25008G18KT 190V320 9999 SCT042 SCT050 08/M01 Q1004 RMK WIND THR24 05006KT AT 2175FT 15025KT KLBX 281009Z AUTO 01003KT 3SM BR CLR 11/11 A3013 RMK AO2 T01060106 KLCQ 281035Z AUTO 29005KT 10SM CLR 05/02 A3009 RMK AO2 P0001 VLVT 281030Z 18004KT 8000 SCT020 FEW200 31/19 Q1009 NOSIG KKLS 281035Z 15008KT 10SM FEW019 BKN035 OVC042 10/07 A3024 RMK AO1 KLDJ 281035Z AUTO 35011G15KT 10SM OVC110 04/M05 A2981 RMK AO2 T00351048 KLEB 280953Z 02008KT 10SM OVC070 M01/M07 A2980 RMK AO2 SLP097 T10061072 ENRA 280950Z 23003KT 9999 SCT030 BKN040 01/M04 Q1004 KJVL 281035Z AUTO 00000KT 10SM CLR M08/M10 A3025 RMK AO2 KLDM 281035Z AUTO 00000KT 10SM CLR M13/M15 A3028 RMK AO2 T11331155 KLEE 280953Z AUTO 33006KT 10SM CLR 11/04 A3007 RMK AO2 SLP182 T01110044 KJWG 281035Z AUTO 21013G19KT 10SM CLR 08/05 A3001 RMK AO2 T00830047 ENQR 281020Z AUTO 16038KT 9999NDV BKN017/// 07/03 Q0997 W///S5 KN60 280952Z AUTO 11005KT M03/M04 A2993 RMK AO1 SLP149 T10331044 UUWW 281030Z 13008G14MPS 110V180 9999 SCT047 BKN200 03/M09 Q1031 WS RWY06 06000070 NOSIG ENSB 280950Z 24012KT 9999 -SN FEW008 SCT020 BKN035 M03/M04 Q0990 RMK WIND 1400FT 21010KT ENSD 281020Z 20010KT 150V240 9999 SCT038 SCT045 BKN070 08/M01 Q1004 RMK WIND 1138FT 18007KT 120V240 ENRM 280920Z 18011KT 9999 BKN035 06/00 Q1005 UWGG 281030Z 15007MPS CAVOK 02/M13 Q1042 TEMPO 15006G12MPS 18090060 RMK QFE775 KJVW 281035Z AUTO 00000KT 6SM HZ CLR 03/00 A3020 RMK AO2 LCEN 281020Z 10011KT 8000 -RA FEW025 SCT030 OVC080 14/12 Q1008 NOSIG ENSE 281020Z AUTO 18037KT 9999NDV FEW017/// SCT025/// BKN150/// 08/04 Q0998 W///S5 ENRO 281020Z AUTO 09003KT 060V150 9999NDV NSC M00/M07 Q1005 ENSG 280950Z 07005KT 9999 FEW035 SCT180 03/M04 Q1006 RMK WIND 3901FT 16011KT KLFI 280958Z AUTO 35011G22KT 10SM OVC070 04/M02 A2984 RMK AO2 SLP112 T00361018 $ KJXI 281035Z AUTO 18004KT 10SM CLR 06/04 A3011 RMK AO2 T00640040 ENSH 280950Z 20018KT 9999 SCT018 SCT045 03/M00 Q1001 KLGA 280951Z 34011KT 10SM BKN055 OVC065 02/M07 A2976 RMK AO2 SLP076 T00221067 ENRS 280750Z 17017KT 9999 SCT035 04/00 Q1000 KLGB 281024Z 10003KT 9SM FEW006 16/14 A3005 RMK AO2 T01610144 KLFK 280953Z AUTO 00000KT 10SM CLR 09/05 A3014 RMK AO2 SLP203 T00940050 ENSK 272050Z 15018KT 9999 -SHRA FEW015 SCT025 BKN040 02/M00 Q1004 KLGC 281035Z AUTO 33005KT 10SM SCT036 SCT120 05/03 A3010 RMK AO2 T00490030 ENTC 281020Z 19016KT 9999 FEW026 SCT035 02/M02 Q1001 NOSIG RMK WIND 2600FT 17018KT ENSL 281020Z 17047KT 6000 -RA BKN016 06/03 Q0996 W04/S5 KLGD 281035Z AUTO 30013G18KT 9SM FEW029 BKN036 OVC050 08/02 A3007 RMK AO1 P0002 LBPD 281030Z AUTO 31008KT 9999 FEW018/// OVC042/// 14/10 Q1004 NOSIG KLEW 281035Z AUTO 02016G20KT 10SM BKN050 OVC080 01/M07 A2978 RMK AO1 KJXN 280956Z 29003KT 10SM CLR M11/M14 A3019 RMK AO2 SLP239 T11111139 ENSN 271850Z 08003KT CAVOK 03/00 Q1010 KLEX 280954Z 33006KT 10SM BKN039 M07/M11 A3013 RMK AO2 SLP212 T10671106 $ ENSO 271820Z 18006KT 9999 FEW012 SCT020 BKN040 04/02 Q1012 KJYG 281035Z AUTO 10005KT 10SM OVC060 M02/M04 A3017 RMK AO2 KJWY 281035Z AUTO 15004KT 10SM CLR 07/05 A3011 RMK AO2 T00740047 ENRY 281020Z 12006KT 9999 NSC 03/00 Q1012 ENSR 280950Z 15010KT CAVOK 02/M05 Q1001 WIND 1119FT 13006KT ENSS 280850Z 21019KT 9999 BKN020 00/M03 Q1003 RMK WIND 500FT 22033KT KLFT 280953Z AUTO 00000KT 10SM CLR 09/07 A3017 RMK AO2 SLP216 T00940067 KLHB 281035Z AUTO 00000KT 10SM CLR 09/06 A3015 RMK AO2 T00900056 ENST 281020Z 18022KT 9999 -SHRA FEW015 SCT020 BKN030 04/01 Q1003 RMK WIND 300FT 16024KT KJYL 281035Z AUTO 31007KT 10SM CLR 06/01 A3003 RMK AO2 T00590013 KJYM 281035Z AUTO 00000KT 10SM CLR M11/M14 A3018 RMK AO2 T11081143 UUYY 281030Z 19005MPS CAVOK 03/M17 Q1040 NOSIG 19CLRD61 RMK QFE771/1028 EPCE 281030Z 31006KT 9999 BKN025 06/01 Q1017 RMK 063 070 7/7 = KJYO 281035Z AUTO 32017G23KT 10SM CLR M02/M08 A2995 RMK AO2 ENTO 281020Z 18007KT CAVOK 05/M01 Q1011 KJZI 281035Z AUTO 28005KT 10SM CLR 07/06 A2999 RMK A02 P000 KJYR 281035Z AUTO 10008KT 10SM SCT080 OVC110 00/M03 A3004 RMK AO2 EPDA 281030Z 27009KT 8000 FEW051 06/04 Q1018 RMK 055 090 1/1 = ENVA 281020Z 11005KT 040V150 CAVOK 08/M05 Q1006 NOSIG RMK WIND 670FT 16010KT FGBT 280900Z 00000KT 9999 FEW010 OVC100 26/24 Q1014 NOSIG KLGU 280951Z AUTO 00000KT 10SM CLR 06/01 A3011 RMK AO2 SLP171 T00560011 KLIC 280955Z AUTO 34004KT 10SM CLR 01/M02 A3008 RMK AO2 SLP153 T00111017 KLHM 281035Z AUTO 00000KT 10SM CLR 11/08 A3011 RMK AO1 ENVD 280950Z 23018KT 9999 SCT020 BKN050 01/M03 Q1002 EPDE 281030Z 33006KT 5000 RA BR SCT014 OVC033 05/04 Q1016 RMK 054 090 8/4= EPBY 281030Z 32007KT 9000 BKN018 OVC023 07/04 Q1018 KLHQ 280953Z AUTO 36010KT 10SM SCT026 M07/M11 A3014 RMK AO2 SLP216 T10671111 ENVH 281020Z AUTO 16039KT 4500NDV -RA OVC012/// 06/04 Q1003 W///S4 UWKD 281030Z 14002MPS CAVOK 01/M14 Q1046 R11/CLRD70 NOSIG RMK QFE774/1032 UWKE 281030Z 05005MPS 9999 SCT023 00/M12 Q1044 NOSIG RMK QFE766/1021 03090070 KMAE 280953Z AUTO 10SM CLR 14/08 A3010 RMK AO2 SLP189 T01440083 $ KLHW 280958Z AUTO 26006KT 10SM CLR 06/01 A3000 RMK AO2 SLP162 T00640008 KMAF 280953Z AUTO 19007KT 10SM CLR 13/02 A3006 RMK AO2 SLP145 T01280022 PWINO KLHX 280953Z AUTO 26015KT 10SM CLR 08/01 A3004 RMK AO2 SLP137 T00830011 KLJF 281032Z AUTO 00000KT 10SM CLR M05/M09 A3017 RMK AO2 LBSF 281030Z 28015KT 9999 SCT015 OVC034 09/06 Q1005 NOSIG DXNG 280900Z 27004KT 250V330 CAVOK 28/21 Q1018 QNOSIG KLHZ 281035Z AUTO 00000KT 2SM BR BKN110 00/00 A2993 RMK AO2 VOCB 281030Z 06005KT 8000 FEW015 35/12 Q1010 NOSIG KMAI 280953Z AUTO 29003KT 10SM CLR 06/03 A3012 RMK AO2 SLP198 T00560028 ENVR 280750Z 19021KT 9999 VCSH FEW012 SCT023 04/01 Q1001 VOBL 281030Z 07010KT 040V110 CAVOK 36/07 Q1013 NOSIG KLIT 280953Z 00000KT 10SM CLR 06/01 A3017 RMK AO2 SLP219 T00560006 KO22 281035Z AUTO 00000KT 10SM CLR 09/08 A3012 RMK AO1 KMAN 281035Z AUTO 00000KT 10SM CLR 08/07 A2998 RMK AO1 KMAO 281035Z AUTO 32005KT 10SM CLR 06/04 A2996 RMK AO2 KMBG 280952Z AUTO 10009KT 10SM CLR M03/M05 A2997 RMK AO2 SLP163 T10331050 VOCI 281030Z 28009KT 5000 HZ FEW020 33/23 Q1007 NOSIG UWKS 281030Z 15004MPS CAVOK 00/M13 Q1045 NOSIG RMK QFE768 06000060 VNKT 280950Z 25006KT 8000 SCT020 24/14 Q1016 NOSIG VOCL 281030Z 32007KT 8000 FEW015 34/24 Q1007 NOSIG KMCB 280953Z AUTO 00000KT 10SM CLR 04/03 A3017 RMK AO2 SLP215 T00390028 KMBL 281035Z AUTO 00000KT 10SM CLR M14/M17 A3028 RMK AO1 KMCC 281035Z AUTO 11005KT 10SM CLR 13/10 A3012 RMK AO2 KMCD 281035Z AUTO 35004KT 10SM CLR M13/M15 A3025 RMK AO2 T11301146 KMCE 280953Z AUTO 33007KT 10SM CLR 14/09 A3009 RMK AO2 SLP189 T01440094 EPGD 281030Z 31013KT 9999 SCT030 08/02 Q1016 KMCF 280958Z AUTO 04006KT 10SM CLR 15/09 A3008 RMK AO2 SLP189 T01470089 KMCI 280953Z 11009KT 10SM BKN065 OVC080 03/M04 A3010 RMK AO2 SLP196 T00281039 KLKR 281035Z AUTO 00000KT 10SM CLR 03/M03 A2998 RMK AO2 KMBS 280953Z 34010KT 10SM CLR M09/M14 A3021 RMK AO2 SLP242 T10891144 KLLJ 280955Z AUTO 00000KT 10SM CLR 06/M01 A2999 RMK AO2 SLP116 T00561006 KMCJ 281035Z AUTO 07006KT 10SM CLR 15/05 A3010 RMK AO1 KMCK 280953Z AUTO 24004KT 10SM CLR 02/M01 A2995 RMK AO2 SLP139 T00221006 LCLK 281030Z 08015KT 7000 -RA FEW050 16/14 Q1009 NOSIG UWLW 281000Z 11003G06MPS 8000 SKC 03/M09 Q1045 20CLRD60 TEMPO 09006MPS RMK QFE778 KLKU 281035Z AUTO 33004KT 10SM OVC060 01/M07 A2992 RMK AO2 KLKV 281035Z 25008KT 10SM FEW034 SCT046 06/M02 A3026 RMK AO1 KMDD 281035Z AUTO 20009KT 10SM CLR 14/02 A3007 RMK AO2 T01350020 KMCN 280953Z AUTO 28005KT 10SM CLR 03/01 A3005 RMK AO2 SLP173 T00330006 TSNO KMCO 280953Z 32010KT 10SM SCT250 13/04 A3007 RMK AO2 SLP180 T01330044 KLLQ 280953Z AUTO 00000KT 10SM CLR 03/02 A3018 RMK AO2 SLP218 T00280017 KMDH 280952Z 00000KT 10SM CLR M03/M06 A3021 RMK AO2 SLP233 T10331061 KMDJ 281035Z AUTO 05014KT 10SM FEW028 SCT046 16/07 A3020 RMK A01 KMEB 280952Z AUTO 34007KT 10SM FEW034 BKN050 OVC095 05/01 A2995 RMK AO2 SLP141 T00500011 KLNC 281035Z AUTO 00000KT 10SM CLR 06/03 A3010 RMK AO2 T00570028 KLND 280953Z AUTO 20005KT 10SM CLR 05/M05 A3005 RMK AO2 SLP134 T00501050 KMCW 280953Z AUTO 14006KT 10SM BKN080 M05/M09 A3018 RMK AO2 SLP230 T10501094 KO54 281035Z AUTO 00000KT 10SM CLR 06/03 A3023 RMK AO1 KLMO 281035Z AUTO 29006KT 10SM CLR 06/M01 A3008 RMK AO2 T00571010 KMCX 281035Z AUTO 01004KT 10SM CLR M08/M12 A3023 RMK AO2 T10811116 KMEH 281043Z AUTO 00000KT 6SM -RA BR FEW009 SCT017 OVC041 05/03 A3009 RMK AO2 P0010 T00500033 KMDQ 281035Z AUTO 00000KT 10SM CLR M01/M05 A3016 RMK AO2 KMEI 280958Z AUTO 32004KT 10SM CLR 02/01 A3019 RMK AO2 SLP222 T00220011 KMDS 281035Z AUTO 16009KT 10SM OVC035 M02/M02 A3007 RMK AO2 KLMT 280953Z AUTO 26010KT 10SM CLR 03/M02 A3028 RMK AO2 PK WND 28028/0918 SLP233 T00331017 KLNK 280954Z AUTO 11007KT 10SM FEW085 OVC110 02/M04 A3008 RMK AO2 SLP194 T00171044 KMDT 281044Z 31013KT 3SM -SN BKN020 BKN025 OVC031 M02/M05 A2989 RMK AO2 P0001 T10221050 $ LDDU 281030Z 36017G29KT 290V100 9999 FEW054 14/M00 Q1008 NOSIG KLNL 281035Z AUTO 00000KT 10SM CLR M21/M24 A3019 RMK AO2 T12141239 UWOO 281030Z 02005MPS P5000 SKC M02/M15 Q1042 08CLRD60 NOSIG RMK QFE771/1028 KMFD 281028Z 30007KT 2SM -SN BR FEW015 OVC019 M12/M14 A3011 RMK AO2 SNB15 P0000 T11171139 KMEM 280954Z 11005KT 10SM SCT090 OVC110 03/M07 A3019 RMK AO2 SLP224 T00331067 KMDW 280953Z 32003KT 10SM CLR M06/M11 A3024 RMK AO2 SLP255 T10561106 ENZV 281020Z 16019KT 9999 SCT023 SCT050 BKN130 07/02 Q1007 BECMG 15025G35KT KMFE 280953Z AUTO 17004KT 10SM CLR 14/11 A3016 RMK AO2 SLP211 T01440111 KLNN 281035Z AUTO 02007KT 10SM CLR M09/M14 A3013 RMK AO1 T10881141 LBWN 281030Z VRB02KT 9999 SCT009 BKN012 12/10 Q1003 R99/29//95 NOSIG UWOR 281000Z 02009MPS 9999 BKN033CB M06/M12 Q1039 07910255 NOSIG RMK QFE754/1006 KLNP 281035Z AUTO 32005KT 7SM SCT026 OVC036 M05/M10 A2998 RMK AO2 PWINO KMDZ 281035Z AUTO 15004KT 10SM CLR M11/M12 A3018 RMK AO2 T11081125 KMFI 280954Z AUTO 00000KT 10SM CLR M08/M12 A3020 RMK AO2 SLP246 T10781122 KLNR 280956Z AUTO 11004KT 10SM CLR M08/M12 A3025 RMK AO2 SLP247 T10781117 KMER 281035Z AUTO 10SM CLR 11/11 A3009 RMK AO1 EPIR 281030Z 31010KT 9999 SCT017 BKN025 08/05 Q1017 RMK 077 080 7/4 = KLNS 281045Z 33010KT 4SM -SN FEW024 OVC034 M01/M04 A2986 RMK AO2 SNB0959 P0000 T10111039 KO69 281035Z AUTO 30003KT 10SM SCT003 07/07 A3017 RMK AO1 DXSK 280900Z 00000KT CAVOK 27/23 Q//// KLOL 280953Z AUTO 00000KT 10SM CLR 07/M04 A3016 RMK AO2 SLP189 T00721044 KLPC 281035Z AUTO 24003KT 8SM OVC004 12/08 A3011 RMK AO1 KMGC 281035Z AUTO 00000KT 10SM CLR M09/M15 A3026 RMK AO2 KMEV 281035Z AUTO 07006KT 10SM CLR 05/M04 A3021 RMK AO2 KLOM 281035Z AUTO 32003KT 10SM OVC065 01/M06 A2981 RMK AO1 KMGE 280958Z AUTO 33010KT 10SM OVC033 03/M03 A3005 RMK AO2 SLP180 T00251035 $ KMGG 281036Z AUTO 00000KT 10SM CLR M06/M08 A3019 RMK AO2 T10601082 KMEZ 281035Z AUTO 00000KT 10SM OVC100 05/03 A3014 RMK AO2 LCPH 281030Z 12009KT 9999 SCT022 BKN027 FEW030TCU 19/14 Q1009 KLOR 280953Z AUTO 31003KT 10SM CLR 04/01 A3012 RMK AO2 SLP199 T00390011 KMFR 280953Z AUTO 00000KT 10SM CLR 08/04 A3034 RMK AO2 SLP269 T00830044 KMGJ 280954Z AUTO 31007KT 10SM OVC070 M01/M08 A2978 RMK AO2 SLP086 T10111078 TSNO KLOT 281035Z AUTO 01003KT 10SM CLR M07/M10 A3025 RMK AO2 T10701101 KLOU 280953Z AUTO 33005KT 10SM CLR M04/M11 A3018 RMK AO2 SLP225 T10441106 TSNO EPKK 281030Z 30006KT 9999 SCT020 BKN040 07/03 Q1017 KMGM 280953Z 30004KT 10SM OVC110 05/02 A3014 RMK AO2 SLP205 T00500022 KMFV 281035Z AUTO 33013G31KT 10SM SCT050 03/M05 A2985 RMK AO2 KMHE 280953Z AUTO 12006KT 10SM CLR M04/M06 A3007 RMK AO2 SLP200 T10391056 KMGN 281035Z AUTO 00000KT 10SM CLR M14/M17 A3026 RMK AO2 T11451169 FHAW 280850Z 14012KT 9999 FEW021 SCT045 27/21 Q1016 BLU VOHS 281010Z 04008KT 6000 FEW020 38/10 Q1012 NOSIG KLOZ 280953Z AUTO 33008KT 10SM OVC041 M02/M12 A3009 RMK AO2 SLP197 T10221122 KO86 281030Z AUTO 32003KT 10SM CLR 08/02 A3024 RMK AO1 KLPR 280953Z AUTO 02011KT 10SM FEW033 OVC049 M08/M14 A3013 RMK AO2 SLP214 T10781139 TSNO KMGR 281035Z AUTO 00000KT 10SM CLR 05/02 A3010 RMK AO2 KMIA 280953Z 32009G14KT 10SM FEW020 OVC150 18/13 A3003 RMK AO2 SLP170 T01780133 LCRA 280950Z 07003KT 9999 -RA BKN038 OVC080 16/15 Q1009 NOSIG EPKS 281030Z 32010KT 9999 BKN027 08/02 Q1018 RMK 084 063 6/6= KMHK 280952Z AUTO 09003KT 10SM FEW120 03/M04 A3002 RMK AO2 SLP170 T00331044 TSNO KLQK 281035Z AUTO 30008KT 10SM CLR M01/M02 A2998 RMK AO2 T10081017 KMIB 281041Z AUTO 14007KT 3/4SM R29/1600FT -FZDZ BR VV001 M03/M03 A2991 RMK AO2 FZDZB21 $ EPMB 281030Z 34006KT 7000 SCT017 BKN025 07/02 Q1017 RMK 071 069 6/4= EPLK 281030Z 30010KT 8000 SCT013 BKN020 06/03 Q1017 RMK 059 084 7/4= KMHL 281035Z AUTO 11003KT 10SM OVC060 02/00 A3017 RMK AO2 KMIC 280953Z AUTO 00000KT 10SM SCT080 M06/M11 A3018 RMK AO2 SLP230 T10561111 TSNO EPKT 281030Z 31010KT 9999 FEW015TCU SCT021 BKN043 07/02 Q1017 EPLL 281030Z 31007KT 280V340 9000 BKN012 OVC018 07/04 Q1017 KLRD 280956Z AUTO 16007KT 10SM CLR 12/06 A3015 RMK AO2 T01220061 SLP201 VOHY 280740Z 19004KT 6000 FEW020 FEW200 38/06 Q1015 NOSIG KMGW 280953Z AUTO 31008KT 10SM CLR M08/M16 A3001 RMK AO2 SLP177 T10781161 TSNO KMIE 280953Z 34004KT 10SM CLR M08/M10 A3017 RMK AO2 SLP225 T10781100 KLRF 280958Z AUTO 09004KT 10SM FEW080 BKN170 05/01 A3016 RMK AO2 SLP217 T00490009 KMGY 280953Z AUTO 34005KT 10SM CLR M07/M09 A3013 RMK AO2 SLP216 T10721094 KMHR 281045Z 150003KT 10SM SKC 09/08 A3011 KMHS 280956Z AUTO 35009G25KT 300V030 10SM CLR 08/01 A3024 RMK AO2 SLP242 T00780011 KP08 281035Z AUTO 11007KT 10SM CLR 13/M04 A3005 RMK AO2 KLRJ 281035Z AUTO 12007G14KT 090V150 10SM OVC047 M00/M02 A3012 RMK AO2 LEAB 281000Z 30011KT CAVOK 16/08 Q1029 NOSIG KMHT 280953Z 36009KT 9SM -SN OVC042 02/M01 A2973 RMK AO2 SNB39 SLP084 P0000 T00171006 KLSB 281035Z AUTO 19007KT 10SM CLR 06/M07 A3018 RMK AO2 KMHV 281035Z AUTO 26014G25KT 10SM CLR 18/03 A3010 RMK AO1 EPMM 281030Z 32006KT 6000 -RA FEW007 BKN010 OVC020 06/03 Q1016 RMK 057 084 8 KLSE 280953Z AUTO 11004KT 10SM FEW110 M06/M10 A3023 RMK AO2 SLP250 T10561100 KLRO 281035Z AUTO 29004KT 10SM CLR 07/06 A2997 RMK AO2 KLSF 280958Z AUTO 29005KT 10SM CLR 01/00 A3011 RMK AO2 SLP200 T00101004 EPMO 281030Z 31009KT 8000 BKN014 08/05 Q1016 LEAG 281030Z AUTO 16004KT 120V200 CAVOK 20/13 Q1027 EPLY 281030Z 31006KT 8000 SCT012 OVC025 08/06 Q1018 RMK 076 091 8/3= UWSS 281030Z 11009G13MPS CAVOK 01/M07 Q1040 120///60 NOSIG RMK QFE768 LEBA 281000Z 09004KT 040V140 CAVOK 19/12 Q1029 KMIS 281035Z AUTO 04015KT 10SM CLR 16/05 A3017 RMK A01 LEBB 281030Z 32007KT 9999 SCT010 BKN014 BKN025 13/11 Q1031 TEMPO 3000 -DZ BR KNAK 280954Z AUTO 32011KT 10SM OVC090 02/M07 A2987 RMK AO2 SLP116 T00221067 LEAL 281030Z 09009KT CAVOK 20/12 Q1025 NOSIG KMKC 280954Z 11008KT 10SM OVC070 04/M05 A3011 RMK AO2 SLP197 T00441050 KLRU 281035Z AUTO 00000KT 10SM CLR 06/M10 A3016 RMK AO2 T00631099 KNBC 280956Z AUTO 31010KT 10SM CLR 08/04 A2997 RMK AO2 SLP150 T00830039 LEAM 281030Z VRB01KT CAVOK 19/13 Q1025 KMIV 280954Z AUTO 34012G19KT 10SM BKN070 BKN085 03/M03 A2978 RMK AO2 SLP085 T00281033 KMKE 280952Z 30005KT 10SM FEW055 M07/M12 A3025 RMK AO2 SLP254 T10671117 KMIW 280953Z AUTO 11005KT 10SM CLR M07/M09 A3017 RMK AO2 SLP230 T10671094 LEAO 281000Z 11001KT CAVOK 17/10 Q1030 LEBG 281000Z 26001KT CAVOK 12/06 Q1031 KNBG 280955Z 04003KT 10SM CLR 08/04 A3017 RMK AO2 SLP216 T00830039 PNO $ KMKG 280955Z 02003KT 10SM CLR M10/M16 A3026 RMK AO2 SLP258 FIRST AUGMENTED OBS OF THE DAY T11001156 KMJQ 281033Z AUTO 10005KT 10SM OVC038 M01/M02 A3014 RMK AO2 LEAS 281030Z 25003KT 190V340 9999 FEW009 SCT016 13/10 Q1031 NOSIG KNCA 281038Z AUTO 31008KT 8SM SCT024 BKN055 OVC065 05/03 A2992 RMK AO2 T00500033 KP28 280956Z AUTO 16003KT 04/02 A2996 RMK AO1 SLP150 T00440017 KLUA 281035Z AUTO 34011G19KT 10SM SCT046 SCT050 OVC060 M01/M10 A2994 RMK AO2 KMKJ 281035Z AUTO 27010G15KT 10SM SCT029 SCT036 OVC046 M04/M12 A2995 RMK AO2 T10451116 KMLB 280953Z 31008KT 10SM CLR 13/06 A3005 RMK AO2 SLP174 T01280056 EPOK 281030Z 31014KT 9999 SCT027 08/00 Q1016 RMK 078 058 4/4 = LEBL 281030Z 35014KT 320V040 9999 FEW050 18/09 Q1022 NOSIG KMKL 280953Z AUTO 00000KT 10SM OVC110 M01/M04 A3019 RMK AO2 SLP224 T10061039 KMLC 280953Z AUTO 19004KT 10SM BKN110 07/00 A3005 RMK AO2 SLP174 T00720000 KLUD 281035Z AUTO 13004KT 10SM CLR 08/04 A3007 RMK AO2 T00760037 KLSV 280958Z AUTO 00000KT 10SM CLR 14/M04 A3003 RMK AO2 SLP153 T01421042 KMKN 281035Z AUTO 17006KT 10SM CLR 09/06 A3011 RMK AO2 T00870060 KMLE 281035Z AUTO 10005KT 10SM SCT060 01/M03 A3011 RMK AO2 T00091028 KMLF 280952Z AUTO 21015KT 10SM CLR 08/M04 A3016 RMK AO2 SLP170 T00831044 TSNO KMKO 280953Z AUTO 13007KT 10SM BKN100 08/01 A3008 RMK AO2 SLP186 T00780006 KMJX 281035Z AUTO 32010KT 10SM BKN090 OVC110 01/M05 A2978 RMK AO1 KLUF 280958Z AUTO 00000KT 10SM CLR 15/03 A3000 RMK AO2 SLP149 T01540032 $ LECH 281030Z 14006KT 110V190 CAVOK 21/05 Q1024 KMLI 280952Z AUTO 08006KT 10SM CLR M07/M11 A3024 RMK AO2 SLP247 T10671106 $ LEDA 271630Z 25011KT CAVOK 21/04 Q1020 UWUU 281030Z 36006G09MPS CAVOK M02/M14 Q1043 821///54 NOSIG RMK QFE771/1028 KMKS 281035Z AUTO 00000KT 7SM SCT060 06/05 A2997 RMK AO2 KLTS 280958Z AUTO 00000KT 10SM SCT150 03/03 A3004 RMK AO2 SLP172 T00290028 $ KMLJ 281035Z AUTO 29004KT 10SM CLR 05/01 A3005 RMK AO2 VOMM 281010Z 09008G18KT 9999 FEW020 32/24 Q1008 NOSIG LEBT 281000Z AUTO 26006KT 200V340 CAVOK 25/07 Q1024 KLUK 280953Z AUTO 35007KT 10SM CLR M06/M10 A3018 RMK AO2 SLP226 T10611100 KMKT 281035Z AUTO 14006KT 10SM OVC070 M04/M09 A3018 RMK AO1 KNBT 281021Z AUTO 31012KT 10SM SCT014 SCT020 BKN032 A2987 RMK AO2 PNO $ KLUM 281035Z AUTO 00000KT 10SM CLR M07/M10 A3021 RMK AO2 T10741096 LECO 281030Z 20005KT 160V250 9999 OVC018 13/10 Q1032 NOSIG DXXX 280900Z 24008KT 210V280 9999 SCT014 29/26 Q1013 NOSIG KMLP 281039Z AUTO VRB05KT 1/4SM -RA FG VV001 03/03 A2987 RMK AO2 P0013 T00330033 KMKY 281035Z AUTO 02008KT 10SM CLR 16/11 A3007 RMK AO1 EPPO 281030Z 33007KT 300V010 9999 BKN023 09/02 Q1018 LEBZ 281000Z 30002KT CAVOK 19/11 Q1029 KMMH 281035Z AUTO 00000KT 10SM CLR M00/M06 A3031 RMK AO1 KMMI 281035Z AUTO 31006KT 10SM SCT050 M01/M08 A3012 RMK KMLS 280953Z AUTO 14009KT 10SM CLR 06/00 A2983 RMK AO2 SLP096 T00560000 KLVJ 280953Z AUTO 08007KT 10SM CLR 14/09 A3014 RMK AO2 SLP205 T01390094 KLWA 281034Z AUTO 00000KT 10SM CLR M10/M15 A3025 RMK AO2 T11011147 EPRA 281030Z 01006KT 6000 SCT017 OVC022 08/04 Q1016 RMK 078 074 8/4= KMLT 280953Z AUTO 03008KT 10SM OVC070 M04/M11 A2987 RMK AO2 SLP123 T10391106 KMMK 281040Z AUTO 33006KT 10SM OVC030 02/M03 A2973 RMK AO2 T00221033 TSNO KLVK 280953Z AUTO 29006KT 10SM CLR 11/09 A3015 RMK AO2 SLP208 T01110089 KLWB 281035Z AUTO 31006KT 10SM OVC050 M05/M14 A2993 RMK AO2 T10551138 LEEC 271400Z VRB03KT CAVOK 22/11 Q1026 KLWC 280952Z AUTO 10009KT 10SM FEW080 03/M03 A3009 RMK AO2 SLP193 T00331033 KMLU 280953Z AUTO 00000KT 10SM CLR 04/03 A3018 RMK AO2 SLP220 T00390033 KMML 281035Z AUTO 15007KT 10SM OVC039 M02/M05 A3013 RMK AO1 KLVL 281035Z AUTO 00000KT 5SM OVC007 01/01 A2991 RMK AO1 T00110006 LECV 281000Z 19004KT CAVOK 16/07 Q1029 KLWD 280953Z AUTO 10005KT 10SM FEW040 OVC050 01/M07 A3014 RMK AO2 SLP215 T00061072 KLVM 280953Z AUTO 27014G23KT 10SM CLR 13/M01 A2991 RMK AO2 SLP088 T01331006 KLVN 281034Z AUTO 00000KT 10SM CLR M10/M12 A3020 RMK AO2 KP53 280956Z AUTO 20006KT M18/M21 A3025 RMK AO1 SLP259 T11781211 KMNE 281035Z AUTO 09004KT 10SM CLR 07/04 A3015 RMK AO2 T00650035 EPPW 281030Z 33008KT 9999 SCT016 BKN022 BKN030 07/02 Q1018 RMK 073 071 7/3 = KLUX 281055Z AUTO 32005KT 10SM CLR 01/00 A3000 RMK AO2 KMNH 281037Z AUTO 24008KT 10SM CLR 03/M03 A3016 RMK AO2 KMNI 281035Z AUTO 00000KT 10SM CLR 05/01 A2997 RMK AO2 KLVS 280953Z AUTO 06009KT 10SM CLR 04/M05 A3020 RMK AO2 SLP149 T00441050 KP58 280951Z AUTO 02009KT M06/M13 A3016 RMK AO1 SLP231 T10561133 KP59 280951Z AUTO 24006KT M17/M20 A3023 RMK AO1 SLP261 T11721200 KP60 280956Z AUTO 30003KT M03/M05 A3018 RMK AO1 SLP192 T10331050 KMOB 280956Z AUTO 36005KT 10SM CLR 06/02 A3018 RMK AO2 SLP217 T00560022 KMMT 280958Z AUTO 28006KT 10SM BKN065 04/03 A2997 RMK AO2 SLP152 T00420026 UWWW 281030Z 10005MPS 9999 FEW033 SCT200 01/M13 Q1044 05CLRD60 15//99// NOSIG RMK QFE770/1027 KMMU 281045Z 35008G16KT 10SM SCT060 00/M06 A2981 EPSC 281030Z 28007KT 9999 SCT019 07/02 Q1019 KMMV 280953Z AUTO 22010KT 10SM CLR 09/07 A3025 RMK AO2 RAE0858 SLP242 P0000 T00890072 $ KMOD 280953Z AUTO 34006KT 10SM CLR 14/09 A3010 RMK AO2 SLP193 T01440089 KLWM 280954Z AUTO 02009KT 10SM FEW034 OVC050 02/M01 A2974 RMK AO2 SLP071 T00221011 KMNM 281035Z AUTO 00000KT 10SM CLR M12/M15 A3027 RMK AO1 KMNN 280953Z AUTO 35008KT 10SM CLR M09/M14 A3014 RMK AO2 SLP225 T10941139 TSNO KNFE 280956Z AUTO 33008G17KT 10SM FEW070 07/M01 A2983 RMK AO2 SLP102 T00671011 KNFG 280954Z AUTO 06004KT 8SM OVC003 13/09 A3005 RMK AO2 SLP176 T01330089 $ KNDZ 280956Z AUTO 34008KT 10SM CLR 06/02 A3016 RMK AO2 SLP201 T00610017 LEGA 281000Z 32004KT CAVOK 18/09 Q1029 KP68 280953Z AUTO 20005KT 05/M06 A3018 RMK AO1 SLP163 T00501061 KLWS 281046Z AUTO 28008KT 10SM -RA OVC060 12/06 A2999 RMK AO2 PK WND 28029/1000 RAB0957 P0009 T01170061 KP69 280952Z AUTO 01004KT 08/07 A2991 RMK AO1 SLP119 T00830072 $ KLWT 280954Z AUTO 11005KT 10SM CLR 04/M01 A2984 RMK AO2 SLP086 T00441011 KLXL 281035Z AUTO 00000KT 10SM CLR M08/M12 A3016 RMK AO2 KNFL 280956Z AUTO 00000KT 10SM CLR 08/M03 A3016 RMK AO2 SLP178 T00831028 FGSL 280600Z 00000KT 9999 SCT008 24/23 Q1013 NOSIG KLWV 280953Z AUTO 36005KT 10SM CLR M04/M09 A3023 RMK AO2 SLP241 T10441094 $ LEGE 281030Z VRB02KT CAVOK 17/09 Q1022 KNEW 280953Z 04013KT 10SM CLR 13/04 A3018 RMK AO2 SLP211 T01280044 KLXN 281035Z AUTO 28003KT 10SM CLR M02/M03 A2997 RMK AO2 T10171035 EPSN 281030Z 29006KT 9999 BKN020 07/02 Q1018 RMK 073 069 6/6 = KMOP 281035Z AUTO 00000KT 10SM CLR M11/M15 A3023 RMK AO2 T11121150 KLYH 280954Z AUTO 29010G15KT 270V330 10SM OVC050 00/M09 A2992 RMK AO2 SLP137 T00001094 KMNZ 281035Z AUTO 18011KT 10SM CLR 09/05 A3012 RMK AO2 T00870051 KMOR 281035Z AUTO 35007KT 10SM OVC048 M01/M09 A3007 RMK EPRZ 281030Z 32010KT 4000 -RA BR BKN009 OVC013 06/04 Q1015 LDOS 281030Z 34018KT CAVOK 09/04 Q1015 KLXT 280953Z AUTO 10006KT 10SM OVC060 03/M04 A3012 RMK AO2 SLP204 T00331044 KMOT 281046Z AUTO 12007KT 2 1/2SM BR OVC002 M03/M04 A2991 RMK AO2 I1000 T10331044 KMQB 281035Z AUTO 11005KT 10SM CLR M05/M07 A3026 RMK AO2 T10511072 LEHC 281000Z 24009KT 190V300 9999 FEW025 17/08 Q1024 LDPL 281030Z 07013KT 020V110 CAVOK 15/M00 Q1015 NOSIG KLXV 280953Z AUTO 05008KT 10SM CLR M02/M08 A3033 RMK AO2 SLP183 T10171078 KMQE 280954Z AUTO 03009G18KT 01/M01 A2967 RMK AO1 SLP063 T00111006 KNFW 280952Z AUTO 17005KT 10SM CLR 10/04 A3012 RMK AO2 SLP183 T01000044 $ KMPO 281026Z AUTO 33011G20KT 10SM SCT020 OVC110 M05/M10 A2974 RMK AO2 T10501100 KMOX 281033Z AUTO 13007KT 10SM CLR M03/M06 A3012 RMK AO2 KNGP 280956Z AUTO 22007KT 10SM CLR 13/12 A3014 RMK AO2 SLP204 T01330117 KLXY 281035Z AUTO 15005KT 10SM CLR 09/04 A3011 RMK AO2 T00850040 LEGR 281030Z 04007KT 340V090 CAVOK 22/08 Q1028 KMQI 281035Z AUTO 34010G16KT 290V010 10SM SCT018 OVC028 06/02 A2984 RMK AO2 T00550024 KMQJ 281036Z AUTO 35006KT 10SM CLR M07/M13 A3020 RMK AO1 LEGT 281000Z VRB02KT CAVOK 16/10 Q1029 LEIB 281030Z 19004KT CAVOK 21/11 Q1025 NOSIG KNHK 280952Z AUTO 33016G21KT 10SM OVC085 02/M07 A2986 RMK AO2 PK WND 33029/0929 SLP113 T00221067 KMRB 280953Z AUTO 33011KT 10SM CLR M03/M13 A2995 RMK AO2 SLP145 T10281128 TSNO KMRC 281035Z AUTO 00000KT 10SM CLR M03/M03 A3016 RMK KNGU 280959Z 34014G26KT 10SM OVC070 06/M02 A2985 RMK PK WND 33026/0956 SLP109 T00611022 KP92 280953Z AUTO 00000KT 10/07 A3016 RMK AO1 SLP211 P0001 T01000072 KMPV 281027Z AUTO 01008KT 10SM OVC015 M05/M08 A2986 RMK AO2 T10501078 KLYV 281036Z AUTO 15007KT 10SM SCT038 OVC050 M01/M02 A3011 RMK AO2 KNID 280956Z AUTO 16004KT 10SM CLR 14/M03 A3004 RMK AO2 SLP158 T01391028 $ KMRF 281035Z AUTO 05004KT 10SM CLR 03/M02 A3022 RMK AO1 KMRH 281018Z AUTO 31012KT 10SM SCT010 BKN016 BKN120 05/04 A2989 RMK AO2 T00500039 TSNO KMPZ 281035Z AUTO 10004KT 10SM BKN120 M05/M09 A3023 RMK AO2 T10501090 LDRI 281030Z VRB08KT 9999 FEW050 15/03 Q1015 KMQS 281035Z AUTO 34006KT 10SM OVC048 00/M05 A2983 RMK AO2 KMRJ 281030Z AUTO 12004KT 10SM CLR M07/M11 A3022 RMK AO2 EPWA 281030Z 34006KT 300V010 9999 BKN030 09/04 Q1016 NOSIG KLZU 281045Z 28008KT 10SM CLR 02/01 A3003 RMK ATIS O RWY 25 BK KMRN 281035Z AUTO 33008G16KT 10SM BKN050 01/M07 A3001 RMK AO2 T00051075 KNIP 280953Z 25005KT 10SM CLR 10/03 A3005 RMK AO2 SLP171 T01000033 KMQY 280956Z AUTO 36006KT 10SM CLR M02/M07 A3018 RMK AO2 T10161072 SLP234 KLZZ 280455Z AUTO 00000KT 10SM CLR 12/07 A3016 RMK AO2 T01240072 LFBA 281030Z AUTO 28011KT 9999 BKN012 OVC017 14/12 Q1028 KOAJ 281035Z AUTO 29004KT 7SM OVC017 05/02 A2993 RMK AO1 KMRT 281034Z AUTO 02006KT 10SM CLR M08/M13 A3016 RMK AO2 T10821134 KOAK 280953Z 00000KT 10SM FEW010 SCT150 11/09 A3016 RMK AO2 SLP211 T01110094 KNJK 280956Z AUTO 28007KT 10SM CLR 18/M01 A2995 RMK AO2 SLP156 T01831006 KMSL 280953Z AUTO 36004KT FEW120 01/M05 A3019 RMK AO2 SLP224 T00061050 $ KMTC 281043Z AUTO 32004KT 10SM -FZDZ OVC025 M08/M10 A3017 RMK AO2 SNE42FZDZB43 $ LFBC 281030Z AUTO 27011KT 1200 R24/P2000 BR BKN005 OVC010 12/11 Q1029 KNJM 280957Z AUTO 32006KT 7SM FEW034 BKN043 BKN120 04/03 A2990 RMK AO2 SLP127 T00440028 LFBD 281030Z AUTO 28011KT 9999 BKN007 BKN011 OVC020 12/11 Q1028 LFBE 281030Z AUTO 26012KT 9999 BKN010 OVC014 13/11 Q1027 KMSN 280953Z 00000KT 10SM CLR M09/M12 A3024 RMK AO2 SLP252 T10891122 KOBE 281035Z AUTO 33005KT 10SM CLR 11/08 A3008 RMK AO2 KMSO 280953Z AUTO 30006KT 10SM OVC090 05/03 A2984 RMK AO2 SLP099 T00500028 VOTR 281010Z 06007KT 8000 FEW016 SCT020 37/18 Q1008 NOSIG KMSP 280953Z 13004KT 10SM BKN085 M06/M13 A3020 RMK AO2 SLP237 T10561133 KMRY 281046Z AUTO 00000KT 10SM SCT004 10/08 A3015 RMK AO2 LDSP 281030Z 05015KT 020V100 CAVOK 17/01 Q1011 TEMPO 05016G30KT LFBG 281030Z AUTO 26013KT 9999 BKN012 OVC017 13/10 Q1026 LFAQ 281030Z AUTO 20010KT 9999 OVC004 10/09 Q1017 KMTH 280953Z AUTO 01011G21KT 10SM FEW030 FEW036 22/17 A3001 RMK AO2 SLP162 T02170172 LFBH 281030Z AUTO 26011KT 7000 OVC004 12/11 Q1026 LEJR 281030Z 32004KT 290V010 CAVOK 21/16 Q1027 LFBI 281030Z AUTO 25012KT 9999 OVC009 13/10 Q1024 KMSS 280953Z AUTO 31007KT 4SM -SN OVC033 M09/M12 A3002 RMK AO2 SLP175 P0000 T10941122 KMTJ 280953Z AUTO 15006KT 10SM CLR 05/M04 A3024 RMK AO2 SLP192 T00501039 EPWR 281030Z 32014KT 9999 SCT015CB BKN040 07/05 Q1019 VOTV 281010Z 21006KT 6000 FEW018 34/24 Q1007 NOSIG LFAT 281030Z AUTO 22012KT 180V250 1700 BR OVC003 09/09 Q1016 LELC 281000Z 12006KT 070V160 CAVOK 20/13 Q1025 NOSIG KNLC 280956Z AUTO 33013KT 10SM CLR 17/07 A3009 RMK AO2 SLP187 T01720072 LFBL 281030Z AUTO 26011KT 230V290 9999 OVC004 10/10 Q1025 KMSV 281035Z AUTO 32008G18KT 10SM FEW020 M06/M09 A2979 RMK AO1 LFBM 281030Z AUTO 28010KT 7000 -DZ BKN009 OVC016 13/11 Q1029 KMTN 280945Z 28010KT 10SM BKN100 BKN140 01/M06 A2988 RMK FIRST KMTO 280953Z AUTO 05006KT 10SM CLR M06/M10 A3021 RMK AO2 SLP240 T10611100 KOCF 281035Z AUTO 34007KT 10SM CLR 08/02 A3008 RMK AO1 LFBO 281030Z AUTO 28015KT 9999 BKN012 OVC018 13/11 Q1028 KMTP 280954Z AUTO 36004KT 03/01 A2970 RMK AO1 SLP056 P0005 T00280011 KMSY 280953Z 05007KT 10SM CLR 12/03 A3017 RMK AO2 SLP218 T01170033 LFBP 281030Z AUTO 26010KT 9999 BKN008 OVC017 12/11 Q1030 KOCH 281035Z AUTO 00000KT 10SM BKN003 05/03 A3014 RMK AO1 KMUI 281032Z AUTO 33007KT 10SM -SN FEW018 SCT029 SCT040 M02/M06 A2987 RMK AO2 SNE0959UPB0959E17SNB17 KNKT 280954Z 30008KT 10SM BKN043 04/02 A2989 RMK AO2 SLP118 T00440022 $ LFBT 281030Z AUTO 27010KT 210V290 6000 -RADZ BKN009 OVC013 12/11 Q1030 LFCK 281030Z AUTO 30018KT 9999 OVC006 11/11 Q1027 LELL 281030Z 06004KT 010V090 9999 FEW050 19/10 Q1022 LFBU 281030Z AUTO 25011KT 9999 BKN007 OVC011 11/10 Q1026 LEMD 281030Z 17003KT 120V210 CAVOK 17/07 Q1029 NOSIG KMTV 281035Z AUTO 34010KT 10SM SCT044 BKN050 M01/M07 A2999 RMK AO2 T10061073 LELN 281000Z VRB02KT CAVOK 13/05 Q1030 KMVE 281034Z AUTO 19004KT 10SM OVC046 M02/M03 A3015 RMK AO2 KMTW 280956Z AUTO 33003KT 10SM CLR M08/M11 A3026 RMK AO2 SLP275 T10831106 FZRANO LELO 281000Z 27008KT 240V300 9999 FEW030 16/09 Q1030 KNKX 280955Z 00000KT 1/2SM FG BKN003 14/13 A3006 RMK AO2 SLP172 T01390128 $ KMUO 280958Z AUTO 09005KT 10SM CLR 08/04 A2998 RMK AO2 SLP140 T00770035 $ LEMG 281030Z 26012KT 230V300 CAVOK 25/11 Q1026 NOSIG LFBY 281000Z AUTO 27007KT 240V300 3700 // BKN007/// OVC012/// 12/12 Q1030 EPZG 281030Z 29009KT 260V340 8000 SCT020 09/03 Q1019 LEMH 281030Z 36018G28KT 330V030 9999 FEW020 16/10 Q1022 KMVH 281035Z AUTO 35004KT 10SM CLR 10/M02 A2985 RMK A01 KOCQ 281035Z AUTO 00000KT 10SM CLR M13/M15 A3028 RMK AO1 T11331146 LFBZ 281030Z AUTO 29012KT 250V310 9000 3100 -RA OVC003 11/11 Q1031 LFCR 281030Z AUTO 31010KT 1500 -DZ BR OVC002 09/09 Q1026 KMWA 281035Z AUTO 00000KT 10SM CLR M04/M05 A3023 RMK AO2 KOEB 281034Z AUTO 03003KT 10SM CLR M10/M14 A3021 RMK AO2 T10961140 KMUT 281035Z AUTO 00000KT 10SM SCT120 M05/M08 A3026 RMK AO2 KMVL 280954Z AUTO 34009KT 10SM OVC024 M04/M11 A2988 RMK AO2 SLP127 T10441106 TSNO KMWC 281035Z AUTO 00000KT 10SM CLR M09/M12 A3026 RMK AO2 KNMM 272156Z 31015G20KT 10SM BKN065 BKN120 14/00 A3002 RMK SLPNO LAST T01440000 KMVN 281035Z AUTO 03003KT 10SM CLR M06/M09 A3023 RMK AO1 KOCW 281035Z AUTO 32006KT 10SM SCT050 SCT085 04/02 A2991 RMK AO2 T00410020 KODO 280953Z AUTO 20006KT 10SM CLR 11/02 A3007 RMK AO2 SLP149 T01110017 LEMO 281000Z 03005KT 360V060 CAVOK 21/15 Q1028 NOSIG KMWH 280952Z AUTO 24011KT 10SM CLR 14/02 A2988 RMK AO2 PK WND 28033/0903 SLP115 T01390017 KMWK 281035Z AUTO 31010G19KT BKN048 OVC050 00/M08 A2997 RMK AO2 T00011080 PWINO KMWL 280953Z AUTO 17008KT 10SM CLR 09/05 A3007 RMK AO2 SLP177 T00890050 KMWM 281034Z AUTO 00000KT 10SM OVC042 M02/M03 A3013 RMK AO2 KMWN 280955Z 06004KT 1SM -SN BR PRFG BKN000 OVC008 M10/M14 RMK VIS SE-SW 1/8 BR BKN000 KODX 280953Z AUTO 00000KT 10SM FEW085 M05/M07 A2999 RMK AO2 SLP176 T10501072 KOFF 280958Z AUTO 12007KT 10SM OVC060 01/M03 A3010 RMK AO2 SLP205 T00101031 $ KMWO 281035Z AUTO 01003KT 10SM CLR M06/M09 A3020 RMK AO2 T10561093 KMXF 280958Z AUTO 30004KT 10SM OVC110 05/02 A3012 RMK AO2 SLP203 T00460023 KOEO 281035Z AUTO 00000KT 10SM CLR M08/M10 A3023 RMK AO2 T10781102 KMVY 281046Z AUTO 02006KT 8SM UP FEW006 FEW012 OVC048 02/00 A2967 RMK AO2 RAE43UPB0954E0956B25E26B43 P0000 T00220000 $ KNOG 280956Z AUTO 27005KT 10SM CLR 11/07 A3014 RMK AO2 SLP187 T01110067 $ LEPA 281030Z 23007KT 190V300 9999 FEW025 18/12 Q1023 NOSIG LFGA 281030Z AUTO 15007KT 110V190 9999 NSC 12/01 Q1022 KMWS 281030Z 24506G08KT 14/M07 RMK SNOW DEPTH 3.00 PTKK 280953Z 35009KT 12SM -SHRA SCT010CB OVC120 26/24 A2981 RMK PK WND 36027/11 CB ALQDS MOV S SLP096 T02550240 KNPA 280956Z AUTO 35006KT 10SM CLR 07/02 A3016 RMK AO2 SLP215 T00670022 $ KOGA 281035Z AUTO 24005KT 10SM CLR 00/M01 A2998 RMK AO2 T00011013 KMWT 280953Z AUTO 00000KT 10SM CLR 04/02 A3011 RMK AO2 SLP200 T00440022 KOGB 280953Z AUTO 31004KT 10SM CLR 06/02 A2997 RMK AO2 SLP150 T00560022 KOFK 280956Z AUTO 14009KT 10SM CLR M01/M04 A3004 RMK AO2 SLP187 T10111044 KOGD 280953Z 17008KT 10SM CLR 09/M01 A3010 RMK AO2 SLP159 T00941011 KMYF 280953Z AUTO 00000KT 1/4SM FG VV002 16/15 A3007 RMK AO2 SLP176 T01560150 TSNO KMXO 281035Z AUTO 00000KT 10SM FEW110 M08/M08 A3023 RMK AO2 KOFP 280954Z AUTO 33010KT 300V010 10SM BKN080 OVC100 01/M08 A2992 RMK AO2 SLP132 T00111078 PTKR 281050Z 00000KT 15SM FEW017 SCT120 BKN300 27/24 A2988 RMK SLP119 T02720241 LFGJ 281030Z AUTO 23006KT 9999 NSC 09/05 Q1023 KNQA 281030Z 00000KT 10SM SCT080 M01/M03 A3021 LDZA 281030Z 36014KT 320V050 CAVOK 13/M03 Q1017 TEMPO 03015G25KT KMYL 280951Z AUTO 11004KT 10SM CLR 03/02 A2997 RMK AO2 SLP129 T00280017 LDZD 281030Z 02008KT 300V100 CAVOK 16/M02 Q1013 NOSIG KNOW 281035Z AUTO 28013G18KT 10SM OVC110 10/06 A3004 RMK AO2 T01000057 LEPP 281030Z 30006KT 270V020 9999 SCT025 BKN035 13/08 Q1030 ESCF 281020Z AUTO 30010KT 9999NDV BKN019/// 06/03 Q1013 KMZH 281032Z AUTO 00000KT 10SM CLR M10/M12 A3017 RMK AO2 KMYR 280955Z 28005KT 10SM FEW047 BKN060 OVC070 08/06 A2995 RMK AO1 KNQI 280956Z AUTO 19005KT 10SM 11/09 A3014 RMK AO2 SLP202 T01060089 TSNO $ GABS 280930Z 06013KT CAVOK 30/M07 Q1018 NOSIG KNRB 280952Z AUTO VRB04KT 10SM CLR 09/03 A3003 RMK AO2 SLP168 T00940033 PNO $ KMYV 280953Z AUTO 00000KT 10SM CLR 12/09 A3012 RMK AO2 SLP203 T01170094 ESDF 281020Z 26009KT 9999 SCT032 BKN048 06/01 Q1015 FJDG 280955Z 30012G19KT 9999 FEW020 FEW250 33/25 A2976 RMK SLP075 T03340251 KMYZ 281035Z AUTO 13009KT 10SM SCT090 BKN120 02/M02 A3003 RMK AO2 LERI 281000Z 36012KT CAVOK 24/09 Q1025 NOSIG WIBB 281030Z 34006KT 5000 TS SCT014CB SCT015 29/25 Q1007 NOSIG LESA 281030Z VRB01KT CAVOK 16/08 Q1031 KOJA 281035Z AUTO 22007KT 10SM CLR 07/03 A3002 RMK AO2 KOJC 280953Z AUTO 12006KT 10SM OVC075 03/M04 A3009 RMK AO2 SLP194 T00331044 LGAD 281020Z 34005KT 9999 FEW020 SCT080 17/08 Q1003 KPAE 281045Z AUTO 22014G19KT 10SM BKN015 OVC100 09/07 A3006 RMK AO2 T00940067 KNSE 280956Z AUTO 34005KT 10SM CLR 06/02 A3016 RMK AO2 SLP200 T00560022 $ KNQX 281006Z 35019KT 10SM BKN120 22/12 A3003 RMK AO2 PK WND 35026/1006 T02170122 $ KPAH 280953Z AUTO 00000KT 10SM CLR M03/M06 A3019 RMK AO2 SLP226 T10331061 FIMP 281000Z 13009KT 9999 BKN018 28/25 Q1013 KMZZ 281035Z AUTO 36004KT 10SM CLR M08/M11 A3021 RMK AO2 T10791110 KNSI 280957Z AUTO 28015KT 10SM CLR A3005 RMK AO2 SLPNO $ LERS 281030Z 26016KT 9999 FEW030 21/10 Q1022 FIMR 281000Z 10013KT 9999 SCT018 BKN250 30/26 Q1012 KNRS 280956Z 12003KT OVC002 16/16 A3007 RMK AO2 SLP180 T01610156 LERT 281000Z 04003KT 360V110 CAVOK 19/14 Q1028 NOSIG KOKB 281024Z AUTO 00000KT 2 1/2SM BR OVC003 16/14 A3004 RMK AO2 T01560139 LFKB 281030Z 05007KT 9999 FEW026 17/10 Q1016 NOSIG LFKC 281030Z 34008KT CAVOK 17/07 Q1016 NOSIG LFJL 281030Z AUTO 21012KT 9999 OVC043 10/02 Q1021 KOKC 280952Z 20014KT 10SM SCT100 SCT150 BKN250 09/03 A3001 RMK AO2 SLP161 T00890028 $ LGAL 281020Z 18004KT 9999 FEW018 SCT025 15/10 Q1003 KNTD 281004Z AUTO 00000KT 1/4SM FG VV002 13/11 A3005 RMK AO2 T01280111 $ KPAM 280958Z AUTO 34007KT 10SM CLR 09/03 A3012 RMK AO2 SLP203 T00860027 $ KPAN 281035Z AUTO 00000KT 10SM CLR 11/M06 A3024 RMK AO2 KPAO 280147Z 34015KT 10SM FEW010 16/12 A3013 LESO 281030Z 22007KT 190V260 3000 -DZ SCT005 BKN008 BKN018 12/12 Q1031 KPBF 280953Z AUTO 18003KT 10SM FEW100 04/02 A3018 RMK AO2 SLP220 T00440022 LFKF 281030Z AUTO 23007KT 190V290 9999 NCD 17/08 Q1016 KPBG 280953Z AUTO 35016KT 10SM OVC041 M07/M12 A2996 RMK AO2 SLP147 T10671122 KPBH 281035Z AUTO 00000KT 10SM CLR M12/M14 A3016 RMK AO2 T11211140 LFJR 281030Z AUTO 24012KT 9999 OVC007 12/11 Q1023 KPBI 280953Z 32011KT 10SM BKN200 16/09 A3003 RMK AO2 SLP168 T01560094 LFKJ 281030Z 25009KT 9999 FEW033 17/10 Q1016 NOSIG WIDD 281030Z 04018KT 9999 SCT014 29/24 Q1008 LEST 281030Z 22003KT 150V260 9000 BKN006 OVC008 09/09 Q1033 BECMG BKN020 KOKK 281035Z AUTO 35006KT 10SM M08/M11 A3021 RMK AO1 LFLB 281030Z 30003KT 220V010 CAVOK 11/01 Q1023 NOSIG KNUC 272256Z 27009KT 10SM FEW005 19/14 A3006 RMK SLP175 LAST T01890139 LESU 281030Z VRB04KT 9999 SCT068 18/03 Q1024 LETL 281030Z AUTO 33011KT CAVOK 13/06 Q1029 LFLC 281030Z 12004KT 080V170 9999 FEW020 BKN033 12/06 Q1023 NOSIG LGBL 281020Z 09005KT 9999 -RA FEW015 SCT025 BKN080 15/11 Q1003 PTPN 272250Z 17008KT 15SM SCT018 BKN130 OVC300 31/25 A2980 RMK LAST LGAV 281020Z 22008KT 9999 -DZ FEW018 BKN025 15/10 Q1003 NOSIG KOKM 281035Z AUTO 00000KT 10SM OVC110 07/02 A3008 RMK AO2 T00730020 KOLE 281035Z AUTO 31005KT 2 1/2SM -SN BKN014 OVC028 M11/M11 A2988 RMK AO2 LETO 281000Z VRB01KT CAVOK 15/09 Q1029 NOSIG KOLF 280953Z AUTO 08004KT 10SM CLR 02/00 A2979 RMK AO2 SLP093 T00170000 KOLG 281035Z AUTO 00000KT 10SM CLR M14/M16 A3018 RMK AO1 ESGG 281020Z 24010KT CAVOK 06/M03 Q1013 R21/19//95 KNUI 280953Z AUTO 31009KT 270V340 10SM OVC080 02/M06 A2986 RMK AO2 SLP111 T00221056 KOMA 280952Z 13009KT 10SM BKN060 01/M03 A3011 RMK AO2 SLP204 T00111028 LFKS 281030Z AUTO 04009KT 010V070 9999 NSC 18/10 Q1016 ESGJ 281020Z AUTO 23009KT 200V270 9999 FEW033/// 07/M01 Q1013 WIEE 281030Z 20006KT 150V230 9999 SCT020 30/25 Q1007 LEVC 281030Z 25004KT 190V330 CAVOK 25/07 Q1023 NOSIG KNTU 280956Z 34017G22KT 10SM FEW015 SCT075 BKN130 06/M01 A2982 RMK AO2 SLP099 T00561011 KPDC 281035Z AUTO 10004KT 10SM CLR M09/M12 A3025 RMK AO2 T10881120 LFMC 281030Z AUTO 01003KT 320V050 9999 ////// 18/M01 Q1017 LFLL 281030Z VRB02KT 9999 BKN046 10/03 Q1024 NOSIG LEVD 281030Z 24001KT CAVOK 14/09 Q1031 LFMD 281030Z AUTO 14004KT 010V180 9999 NSC 18/01 Q1017 KOLM 280954Z AUTO 20008KT 8SM SCT021 BKN025 OVC033 09/08 A3014 RMK AO2 RAB23E45 SLP205 P0000 T00940078 KPCM 281035Z AUTO 00000KT 10SM CLR 11/07 A3013 RMK AO2 KOKV 281035Z AUTO 32015G18KT 10SM CLR M03/M14 A2996 RMK AO2 LFLN 281030Z AUTO 18007KT 7000 BKN006 OVC013 08/07 Q1023 KPBX 281035Z AUTO 01008KT 10SM SCT024 BKN050 OVC055 M04/M09 A3007 RMK AO2 T10421088 LFLP 281030Z AUTO VRB02KT 9999 NSC 10/01 Q1023 LFMH 281030Z 16004KT 110V210 9999 SCT021 BKN033 09/04 Q1024 RERA NOSIG ESGP 281020Z 19010KT 9999 SCT016 05/03 Q1014 KNUQ 280956Z 00000KT 10SM CLR 12/09 A3017 RMK AO2 SLP219 T01220089 KOKZ 281035Z AUTO 31003KT 10SM CLR 03/00 A3004 RMK AO2 T00341001 KOMH 281035Z AUTO 30005KT 10SM BKN060 00/M08 A2995 RMK AO2 PTSA 280250Z 14006KT 10SM BKN019 BKN130 OVC300 27/25 A2982 LFMI 281030Z AUTO 34027G38KT 9999 NSC 15/03 Q1019 LFLS 281030Z AUTO VRB03KT 9999 BKN064 OVC100 11/02 Q1024 ESGR 281020Z AUTO 29007KT 230V330 9999 NCD 07/M01 Q1013 KONA 281034Z AUTO 32003KT 10SM OVC100 M06/M09 A3024 RMK AO2 KOLS 280954Z AUTO 19006KT 10SM CLR 09/M04 A3017 RMK AO2 SLP164 T00891044 KPEA 281035Z AUTO 11004KT 10SM CLR M03/M07 A3020 RMK AO2 T10301075 LFMK 281030Z AUTO 29016KT 9999 OVC016 13/11 Q1027 KPDK 280953Z 33015G21KT 10SM OVC038 03/M04 A3004 RMK AO2 SLP180 T00281044 KOMK 280953Z AUTO 12003KT 10SM SCT095 BKN120 14/07 A2975 RMK AO2 SLP072 T01440067 KNY0 281035Z AUTO 27008KT 4SM BKN028 OVC032 M06/M08 A2983 RMK AO2 T10581076 ESGT 271850Z 21006KT 9999 SCT025 04/01 Q1012 LFLU 281030Z AUTO 01016KT 9999 SCT047 SCT064 OVC100 13/02 Q1023 ESIB 281020Z AUTO 22005KT 170V240 9999NDV NCD 06/02 Q1013 KOLU 281035Z AUTO 11006KT 10SM OVC110 00/M07 A3007 RMK AO1 LFML 281030Z 32025KT CAVOK 15/02 Q1018 NOSIG KOLV 281035Z AUTO 00000KT 10SM BKN080 OVC120 00/M02 A3021 RMK A01 P000 KOMN 281045Z 31005KT 7SM SKC 09/05 A3006 RMK FIRST LFLW 281030Z AUTO 30007KT 2000 -RA BR OVC003 08/08 Q1025 KPCW 281032Z AUTO 32006KT 10SM BKN045 M07/M11 A3018 RMK AO2 $ KNUW 280956Z 28023G32KT 10SM -RA BKN060 BKN080 OVC120 11/07 A3004 RMK AO2 PK WND 28032/0954 RAB53 SLP174 P0000 T01110067 VISNO E $ PTRO 280955Z 02003KT 14SM SCT016 BKN120 BKN300 27/24 A2988 LFMN 281030Z 14004KT CAVOK 16/09 Q1017 NOSIG LFMO 281030Z AUTO 35020KT 9999 NSC 14/03 Q1021 LFLX 281030Z 26013KT 5000 OVC004 12/11 Q1023 BECMG OVC006 LFLY 281030Z AUTO VRB02KT 9999 OVC044 11/03 Q1024 LFMP 281030Z AUTO 31023G37KT 280V340 9999 BKN036 BKN043 18/10 Q1024 KOLY 281035Z AUTO 04003KT 10SM CLR M05/M07 A3024 RMK AO2 KPCZ 281035Z AUTO 00000KT 10SM CLR M09/M11 A3025 RMK AO2 T10861108 KOLZ 281035Z AUTO 11006KT 10SM BKN095 M06/M10 A3021 RMK AO2 LEVS 281030Z 12004KT 050V200 CAVOK 18/06 Q1029 KOOA 281035Z AUTO 12004KT 10SM SCT110 M04/M08 A3020 RMK AO2 T10401083 LFOA 281030Z AUTO 26009KT 7000 OVC003 11/10 Q1023 LEVT 281030Z 35004KT 310V070 9999 SCT024 14/09 Q1030 LFOB 281030Z AUTO 24009KT 9999 OVC005 11/10 Q1018 LFMT 281000Z 11006KT 070V140 CAVOK 19/08 Q1021 KPDT 280953Z AUTO 25022G28KT 10SM -RA FEW045 OVC055 09/06 A3007 RMK AO2 PK WND 26034/0900 SLP174 P0003 T00890056 LFMU 281030Z AUTO 29019KT 9999 BKN040 18/10 Q1023 LGEL 281020Z 00000KT 9999 FEW018 SCT025 BKN070 17/10 Q1002 KONL 281035Z AUTO 16005KT 10SM CLR 00/M02 A3000 RMK AO2 T10041021 LFOC 281030Z AUTO 25014KT 9999 OVC008 13/12 Q1021 LFMV 281030Z AUTO 35014G25KT 320V020 9999 NSC 16/04 Q1021 KONM 281035Z AUTO 25003KT 10SM CLR 07/M08 A3018 RMK AO2 T00671082 ETAD 280958Z AUTO 22015KT 9999 OVC035 09/02 A3012 RMK AO2 SLP200 T00860019 $ LFOE 281030Z AUTO 26012KT 230V290 9999 BKN013 OVC060 13/11 Q1019 LEVX 281030Z VRB01KT 9999 SCT005 BKN010 10/10 Q1033 NOSIG KPEO 280953Z AUTO 35008KT 310V030 10SM OVC034 M07/M12 A2996 RMK AO2 SLP158 T10671122 KONO 280953Z AUTO 00000KT 10SM CLR 09/07 A2995 RMK AO2 SLP136 T00940072 KPDX 280953Z 24007KT 10SM BKN050 OVC060 11/07 A3023 RMK AO2 SLP236 T01110072 KNXF 281037Z AUTO 1 1/2SM BR OVC002 16/15 A3005 RMK AO2 T01560150 $ RCKH 281030Z 24005KT 200V280 9999 FEW018 SCT060 BKN100 24/17 Q1016 NOSIG RMK A3002 KONP 281035Z AUTO 24006KT 10SM SCT017 SCT044 11/08 A3032 RMK AO2 LFMY 281030Z AUTO 31015KT 280V350 9999 NSC 16/00 Q1019 LFOH 281030Z AUTO 23014KT 9999 OVC003 10/10 Q1018 KPEQ 281035Z AUTO 00000KT 10SM CLR 07/03 A3006 RMK AO2 T00670025 LEXJ 281030Z 27005KT 6000 -DZ FEW004 BKN007 OVC020 12/11 Q1032 KPGA 280953Z AUTO 00000KT 10SM CLR 14/M06 A3015 RMK AO2 SLP162 T01391056 TSNO LFOJ 281030Z AUTO 25015KT 9999 OVC007 12/11 Q1021 LFPB 281030Z AUTO 19004KT 9999 OVC008 11/10 Q1019 LFOK 281030Z AUTO 20013KT 4100 BR OVC003 08/08 Q1020 KONT 280953Z 00000KT 10SM CLR 18/06 A3006 RMK AO2 SLP163 T01780061 KNYC 280951Z AUTO 36008KT 330V040 10SM OVC065 02/M07 A2978 RMK AO2 SLP076 T00221067 $ LFPC 281030Z AUTO 22010KT 9000 OVC004 10/10 Q1019 KPGD 280953Z AUTO 01004KT 10SM CLR 14/11 A3009 RMK AO2 SLP188 T01390111 WIHH 280900Z 00000KT 5000 HZ SCT017 29/24 Q1008 NOSIG PTTP 280953Z 00000KT 10SM -SHRA BKN017CB OVC120 24/24 A2992 RMK CB ALQDS MOV W SLP132 T02400238 KOPF 280953Z AUTO 33009KT 10SM CLR 18/13 A3003 RMK AO2 SLP171 T01780133 KPEX 281034Z AUTO 11004KT 10SM CLR M06/M10 A3016 RMK AO2 T10611103 KONX 281035Z AUTO 29005KT 10SM SCT070 04/02 A2986 RMK AO2 T00400015 LFOP 281030Z AUTO 24009KT 9999 OVC005 11/11 Q1019 VQPR 280650Z 15015KT 9999 FEW090 24/03 Q1019 NOSIG KNXP 280956Z AUTO 32008KT 10SM CLR 18/M02 A3014 RMK AO2 SLP173 T01781022 KNYG 280956Z AUTO 36013G22KT 10SM FEW080 OVC100 01/M09 A2994 RMK AO2 SLP139 T00111089 LFPG 281030Z 21009KT 4000 BR FEW002 BKN004 10/10 Q1019 NOSIG KONZ 281034Z AUTO 32007KT 10SM OVC050 M08/M14 A3018 RMK AO2 KPEZ 281040Z AUTO 21005KT 10SM CLR 13/06 A3014 RMK AO2 T01290056 LFQA 281030Z AUTO 19006KT 140V230 9999 OVC008 08/07 Q1020 ETAR 280958Z AUTO 23009G17KT 9999 CLR 11/M01 A3015 RMK AO2 SLP217 T01071010 $ LFOT 281030Z AUTO 25009KT 9999 OVC006 12/11 Q1022 LFQB 281030Z AUTO 19009KT 4400 -DZ BR OVC009 09/08 Q1021 KNYL 280957Z AUTO 00000KT 10SM CLR 20/02 A2996 RMK AO2 SLP143 T02000022 KOPL 281035Z AUTO 00000KT 10SM CLR 08/05 A3018 RMK AO2 T00810050 PWINO LFPM 281030Z AUTO 21009KT 5000 BR OVC003 10/10 Q1020 LFOV 281030Z AUTO 24012KT 200V260 9999 OVC005 12/10 Q1022 KPHD 280953Z AUTO 33007KT 10SM SCT035 M08/M15 A3010 RMK AO2 SLP207 T10831150 LFPN 281030Z AUTO 24008KT 9999 OVC008 12/10 Q1019 KOPN 281035Z AUTO 32006KT 10SM CLR 03/01 A3008 RMK AO2 ESKN 281020Z 27008KT 250V320 9999 BKN012 04/01 Q1012 R88/09//95 KPHF 280854Z 34014G19KT 10SM OVC070 06/M01 A2983 RMK AO2 SLP101 T00561011 53011 LFPO 281030Z 24009KT 9999 OVC007 11/10 Q1020 BECMG BKN010 LFQG 281030Z AUTO 19003KT 5000 DZ BR OVC004 10/10 Q1023 WIII 281030Z 03005KT 8000 FEW018CB SCT020 28/24 Q1008 NOSIG RMK CB TO SE LEZG 281030Z 31020KT 9999 FEW040 16/08 Q1028 LGHI 280950Z 15006KT 080V250 8000 DZ FEW008 SCT020 BKN090 14/11 Q1003 KPIA 280954Z 08005KT 10SM CLR M05/M11 A3024 RMK AO2 SLP248 T10501106 LFPT 281030Z AUTO 25008KT 9999 BKN005 OVC010 11/11 Q1019 KORB 281033Z AUTO 00000KT 10SM CLR M10/M14 A3012 RMK AO2 KPIB 281035Z AUTO 00000KT 10SM CLR 02/00 A3019 RMK AO1 LFRB 281030Z 23022KT 9999 BKN008 12/09 Q1021 NOSIG GAMB 280900Z 02014KT CAVOK 27/M07 Q1016 LEZL 281030Z 07004KT 010V110 CAVOK 21/12 Q1028 NOSIG LFRC 281030Z AUTO 23021G32KT 9999 OVC005 11/10 Q1018 KPHL 280954Z 34015G24KT 10SM OVC060 02/M06 A2982 RMK AO2 SLP096 T00221061 $ KORC 281035Z AUTO 12005KT 10SM OVC050 M01/M03 A3011 RMK AO2 LFRD 281030Z AUTO 23017KT 9999 BKN019 BKN025 BKN035 15/10 Q1021 KORD 280951Z 01004KT 10SM CLR M06/M11 A3023 RMK AO2 SLP246 T10611106 KPGV 281035Z AUTO 32007KT 10SM SCT003 SCT007 SCT013 03/02 A2995 RMK AO2 LFPV 281030Z AUTO 24008KT 9999 OVC006 11/10 Q1019 KORE 281006Z AUTO 33009KT 10SM BKN029 OVC041 01/M03 A2974 RMK AO2 T00061033 KPIE 280953Z AUTO 32010KT 10SM CLR 16/08 A3008 RMK AO2 SLP186 T01560078 KPHN 281036Z AUTO 02004KT 10SM SCT034 OVC044 M09/M14 A3018 RMK AO2 KORF 280951Z AUTO 34013G22KT 10SM BKN070 04/M02 A2983 RMK AO2 PK WND 35026/0855 SLP099 T00441017 TSNO RCMQ 281030Z 34005KT 9999 FEW012 BKN200 18/14 Q1016 NOSIG RMK A3002 LFRG 281030Z AUTO 26013KT 230V300 9999 OVC007 12/11 Q1019 KPHP 280955Z AUTO 28004KT 10SM CLR M02/M04 A2996 RMK AO2 SLP146 T10221039 KORG 281035Z AUTO 02003KT 10SM CLR 08/06 A3017 RMK AO2 T00830060 GAKY 271800Z 04004KT CAVOK 39/06 Q1012 LFRH 281030Z AUTO 26012KT 9999 OVC005 11/11 Q1023 KPIH 280953Z AUTO 00000KT 10SM CLR 11/M02 A3004 RMK AO2 SLP137 T01111017 KORH 280954Z AUTO 02009KT 10SM OVC026 01/M03 A2968 RMK AO2 SLP059 T00111028 LFQQ 281030Z 20011KT 9999 OVC007 10/09 Q1016 TEMPO 1500 DZ OVC002 LFRI 281030Z AUTO 26010KT 230V290 9999 BKN006 OVC011 12/11 Q1025 KOSA 281035Z AUTO 06004KT 10SM CLR 05/05 A3013 RMK AO1 T00500050 LFRJ 281030Z AUTO 23023KT 9999 OVC008 12/10 Q1021 LFRK 281030Z AUTO 25015KT 9999 BKN009 OVC013 13/11 Q1019 LFSB 281030Z VRB03KT CAVOK 12/01 Q1022 NOSIG KOQT 280953Z AUTO VRB03KT 10SM OVC049 01/M06 A3009 RMK AO2 SLP199 T00111061 KPHT 281035Z AUTO 04003KT 10SM CLR M06/M08 A3020 RMK KOQU 280250Z 00000KT 10SM OVC035 A2974 RMK LAST ESMK 281020Z AUTO 25009KT 220V280 9999 FEW019/// SCT021/// BKN036/// 06/02 Q1016 KORL 280953Z AUTO 32009KT 10SM CLR 13/03 A3006 RMK AO2 SLP185 T01330033 KOSC 281034Z AUTO 32006KT 10SM CLR M11/M13 A3022 RMK AO2 T11151134 KPIL 280953Z AUTO 20006KT 8SM CLR 13/12 A3015 RMK AO2 SLP210 T01330117 $ ETEB 280958Z AUTO 24007KT 9999 BKN045 07/M01 A3016 RMK AO2 SLP236 T00741009 LFRL 281030Z AUTO 22018KT 9999 OVC008 12/10 Q1022 RCNN 281030Z 36006KT 9999 FEW012 SCT060 BKN200 23/14 Q1015 NOSIG RMK A3000 LFSD 281030Z AUTO 19011KT 9999 SCT027 OVC036 10/04 Q1023 LFRM 281030Z AUTO 24009KT 200V280 9999 OVC006 12/11 Q1022 LFRN 281030Z AUTO 23013KT 9999 OVC013 14/11 Q1021 LFRO 281030Z AUTO 22017KT 190V250 9999 BKN012 OVC039 13/11 Q1020 KPHX 280951Z 08004KT 10SM CLR 20/M01 A3001 RMK AO2 SLP145 T02001011 LGIO 281020Z 00000KT 9999 FEW012 BKN030 OVC080 12/10 Q1003 LFSG 281030Z AUTO 21013KT 9999 FEW044 OVC058 10/01 Q1021 KNZY 280952Z AUTO 10003KT 8SM OVC006 17/16 A3005 RMK AO2 SLP176 T01670156 $ LFRQ 281030Z AUTO 24014KT 9999 OVC007 12/11 Q1023 ESNG 281020Z AUTO 30005KT 9999 FEW190/// M01/M04 Q1002 KOSH 280953Z 00000KT 10SM CLR M09/M12 A3024 RMK AO2 SLP262 T10891122 LGIR 281020Z 21008KT 9999 FEW020 BKN030 20/11 Q1003 NOSIG PTYA 280953Z VRB04KT 12SM FEW016CB BKN130 OVC300 26/24 A2984 RMK CB W SLP107 T02570243 ESMQ 281020Z 25010KT 9999 FEW023 SCT030 08/01 Q1014 KPIR 280953Z AUTO 10004KT 6SM BR CLR M04/M06 A2998 RMK AO2 SLP165 I1000 T10441056 LFSI 281030Z AUTO 20008KT 170V230 9999 -RADZ BKN013 OVC021 09/07 Q1021 KORS 281035Z AUTO 20011G17KT 10SM CLR 10/07 A2998 RMK AO2 KQAJ 280955Z 34005KT 9999 SKC 29/02 A3003 RMK SLP165 T02850017 LFRS 281030Z 25010KT 220V280 8000 -DZ BKN006 12/11 Q1024 BECMG BKN010 LFRT 281030Z AUTO 25017KT 9999 BKN014 BKN019 13/10 Q1021 KPIT 280951Z 33013KT 9SM -SN OVC026 M09/M14 A3001 RMK AO2 SLP188 P0000 T10891144 KPKB 280953Z AUTO 34007KT 10SM CLR M07/M13 A3012 RMK AO2 SLP208 T10721128 ESMS 281020Z 23009KT 9999 BKN015 06/03 Q1017 LFRU 281030Z AUTO 22016KT 9999 OVC011 13/10 Q1020 LFSL 281030Z AUTO 29008KT 240V320 8000 OVC003 11/10 Q1026 ESNK 281020Z AUTO 36006KT 9999 NCD 03/00 Q1008 ESMT 281020Z AUTO 25006KT 230V290 9999 FEW011/// SCT013/// 06/03 Q1015 LGKC 280850Z /////KT 9999 FEW004 SCT016 14/11 Q1003 LHBC 280845Z 01018KT 9999 FEW002 OVC083 09/04 Q1011 LFRV 281030Z AUTO 25012KT 210V280 4600 -DZ BR OVC003 11/11 Q1023 ESNL 281020Z AUTO VRB03KT 2500 NCD 03/M02 Q1005 KPKD 280953Z AUTO 16004KT 10SM CLR M07/M11 A3011 RMK AO2 SLP219 T10671111 LFSN 281030Z AUTO 22009KT 180V250 9999 BKN046 OVC054 11/01 Q1021 KQBF 271755Z AUTO 05003KT 9SM CLR 35/M04 A3007 RMK AO2 SLP161 T03521038 10353 20247 55002 ESNN 281020Z VRB02KT CAVOK 05/00 Q1009 R16/45//55 ESOE 281020Z AUTO 28008KT 9999NDV OVC012/// 04/01 Q1013 LGKF 280950Z 20005KT 9999 SCT020 BKN180 16/10 Q1003 LFSO 281030Z AUTO 21013KT 9999 FEW022 BKN037 10/01 Q1021 ESNO 281020Z AUTO 28007KT 9999 NCD 02/00 Q1007 ESMX 281020Z AUTO 22008KT 190V250 9999 FEW032/// SCT037/// 07/M00 Q1014 KOTG 281035Z AUTO 15005KT 10SM OVC032 M03/M05 A3012 RMK AO1 KS25 281035Z AUTO 12007KT 8SM CLR 00/00 A2984 RMK AO2 LFTH 281030Z AUTO 21011KT 9999 NSC 16/02 Q1017 LFRZ 281030Z AUTO 26012KT 4200 BR OVC005 12/11 Q1024 KOTH 281035Z 15005KT 10SM SCT025 SCT029 OVC045 09/09 A3036 RMK AO1 ESNQ 281020Z 22008KT CAVOK M03/M07 Q1001 GANR 280900Z 08008KT CAVOK 27/M11 Q//// LFST 281030Z AUTO 20007KT 120V270 9999 NSC 13/M00 Q1022 ESNS 281020Z 27008KT 8000 -SN FEW008 SCT021 BKN039 01/M00 Q1006 ESPA 281020Z 32007KT 3500 -SN BKN005 00/M00 Q1005 ESOK 281020Z AUTO 16003KT 130V210 9999 SCT010/// 03/00 Q1012 KOSU 280953Z AUTO 36008KT 10SM SCT039 OVC050 M08/M13 A3014 RMK AO2 SLP220 T10781133 LGKL 281020Z 17007KT 9999 SCT018 FEW020TCU 17/10 Q1002 KQBL 280956Z AUTO 33002KT 10SM CLR 07/02 A3016 RMK AO2 SLP219 T00680023 KOTM 280953Z AUTO 09005KT 10SM BKN110 M04/M10 A3019 RMK AO2 SLP230 T10391100 ESNU 281020Z 30008KT 9999 FEW011 01/M00 Q1007 R14/19//65 ESPE 281020Z AUTO 30006KT 9999NDV FEW150/// M02/M04 Q1004 LGKO 281020Z 19014KT 9999 FEW016TCU SCT018 18/12 Q1004 LFSX 281030Z AUTO 19006KT 140V240 9999 NSC 11/01 Q1022 ESNX 281020Z AUTO 32004KT 9999NDV NCD M02/M05 Q1003 LGKP 281020Z 20018KT 9999 SCT018 18/12 Q1005 KQAY 280955Z AUTO 35007KT 330V030 9999 CLR 27/04 A3003 RMK AO2 SLP167 T02740038 $ LHBP 281030Z 31014KT CAVOK 12/01 Q1014 NOSIG ETGG 281020Z 18011KT 9999 SCT022 BKN040 08/02 Q1016 BLU LGKR 281020Z 14005KT 9999 FEW015 FEW020TCU BKN025 16/12 Q1003 TEMPO TSRA FEW018CB ESNZ 281020Z 15006KT CAVOK 00/M01 Q1007 ETHA 281020Z AUTO 28009KT //// // ////// 07/M00 Q1021 /// VRMM 281000Z 03007KT 9000 FEW018TCU BKN120 31/25 Q1009 NOSIG WIMM 281030Z 24003KT 8000 FEW017CB SCT019 28/24 Q1008 NOSIG KS39 281040Z AUTO VRB05G11KT 10SM SCT055 BKN070 05/00 A3020 RMK AO2 ETHB 281020Z AUTO 22010KT 4400 // ////// 09/00 Q1018 /// LHDC 281015Z 01018G28KT 9999 FEW026 BKN036 10/02 Q1011 NOSIG KQCL 280955Z AUTO 35001KT 9999 FEW030 SCT110 BKN120 17/11 A3003 RMK AO2 LTG DSNT SE SHRAB0859E0945 SLP150 P0003 T01660113 ETHC 280420Z 25003KT 9999 BKN045 04/03 Q1021 BLU KPKV 281035Z AUTO 23003KT 10SM CLR 12/12 A3013 RMK AO2 T01220115 KPMD 280953Z AUTO 00000KT 10SM CLR 15/M01 A3012 RMK AO2 SLP176 T01501006 LGKV 281020Z 07007KT 9999 FEW006 OVC016 14/12 Q1003 LGLM 281020Z 16013KT 9999 -RA FEW016TCU SCT018 BKN080 15/12 Q1003 LFTW 281030Z AUTO 35013KT 310V020 9999 NSC 18/07 Q1021 KOVE 280953Z AUTO 00000KT 10SM CLR 14/10 A3014 RMK AO2 SLP208 T01440100 KPLN 280954Z AUTO 29004KT 10SM CLR M17/M18 A3025 RMK AO2 SLP261 T11671183 KOUN 281035Z AUTO 20009KT 10SM CLR 07/03 A3004 RMK AO2 ETHE 281020Z AUTO 15008KT //// // ////// 10/02 Q1017 /// ESOW 281020Z AUTO 24008KT 210V280 9999 FEW025/// SCT031/// BKN036/// 07/00 Q1012 ETHF 281020Z 22011KT 9999 BKN040 10/00 Q1019 BLU LGKZ 280950Z 32007KT 300V010 8000 -DZ FEW005 BKN020 OVC070 09/07 Q1004 ETGQ 280520Z AUTO 13003KT //// // ////// 05/01 Q1023 /// LGLR 280950Z 00000KT 9999 SCT025 BKN080 15/11 Q1003 BLU KOWA 281035Z AUTO 11004KT 10SM SCT070 M07/M11 A3017 RMK AO2 KPNA 281035Z AUTO 27005KT 10SM CLR M03/M03 A3020 RMK AO2 LGMK 281020Z 14008KT 9999 SCT010 FEW016TCU SCT018 OVC070 14/12 Q1003 KOWB 280956Z AUTO 04004KT 10SM CLR M03/M09 A3021 RMK AO2 TSNO T10271088 SLP233 KPNC 280953Z AUTO 13006KT 10SM FEW110 07/00 A3002 RMK AO2 SLP165 T00670000 TSNO KOVL 281033Z AUTO 11004KT 10SM SCT050 M02/M04 A3015 RMK AO2 KPLU 281035Z AUTO VRB05G11KT 10SM BKN017 OVC023 09/09 A3012 RMK AO2 ETHL 281020Z 26010KT 9999 FEW038 08/M01 Q1021 BLU+ KOWD 280953Z AUTO 36008KT 10SM -RA BKN023 BKN036 OVC050 03/M01 A2971 RMK AO2 RAB52SNB37E46 SLP060 P0000 T00331006 ETIC 280958Z AUTO 27010G15KT 9999 FEW047 08/M04 A3014 RMK AO2 SLP218 T00791036 KPNE 280954Z AUTO 33008KT 10SM OVC070 02/M06 A2982 RMK AO2 SLP098 T00221061 TSNO ETHN 281020Z 27007KT 9999 SCT040 07/M02 Q1021 BLU+ LFVP 281000Z 31013KT CAVOK 01/01 Q1004 NOSIG KPMP 280953Z AUTO 33013KT 10SM CLR 17/08 A3002 RMK AO2 SLP166 T01720083 KQEI 281040Z AUTO 24003KT 9999 FEW085 BKN100 14/M08 A2998 RMK A02 TSNO ETIH 280958Z AUTO 28004KT 9999 FEW038 BKN050 08/M01 A3017 RMK AO2 SLP231 T00771011 PWAK 280958Z AUTO 06019G25KT 9999 SCT022 SCT027 BKN065 25/21 A3008 RMK AO2 SLP192 T02530211 KQEJ 281040Z AUTO 22005KT 9999 BKN100 14/M06 A2992 RMK A02 TSNO KOVS 280953Z AUTO 00000KT 10SM CLR M09/M12 A3024 RMK AO2 SLP252 T10941117 KQFA 280955Z AUTO VRB03KT 9999 FEW090 BKN100 13/M06 A3000 RMK AO2 SLP163 T01331062 $ ETHS 281020Z 23009KT 9999 SCT028 SCT040 07/00 Q1019 BLU+ ESSA 281020Z 25007KT 9999 SCT011 BKN015 BKN023 04/02 Q1011 R01L/15//95 R08/19//95 R01R/19//95 NOSIG KQFB 281040Z AUTO 07003KT 9999 OVC080 17/02 A3002 RMK A02 TSNO KOXB 280953Z AUTO 33011KT 10SM OVC090 03/M02 A2979 RMK AO2 SLP088 T00281017 TSNO LGMT 281020Z 14008KT 9999 FEW020 BKN080 16/10 Q1004 KPOB 281029Z AUTO 33007KT 10SM BKN049 BKN100 04/02 A2995 RMK AO2 KPOC 280047Z 26011KT 10SM CLR 29/03 A3004 ESSB 281020Z 26008KT 9999 BKN011 04/02 Q1011 R30/19//66 KQEL 281040Z AUTO 30002KT 9999 BKN110 14/M04 A3002 RMK A02 TSNO KOXC 281035Z 35012G17KT 10SM OVC060 00/M06 A2973 RMK AO1 ETIK 280958Z AUTO 25009KT 9999 BKN046 08/M01 A3018 RMK AO2 SLP230 T00811006 KPNM 281034Z AUTO 00000KT 10SM CLR M09/M11 A3018 RMK AO2 KPMV 281035Z AUTO 11008KT 10SM BKN055 00/M03 A3010 RMK AO2 T00001029 ESSD 281020Z AUTO 28006KT 9999 NCD 06/01 Q1010 KQEN 281040Z AUTO 9999 FEW170 BKN190 00/M12 / RMK A02 TSNO KPOE 280958Z AUTO 07002KT 8SM CLR 08/05 A3016 RMK AO2 SLP214 T00750052 KPOF 280953Z AUTO 00000KT 10SM CLR M01/M02 A3018 RMK AO2 SLP226 T10061022 KQEP 281040Z AUTO 24003KT 9999 CLR 14/M10 A2995 RMK A02 TSNO KQFG 280955Z AUTO 24007KT 9999 FEW031 BKN100 18/13 A3000 RMK AO2 SHRAB0855E0931 SLP143 T01840131 KOWP 281035Z AUTO 16006KT 10SM -RA BKN110 09/01 A3005 RMK AO2 T00890006 KQEQ 281040Z AUTO 29004KT 9999 BKN060 BKN160 09/M07 A2988 RMK A02 TSNO RCSS 281030Z 10011KT 9999 FEW025 SCT200 17/09 Q1018 NOSIG RMK A3006 KQER 281040Z AUTO 22002KT 8000 /OVC024 12/M02 A2996 RMK A02 TSNO KOXI 281035Z AUTO 35005KT 10SM M10/M17 A3024 RMK AO1 KQES 281040Z AUTO 9999 // BKN065 10/M04 A3005 RMK A02 TSNO KPNS 280953Z AUTO 34005KT 10SM CLR 07/03 A3016 RMK AO2 SLP215 T00670028 LGPA 281020Z AUTO 16010KT //// // ////// 16/13 Q1003 RERA KPPA 281035Z AUTO 20008KT 10SM CLR 08/02 A3003 RMK AO2 T00800020 ESTA 281020Z 25009KT 9999 SCT009 07/03 Q1016 KPNT 281035Z AUTO 00000KT 10SM CLR M08/M09 A3025 RMK AO2 T10791092 ESSL 281020Z AUTO 30011KT 9999NDV BKN021/// 05/01 Q1013 KQEV 281040Z AUTO 25004KT 9999 CLR 13/M06 A3000 RMK A02 TSNO FKKD 280900Z 08006KT 9999 SCT016 FEW020CB 27/23 Q1014 NOSIG WIPP 281030Z 34006KT 9999 FEW015 FEW020CB 31/24 Q1007 NOSIG KQEW 281040Z AUTO 28009G17KT 9999 SCT070 BKN090 16/01 A2997 RMK A02 TSNO LGNX 280950Z 17008KT 9999 FEW012 FEW018TCU SCT025 BKN080 14/13 Q1003 RCTP 281030Z 06007KT 9999 FEW020 SCT200 16/11 Q1017 NOSIG RMK A3005 KPPF 280952Z AUTO 18005KT 10SM BKN090 OVC110 06/01 A3006 RMK AO2 RAB00E15 SLP179 P0000 T00560006 KQEX 281040Z AUTO 01001KT 9999 CLR 18/M01 A2999 RMK A02 TSNO KQEY 281040Z AUTO 34007G11KT 9999 BKN055 13/M09 A3002 RMK A02 TSNO ESSP 281020Z AUTO 27009KT 9999 FEW017/// BKN022/// 05/01 Q1013 R27/09//95 KQFQ 280955Z AUTO VRB04KT 10SM FEW090 BKN100 12/M09 A2996 RMK AO2 SLP147 T01211086 $ KOXR 280951Z AUTO 00000KT 9SM CLR 12/11 A3004 RMK AO2 SLP171 T01220106 KQFS 280956Z AUTO 20006G15KT 9999 M 18/01 A2993 RMK AO2 SLPNO T01820008 $ KOZA 281035Z AUTO 20006KT 10SM CLR 10/02 A3013 RMK AO2 KQFT 281040Z AUTO 21002KT 9999 SCT023 BKN030 14/M09 A2997 RMK A02 TSNO KQFU 281040Z AUTO 06002KT 9999 CLR 11/M11 A3001 RMK A02 TSNO KPOU 280953Z 36008KT 10SM SCT032 BKN060 OVC075 01/M06 A2979 RMK AO2 SLP085 T00061061 KQFV 281040Z AUTO 30003KT 9999 CLR 12/M02 A2997 RMK A02 TSNO ESTL 281020Z AUTO 24007KT 9999NDV BKN020/// OVC031/// 07/02 Q1016 KPOV 281035Z AUTO 31005KT 10SM M10/M14 A3008 RMK AO2 T11001145 KOXV 281035Z AUTO 12004KT 10SM OVC070 M03/M10 A3017 RMK AO2 ESUD 281020Z AUTO 00000KT 9999 ////// M00/M04 Q1005 ESSV 281020Z 26008KT 9999 FEW009 04/03 Q1014 R21/19//68 FKKN 280800Z 24002KT CAVOK 22/19 Q1018 KQFX 281040Z AUTO 26002KT 9999 FEW020 BKN024 15/M11 A2999 RMK A02 TSNO KPPO 281035Z AUTO 02004KT 10SM SCT110 M09/M14 A3025 RMK AO2 T10921139 KPOY 281035Z AUTO 24012G20KT 10SM CLR 13/M02 A2994 RMK AO2 KPPQ 281035Z AUTO 08004KT 10SM CLR M03/M07 A3023 RMK AO2 T10281074 KPQI 281035Z AUTO 00000KT 10SM CLR M08/M13 A2988 RMK AO1 LFYR 281030Z AUTO 24008KT 200V290 9999 OVC007 13/12 Q1022 FKKR 280900Z 28012KT 9999 FEW023 34/20 Q1010 NOSIG KPRB 281044Z AUTO 00000KT 10SM BKN005 09/08 A3013 RMK AO2 T00940078 TSNO $ KPRC 280953Z AUTO 19008KT 10SM CLR 06/M06 A3023 RMK AO2 SLP177 T00611056 KPQL 280953Z AUTO 00000KT 10SM CLR 04/03 A3019 RMK AO2 SLP223 T00440033 TSNO KQGV 280955Z VRB04KT 9999 FEW200 28/M01 A3003 RMK SLPNO QNH1017 PA +372 KQHN 280955Z 27027G37KT 6000 BLDU BKN050 BKN080 18/10 A2997 RMK PK WND 27037/48 SLP102 Q1015 DA4539 KPQN 281034Z AUTO 17008KT 10SM OVC047 M02/M03 A3008 RMK AO2 KQGX 280958Z AUTO 33009KT 9999 CLR 32/18 A2995 RMK AO2 SLP144 T03150179 $ KPRG 281035Z AUTO 00000KT 10SM CLR M06/M08 A3024 RMK AO2 T10651085 LGPZ 281020Z 28006KT 9999 FEW030 17/08 Q1004 KOZR 280958Z AUTO 28004KT 10SM CLR 04/00 A3013 RMK AO2 SLP206 T00370004 $ LGSA 281020Z 29012G22KT 9999 FEW025 BKN030 17/11 Q1003 KOZS 281035Z AUTO 08006KT 10SM OVC060 01/M02 A3016 RMK AO2 VTBD 281030Z 12004KT 090V150 9999 FEW030 SCT300 34/21 Q1008 NOSIG ESUT 281020Z AUTO 16004KT 9999 BKN032/// M00/M05 Q1003 KRAC 280953Z AUTO 30005KT 10SM CLR M08/M11 A3026 RMK AO2 SLP257 T10781111 KPSC 280953Z AUTO 24019G30KT 10SM OVC110 13/05 A3002 RMK AO2 PK WND 23032/0937 SLP163 T01280050 ETML 281020Z AUTO 19008KT //// // ////// 08/03 Q1018 /// KOZW 281035Z AUTO 31006KT 10SM CLR M10/M14 A3020 RMK AO2 T11001136 KPRN 280956Z AUTO 33005KT 10SM FEW100 04/01 A3013 RMK AO2 SLP201 T00440011 $ KPSF 280954Z AUTO 30007KT 9SM OVC007 M03/M04 A2974 RMK AO2 SLP080 T10331044 KPRO 281035Z AUTO 10003KT 10SM OVC048 00/M03 A3016 RMK AO2 T00001030 ETMN 281020Z 22011KT 9999 SCT025 08/02 Q1017 BLU+ KQHY 280956Z AUTO 35003KT 10SM CLR 07/02 A3016 RMK AO2 SLP220 T00660023 LGRP 281020Z 24009KT 9999 FEW018TCU SCT020 19/13 Q1005 NOSIG KQL5 280955Z 32006KT 9999 BKN080 OVC100 21/13 A2996 RMK SHRAB0718E0730B0751E0922 SLP132 T02080127 ETNG 271650Z 29009G19KT 9999 FEW038 BKN060 09/01 Q1021 NOSIG ETNH 281020Z AUTO 21011KT 9999 // ////// 07/01 Q1017 /// KQIR 280958Z 01011KT 9999 SCT180 29/07 A2996 RMK AO2A SLP147 T02930073 LIBA 271755Z 31018KT 8000 BKN010 SCT060 12/10 Q1002 RMK OVC VIS MIN 8000 WIND THR29 30018KT GRN VTCC 281030Z 16004KT 9999 SCT035 33/12 Q1011 A2988 NOSIG KPRS 281035Z AUTO 01013KT 10SM CLR 14/00 A3013 RMK AO2 T01370000 LGSK 280950Z /////KT 9999 FEW010 BKN020 14/12 Q1003 KT20 281035Z AUTO 00000KT 10SM CLR 10/07 A3013 RMK AO2 T01010072 KPTB 281035Z AUTO 36009G14KT 10SM SCT041 BKN050 OVC060 03/M04 A2993 RMK AO2 T00301038 KPSK 281035Z AUTO 31010G19KT 280V340 10SM SCT039 OVC046 M04/M11 A2995 RMK AO2 T10421110 LIBC 280950Z 36020KT 9000 FEW010 SCT040 14/09 Q1006 KRAL 280953Z AUTO 00000KT 10SM CLR 17/06 A3006 RMK AO2 SLP163 T01670061 LGSM 281020Z 13006KT 9999 SCT018 BKN025 BKN080 14/12 Q1004 ETNL 281020Z 21007KT 9999 FEW010 SCT015 BKN048 06/03 Q1019 BLU VTBO 281000Z 18010KT 8000 FEW023 30/24 Q1010 LIBD 281020Z 34017G27KT 9999 FEW030 14/08 Q1009 KRBD 280953Z 14003KT 10SM CLR 08/04 A3009 RMK AO2 SLP185 T00830039 KPSM 280958Z 36007KT 330V040 10SM BKN038 BKN045 OVC065 02/M02 A2972 RMK AO2A SLP067 T00231023 LHKE 281015Z 33012KT CAVOK 10/03 Q1013 NOSIG RMK BLU KPSN 281035Z AUTO 12003KT 10SM CLR 09/03 A3011 RMK AO2 T00920035 LIBF 280950Z 34022KT 9999 SCT025 13/07 Q1011 ETNN 281020Z 17006KT 9999 FEW045 BKN060 12/02 Q1018 BLU VTCH 281000Z 35004KT 300V110 9999 FEW025 35/10 Q1008 A2977 KPSO 281035Z AUTO 00000KT 10SM CLR 01/M05 A3030 RMK AO2 T00101053 LGSO 281020Z AUTO 19014KT //// // ////// 16/12 Q1003 RE// LGRX 281020Z VRB03KT 9999 FEW040 SCT080 16/09 Q1003 LIBG 280950Z 35016KT 9999 FEW025 14/08 Q1006 KRAP 280952Z AUTO 28004KT 10SM CLR 04/M01 A2993 RMK AO2 SLP132 T00441006 KPSP 280953Z 00000KT 10SM CLR 23/03 A2999 RMK AO2 SLP152 T02280033 KRBG 280953Z AUTO 00000KT 10SM FEW039 10/06 A3035 RMK AO2 SLP278 T01000056 LGTG 280950Z 34004KT 4000 RA FEW015 FEW018TCU BKN030 BKN080 13/10 Q1002 GRN LIBH 280955Z 02010KT 9999 SCT030 17/12 Q1007 RMK BKN BKN200 QUK / QUL / VIS MAR 18 KM VIS MIN 9999 VTBS 281030Z 19014KT 160V240 9999 FEW020 BKN300 31/23 Q1009 NOSIG LGSR 281020Z 21010KT 9999 SCT025 SCT080 18/11 Q1003 VTBU 281030Z 19008KT 5000 BR FEW020CB SCT300 29/23 Q1010 A2984 CB N-NE VTCL 281000Z 26003KT 9999 FEW025 SCT120 BKN300 31/20 Q1009 A2982 INFO LICA 280950Z 01009KT 9999 FEW020 BKN050 15/07 Q1007 KRCA 280958Z AUTO 24005KT 10SM CLR 04/M01 A2992 RMK AO2 SLP132 T00371008 $ KRAS 281035Z AUTO 22005KT 10SM CLR 16/13 A3014 RMK AO2 T01550127 LICB 280950Z 34003KT 300V070 9999 BKN040 17/11 Q1006 ETNS 281020Z AUTO 21008KT 9999 // ////// 07/02 Q1017 /// KPTK 280953Z 32009KT 10SM BKN042 OVC045 M09/M15 A3015 RMK AO2 SLP225 FIRST AUGMENTED OBS OF THE DAY T10941150 KPUB 280953Z AUTO 29007KT 10SM CLR 06/M01 A3008 RMK AO2 SLP155 T00561006 VTCN 281000Z 29005KT 9999 FEW018CB SCT100 26/12 Q1009 A2982 RWY/02 INFO/H LICC 281020Z VRB02KT 9999 SCT035 BKN090 17/08 Q1006 KPUC 280953Z AUTO 00000KT 10SM CLR 07/M06 A3019 RMK AO2 SLP185 T00721056 ETNT 281020Z 19011KT 9999 FEW024 SCT220 08/02 Q1016 BLU+ KRBL 280954Z AUTO 34008KT 10SM CLR 14/04 A3016 RMK AO2 SLP210 T01440044 LICD 280950Z 32019G31KT 9000 SCT020 16/11 Q1011 VTCP 280800Z 24004KT 9999 SCT025 BKN300 35/17 Q1009 A2982 RWY19 INFO I LIBN 280955Z 34019G29KT 9999 FEW035 14/10 Q1005 RMK BKN BKN060 VIS MIN 9999 WIND THR14 35019KT BLU KPTN 281035Z AUTO 10004KT 10SM CLR 09/05 A3019 RMK AO1 KRCE 281035Z AUTO 22011G16KT 10SM 08/05 A3003 RMK AO2 ETNW 281020Z AUTO 19008KT 9000 // ////// 09/01 Q1018 /// LICF 280955Z 35007KT 9999 SCT012 SCT020 15/11 Q1006 RMK BKN BKN080 QUK 2 QUL 0 VIS MAR 12 KM MON INC NC VIS MIN 9999 KPSX 280953Z AUTO 22004KT 10SM 16/13 A3012 RMK AO2 SLP200 T01610128 $ KRBO 281035Z 10SM CLR 12/11 A3015 RMK AO2 T01160105 LICG 280955Z /////KT 9000 SCT016 13/12 Q1009 RMK BKN BKN053 VIS MIN 9000 WIND THR08 34011KT WIND THR21 33017G29KT BLU LIBP 280950Z 34012G22KT 9999 FEW030 15/03 Q1015 LGSY 280950Z 24006KT 9999 SCT015 SCT025 BKN080 15/11 Q1001 BLU KT35 281035Z AUTO 13004KT 10SM CLR 10/07 A3013 RMK AO2 T01020065 LIBQ 280955Z 06030KT 0000 FG VV/// 00/00 Q1003 RMK MON INVIS VAL INVIS VIS MIN 0000 VTCT 281000Z 29006KT 9999 FEW020CB FEW030 28/19 Q1011 A2987 RMK/RWY03 INFO K LIBR 281015Z 34012G24KT 9999 SCT020 13/08 Q1007 NOSIG LGTS 281020Z 32014KT 9999 FEW007 SCT025 BKN070 14/10 Q1003 NOSIG LICJ 281020Z 04009KT 9999 FEW030 15/12 Q1010 KPUJ 281035Z AUTO 31008KT 10SM CLR 01/00 A3006 RMK AO2 KPTS 281035Z AUTO 15006KT 10SM CLR 06/M01 A3008 RMK AO2 T00561010 KPTT 281035Z AUTO 23008KT 10SM CLR 04/01 A2995 RMK AO2 KPVB 281035Z AUTO 15005KT 10SM CLR M06/M10 A3022 RMK AO1 T10651097 LICL 280955Z 01012KT 9999 SCT022 BKN024 18/04 Q1005 RMK BKN QUK 3 QUL 1 SW VIS MAR 16 KM VIS MIN 9999 KPVC 281035Z 05008KT 10SM FEW014 SCT037 BKN047 03/01 A2970 RMK AO1 LIBV 280955Z 34020KT 8000 FEW010 SCT018 11/07 Q1007 RMK BKN BKN070 VIS MIN 8000 WIND THR32 34024G36KT WIND THR14 34022G32KT BLU KPVD 280953Z 01006KT 7SM -RA SCT015 BKN025 OVC030 03/01 A2970 RMK AO2 P0000 T00280011 KRDD 280953Z AUTO 34008G15KT 10SM CLR 18/03 A3016 RMK AO2 SLP207 T01780033 KPTV 281035Z AUTO 15006KT 10SM CLR 12/07 A3009 RMK AO1 ETOU 281028Z AUTO 24010G15KT 190V260 9999 SCT049 12/01 A3013 RMK AO2 WSHFT 26 KRCM 281035Z AUTO 08006KT 10SM OVC055 02/M01 A3015 RMK AO2 GCGM 281000Z 27009KT 220V320 9999 FEW018 BKN025 18/13 Q1026 RMK CAB09 26009KT 210V300 GCFV 281030Z 04011KT 9999 FEW010 BKN015 18/14 Q1027 KPVE 281035Z AUTO 00000KT 10SM CLR M04/M06 A3017 RMK KRBW 281035Z AUTO 30004KT 10SM CLR 05/04 A3000 RMK AO2 KPTW 280954Z AUTO 35006KT 10SM OVC065 00/M07 A2983 RMK AO2 SLP102 T00001067 KPVF 281035Z AUTO 10008KT 10SM BKN043 14/03 A3016 RMK AO1 KQLP 280955Z AUTO 04010G15KT 360V070 26/09 Q1024 RMK AO2 SLP115 T02640089 PWINO TSNO $ LIBY 280955Z 03015KT 9999 SCT025 13/05 Q1003 RMK BKN SCT080 QUK 3 QUL 2 NE VIS MAR 10 KM VIS MIN 9999 KPVG 281035Z AUTO 33005G15KT 10SM OVC065 04/M02 A2989 RMK AO1 KRDG 280954Z 36009G18KT 10SM SCT037 BKN055 00/M08 A2984 RMK AO2 SLP110 T00001083 LICR 280950Z 35012KT 9999 SCT020 BKN065 15/11 Q1006 KRCR 281035Z AUTO 00000KT 10SM CLR M07/M10 A3023 RMK AO2 GCHI 281000Z 01015KT 340V040 9999 FEW023 BKN028 18/14 Q1027 LIEA 281020Z 32006KT 260V360 9999 FEW030 18/09 Q1017 KPWA 280953Z AUTO 20016G23KT 10SM SCT110 09/03 A3002 RMK AO2 SLP163 T00940033 KPVJ 281035Z AUTO 00000KT 10SM SCT120 07/03 A3005 RMK AO2 T00650030 LIEB 280955Z 04025KT CAVOK 16/08 Q1012 RMK SKC QUK 4 QUL 2 NE VIS MAR 30 KM MON LIB VIS MIN 9999 LICT 280955Z 32015KT 9999 SCT014 SCT030 16/14 Q1010 RMK BKN BKN070 VIS MIN 9999 WIND THR13 /////KT BLU KRDK 281035Z AUTO 13004KT 10SM BKN055 OVC065 01/M02 A3013 RMK AO2 LIEC 280955Z 08003KT CAVOK 16/06 Q1014 RMK SKC QUK 1 QUL 0 VIS MAR 20 KM VIS MIN 9999 KPWC 281033Z AUTO 00000KT 10SM CLR M09/M12 A3017 RMK AO2 LIED 280955Z 32016G26KT CAVOK 18/07 Q1014 RMK SKC VIS MIN 9999 WIND THR35 32014KT WIND THR17 32016KT BLU KRCV 281035Z AUTO 27015KT 10SM CLR 03/M07 A3029 RMK AO2 T00311066 KRDM 280956Z AUTO VRB03KT 10SM BKN070 BKN085 BKN110 06/00 A3019 RMK AO2 SLP210 T00610000 LIEE 281020Z 33014KT CAVOK 18/05 Q1015 KPUW 281044Z AUTO 24018G25KT 7SM -RA FEW019 SCT026 OVC041 A2998 RMK AO2 PK WND 24030/1016 P0011 $ FLHN 281000Z 13007KT 9999 SCT045 29/16 Q1018 NOSIG KRCX 281035Z AUTO 00000KT 10SM CLR M08/M10 A3020 RMK AO2 T10821100 KPWG 281035Z AUTO 20005KT 10SM CLR 08/02 A3012 RMK AO1 LICZ 280955Z 18006KT 9999 SCT030 BKN080 19/13 Q1006 RMK BKN VIS MIN 9999 WIND THR28 14006KT A2972 BLU KRCZ 281035Z AUTO 36003KT 10SM 04/M01 A2996 RMK AO2 T00411013 KRDR 281013Z AUTO 15007KT 10SM BKN030 M05/M07 A3007 RMK AO2 ETSA 281020Z 25009KT 9999 FEW038 08/M02 Q1021 BLU+ KPWK 280952Z AUTO 00000KT 10SM CLR M07/M11 A3025 RMK AO2 SLP254 T10721106 ETSB 281020Z AUTO 23011KT 9999 // ////// 08/01 Q1019 /// KRDU 280951Z 32004KT 10SM SCT060 03/M02 A2991 RMK AO2 SLP131 T00331022 KPVU 281035Z AUTO 23004KT 10SM CLR 07/02 A3014 RMK AO1 KPWM 280951Z 02011KT 10SM OVC048 03/M05 A2977 RMK AO2 SLP082 T00281050 KRFD 280954Z 00000KT 10SM CLR M08/M12 A3026 RMK AO2 SLP258 I1000 T10831117 KPVW 281035Z AUTO 16004KT 10SM CLR 05/02 A3004 RMK AO2 T00500016 KPXE 281035Z AUTO 32008KT 10SM CLR 06/01 A3008 RMK AO2 T00560014 LIEO 281020Z 01016KT CAVOK 18/02 Q1016 WS RWY 05 KREO 280952Z AUTO 21011KT 13/M02 A3007 RMK AO1 SLP150 T01281017 KT65 281035Z AUTO 20004KT 7SM CLR 12/10 A3016 RMK AO2 T01200100 ETSH 281020Z 24007KT 9999 SCT024 BKN045 07/02 Q1020 BLU KRFI 281035Z AUTO 00000KT 10SM CLR 05/04 A3014 RMK AO2 T00530042 ETSI 281020Z AUTO 27010KT 6000 // ////// 09/M02 Q1022 /// LHPA 281015Z 34010MPS 9999 SCT037 SCT060 09/01 Q1018 NOSIG RMK BLU KPWT 281035Z AUTO 20016G21KT 10SM FEW013 08/07 A3009 RMK AO1 ETSL 281020Z 25009KT 9999 SCT040 08/M03 Q1021 BLU+ ETSN 281020Z AUTO 23011KT //// // ////// 09/M03 Q1021 /// LGZA 281020Z 01005KT 9999 SCT018 17/11 Q1003 GCLA 281030Z 36011KT 330V030 9999 BKN030 19/11 Q1028 KRGK 281030Z AUTO 00000KT 10SM CLR M08/M11 A3021 RMK AO2 FLKK 281000Z 09005KT 9999 FEW035CB BKN038 23/20 Q1019 RETSRA KPYM 280952Z AUTO 01006KT 5SM -RA BR FEW010 SCT046 OVC075 03/02 A2969 RMK AO2 SLP054 P0000 T00280022 KT82 281035Z AUTO 00000KT 10SM CLR 09/03 A3012 RMK AO2 T00850025 LHPP 281037Z AUTO 36018G34KT 11/00 Q1015 FMCH 281000Z 25004KT 280V320 9999 FEW032 SCT025 30/24 Q1013 NOSIG KRHI 280953Z AUTO 08003KT 10SM CLR M13/M16 A3017 RMK AO2 SLP246 T11331161 LHPR 281015Z 33022G33KT 9999 BKN036TCU 10/01 Q1018 AGGH 281000Z 00000KT 9999 HZ FEW016 SCT300 26/24 Q1011 KRIC 280954Z 36010KT 10SM SCT050 BKN070 OVC095 02/M06 A2990 RMK AO2 SLP129 T00221061 KPYX 281035Z AUTO 24010KT 10SM CLR 09/02 A3001 RMK AO2 T00900017 KRHP 281038Z AUTO 01005KT 10SM OVC038 M01/M06 A3002 RMK AO2 GCLP 281030Z 02020KT 9999 FEW015 SCT020 BKN025 20/15 Q1026 NOSIG KPZQ 281034Z AUTO 25005KT 10SM CLR M13/M14 A3025 RMK AO2 T11311141 KQRH 280956Z AUTO 09009G15KT 9999 FEW210 31/22 A2986 RMK AO2 SLP104 T03060218 KQSA 280958Z VRB02KT 9999 SCT040 BKN060 OVC070 14/09 A3002 RMK AO2A SLP100 T01400094 $ KSAA 281035Z AUTO 10SM CLR 00/M05 A3018 RMK AO2 KRIL 280953Z AUTO 00000KT 10SM CLR 02/M03 A3022 RMK AO2 SLP201 T00171033 KSAC 280953Z AUTO 12003KT 10SM CLR 12/09 A3011 RMK AO2 SLP197 T01220094 KSAD 280951Z AUTO 15005KT 10SM CLR 11/M06 A3011 RMK AO2 SLP160 T01061056 KRHV 280456Z 32005KT 10SM FEW013 14/11 A3020 RMK LAST FMEE 281030Z 08015KT 9999 FEW030 30/24 Q1012 NOSIG KSAF 280953Z AUTO 01004KT 10SM CLR 06/M07 A3021 RMK AO2 SLP161 T00611072 KQSF 280955Z AUTO 06007KT 020V100 9999 SCT020 BKN040 BKN065 12/08 A3013 RMK AO2 RAB0855E0918 SLP190 T01150077 KQQY 280955Z AUTO VRB01KT 9999 FEW090 BKN120 27/19 A2995 RMK AO2 SLP116 T02670192 $ KU16 280958Z AUTO 00000KT 10SM CLR 05/M03 A3007 RMK AO2 SLP804 T00501033 $ FMCZ 281034Z 12003KT 070V180 9999 SCT022TCU 32/23 Q1011 NOSIG KSBA 280953Z 00000KT 10SM CLR 13/12 A3002 RMK AO2 SLP165 T01280117 KSBD 280350Z 21004KT 10SM SKC 24/03 A3005 KRIV 280958Z AUTO 28003KT 10SM CLR 10/01 A3008 RMK AO2 SLP175 T01040007 KRKD 281035Z AUTO 02012G18KT 10SM SCT065 BKN075 00/M07 A2977 RMK AO1 LHSM 281015Z 35019G34KT 9999 FEW040 SCT053 11/00 Q1017 NOSIG ETWM 281020Z AUTO 17010KT 8000 // ////// 10/01 Q1016 /// KSAN 281038Z 02003KT 1SM R09/P6000FT BR OVC004 17/15 A3006 RMK AO2 CIG 002V006 $ LHSN 281015Z 36006KT 9999 FEW020 SCT033 OVC060 10/03 Q1013 NOSIG RMK BLU KRIW 280953Z AUTO 28011KT 10SM CLR 09/M02 A3006 RMK AO2 SLP129 T00891017 $ KQSN 280955Z AUTO 17006G13KT CLR 14/05 A3002 RMK AO2 SLP132 T01350049 PWINO TSNO $ KQTF 271955Z AUTO VRB03KT 8SM CLR 16/13 A3014 RMK AO2 SLP205 T01550134 FMEP 281030Z AUTO 14013KT 9999 FEW003/// 29/24 Q1013 KQTH 280955Z VRB03KT 9999 CLR 36/01 A2999 RMK AO2A SLP124 T03590014 $ KQTI 280955Z AUTO VRB03KT 9999 CLR 27/00 A3002 RMK AO2 SLP164 T02700000 PWINO $ KSAR 281035Z AUTO 00000KT 10SM CLR M03/M07 A3023 RMK AO2 T10261072 KSAT 280951Z 27004KT 10SM CLR 11/05 A3013 RMK AO2 SLP189 T01060050 KSAV 280953Z 30005KT 10SM CLR 07/03 A3000 RMK AO2 SLP157 FIRST AUGMENTED OBSERVATION T00720028 KSBM 280953Z AUTO 00000KT 10SM CLR M08/M12 A3025 RMK AO2 SLP256 T10831117 KSCD 281035Z AUTO 00000KT 10SM SCT110 02/M01 A3015 RMK AO2 T00241008 LHUD 281036Z AUTO 33016KT 10/05 Q1013 KSBN 280954Z 36005KT 10SM CLR M11/M14 A3022 RMK AO2 SLP249 T11061144 GBYD 281000Z 04010KT CAVOK 29/10 Q1014 KSAW 281045Z 00000KT 10SM SKC M22/M25 A3021 LJCE 281030Z 02005KT 330V070 CAVOK 13/M02 Q1017 KSCF 281035Z AUTO 08017KT 10SM CLR 15/09 A3015 RMK A01 KSBO 281035Z AUTO 00000KT 10SM CLR 05/M02 A3005 RMK AO2 KRKP 280953Z AUTO 23005KT 10SM 14/10 A3013 RMK AO2 SLP203 T01440100 PNO $ KSBP 281024Z AUTO 00000KT 1/4SM FG VV002 10/10 A3011 RMK AO2 T01000100 KSCH 280155Z 29008KT 10SM OVC042 02/M05 A2983 RMK LAST KSAZ 281033Z AUTO 00000KT 10SM CLR M09/M12 A3014 RMK AO2 KRKR 281035Z AUTO 00000KT 10SM -RA OVC100 07/02 A3011 RMK AO2 T00650020 LIMA 280950Z 19007KT CAVOK 15/M05 Q1017 KSBS 281035Z AUTO 00000KT 10SM CLR 00/M02 A3023 RMK AO1 T00041020 KRKS 280954Z AUTO 22009KT 10SM CLR 04/M03 A3019 RMK AO2 SLP171 T00441028 KSDA 281035Z AUTO 10007KT 10SM OVC065 01/M02 A3013 RMK AO2 KSDB 281048Z AUTO 32013KT 10SM CLR 15/04 A3020 RMK AO2 SLP176 T01500039 $ KSCK 280955Z AUTO 26003KT 10SM CLR 12/09 A3011 RMK AO2 SLP196 T01220089 LIMC 281020Z 23005KT 140V300 CAVOK 17/M04 Q1017 NOSIG LIME 281020Z 22005KT 130V270 CAVOK 15/03 Q1017 KRME 280953Z AUTO 33010KT 10SM OVC065 M07/M11 A2995 RMK AO2 SLP147 T10671111 LIMF 281020Z 18006KT 160V220 CAVOK 16/M03 Q1017 KQVF 280955Z AUTO VRB05KT 29/24 A2993 RMK AO2 SLP133 P0002 T02870239 PWINO TSNO $ KSDF 280956Z 35011KT 10SM FEW036 M04/M11 A3018 RMK AO2 SLP225 T10391106 LIMG 280950Z 12004KT CAVOK 19/M04 Q1016 KRMG 280953Z AUTO 34005KT 10SM CLR 02/M05 A3009 RMK AO2 SLP188 T00171050 KSBY 280954Z 33014KT 10SM FEW060 OVC075 02/M03 A2981 RMK AO2 SLP096 T00221033 KQTZ 280955Z 12005KT 9999 BKN200 27/M02 A3002 RMK SLP162 WND DATA ESTMD ALSTG/SLP ESTMD KSCR 281035Z AUTO 00000KT 10SM SCT070 M01/M01 A2994 RMK AO2 T10121014 LIMJ 281020Z 14005KT 120V180 CAVOK 16/08 Q1016 KSEA 280953Z 20012KT 10SM BKN015 BKN024 10/08 A3010 RMK AO2 PK WND 20027/0859 SLP199 T01000078 FKYS 280900Z 21105KT 190V250 9999 BKN016 25/20 Q1019 NOSIG LIML 281020Z 23006KT 170V270 CAVOK 16/03 Q1017 NOSIG KSDL 280953Z 00000KT 10SM CLR 17/01 A3004 RMK AO2 SLP151 T01720011 KRNC 281035Z AUTO 34007KT 10SM CLR M02/M08 A3013 RMK KSDM 280953Z AUTO 00000KT 1/4SM FG VV001 14/14 A3006 RMK AO2 SLP175 T01440139 $ KRND 280958Z AUTO 23007KT 10SM CLR 15/03 A3012 RMK AO2 SLP194 T01460034 LIMN 271755Z /////KT CAVOK 15/M10 Q1011 RMK FEW FEW100 VIS MIN 9999 BLU KRMN 281035Z AUTO 33008KT 10SM SCT047 SCT120 M01/M08 A2998 RMK AO2 T10091076 KSEE 281035Z AUTO 29003KT 10SM CLR 12/08 A3007 RMK AO2 LIMP 280950Z VRB03KT CAVOK 14/02 Q1018 KSEG 281017Z AUTO 35012KT 8SM -SN FEW022 OVC033 M02/M07 A2990 RMK AO2 P0000 T10221072 KRNH 281035Z AUTO 00000KT 10SM CLR M08/M10 A3020 RMK AO2 T10811099 LIMS 280955Z 12009KT 080V160 CAVOK 14/M00 Q1016 KROA 280954Z 29014KT 10SM BKN050 M02/M13 A2996 RMK AO2 PK WND 30029/0931 SLP151 T10221133 KSFB 280953Z AUTO 30009KT 10SM CLR 11/06 A3006 RMK AO2 SLP177 T01110056 LIMU 280955Z 22010KT CAVOK 17/M05 Q1017 RMK SKC QUK 2 QUL 1 E VIS MAR 50 KM VIS MIN 9999 KROC 280954Z 02011KT 7SM -SN SCT025 OVC040 M07/M12 A3003 RMK AO2 SNB48 SLP180 P0000 T10671117 KRNM 280953Z AUTO 00000KT 10SM CLR 08/03 A3008 RMK AO2 SLP174 T00780033 $ KSEM 281035Z AUTO 30006KT 10SM CLR 03/00 A3016 RMK AO2 KQWM 280955Z 34009KT 9999 FEW200 28/M02 A3005 RMK SLP169 QNH1017 VTPH 281000Z 15007KT 130V190 7000 NSC 29/25 Q1009 NOSIG KSFF 280953Z AUTO 22010KT 10SM -RA BKN055 OVC070 11/08 A2988 RMK AO2 RAB00 SLP111 P0003 T01110083 KRNO 280955Z 29006KT 10SM CLR 12/M01 A3019 RMK AO2 SLP182 T01221011 KRMY 281033Z AUTO 00000KT 10SM CLR M13/M14 A3021 RMK AO2 T11271143 KSDY 281035Z AUTO 00000KT 10SM CLR 00/M01 A2982 RMK AO1 KRNP 281035Z AUTO 30005KT 10SM CLR M10/M14 A3022 RMK AO2 T11011140 KSEP 281035Z AUTO 19006KT 10SM CLR 08/05 A3012 RMK AO2 T00830051 KROG 280957Z AUTO 14006KT 10SM FEW120 05/M03 A3008 RMK AO2 SLP189 T00501028 TSNO LIMZ 280950Z VRB01KT CAVOK 16/M03 Q1017 GCRR 281030Z 05015KT 9999 FEW020 19/15 Q1026 LIPA 280955Z 25005KT CAVOK 15/00 Q1016 RMK SKC VIS MIN 9999 WIND THR05 20003KT WIND THR23 18003KT A3001 BLU KU68 281035Z AUTO 04006KT 10SM CLR 08/M01 A2995 RMK AO2 LIPB 280950Z VRB03KT CAVOK 17/M08 Q1016 KRNT 280953Z AUTO 17010G18KT 10SM BKN025 11/07 A3009 RMK AO2 SLP193 T01060072 KSET 280954Z AUTO 00000KT 10SM CLR M02/M05 A3021 RMK AO2 SLP233 T10171050 FLSK 281000Z 00000KT 9999 BKN030 27/18 Q1019 LIPC 280955Z 03010KT CAVOK 13/05 Q1017 FNBC 281000Z 32006KT 9999 BKN012 23/23 Q1017 VTPO 281000Z 17003KT 9999 FEW020CB BKN300 33/19 Q1008 KSFM 281035Z AUTO 01015G20KT 10SM SCT042 OVC060 01/M04 A2975 RMK AO1 KRPD 281035Z AUTO 00000KT 10SM CLR M09/M11 A3020 RMK AO2 T10861107 KRNV 281035Z AUTO 07004KT 10SM SCT080 OVC100 04/02 A3021 RMK AO2 T00400018 VTPP 281000Z 27004KT 9999 FEW021CB SCT300 35/20 Q1008 LIPE 281020Z 12003KT 040V190 CAVOK 16/01 Q1017 LIPF 280955Z 18003KT CAVOK 15/03 Q1017 KSGF 280952Z 13007KT 10SM BKN080 BKN095 04/M04 A3009 RMK AO2 SLP193 T00391044 KSFO 280956Z 27011KT 10SM FEW013 13/13 A3016 RMK AO2 SLP213 T01280128 LIPH 281015Z /////KT CAVOK 15/M01 Q1016 FNBG 281000Z 32010KT 9999 BKN015 BKN100 29/25 Q1013 KSGH 280956Z AUTO 36004KT 8SM M08/M11 A3015 RMK AO2 T10771105 SLP224 $ KRPH 281035Z AUTO 16006KT 10SM CLR 10/06 A3005 RMK AO2 T00980056 KSEZ 281035Z AUTO 04009KT 10SM CLR 13/M05 A3021 RMK AO2 KSFQ 281035Z AUTO 33008KT 10SM SCT060 OVC070 03/M01 A2989 RMK AO2 T00311011 LIPI 280955Z 19006KT CAVOK 15/03 Q1016 RMK SKC VIS MIN 9999 WIND THR06 17002KT BLU KROS 281035Z AUTO 00000KT 10SM CLR M09/M10 A3020 RMK AO2 T10861105 KRPJ 281035Z AUTO 00000KT 10SM CLR M08/M10 A3026 RMK AO2 T10851103 KSGJ 280958Z AUTO 28004KT 10SM CLR 09/05 A3005 RMK AO2 SLP176 T00890050 LIPK 271650Z VRB01KT 9999 BKN040 11/06 Q1010 FNCA 281000Z 36007KT 9999 FEW016 FEW030CB BKN100 29/25 Q1014 KRQB 281034Z AUTO 00000KT 10SM CLR M13/M15 A3022 RMK AO2 T11271153 KQXT 280955Z 26014G19KT 9999 FEW015 SCT050 BKN150 16/11 A3003 RMK SLP155 WND DATA ESTMD ALSTG/SLP ESTMD Q1016 LIPL 271755Z /////KT 9999 SCT030 14/08 Q1011 RMK SCT VIS MIN 9999 WIND THR31 17002KT BLU LIQC 280955Z ///03KT 9999 FEW040 15/07 Q1009 RMK SCT SCT200 QUK 2 QUL 1 NE VIS MAR 20 KM VIS MIN 9999 KSHD 281035Z AUTO 30008KT 10SM SCT044 BKN055 M02/M13 A2994 RMK AO2 T10211132 KROW 280951Z AUTO 21003KT 10SM CLR 07/M02 A3006 RMK AO2 SLP135 T00721017 KRQE 280953Z AUTO 00000KT 10SM CLR M01/M08 A3029 RMK AO2 SLP190 T10111083 TSNO LIPO 280950Z 23005KT 220V010 CAVOK 16/01 Q1017 KROX 281034Z AUTO 16005KT 10SM CLR M06/M10 A3011 RMK AO2 KSFY 281035Z AUTO 00000KT 10SM CLR M06/M09 A3026 RMK AO2 T10631095 LIPQ 281020Z 33005KT CAVOK 16/// Q1015 KSFZ 281035Z 01008KT 10SM FEW010 BKN019 OVC026 01/M02 A2969 RMK AO1 P0001 LIPR 281015Z 35007KT CAVOK 12/07 Q1017 VTSB 281000Z 04019KT 8000 FEW020 32/23 Q1009 A2980 KSGR 280953Z AUTO 13003KT 10SM CLR 12/07 A3013 RMK AO2 SLP204 T01170072 VTSC 281000Z 08008KT 9999 SCT020 BKN200 29/25 Q1009 A2981 RWY20 INFO J LIPS 280955Z 21002KT CAVOK 15/M02 Q1015 RMK SKC VIS MIN 9999 WIND THR26 /////KT WIND THR08 19002KT BLU LIRA 281015Z 36011G21KT 300V030 9999 FEW030 17/03 Q1010 KSGS 281031Z AUTO 00000KT 10SM CLR M06/M11 A3021 RMK AO2 T10651107 GCTS 281030Z 08018G31KT 050V110 9999 FEW031 21/13 Q1026 WS R08 NOSIG KSGT 281035Z AUTO 13009KT 10SM FEW080 SCT100 06/00 A3019 RMK AO1 LIPU 280950Z 10005KT 060V150 CAVOK 15/02 Q1016 KSGU 281035Z AUTO 13004KT 10SM CLR 13/M04 A3013 RMK AO1 KSHL 281035Z AUTO 14009KT 10SM OVC039 M01/M02 A3011 RMK AO2 VTSF 281000Z 09008KT 9999 FEW020 30/23 Q1009 A2981 INFO K / RWY 19 KSHM 280956Z AUTO 31011G19KT 10SM CLR 12/M06 A3014 RMK AO2 SLP154 T01171059 LIQN 280950Z 22006KT CAVOK 16/03 Q1011 VTSG 281000Z 07009KT 040V120 9999 FEW020 SCT300 35/15 Q1008 A2978 LIRE 280955Z 02012KT CAVOK 17/01 Q1010 RMK SKC VIS MIN 9999 WIND THR31 /////KT BLU KSHN 281044Z AUTO 24015G22KT 10SM SCT013 SCT019 09/07 A3009 RMK AO2 T00890067 LIQO 271555Z 36026KT 0000 FG VV/// 08/08 Q1005 RMK VAL INVIS NC VIS MIN 0000 VTSH 281000Z 09010KT 8000 FEW020CB SCT120 BKN300 30/24 Q1009 A2980 CB-S LIPX 281015Z 20006KT CAVOK 15/M00 Q1017 LIRF 281020Z 03016KT 360V060 CAVOK 18/05 Q1011 NOSIG KRQO 281035Z AUTO 21013KT CLR 07/03 A3002 RMK AO2 PWINO KSIF 281035Z AUTO 33007KT 300V020 10SM SCT047 BKN050 01/M06 A2997 RMK AO2 T00061065 LIRG 271755Z 25002KT 9999 SCT040 12/10 Q1004 LIPY 280950Z 03013KT CAVOK 13/05 Q1016 LIRH 280955Z 10002KT 9999 FEW040 15/03 Q1009 WMBA 281000Z 28007KT 9999 FEW017CB SCT140 BKN280 31/26 Q1007 LIPZ 281020Z 18005KT 130V210 CAVOK 15/02 Q1016 LIRI 280950Z 03015G25KT 9999 BKN040 15/02 Q1009 KSHR 280953Z AUTO VRB04KT 10SM CLR 07/M01 A2990 RMK AO2 SLP110 T00671011 FMMI 281030Z VRB01KT 9999 SCT020CB 28/19 Q1019 NOSIG KSIK 280355Z AUTO 00000KT 10SM CLR 01/M03 A3021 RMK AO2 PWINO LIRK 280955Z AUTO 08030KT 040V110 //// 01/M04 Q1011 VTSM 281000Z 15010KT 9999 FEW020 BKN300 32/24 Q1011 A2986 LIRL 280955Z 18002KT 9999 FEW025 SCT070 16/13 Q1010 KSJC 280953Z AUTO 00000KT 10SM CLR 12/09 A3016 RMK AO2 SLP213 T01170094 KRRL 281035Z AUTO 00000KT 10SM CLR M14/M15 A3020 RMK AO2 T11401155 LIRM 280955Z 01012KT 9999 FEW070 20/09 Q1009 KTAD 280954Z AUTO 24015KT 10SM CLR 07/M02 A3014 RMK AO2 SLP155 T00671017 KSHV 280956Z 15003KT 10SM SCT260 08/04 A3013 RMK AO2 SLP202 T00780039 LIQW 271755Z 00000KT 9999 FEW030 15/07 Q1009 VTSP 281030Z 10005KT 9000 FEW018 SCT300 31/24 Q1008 A2977 NOSIG LIRN 281020Z 04016KT 9999 FEW060 17/03 Q1010 VTSR 281000Z 05008KT 360V110 9000 BKN025 33/22 Q1008 A2978 VOR/DME RWY02 INFO S LIRP 281015Z 15004KT CAVOK 15/03 Q1016 NOSIG VTSS 281030Z 06011KT 9999 FEW020 BKN300 31/22 Q1009 A2980 NOSIG LIRQ 281020Z 03008KT 320V070 CAVOK 17/M02 Q1015 VTST 281000Z 05011KT 9999 FEW020 BKN300 32/22 Q1008 RWY08 INFO J LIRS 280955Z /////KT CAVOK 15/M04 Q1014 WMAU 281000Z 03009KT 9999 FEW017CB SCT140 BKN270 29/25 Q//// QFF1008 KSKA 281035Z AUTO 19021G29KT 9SM R23/5500FT RA BKN006 OVC011 09/09 A2986 RMK AO2 VTUD 281000Z 02005KT 350V050 9999 FEW020CB BKN280 32/19 Q1010 A2983 CB S INFO L RWY30 LIRT 280455Z 36015KT 0000 -RA FG VV/// 03/00 Q1007 RMK MON INVIS VAL INVIS VIS MIN 0000 KRRT 281034Z AUTO 00000KT 10SM CLR M05/M09 A3011 RMK AO2 LIRU 280950Z 36013KT CAVOK 17/04 Q1011 FMMT 281000Z 14008KT 9999 FEW017 SCT233 29/23 Q1013 NOSIG KRSL 280953Z AUTO 16006KT 10SM CLR 02/00 A2992 RMK AO2 SLP137 T00220000 LIRV 280955Z 04024KT 9999 FEW030 13/03 Q1012 FMNM 281000Z 36008KT 9999 FEW017CB BKN230 31/23 Q1011 NOSIG KTAN 281043Z AUTO 01004KT 8SM -RA SCT007 BKN030 OVC043 03/02 A2969 RMK AO2 P0001 T00280017 KSJN 280954Z AUTO 17005KT 10SM CLR 06/M08 A3025 RMK AO2 SLP180 T00611078 KRSN 281035Z AUTO 00000KT 10SM CLR 04/04 A3019 RMK AO2 T00360036 LIRX 280955Z 36014KT CAVOK 12/M02 Q1013 RMK SKC VIS MIN 9999 VIS MAR 70 KM FMNN 281000Z 15002KT 9999 VCSH BKN017 28/26 Q1011 KSKF 280958Z AUTO 00000KT 10SM CLR 11/04 A3011 RMK AO2 SLP193 T01070042 $ VTUI 281000Z 14004KT 9999 FEW025 34/19 Q1010 A2984 INFO H RWY23 KSIY 280953Z AUTO 04010KT 10SM CLR 07/01 A3031 RMK AO2 SLP264 T00670006 KRSP 280954Z AUTO 10SM CLR M06/M12 A2982 RMK AO2 SLP122 T10611117 $ LIRZ 280950Z 06014G26KT 360V070 9999 FEW050 13/02 Q1015 VTUK 281000Z 10003KT 9999 SCT030 33/17 Q1010 A2982 INFO M RWY03 VTUL 281000Z 25005KT 9999 FEW025 SCT030 29/21 Q1011 A2986 KSJS 281035Z AUTO 01004KT 10SM BKN047 OVC060 M04/M11 A3009 RMK AO2 T10361109 KSJT 280951Z 20012KT 10SM CLR 15/02 A3007 RMK AO2 SLP167 T01500017 KRST 280954Z 14005KT 10SM FEW095 M09/M13 A3018 RMK AO2 SLP241 T10891128 KSLB 281035Z AUTO 12007KT 10SM OVC041 M02/M03 A3013 RMK AO2 KSLC 280953Z 16008KT 10SM CLR 12/00 A3009 RMK AO2 SLP154 T01170000 $ KTCC 280953Z AUTO 33011KT 10SM CLR 07/M01 A3006 RMK AO2 SLP141 T00721011 VTUO 280800Z VRB03KT 8000 FEW020 34/17 Q1010 A2982 INFO I RWY 04 KRSV 281035Z AUTO 02006KT 10SM CLR M05/M09 A3025 RMK AO2 T10551088 KRSW 280953Z 01004KT 10SM CLR 16/11 A3007 RMK AO2 SLP178 T01560111 KRTN 280953Z AUTO 08006KT 10SM CLR 01/M03 A3018 RMK AO2 SLP167 T00111033 KRUE 280953Z AUTO 00000KT 10SM FEW085 06/03 A3014 RMK AO2 SLP203 T00610033 KSLE 280956Z AUTO 19007KT 10SM BKN046 09/07 A3026 RMK AO2 SLP246 T00940072 KTBN 281043Z AUTO 18004KT 8SM -SN OVC029 00/M02 A3014 RMK AO2 UPB08E31SNB31 KSJX 281037Z AUTO 00000KT 10SM CLR M16/M17 A3027 RMK AO2 T11571175 GCXO 281030Z 34009KT 300V010 9999 FEW004 BKN012 13/12 Q1028 NOSIG VVCR 281030Z 04007KT 9999 FEW015 28/23 Q1014 NOSIG KSLG 281035Z AUTO 00000KT 10SM FEW060 OVC100 05/M03 A3009 RMK AO1 KRUG 281035Z AUTO 15008KT 7SM OVC004 M01/M01 A2996 RMK AO2 KSLH 281039Z AUTO 00000KT 10SM CLR M14/M16 A3026 RMK AO2 T11411161 KTAZ 281035Z AUTO 09006KT 10SM CLR M05/M08 A3024 RMK AO2 VVCT 281030Z 11010KT 9999 FEW015 31/20 Q1010 NOSIG KSLI 281003Z AUTO 11003KT 10SM SCT006 16/15 A3004 RMK AO2 KTBR 281035Z AUTO 31004KT 10SM CLR 05/01 A3003 RMK AO2 T00480008 FNGI 281000Z 07007KT 9999 BKN008 BKN020 22/19 Q1018 VTUU 281030Z 35003KT 9000 FEW023 BKN300 34/18 Q1008 A2978 NOSIG KRTS 281030Z AUTO 36005KT 10SM CLR 10/M02 A3023 RMK AO2 LJLJ 281030Z 15004KT 080V210 9999 FEW060 13/M05 Q1016 WS ALL RWY NOSIG VTUV 281000Z 33003KT 9999 FEW020 SCT300 34/18 Q1010 A2982 INFO K RWY 36 KSLK 281035Z AUTO 33005KT 3SM -SN BR SCT021 OVC070 M10/M12 A2984 RMK AO2 P0000 T11001122 $ LJMB 281030Z 01012KT 330V050 CAVOK 12/M03 Q1017 LIVC 280155Z 02040KT 0000 FZFG VV000 M02/M03 Q1012 RMK MON INVIS VAL INVIS VIS MIN 0000 VTUW 280900Z 05006KT 9999 SCT022 35/15 Q1009 A2981 RWY15 INFO I VVDN 281030Z VRB01KT 6000 SCT010 BKN050 25/25 Q1014 NOSIG KTCL 280953Z AUTO 32003KT 10SM CLR 03/M02 A3018 RMK AO2 SLP217 T00281017 LIVD 280955Z 00000KT CAVOK 08/M12 Q1016 RMK SKC VIS MIN 9999 KTCM 280958Z AUTO 20012KT 10SM FEW014 BKN025 OVC030 09/09 A3011 RMK AO2 SLP200 T00930092 $ LIVE 280955Z /////KT CAVOK 04/M17 Q1018 RMK SKC VIS MIN 9999 KSLN 280953Z AUTO 13007KT 10SM FEW100 05/M01 A2998 RMK AO2 SLP154 T00501006 KSME 281035Z AUTO 34003KT 10SM OVC041 M03/M08 A3016 RMK AO2 LIVF 271955Z 02004KT 5000 BR SCT015 06/05 Q1010 RMK BKN SCT080 MON INVIS VAL INVIS VIS MIN 5000 KSMF 280953Z 11004KT 10SM CLR 12/09 A3010 RMK AO2 SLP193 T01170094 KSKX 281035Z AUTO 00000KT 10SM CLR 01/M07 A3027 RMK AO1 KSLO 281035Z AUTO 07003KT 10SM CLR M02/M06 A3023 RMK AO2 T10251065 KTDF 281035Z AUTO 34006KT 10SM SCT070 01/M05 A2995 RMK AO2 KRUQ 281035Z AUTO 00000KT 10SM CLR 00/M04 A2996 RMK AO2 T00001037 KSLR 281035Z AUTO 17004KT 10SM CLR 09/02 A3012 RMK AO2 T00870016 KTCS 280953Z AUTO 32011KT 10SM CLR 14/M11 A3017 RMK AO2 SLP145 T01441111 TSNO KSNA 280953Z AUTO 00000KT 10SM CLR 16/13 A3005 RMK AO2 SLP175 T01610128 TSNO $ EVRA 281020Z 31006KT 280V350 9999 -RA OVC004 04/04 Q1014 R36/290195 NOSIG KTEB 280951Z 34009KT 10SM OVC060 02/M07 A2976 RMK AO2 SLP077 T00171067 KRUT 281035Z AUTO 34008KT 10SM OVC010 M05/M07 A2982 RMK AO1 KSNC 281035Z AUTO 35010KT 3SM UP FEW001 OVC027 02/00 A2971 RMK AO2 P0006 LIVM 271755Z ///13KT 9999 BKN025 11/07 Q1010 RMK BKN QUK / QUL / VIS MAR 10 KM VIS MIN 9999 LKCV 281014Z 30015KT 9999 SCT024 BKN033 08/02 Q1020 RMK BLU KSMN 281035Z AUTO 00000KT 10SM FEW110 02/M01 A2992 RMK AO1 LIVO 280955Z 13005KT CAVOK 10/M05 Q1016 RMK SKC VIS MIN 9999 KSMO 280951Z 00000KT 10SM CLR 16/13 A3005 RMK AO2 SLP173 T01610133 KRWF 280953Z AUTO 11003KT 10SM OVC050 M01/M03 A3015 RMK AO2 SLP222 T10111033 LIVP 271755Z 01022G37KT 9999 KSMQ 280953Z AUTO VRB05KT 10SM CLR 00/M08 A2978 RMK AO2 SLP086 T00001078 TSNO KSNH 281035Z AUTO 00000KT 10SM SCT095 BKN110 M02/M04 A3019 RMK LIVR 280955Z 32007KT CAVOK 00/M18 Q1014 RMK SKC MON LIB VIS MIN 9999 KRWI 281042Z AUTO 01006KT 10SM UP FEW010 BKN036 OVC055 02/01 A2993 RMK AO2 RAE41UPB41 P0001 T00220011 KTDR 280956Z AUTO 34007KT 10SM CLR 09/03 A3012 RMK AO2 SLP203 T00860032 TSNO $ KRVS 280953Z AUTO 16004KT 10SM BKN100 08/M01 A3006 RMK AO2 SLP183 T00831006 KSMS 281035Z AUTO 00000KT 10SM FEW060 BKN070 06/04 A2998 RMK AO2 KSOA 281035Z AUTO 10SM CLR 10/02 A3015 RMK AO2 LIVT 280955Z 18003KT CAVOK 17/M03 Q1015 RMK SKC QUK 1 QUL 0 VIS MAR 20 KM MON VIS MIN 9999 KSNK 281035Z AUTO 16008KT 10SM CLR 11/01 A3006 RMK AO2 T01100014 TSNO KRWL 280953Z AUTO 25015KT 10SM CLR 07/M06 A3015 RMK AO2 SLP144 T00721056 KSNL 281035Z AUTO 20009KT 10SM CLR 08/04 A3003 RMK AO2 FNHU 281000Z 00000KT 9999 BKN011 22/17 Q1023 FMSD 281000Z 06016KT 9999 FEW020 SCT230 31/24 Q1012 KRXE 280953Z AUTO 08005KT 10SM BKN100 03/00 A3007 RMK AO2 SLP166 T00330000 KSMX 280951Z 00000KT 4SM BR OVC002 12/11 A3011 RMK AO2 SLP199 T01220106 KTDZ 280953Z AUTO 35010KT 10SM OVC044 M07/M15 A3020 RMK AO2 SLP235 T10721150 TSNO KSPA 281055Z AUTO 34008KT 10SM CLR 03/M05 A2998 RMK AO2 KSNS 281028Z AUTO 30003KT 5SM BR OVC004 13/11 A3015 RMK AO2 CIG 003V006 TSNO KSNT 280951Z AUTO VRB04KT 01/M03 A3007 RMK AO1 SLP122 T00061028 KSPB 280953Z AUTO 00000KT 10SM FEW050 08/07 A3021 RMK AO2 SLP231 T00780067 KSPD 280956Z AUTO 27008KT 08/M01 A3005 RMK AO1 SLP134 T00831011 KRWV 281030Z AUTO 00000KT 10SM CLR 10/06 A3017 RMK AO2 KTEW 281033Z AUTO 32003KT 10SM CLR M11/M13 A3021 RMK AO2 T11081135 KTEX 281035Z AUTO 13004KT 10SM CLR 03/M05 A3038 RMK AO2 T00261054 KSPF 281035Z AUTO 17003KT 10SM CLR 04/M01 A2992 RMK AO2 KSNY 280953Z AUTO 29009KT 10SM CLR 04/M02 A3000 RMK AO2 SLP136 T00441022 KSPG 280953Z AUTO 34007KT 10SM CLR 17/08 A3007 RMK AO2 SLP181 T01720078 KSOP 281035Z AUTO 00000KT 10SM FEW045 BKN055 OVC080 03/M01 A2996 RMK AO1 KTFP 281035Z AUTO 22007KT 10SM CLR 16/13 A3013 RMK AO2 T01590129 KSPI 280952Z AUTO 10005KT 10SM CLR M04/M08 A3023 RMK AO2 SLP244 T10441078 KTGI 281030Z AUTO 33026G32KT 10SM OVC080 04/M03 A2986 RMK AO1 KTHA 281035Z AUTO 00000KT 10SM CLR M03/M09 A3014 RMK KSPL 281035Z AUTO 00000KT 10SM CLR 15/15 A3017 RMK AO1 KRYN 280245Z 30003KT 10SM 25/M02 A3007 KSOW 281035Z AUTO 16003KT 10SM CLR 04/M10 A3031 RMK AO2 KSQE 281035Z AUTO 36012KT 10SM CLR 19/13 A3016 RMK A01 KSQI 281035Z AUTO 00000KT 10SM CLR M07/M10 A3026 RMK AO1 KSPR 281035Z AUTO 06012KT 10SM CLR 18/10 A3015 RMK A01 KSPS 280952Z AUTO 19012KT 10SM CLR 09/05 A3003 RMK AO2 SLP167 T00890050 FNMA 281000Z VRB03KT 9999 OVC057 19/17 Q1019 MBGT 281100Z 12015KT 9999 SCT010 25/20 Q1017 EVVA 281020Z AUTO 27005KT 220V300 9999 SCT007 06/04 Q1014 KSRB 281035Z AUTO 00000KT 10SM CLR M04/M06 A3011 RMK KRYT 280953Z AUTO 31011G20KT 10SM SCT055 BKN100 M03/M11 A2986 RMK AO2 SLP123 T10281111 $ KSQL 281035Z AUTO 28006KT 10SM CLR 13/09 A3016 RMK AO2 KSRC 280956Z AUTO 11004KT 10SM OVC075 04/M01 A3020 RMK AO2 SLP232 T00441011 TSNO KRZL 281035Z AUTO 00000KT 10SM CLR M07/M07 A3024 RMK AO2 FNKU 281000Z VRB03KT 9999 FEW015 22/16 Q1021 KRYV 281035Z AUTO 00000KT 10SM CLR M11/M12 A3025 RMK AO2 T11081120 KSPW 281026Z AUTO 12005KT 10SM OVC029 M02/M04 A3013 RMK AO2 T10171039 TSNO LIYW 280958Z AUTO VRB03KT 9999 CLR 15/M02 A3001 RMK AO2 SLP166 T01541022 $ KRYW 281035Z AUTO 00000KT 10SM CLR 12/06 A3013 RMK AO2 T01170056 KRZN 281030Z AUTO 00000KT 10SM CLR M11/M14 A3020 RMK AO2 T11101136 KTIF 281035Z AUTO 00000KT 10SM CLR M01/M01 A2998 RMK AO2 T10061014 KRYY 280247Z 34007KT 10SM SCT045 SCT060 07/M03 A3001 WMKA 281000Z 07008KT 010V120 9999 FEW020 SCT140 BKN270 33/22 Q1007 LJPZ 281030Z 04006KT 010V100 CAVOK 16/M01 Q1016 WMKB 281000Z 29007KT 260V350 9999 FEW020 SCT140 BKN280 31/25 Q1007 NOSIG KRZR 281035Z AUTO 34004KT 10SM BKN048 M01/M08 A3011 RMK WMKC 281000Z 08013KT 9999 FEW017CB SCT280 30/26 Q1009 WMKD 281000Z 07009KT 9999 SCT018 BKN280 31/25 Q1008 NOSIG KRZT 281035Z AUTO 03011KT 4SM -SN SCT013 BKN039 OVC050 M06/M08 A3017 RMK AO2 KTIK 280958Z AUTO 20012KT 10SM BKN130 08/03 A3000 RMK AO2 SLP166 T00790034 WMKE 281000Z 03005KT 9999 SCT018 SCT140 BKN270 28/25 Q1009 KSSC 280958Z AUTO 30004KT 10SM CLR 05/03 A2994 RMK AO2 SLP141 T00510026 $ FNLU 281000Z 35008KT 9999 DZ SCT015 BKN022 25/24 Q1014 NOSIG GEML 281030Z 28011KT 250V320 CAVOK 22/13 Q1026 KTHV 280953Z AUTO 30013G20KT 6SM -SN OVC030 M01/M07 A2987 RMK AO2 SNB41 SLP120 P0000 T10111067 KW13 281035Z AUTO 31009G16KT 10SM SCT041 OVC050 M03/M13 A2990 RMK AO1 T10321132 KSSF 280953Z AUTO 00000KT 10SM CLR 11/07 A3012 RMK AO2 SLP192 T01060067 FNMO 281000Z 23011KT 9999 FEW017 SCT027 24/20 Q1012 WMKI 281000Z 01003KT 9999 -RA FEW017CB SCT028 BKN260 25/24 Q1007 RETSRA KTIP 281040Z AUTO 01003KT 10SM CLR M06/M09 A3023 RMK AO2 T10611087 WMKJ 281000Z 04007KT 010V070 9999 FEW017CB SCT140 BKN280 29/25 Q1008 KSRQ 280953Z 34007KT 10SM CLR 16/08 A3007 RMK AO2 SLP180 T01560078 WMKK 281030Z 14007KT 110V180 9000 TS FEW010 FEW017CB SCT140 BKN270 26/24 Q1007 TEMPO 5000 TSRA KSSI 280953Z AUTO 29006KT 10SM CLR 08/02 A3002 RMK AO2 SLP166 T00830017 KSRR 281035Z AUTO 27007KT 10SM CLR 10/M10 A3026 RMK AO2 WMKL 281000Z 23003KT 9999 FEW017CB SCT140 BKN270 32/25 Q1007 WMKM 281000Z 13002KT 9999 FEW022 SCT140 BKN260 27/24 Q1008 LKKB 281000Z 29011KT CAVOK 06/00 Q1021 NOSIG WMKN 281000Z 03005KT 340V080 9999 FEW020 SCT150 BKN300 29/24 Q1009 KSTC 280953Z AUTO 00000KT 10SM CLR M07/M12 A3017 RMK AO2 SLP239 T10721117 KTKC 281031Z AUTO 16005KT 10SM OVC033 M02/M03 A3012 RMK AO2 T10181027 KW22 281035Z AUTO 34008KT 310V010 10SM -DZ FEW023 FEW028 BKN044 M08/M14 A3000 RMK AO2 WMKP 281030Z 24006KT 9000 FEW017CB SCT140 BKN280 30/24 Q1007 NOSIG KTIW 281041Z AUTO 20009G16KT 10SM SCT017 BKN021 BKN031 09/07 A3010 RMK AO2 T00940072 KUBE 281035Z AUTO 00000KT 10SM CLR M08/M10 A3019 RMK AO2 KSTE 281035Z AUTO 00000KT 10SM CLR M13/M15 A3023 RMK AO2 T11271148 KTIX 280050Z 24012KT 7SM OVC070 18/18 A2985 RMK LAST KUAO 280953Z AUTO 20007KT 10SM FEW046 09/08 A3026 RMK AO2 SLP248 T00940078 KSTF 281035Z AUTO 00000KT 10SM CLR 00/00 A3021 RMK AO2 LLBG 281020Z 34008KT CAVOK 26/11 Q1011 NOSIG KTKI 280953Z AUTO 17005KT 10SM CLR 06/04 A3010 RMK AO2 SLP201 T00560039 KSTJ 280953Z AUTO 11007KT 10SM OVC075 02/M03 A3012 RMK AO2 SLP203 T00221028 KSUA 281015Z AUTO 32006KT 10SM CLR 14/07 A3006 RMK AO2 KW29 281027Z AUTO 32012G21KT 10SM 01/M06 A2988 RMK AO1 KSTK 281030Z AUTO 20003KT 10SM CLR 01/M01 A3000 RMK AO2 KSTL 280951Z 11004KT 10SM BKN250 M01/M07 A3021 RMK AO2 SLP238 T10111072 KW31 281035Z AUTO 33003KT 2 1/2SM SCT006 SCT010 OVC014 01/00 A2991 RMK AO1 T00050000 KSUE 281035Z AUTO 00000KT 10SM CLR M10/M16 A3028 RMK AO1 KSTP 280953Z AUTO 00000KT 10SM CLR M06/M11 A3021 RMK AO2 SLP237 T10561106 KTLH 280953Z 29005KT 10SM CLR 07/02 A3009 RMK AO2 SLP190 FIRST AUGMENTED OBS T00670022 VVNB 281030Z 11010KT 9999 FEW023 26/20 Q1013 NOSIG KSTS 280953Z AUTO 00000KT 9SM CLR 09/08 A3014 RMK AO2 SLP198 T00890078 KTMA 281035Z AUTO 28004KT 10SM CLR 05/01 A3008 RMK AO2 T00510007 KTMB 280953Z 34008KT 10SM CLR 17/14 A3004 RMK AO2 SLP170 T01720139 LKKU 271500Z 33005KT 9999 -RA FEW023 BKN034 OVC048 08/04 Q1014 KSVC 281035Z AUTO 34011KT 10SM CLR 09/M09 A3023 RMK AO2 KTKV 281035Z AUTO 00000KT 10SM CLR M16/M17 A3019 RMK AO2 T11571175 LKKV 281030Z 27007KT 230V300 9999 SCT018 BKN033 04/M03 Q1020 LKLN 281000Z AUTO VRB03KT CAVOK 07/M01 Q1022 KSUN 281035Z AUTO 32009KT 10SM CLR 05/00 A3007 RMK AO2 KTME 281035Z AUTO 11003KT 10SM CLR 12/07 A3015 RMK AO2 KW43 281035Z AUTO 23007KT 10SM SCT100 04/00 A2993 RMK AO2 KUDG 281035Z AUTO 34005KT 10SM FEW031 BKN055 OVC070 05/01 A2998 RMK AO1 KUCP 281040Z AUTO 28004KT 3SM -SN BR FEW002 SCT011 BKN016 M10/M12 A3007 RMK AO2 BKN V SCT SNB0958E04B21 P0000 KSVH 281035Z AUTO 30006KT 10SM OVC050 01/M06 A2996 RMK AO2 T00061060 LKNA 281000Z 32013KT 9999 BKN029 BKN050 05/00 Q1019 NOSIG RMK BLU BLU KSUS 280954Z AUTO 00000KT 10SM CLR M03/M06 A3021 RMK AO2 SLP237 T10281061 KTMK 281035Z AUTO 21003KT 10SM SCT018 SCT026 BKN045 10/08 A3028 RMK AO2 KSUT 281035Z AUTO 00000KT 10SM SCT027 SCT042 OVC080 05/04 A2993 RMK AO2 T00510042 KTNB 281035Z AUTO 32007G19KT 10SM -SN SCT024 SCT032 M05/M09 A2987 RMK AO2 T10501095 KSUU 280958Z AUTO 23009KT 10SM CLR 12/09 A3009 RMK AO2 SLP196 T01160091 PWINO $ KSVN 280958Z AUTO 28007KT 10SM CLR 06/04 A2998 RMK AO2 SLP155 T00620044 KSUW 281035Z AUTO 00000KT 10SM CLR M11/M12 A3022 RMK AO2 T11121125 KSUX 280952Z 12009KT 10SM OVC048 01/M03 A3010 RMK AO2 SLP204 T00061033 KSWF 281045Z 01010KT 20SM BKN055 M01/M06 A2980 KUCY 281035Z AUTO 00000KT 10SM CLR M03/M05 A3019 RMK VVPB 281030Z 08005KT 8000 FEW009 SCT017 BKN050 25/24 Q1014 NOISG KTOA 280247Z 26007KT 20SM SKC 25/03 A3000 RMK LAST FNSA 281000Z 00000KT 9999 SCT025 24/18 Q1015 KTOB 281033Z AUTO 13005KT 10SM BKN080 M09/M12 A3018 RMK AO2 LKMT 281030Z 02011KT 9999 SCT024 07/03 Q1018 NOSIG KTOC 281035Z AUTO 29006KT 10SM CLR 02/M07 A3001 RMK AO2 T00221074 KW63 281035Z AUTO 31004KT 10SM BKN060 BKN065 OVC110 01/M01 A2992 RMK AO1 KSWO 280953Z AUTO 15005KT 10SM FEW110 08/02 A3002 RMK AO2 SLP162 T00780022 TSNO KTOI 280953Z AUTO 32004KT 10SM FEW110 03/01 A3013 RMK AO2 SLP202 T00330006 KTPA 280953Z 03004KT 10SM BKN230 13/08 A3009 RMK AO2 SLP188 T01330078 KUES 281035Z AUTO 29003KT 10SM CLR M09/M11 A3026 RMK AO2 LLET 280950Z 16004KT CAVOK 35/13 Q1008 KTOL 280952Z 34005KT 10SM CLR M09/M14 A3019 RMK AO2 SLP235 T10941144 KTNU 281035Z AUTO 09007KT 10SM OVC080 M04/M10 A3019 RMK AO2 PWINO LKPD 281000Z 29010KT 250V320 9999 BKN022 OVC026 07/01 Q1020 NOSIG RMK BLACK KSWW 281035Z AUTO 18010KT 10SM CLR 14/01 A3009 RMK AO2 T01430011 VVPQ 281030Z 09007KT 9999 FEW017 31/22 Q1009 NOSIG KTPF 281035Z AUTO 05006KT 10SM CLR 13/07 A3011 RMK AO2 KSYF 281035Z AUTO 24008KT 10SM CLR 03/00 A2999 RMK AO2 T00331003 FNSO 281000Z 01005KT 9999 -DZ BKN016 OVC100 26/24 Q1015 KTOP 280953Z AUTO 09006KT 10SM OVC095 04/M04 A3008 RMK AO2 SLP190 T00441039 KW75 281035Z AUTO 33012G20KT 10SM OVC070 02/M05 A2988 RMK AO1 T00221053 KTPH 280956Z AUTO 36008KT 10SM CLR 07/M09 A3020 RMK AO2 SLP179 T00671089 KTOR 280953Z AUTO 32005KT 10SM CLR 04/M04 A2999 RMK AO2 SLP133 T00391039 $ KSYI 281035Z AUTO 33003KT 10SM CLR M02/M06 A3017 RMK LLHA 280950Z 30007KT 270V330 CAVOK 26/10 Q1010 KSXS 280956Z AUTO 31002KT 10SM CLR 03/02 A3014 RMK AO2 SLP209 T00330015 KW78 281035Z AUTO 32010G16KT 10SM OVC055 02/M07 A2994 RMK AO1 T00161067 KSXT 280956Z AUTO 35003KT 10SM CLR 01/01 A3031 RMK AO2 SLP257 T00110011 FNUB 281000Z 18008KT 9999 BKN015 FEW020TCU 23/16 Q1023 KTPL 281035Z AUTO 00000KT 10SM CLR 09/04 A3011 RMK AO1 KW81 281035Z AUTO 4SM BKN006 BKN019 OVC023 01/00 A2992 RMK AO1 T00080000 FNSU 281000Z 32008KT 9999 SCT013 BKN080 29/21 Q1015 KSYM 281030Z AUTO 35005KT 10SM FEW022 SCT037 OVC050 M04/M08 A3015 RMK AO2 KSYN 281035Z AUTO 00000KT 10SM CLR M08/M12 A3019 RMK AO2 T10821120 KTQE 280954Z AUTO 13011KT 10SM OVC055 01/M03 A3011 RMK AO2 SLP200 T00111033 KUGN 280955Z AUTO 33003KT 10SM CLR M09/M11 A3024 RMK AO2 SLP258 T10891106 FNUE 281000Z 03006KT 9999 DZ OVC020 19/// Q1020 FNUG 281000Z 27008KT 2000 DZ OVC012 22/21 Q1018 WMSA 281000Z 27008KT 230V300 9999 TS FEW017CB SCT018 BKN280 33/25 Q1007 KTQH 281035Z AUTO 12003KT 10SM SCT070 SCT090 06/00 A3008 RMK AO2 KSYR 280954Z 33011KT 10SM OVC075 M07/M13 A2998 RMK AO2 SLP154 T10671128 $ LKPR 281030Z 28010KT 9999 FEW032 07/M01 Q1020 NOSIG LLIB 280950Z 17008KT CAVOK 25/04 Q1011 RMK BKN100 KSZL 280958Z AUTO 10005KT 10SM OVC055 02/M01 A3013 RMK AO2 SLP211 T00171012 $ GFLL 280900Z 33010KT 9999 NSW SCT014 27/21 Q1014 MBPV 281000Z 15006KT 9999 SCT012 26/23 Q1016 KW96 281036Z AUTO 33007KT 10SM SCT060 OVC080 02/M08 A2991 RMK AO2 KTRI 280953Z 33008KT 10SM FEW037 OVC050 M02/M09 A3001 RMK AO2 SLP159 T10171089 MDAB 272200Z 09008KT 9999 FEW022 30/26 Q1015 KSZT 281035Z AUTO 21005KT 10SM RA SCT023 SCT038 OVC055 10/09 A2983 RMK AO2 KTRK 281035Z AUTO 21003KT 10SM CLR 01/M02 A3026 RMK AO2 KW99 281035Z AUTO 34004KT 10SM OVC070 M05/M15 A3000 RMK AO2 T10511153 KTRL 280953Z AUTO 05004KT 10SM CLR 08/04 A3012 RMK AO2 SLP196 T00780039 KUIL 280953Z AUTO 26008KT 8SM SCT018 BKN025 OVC050 09/08 A3011 RMK AO2 SLP195 T00890078 KTRM 280952Z AUTO 00000KT 10SM CLR 14/04 A2993 RMK AO2 SLP138 T01440039 TSNO KVAD 280958Z AUTO 28005KT 10SM CLR 06/01 A3005 RMK AO2 SLP178 T00610012 KUIN 280954Z AUTO 12005KT 10SM CLR M03/M09 A3020 RMK AO2 SLP232 T10331094 $ KVAF 281035Z AUTO 28007KT 260V330 10SM CLR 22/11 A3015 RMK A01 KTTA 281035Z AUTO 31004KT 10SM SCT070 03/M01 A2995 RMK AO2 T00331006 LKTB 281030Z 35009KT 9999 SCT034 BKN046 08/01 Q1019 NOSIG KTTD 280953Z AUTO 22011KT 10SM BKN046 OVC055 11/07 A3022 RMK AO2 SLP232 T01110072 KTTF 281034Z AUTO 31004KT 10SM BKN050 M08/M13 A3019 RMK AO2 KUKF 281035Z AUTO 31005KT 10SM OVC046 00/M08 A3001 RMK AO2 KTSP 281035Z AUTO 26010KT 10SM CLR 13/04 A3021 RMK AO2 KVBG 281031Z AUTO 00000KT 1/4SM FG VV002 11/11 A3011 RMK AO2 TSNO MDBH 272300Z 13018KT 9999 SCT021 28/22 Q1017 FOOG 280900Z /////KT 9999 SCT008 FEW020CB 30/25 Q1015 VVTS 281030Z 15010G23KT 060V190 9999 SCT017 32/20 Q1009 NOSIG KUKI 280956Z AUTO 00000KT 10SM CLR 12/08 A3019 RMK AO2 SLP217 T01170078 KVCB 280953Z AUTO 00000KT 10SM CLR 09/07 A3011 RMK AO2 SLP196 T00940067 FOOL 271840Z 32005KT 9999 SCT011 SCT030 27/24 Q1013 NOSIG KTTN 280953Z AUTO 34010G19KT 10SM FEW070 01/M08 A2978 RMK AO2 SLP081 T00061078 FOON 280900Z /////KT 9999 SCT010 26/23 Q1015 KVAY 280954Z AUTO 34011KT 10SM OVC070 02/M06 A2980 RMK AO2 SLP091 T00171061 KVBS 281035Z AUTO 14011KT 10SM 17/09 A3013 RMK A01 KTTS 280958Z AUTO 32008KT 10SM CLR 13/06 A3004 RMK AO2 SLP177 T01260059 KUKT 281035Z AUTO 01005KT 10SM OVC060 00/M08 A2982 RMK AO1 KVBT 281035Z AUTO 13003KT 10SM SCT120 05/M03 A3008 RMK AO1 KTUL 280953Z 14008KT 10SM BKN100 BKN120 08/00 A3004 RMK AO2 RAE0854B33E36 SLP172 P0000 T00830000 KTVC 280953Z AUTO 00000KT 10SM CLR M13/M16 A3026 RMK AO2 SLP258 I1000 T11331156 TSNO KULM 281034Z AUTO 14004KT 10SM OVC060 M03/M07 A3017 RMK AO2 KVBW 281035Z AUTO 01006KT 10SM SCT024 BKN045 OVC050 M03/M09 A2992 RMK AO2 T10311094 KVDF 281035Z AUTO RMK AO2 PWINO KTVF 281035Z AUTO 15007KT 10SM CLR M05/M09 A3010 RMK AO1 KTUP 280953Z 34003KT 10SM SCT090 01/M03 A3020 RMK AO2 SLP226 T00061028 RJAA 281030Z 20004KT CAVOK 13/04 Q1016 NOSIG KVDI 281035Z AUTO 28003KT 10SM CLR 06/01 A3005 RMK AO2 KTVI 281035Z AUTO 28004KT 10SM CLR 06/02 A3011 RMK AO2 KTUS 280953Z 16005KT 10SM CLR 15/M04 A3012 RMK AO2 SLP159 T01501044 KVCT 280951Z AUTO 24007KT 10SM CLR 13/11 A3012 RMK AO2 SLP199 T01330106 TSNO $ KTVK 281035Z AUTO 12006KT 10SM OVC070 M02/M09 A3019 RMK AO2 KTVL 280953Z AUTO 17010KT 10SM CLR 11/M03 A3026 RMK AO2 SLP196 T01111028 $ KVCV 281035Z AUTO 19006KT 10SM CLR 14/M02 A3013 RMK AO2 RJAF 280700Z 18015KT CAVOK 18/M13 Q1014 LKVO 271300Z 27011KT 9999 FEW044 10/M01 Q1014 KTWF 280953Z AUTO 18016KT 10SM CLR 14/M01 A3000 RMK AO2 SLP112 T01391011 MDCY 272300Z 09008KT 9999 FEW025 29/22 Q1015 RJAH 281000Z 21005KT 9999 FEW030 13/02 Q1015 KTVR 280953Z AUTO 00000KT 10SM CLR 03/02 A3020 RMK AO2 SLP233 T00330022 TSNO KUNI 281035Z AUTO 35004KT 10SM CLR M08/M12 A3014 RMK AO2 T10801120 RJBB 281030Z 20010KT 9999 FEW030 14/09 Q1018 NOSIG RJBD 281000Z 18004KT 140V250 9999 FEW020 SCT030 16/09 Q1018 KVEL 280953Z AUTO 00000KT 10SM CLR 04/M03 A3016 RMK AO2 SLP181 T00441033 SABE 281000Z 36005KT CAVOK 18/13 Q1022 RJBE 281000Z 22011KT 9999 FEW030 13/11 Q1017 KTWM 281034Z AUTO 00000KT 10SM CLR M11/M13 A3017 RMK AO2 KUNO 280953Z AUTO 13004KT 10SM OVC060 02/M06 A3014 RMK AO2 SLP211 T00171061 SAAR 281000Z 00000KT 8000 NSC 11/10 Q1021 KVER 281035Z AUTO 09006KT 7SM -SN SCT027 BKN037 OVC060 02/M03 A3018 RMK AO2 T00221032 RJCB 281000Z 25001KT CAVOK 09/M00 Q1012 KVES 281035Z AUTO 03003KT 10SM CLR M07/M08 A3017 RMK AO2 RJCC 281030Z 16008KT 9000 FEW050 05/00 Q1013 EYKA 281020Z 29004KT 250V320 8000 -RA BKN005 OVC010 04/03 Q1014 R08/190095 KTXK 280953Z AUTO 16005KT 10SM CLR 07/02 A3012 RMK AO2 SLP198 T00670022 KUNU 281035Z AUTO 00000KT 10SM CLR M09/M11 A3026 RMK AO2 T10891112 RJAW 281000Z 12011KT 9999 FEW030 20/13 Q1020 RMK 2CU030 A3014 KUNV 280953Z 29009KT 10SM OVC035 M05/M12 A2989 RJCH 281000Z 24012KT CAVOK 10/06 Q1014 RJCK 281000Z 04004KT CAVOK 08/M02 Q1012 RJBT 280900Z 04004KT 010V090 9999 FEW045 15/01 Q1016 RJDC 281000Z 06010KT 9999 FEW035 BKN070 14/10 Q1016 RJCM 281000Z 02003KT 8000 NSC 05/00 Q1013 RJCN 280900Z 02003KT CAVOK 06/00 Q1012 SADF 281000Z 00000KT 9999 NSC 12/12 Q1022 SACO 281000Z 32003KT CAVOK 09/08 Q1023 KUOX 281035Z AUTO 00000KT 10SM CLR M01/M02 A3022 RMK AO2 PWINO PNO KTYQ 281035Z AUTO 32005KT 10SM CLR M07/M10 A3021 RMK AO2 T10751103 FQCH 281000Z /////KT 9999 BKN015 FEW020CB 30/20 Q1018 RMK CB TO S KTYR 280953Z AUTO 09005KT 10SM CLR 09/03 A3012 RMK AO2 SLP197 T00890028 FQBR 271500Z 05017KT 9999 FEW020 30/26 Q1009 RJEB 280700Z VRB02KT CAVOK 05/01 Q1012 KTYS 280953Z 02007KT 10SM OVC050 01/M06 A3007 RMK AO2 SLP186 T00061061 RJEC 281000Z 18009KT CAVOK 07/00 Q1011 KVGT 280953Z 31005KT 10SM CLR 17/M02 A3004 RMK AO2 SLP172 T01671022 RJCW 280900Z 17005KT 6000 FEW009 BKN080 05/04 Q1012 KVIH 280953Z AUTO 10008KT 10SM OVC070 M01/M04 A3013 RMK AO2 SLP210 T10061044 KTZR 281035Z AUTO 36008KT 10SM SCT029 BKN042 OVC049 A3016 RMK AO2 RJDT 281000Z 23004KT 180V260 9999 FEW035 BKN070 15/08 Q1016 MDJB 272300Z 18004KT 9999 FEW020 28/21 Q1017 LLSD 280950Z VRB03KT CAVOK 23/14 Q1010 RJFF 281030Z 36004KT 310V090 CAVOK 16/08 Q1017 KUSE 281035Z AUTO 35005KT 10SM CLR M09/M14 A3021 RMK AO2 RJFG 280900Z 13009KT 9999 FEW015 BKN070 16/14 Q1016 KVJI 281035Z AUTO 33008KT 10SM SCT037 OVC046 M03/M12 A2999 RMK AO2 T10301118 RJFK 281000Z 13005KT 9999 VCVA FEW040 SCT080 BKN110 16/08 Q1017 KUTA 281035Z AUTO 11003KT 10SM SCT080 SCT090 03/M02 A3023 RMK AO2 KVIS 281035Z AUTO 31006KT 10SM CLR 14/08 A3008 RMK AO1 KY19 281035Z AUTO 15010KT 1/4SM FZFG OVC002 M02/M02 A2997 RMK AO2 RJFM 281000Z 17004KT 9999 FEW030 SCT100 BKN120 18/11 Q1017 KWAL 280954Z AUTO 35012G18KT 10SM SCT100 BKN120 03/M02 A2981 RMK AO2 SLP090 T00281022 RJFO 281000Z 14015KT 9999 FEW035 SCT/// 14/10 Q1016 KY23 281035Z AUTO 00000KT 10SM CLR M10/M11 A3020 RMK AO2 T11001110 RJGG 281030Z 15007KT 9999 FEW050 14/10 Q1017 NOSIG SAEZ 281000Z 20002KT 3000 R11/1300N MIFG BR FEW007 10/10 Q1022 RJFR 281000Z 34004KT 9999 FEW040 BKN090 14/11 Q1016 RJFS 281000Z 19005KT 160V220 CAVOK 17/09 Q1016 RJFT 281000Z 20006KT 9999 FEW035 BKN100 16/05 Q1016 RJFU 281000Z 22003KT 170V280 9999 FEW050 BKN090 17/07 Q1016 EYPA 281020Z 28003KT 230V340 9999 BKN005 06/04 Q1016 R19/2///95 KVLD 280953Z AUTO 00000KT 10SM CLR 04/02 A3007 RMK AO2 SLP190 T00390022 TSNO RJFY 280135Z 05006KT 9999 FEW030 19/11 Q1020 RMK 2CU030 A3014 KUTS 280953Z AUTO 00000KT 10SM CLR 10/05 A3013 RMK AO2 SLP202 T01000050 KVKS 281040Z AUTO 00000KT 10SM CLR 03/03 A3020 RMK A01 KUVA 281035Z AUTO 00000KT 10SM CLR 08/04 A3014 RMK AO2 T00750044 KVLL 281035Z AUTO 31003KT 10SM OVC042 M07/M14 A3020 RMK AO2 T10711136 GGOV 281000Z 00000KT CAVOK 26/16 Q1015 NOSIG KVKY 281035Z AUTO 04012KT 10SM 15/05 A3018 RMK A01 KWDG 281035Z AUTO 16004KT 10SM SCT120 05/03 A2999 RMK AO2 SBAA 272000Z 19002KT 9999 FEW020 SCT090 34/24 Q1011 MDLR 280300Z 00000KT 9999 FEW016 21/21 Q1018 KY50 280956Z AUTO 00000KT 10SM CLR M13/M14 A3025 RMK AO2 TSNO T11271144 SLP255 KY49 281035Z AUTO 00000KT 10SM CLR M08/M13 A3013 RMK AO2 T10811129 LMML 281015Z 34018KT 9999 SCT016 16/13 Q1007 TEMPO BKN011 KUUU 281013Z AUTO 35005KT 7SM -RA OVC005 03/02 A2968 RMK AO2 UPB0957E01RAB01 P0000 T00280017 KVNC 281035Z AUTO 02005KT 10SM FEW050 15/09 A3011 RMK AO2 KY51 281035Z AUTO 12004KT 10SM CLR M07/M12 A3020 RMK AO1 T10731123 SBAF 281000Z 25001KT 9999 SCT020 23/21 Q1017 RJKA 281000Z VRB01KT 9999 FEW015 18/15 Q1013 KWDR 281035Z AUTO 30005KT 10SM SCT038 03/M01 A3007 RMK AO1 KVOA 281035Z AUTO 01008KT 10SM FEW037 SCT047 14/05 A3015 RMK A01 EYSA 281020Z 29008KT 9999 -RA BKN009 OVC029 04/03 Q1014 R32R/29//95 R32L/29//95 SBAN 281000Z 13007KT CAVOK 19/17 Q1023 SBBE 281000Z 11003KT CAVOK 24/23 Q1014 KY63 281037Z AUTO 13005KT 10SM CLR M05/M08 A3012 RMK AO2 T10551081 TSNO SBBG 272200Z 28003KT CAVOK 19/11 Q1018 SBAQ 280200Z 12005KT CAVOK 23/18 Q1020 SBBH 281000Z 09004KT CAVOK 21/18 Q1021 SBBI 281000Z 08003KT 8000 SCT004 OVC005 18/18 Q1022 SBAR 281000Z 12008KT 9999 SCT017 28/21 Q1016 SBCA 281000Z 12004KT 9999 4000W BCFG FEW005 BKN080 19/19 Q1020 SBAT 281015Z 00000KT 5000 BR FEW027 22/22 Q1016 SBCB 281000Z 00000KT 9999 FEW018 26/23 Q1017 SBCC 280000Z 22002KT 9999 FEW025 24/23 Q1016 SBAU 281000Z 05003KT CAVOK 22/18 Q1018 KY70 281033Z AUTO 00000KT 10SM CLR M10/M15 A3023 RMK AO2 T11011147 KVOK 280958Z AUTO 08003KT 10SM FEW140 M11/M11 A3021 RMK AO2 SLP248 T11141115 MDPC 281000Z 14008KT 9999 FEW018 24/21 Q1018 NOSIG KVPC 280953Z AUTO VRB03KT 10SM FEW026 BKN035 02/M02 A3009 RMK AO2 SLP185 T00171022 KUXL 281035Z AUTO 00000KT 10SM CLR 10/07 A3017 RMK AO2 T00990070 SBAX 272200Z 26003KT 9999 FEW045 23/16 Q1021 SBCF 281000Z 13003KT CAVOK 21/18 Q1021 KUYF 281035Z AUTO 36009KT 10SM BKN019 OVC025 M07/M11 A3014 RMK AO2 SBCG 281040Z 00000KT 1000 0600NW PRFG BR SCT003 21/21 Q1019 SBBQ 281000Z 09002KT CAVOK 17/16 Q1025 SBCH 281000Z 00000KT 3000 BR SCT002 OVC004 19/18 Q1019 KVNY 280951Z 35003KT 10SM CLR 16/04 A3006 RMK AO2 SLP170 T01560039 SBCI 272100Z 35003KT 9999 FEW020 34/25 Q1011 SBBR 281000Z 28002KT 9999 FEW015 18/17 Q1022 SBCJ 281015Z 06003KT 5000 BR BKN007 23/21 Q1019 KUZA 280954Z AUTO 34004KT 10SM CLR 02/M04 A2996 RMK AO2 SLP149 T00221044 SBBU 281000Z 05002KT CAVOK 22/21 Q1020 SBCM 281000Z 00000KT 9999 BKN035 BKN100 20/20 Q1020 FPST 280900Z 06003KT 9999 FEW020 BKN110 29/24 Q1014 NOSIG SBBV 281100Z 07014KT CAVOK 25/19 Q1015 SBBW 281015Z 00000KT 9999 FEW003 21/20 Q1018 SAME 281000Z 00000KT CAVOK 12/11 Q1019 SBCO 281000Z 00000KT CAVOK 15/15 Q1019 SBCP 281000Z 18002KT 9999 SCT008 25/24 Q1017 MDPP 280600Z 09004KT 9999 FEW018 24/20 Q1015 NOSIG SBCR 281000Z 23008KT 3000 BR SCT008 BKN015 21/20 Q1017 SBCT 281000Z 12003KT 4000 BR SCT001 BKN003 OVC005 18/17 Q1022 KVPS 280955Z 34006KT 10SM CLR 06/02 A3015 RMK AO2A SLP216 T00580016 $ FQMA 281000Z 18009KT 9999 SCT015 BKN020 24/18 Q1018 NOSIG KVRB 280953Z AUTO 33011KT 10SM CLR 14/08 A3004 RMK AO2 SLP173 T01390078 SBDN 281000Z 07004KT 9999 FEW025 22/21 Q1018 SBCX 281025Z 15006KT 0000 FG VV000 15/15 Q1022 RJNG 272119Z 14001KT 9999 FEW030 BKN160 BKN230 05/M02 Q1021 RMK 1CU030 5AC160 A3016 SBEG 281100Z 33001KT 9999 SCT010 BKN080 25/23 Q1014 SBCY 281000Z 00000KT 9999 SCT009 BKN100 23/22 Q1017 KWHP 272347Z 25008G16KT 20SM SKC 32/M01 A3004 SBCZ 272300Z 22005KT 9999 TS VCSH BKN025 FEW030CB BKN100 26/26 Q1010 KVQQ 281050Z 27004KT 10SM CLR 06/03 A3007 KVPZ 280956Z AUTO 00000KT 10SM CLR M09/M14 A3023 RMK AO2 SLP249 T10891139 TSNO RJOA 281000Z 25003KT 160V290 9999 FEW030 13/02 Q1017 SBEK 272100Z 11003KT CAVOK 33/26 Q1009 RJNK 281000Z 18004KT 9999 NSC 14/M03 Q1017 RJOB 281000Z 14003KT 100V170 9999 FEW030 14/03 Q1017 EYVI 281020Z 16005KT 2300 -RA BR OVC018 08/07 Q1013 R20/2///95 NOSIG SAOC 281000Z 05005KT CAVOK 13/11 Q1019 RJOC 281000Z 24009KT CAVOK 14/09 Q1016 KVQT 281035Z AUTO 34011KT 10SM CLR 20/14 A3016 RMK A01 MDSD 281000Z 07005KT 9999 FEW016 23/21 Q1018 NOSIG RJOF 281012Z 08004KT 030V110 9999 FEW040 BKN080 14/11 Q1017 RMK 1CU040 5AC080 A3004 KVSF 280954Z AUTO 36008KT 320V050 10SM FEW029 OVC080 M01/M07 A2980 RMK AO2 SLP098 T10111067 TSNO KWJF 280956Z AUTO 25008KT 10SM CLR 17/03 A3012 RMK AO2 SLP182 T01670033 RJOH 281000Z 27009KT 9999 FEW080 15/06 Q1016 SBFI 281038Z 00000KT 0600 R32/0600 R14/0600 FG NSC 21/20 Q1017 RJOI 280955Z 20006KT 9999 FEW030 FEW200 15/07 A3003 RMK SLP169 T01500072 SBES 281000Z 00000KT 9999 FEW015 SCT030 23/22 Q1017 RJNS 281000Z 24013KT 9999 FEW020 14/09 Q1018 SANT 281000Z 32004KT CAVOK 15/14 Q1022 RJOK 281000Z 00000KT 9999 FEW030 15/10 Q1018 RJNT 281000Z 14003KT 9999 FEW080 13/M00 Q1017 KVTA 281018Z AUTO 33006KT 10SM SCT028 M09/M13 A3014 RMK AO2 T10891128 SBFL 281000Z 22006KT 9999 FEW020 BKN040 21/18 Q1019 RJOM 281000Z 02004KT 9999 FEW030 SCT045 BKN/// 15/10 Q1016 SBFN 281000Z 20004KT 9999 SCT017 FEW020TCU SCT100 26/// Q1016 RJNW 281000Z 23004KT CAVOK 09/02 Q1016 LOAN 281000Z 33016G30KT 30KM FEW025CU BKN060SC RMK BKN RJOO 281000Z 26007KT 230V300 9999 FEW030 16/09 Q1017 RJNY 280710Z 24018G28KT 9999 FEW030 18/04 Q1017 RMK 1CU030 A3004 RJOR 281000Z 16003KT 9999 FEW040 SCT070 BKN/// 14/07 Q1016 SBFS 281000Z 26004KT 9999 FEW010 ///// Q1017 KVTI 281035Z AUTO 14005KT 10SM CLR M05/M10 A3021 RMK AO2 T10481105 RJOT 281000Z 16004KT 9999 FEW030 14/05 Q1017 VYMD 272330Z 00000KT 4000 BR FEW025 19/17 Q1014 MDST 281000Z 00000KT 9999 SCT015 21/20 Q1017 SBGL 281000Z 02003KT 5000 BR FEW015 BKN020 25/22 Q1018 SBGM 272300Z 36005KT 9999 BKN020 26/25 Q1011 FQPB 280900Z 09008KT 9999 SCT020 30/24 Q1013 LOAV 281000Z 30020G35KT 40KM SCT025CU BKN100AC 09/M02 Q1020 RMK OVC RJOW 281000Z 21003KT 130V280 9999 FEW040 14/06 Q1016 KWLD 280954Z AUTO 15007KT 10SM BKN110 06/M01 A3002 RMK AO2 SLP168 T00611006 $ KVTN 280952Z AUTO 29003KT 10SM CLR M03/M04 A2998 RMK AO2 SLP161 T10281044 SBGO 281000Z 11004KT 9999 FEW018 SCT100 20/18 Q1021 RJOY 281000Z VRB02KT 9999 FEW030 17/08 Q1017 SBFZ 281000Z 15003KT 9999 FEW020 25/23 Q1016 KVTP 281035Z AUTO 23003KT 10SM CLR 01/M08 A3035 RMK AO2 KXBP 281035Z AUTO 00000KT 10SM CLR 07/05 A3008 RMK AO2 T00660048 SBGR 281000Z 00000KT 7000 NSC 18/18 Q1021 KVUJ 281035Z AUTO 00000KT 10SM BKN065 01/M01 A3000 RMK AO2 T00111015 SBIC 272200Z 03001KT 9999 FEW018 FEW023TCU 29/26 Q1009 SBGU 272000Z 29002KT 8000 VCSH BKN020 FEW030TCU 21/19 Q1020 SARC 281033Z 00000KT 8000 -TSRA OVC040 FEW050CB 19/16 Q1018 RMK CB ON MET KWMC 280956Z AUTO 00000KT 10SM CLR 11/M04 A3015 RMK AO2 SLP176 T01061044 SBGW 281000Z 02002KT 4000 BR OVC015 22/20 Q1020 SARE 281039Z 14002KT 8000 TS FEW035 FEW056CB OVC100 19/17 Q1019 SARF 281000Z 16006KT 9999 SCT008 BKN012 21/20 Q1017 RERA KVUO 280953Z AUTO 21003KT 10SM SCT043 OVC060 11/07 A3023 RMK AO2 SLP236 T01110067 SBIH 281015Z 00000KT 9999 FEW012 25/24 Q1013 KVVG 281035Z AUTO 00000KT 10SM 09/04 A2999 RMK A01 SARI 281000Z 00000KT 0600 FG BKN003 BKN080 21/21 Q1018 RJSA 281000Z 20012KT 170V230 CAVOK 09/02 Q1014 SASA 281000Z 32002KT 9999 FEW008 10/09 Q1024 SBHT 281000Z 09002KT 9999 SCT008 BKN010 BKN080 24/24 Q1015 RKJB 281000Z 29005KT 260V320 9999 SCT030 BKN130 12/02 Q1017 NOSIG SBIL 281000Z 27004KT 9999 SCT025 25/24 Q1016 RJSC 281000Z 08003KT 020V100 9999 FEW040 11/M03 Q1016 SARL 281000Z 20005KT 8000 NSC 14/13 Q1018 SBJF 280922Z 00000KT CAVOK 19/18 Q1022 RJSF 281000Z 01006KT CAVOK 11/M07 Q1016 SBIP 272200Z 00000KT CAVOK 24/18 Q1015 SARP 281000Z 00000KT 9999 SCT020 BKN100 21/18 Q1018 RJSH 280409Z 23016G26KT 200V270 9999 FEW030 17/M00 Q1013 RMK 1CU030 A2993 RJSI 281000Z 29004KT 240V350 9999 FEW050 SCT100 BKN/// 10/M03 Q1016 SCBA 281000Z AUTO VRB03KT CAVOK 11/06 Q1013 SASJ 281000Z 00000KT 9999 FEW030 BKN100 14/14 Q1023 RKJK 280958Z AUTO 23005KT 10SM BKN055 OVC065 10/00 A3002 RMK AO2 SLP170 T01021005 $ RJSK 281000Z 21003KT 170V260 CAVOK 11/02 Q1016 RJTE 271823Z 23015G25KT 9999 FEW030 SCT230 14/09 Q1019 RMK 1CU030 A3011 RJSN 281000Z 23005KT CAVOK 13/M03 Q1017 KVVV 281034Z AUTO 14007KT 10SM BKN050 M03/M05 A3012 RMK AO2 RJSO 272324Z 26018G30KT 9999 FEW030 SCT120 BKN200 10/02 Q1015 RMK 1CU030 3AC120 A2998 RJTF 280700Z 17006KT 140V210 CAVOK 20/M02 Q1015 SBKG 281000Z 11005KT 9999 SCT010 23/20 Q1019 SBJP 281000Z 24004KT 9999 SCT020 25/21 Q1017 SCAP 281000Z AUTO 24006KT 200V290 //// // NSC 17/05 Q1021 SBIZ 281000Z 00000KT 9999 SCT008 BKN015 25/24 Q1015 SBJR 281000Z 00000KT 9999 BKN030 25/25 Q1017 RJTI 280700Z 18005KT 120V260 CAVOK 17/07 Q1016 RJSR 281000Z 21006KT 9999 FEW035 BKN/// 10/02 Q1015 SCAR 281000Z 36006KT 9999 SCT040 22/17 Q1015 SCAS 271900Z 24007KT 9999 OVC043 16/07 Q1016 RJSS 281000Z 13002KT CAVOK 10/07 Q1016 SBLB 281000Z 01003KT 9999 FEW010 28/22 Q1017 W///S1 SCAT 281032Z 20002KT 6000 FEW006 16/15 Q1018 SBJU 281000Z 14003KT 9999 SCT020 26/25 Q1020 SBJV 281000Z 20002KT 2000 -RADZ BR OVC003 20/20 Q1019 KVWU 281034Z AUTO 00000KT 10SM CLR M11/M12 A3013 RMK AO2 SBLE 272100Z 26003KT 9999 FEW040 28/22 Q1016 RJTO 280800Z 22017KT 9999 FEW025 16/10 Q1017 SCCF 281000Z 08007KT CAVOK 05/04 Q1028 RJSY 281000Z VRB02KT CAVOK 09/00 Q1016 SBKP 281015Z 12004KT 3000 BR NSC 21/19 Q1021 SCCH 272300Z 24002KT CAVOK 24/10 Q1017 SCCI 281000Z 30005KT 9999 SCT040 09/07 Q1005 NOSIG SBMA 281000Z 34003KT 9999 SCT017 SCT080 25/24 Q1015 SCDA 281000Z 17010KT CAVOK 21/15 Q1016 RJTT 281030Z 20014G24KT CAVOK 17/05 Q1016 NOSIG SAVC 281000Z 29010KT 160V300 CAVOK 19/06 Q1010 SBMD 281000Z 10010KT 9999 BKN018 BKN090 ///// Q1016 SBME 281000Z 31002KT 9999 FEW010 23/23 Q1017 SBLO 281000Z 15001KT CAVOK 22/20 Q1019 SBLP 281000Z 10003KT CAVOK 24/23 Q1017 SBMG 281000Z 00000KT 9999 SCT035 23/20 Q1018 RJTY 280958Z AUTO 17002KT 10SM CLR 16/03 A3003 RMK AO2 SLP175 T01550026 SBLS 281000Z 14006KT CAVOK 22/18 Q1021 SBMK 281000Z 00000KT CAVOK 22/18 Q1020 KVYS 281035Z AUTO 04003KT 10SM CLR M07/M09 A3026 RMK AO2 T10701093 SAWC 271212Z 14004KT 5000 BCFG FEW002 03/02 Q1006 SBML 280900Z 00000KT CAVOK 23/19 Q1019 KWRB 280958Z AUTO 31007KT 10SM CLR 04/01 A3005 RMK AO2 SLP179 T00430005 SAWE 281000Z 25008KT CAVOK 08/06 Q1004 SBMN 281000Z 15002KT 9999 SCT015 BKN080 26/24 Q1013 SBNF 281000Z 23002KT 9999 FEW020 BKN040 22/20 Q1019 SBMO 281000Z 30003KT 9999 FEW020 24/22 Q1017 SCCY 280000Z 18004KT 9999 BKN036 13/03 Q1015 SAWG 281000Z 00000KT CAVOK 08/07 Q1006 SBMQ 281000Z 32003KT 9000 -RA SCT006 BKN016 OVC080 25/25 Q1015 SAWH 281000Z 32009KT 9999 BKN040 10/07 Q1003 LOIH 280900Z 00000KT 35KM FEW030CU 08/03 Q1023 RMK FEW KXIH 281035Z AUTO 12012KT 9SM CLR 18/12 A3013 RMK A01 SBMS 281015Z 15005KT CAVOK 27/23 Q1016 KWRI 280958Z AUTO 32013KT 10SM SCT065 OVC110 01/M05 A2977 RMK AO2 SLP085 T00121051 SCFA 281000Z 20ETAR SCDA 281000Z 17010KT CAVOK 21/15 Q1016 SBMT 281000Z 00000KT 7000 NSC 20/16 Q1021 SCEL 281000Z VRB02KT CAVOK 13/09 Q1019 NOSIG KWRL 280953Z AUTO 00000KT 10SM CLR 04/M02 A2998 RMK AO2 SLP134 T00441017 SBMY 281015Z 00000KT CAVOK 24/23 Q1013 SBOI 272000Z 21004KT 4000 -RA BKN006 OVC100 24/24 Q1013 SBPA 281000Z 06003KT 6000 NSC 17/16 Q1020 SBPB 281000Z 12007KT 9999 FEW017 27/24 Q1015 SBNT 281000Z 19005KT 9999 FEW027 26/21 Q1016 SBPC 281015Z 00000KT 9999 FEW015 17/17 Q1024 RKPC 281000Z 27002KT 9999 FEW040 12/06 Q1017 NOSIG SCGE 272100Z 20004KT CAVOK 29/05 Q1016 SBPF 281000Z 14010KT 2500 BR OVC003 15/15 Q1020 RKNY 281000Z AUTO 26012KT 3000 NCD 17/M12 Q1011 SBPJ 281000Z 09003KT 9999 FEW017 24/23 Q1016 LPBJ 281000Z 32005KT 280V340 9999 4000S BCFG NSC 15/12 Q1030 RKPK 281000Z 20009KT CAVOK 15/07 Q1015 NOSIG SBPK 280900Z 23003KT 0000 FG VV001 15/15 Q1020 SCFT 281000Z AUTO 27005KT 230V300 9999 16/04 Q1016 MGCB 280000Z 00000KT +2000 TSRA BKN012 SCT022CB 17/16 QFE 871.8 CB/TS NE/S/W/SBR STN BEST APCH SW KWST 281034Z AUTO 34006KT 10SM -RA BKN015 OVC020 02/01 A2970 RMK AO2 P0001 T00170011 SBPL 281000Z 10006KT 9999 FEW023 27/22 Q1018 SBPN 272100Z 15005KT 9999 FEW025 31/23 Q1011 SBPP 272200Z 18006KT 9999 SCT004 BKN080 22/21 Q1017 SBPR 281000Z 12004KT CAVOK 24/18 Q1022 LPAZ 281030Z 13011KT 9999 FEW012 BKN040 17/12 Q1034 SBPS 281000Z 25003KT 9999 FEW020 24/23 Q1017 SBRB 281000Z 19003KT 9999 SCT008 BKN100 23/22 Q1014 SCIC 281000Z AUTO 05003KT 9999 NCD 11/10 Q1018 SAZM 281000Z 34007KT CAVOK 10/08 Q1021 SBPV 281025Z 00000KT 9999 FEW020 BKN070 23/22 Q1013 KXLL 281035Z AUTO 34009G16KT 10SM OVC065 00/M07 A2985 RMK AO2 SAZN 281000Z 00000KT CAVOK 10/08 Q1016 SCIE 281000Z 11002KT CAVOK 09/09 Q1019 SBRF 281000Z 20002KT 9999 FEW023 25/22 Q1016 MGCP 280000Z 27006KT 9000 SCT018 30/26 QFE 1006.4 FEW080 HZ= MAXIMA 33.4 SBRJ 281000Z 16004KT 7000 FEW010 BKN020 BKN090 25/23 Q1017 KWVI 281031Z AUTO 00000KT 3/4SM BR OVC003 11/10 A3016 RMK AO2 T01060100 SAZS 281000Z 27006KT 9999 FEW050 SCT200 09/04 Q1019 KXNA 280953Z AUTO 14006KT 10SM OVC110 06/M02 A3007 RMK AO2 SLP184 T00561022 SBSC 281000Z 08002KT 6000 BKN016 24/22 Q1016 FSIA 281000Z 0405KT 9999 BKN020 32/26 Q1009 NOSIG SBQV 281000Z 12003KT 9999 FEW006 BKN070 22/19 Q1022 KWVL 281035Z 02009G14KT 10SM SCT041 SCT046 OVC080 M01/M09 A2979 RMK AO1 KWWD 281035Z AUTO 32008G14KT 10SM SCT060 OVC110 A2980 RMK AO1 RKSG 280958Z AUTO 31007KT 10SM SCT080 11/M09 A2999 RMK AO2 SLP159 T01071093 $ SBRP 281000Z 13005KT 0600 FG NSC 20/19 Q1019 SCIP 281000Z 07004KT 9999 SCT020 22/21 Q1020 NOSIG SCIR 272200Z 13009KT 9999 FEW020 19/15 Q1021 RKSI 281030Z 25006KT 9999 FEW030 BKN090 08/M07 Q1016 NOSIG SBTA 281000Z /////KT 3500 BR OVC012 22/20 Q1020 SBSJ 281000Z 00000KT 4500 BR BKN008 BKN070 22/19 Q1020 KXMR 280958Z AUTO 31014KT 10SM CLR 14/06 A3004 RMK AO2 SLP176 T01350063 SBTC 281000Z 00000KT 9999 SCT020 24/23 Q1017 SBSL 281000Z 02005KT 9999 SCT017 27/23 Q1014 SBSM 281000Z 08002KT 7000 SCT002 15/15 Q1019 SBSN 281000Z 06010KT 9999 SCT015 BKN100 25/24 Q1014 SBTE 281000Z 00000KT 9999 BKN010 25/25 Q1015 SCJO 272200Z 24004KT CAVOK 25/06 Q1017 SBTF 280000Z 00000KT 9999 FEW018 29/25 Q1010 RKSO 280958Z AUTO 28007KT 7SM CLR 12/M09 A2999 RMK AO2 SLP159 T01161094 $ SBSP 281000Z 14002KT 7000 NSC 20/17 Q1022 SBSR 281000Z 09003KT CAVOK 22/19 Q1019 SBUA 272300Z 08003KT 9999 FEW020 SCT080 30/25 Q1008 RKSS 281000Z 29007KT 8000 FEW030 BKN120 10/M11 Q1016 NOSIG KWWR 281035Z AUTO 21014G21KT 10SM CLR 10/03 A3001 RMK AO2 SBTK 272300Z 16002KT 9999 FEW030 26/24 Q1010 MGES 280000Z 05004KT 9999 FEW018TCU BKN090 25/18 QFE 911.0 TCU N/NNE SBST 281000Z 05001KT 9999 FEW030 BKN050 21/21 Q1017 LPFL 281030Z 16008KT 9999 FEW001 BKN002 16/16 Q1031 SBSV 281000Z 10002KT 9999 SCT017 FEW020TCU 28/22 Q1016 RKTN 281000Z 18004KT CAVOK 19/02 Q1013 NOSIG SBUF 281015Z 11007KT 9999 FEW016 27/21 Q1018 SBUG 281000Z 11003KT CAVOK 14/11 Q1019 LPFR 281030Z 18005KT CAVOK 20/14 Q1028 SBTT 272300Z 11005KT 0600 TSRA BKN015 SCT030 FEW031CB 26/25 Q10 11 SBTU 272130Z /////KT 9999 FEW020 FEW022TCU BKN080 ///// Q1013 SBUL 281000Z 10007KT CAVOK 20/18 Q1022 RKTU 281000Z 27010KT CAVOK 16/M09 Q1015 NOSIG VYYY 281030Z 21003KT 7000 BKN110 28/22 Q1009 SBVH 281015Z 09007KT 2000 BR BKN006 BKN100 22/22 Q1017 SBUR 281000Z 00000KT CAVOK 21/21 Q1021 SCMK 272100Z 03006KT 9999 BKN030 OVC100 14/12 Q1016 MGGT 281000Z 36012KT 9999 BKN014 17/13 Q1027 A3033 KXPY 281035Z AUTO 06011G16KT 10SM CLR 14/07 A3021 RMK A01 YABA 281030Z AUTO 23009KT 9999 // NCD 18/15 Q1020 LPHR 281030Z 12003KT 070V170 9999 FEW012 SCT035 18/15 Q1033 KXSA 281035Z AUTO 32009KT 280V350 10SM OVC085 02/M08 A2991 RMK AO2 T00181084 SBVT 281000Z 32002KT 9999 FEW015 BKN060 22/21 Q1017 MGHT 281000Z 00000KT 9999 OVC018 15/13 QFE 819.8 WSAP 281000Z 05011KT 9999 FEW018CB BKN300 30/24 Q1008 KYIP 280953Z AUTO 35013KT 10SM BKN047 M08/M14 A3018 RMK AO2 SLP227 T10781144 TSNO SBYA 271900Z 00000KT 9999 TS FEW020 FEW025CB 35/24 Q1007 SCNT 271900Z 28020KT 9999 BKN040 19/07 Q1002 MHAM 280600Z 00000KT 9999 DFEW020 BKN080 28/25 HZ SCON 281000Z AUTO 00000KT 9999 14/13 Q1016 LPLA 281000Z /////KT 9999 FEW014 SCT032 17/14 Q1033 MHCA 280900Z 00000KT 9999 SCT028 BK080 23/20 Q1017 HZ LQBK 281030Z 36010KT 9999 SCT040 11/01 Q1016 NOSIG KYKM 280953Z AUTO 29008KT 10SM CLR 11/00 A2998 RMK AO2 PK WND 30026/0916 SLP150 T01110000 KYKN 281035Z AUTO 09005KT 10SM CLR M04/M07 A3009 RMK AO1 SCPQ 281000Z AUTO 35011KT 9999 OVC004 13/12 Q1016 MHCH 280000Z 23004KT 9999 FEW032TCU SCT250 31/20 TCU N NE SBYS 281000Z 00000KT 0300 R02/0400 R20/0450 FG VV002 20/20 Q1020 LPMA 281030Z 03015KT 9999 SCT015 SCT030 16/11 Q1031 RS06015KT 0505013KT 2304013KT SCRD 272200Z 17008KT CAVOK 24/10 Q1017 SCRG 271900Z 16009KT 9999 FEW070 26/09 Q1016 SCQP 281000Z 26004KT 230V300 9999 OVC008 13/11 Q1019 KXVG 281036Z AUTO 00000KT 10SM CLR M11/M12 A3014 RMK AO2 SCRM 281000Z 21009KT 9999 BKN015 M00/M04 Q0997 NOSIG MGMM 280500Z 30006KT 9999 BKN020 23/20 Q1020 A3012 SCSE 281000Z 26002KT 8000 OVC008 17/16 Q1016 LOWG 281020Z 35014KT 310V020 9999 FEW065 12/M04 Q1017 NOSIG KYNG 281024Z 32009KT 10SM FEW017 SCT029 M11/M14 A3004 RMK AO2 SNE18 T11061144 LOWI 281020Z VRB04KT 9999 FEW050 10/00 Q1021 R08/1///95 NOSIG SCTB 272200Z 19004KT CAVOK 26/09 Q1018 MGMT 280000Z 00000KT 9000 FEW070 BKIN200 30/24 QFE 1006.5 HZ LOWK 281020Z 15005KT 040V210 9999 FEW060 12/M01 Q1017 NOSIG LOWL 281020Z 28011KT 240V340 9999 SCT040 BKN060 08/M01 Q1021 NOSIG SCTE 281000Z VRB03KT 1200 0600S R17/1200 R35/0600 BCFG BKN001 12/12 Q1018 NOSIG SCSN 281000Z AUTO VRB02KT CAVOK 12/10 Q1017 LOWS 281020Z 31010KT 9999 FEW045 BKN060 09/M03 Q1022 NOSIG MGPB 281000Z 00000KT 9999 SCT012 OVC080 22/21 Q1017 A3003 LPPD 281030Z 13005KT 100V160 9999 FEW013 17/13 Q1034 SCTN 281031Z AUTO 35010KT 9999 FEW009 14/12 Q1017 LOWW 281020Z 32019KT 9999 FEW035 BKN067 09/01 Q1019 NOSIG LOWZ 281000Z 36008KT 30KM SCT050SC 07/M02 Q1021 RMK SCT LOXT 280950Z 32012KT 280V360 25KM FEW033CU BKN070SC 09/00 Q1020 RMK OVC SCVD 281000Z A 07004KT 9999 SCT020 22/21 Q1020 NOSIG LOXZ 280950Z VRB06KT 30KM SCT053CU 07/M04 Q1018 RMK SCT LPPR 281030Z 34008KT 9999 SCT006 OVC008 12/11 Q1033 LPPS 281030Z 06007KT 010V100 9999 SCT015 SCT030 16/12 Q1031 LPPT 281030Z 35009KT 320V020 9999 FEW015 16/11 Q1031 SCVM 281000Z 15003KT CAVOK 15/13 Q1017 YBAF 281030Z AUTO 06004KT 9999 // BKN061 23/17 Q1021 MGQZ 280000Z 09010KT 9999 SCT012 BKN070 17/14 QFE770.8 YBAS 281030Z AUTO 11007KT 9999 // NCD 26/M07 Q1020 MGSJ 281000Z 00000KT CAVOK 23/22 Q1013 A2991 MGRT 280000Z 22006KT 9000 SCT020 29/24 Q1013 A2991 HZ VOL. STA. MARIA Y SANTIAGUITO EN ACTIVIDAD YBBN 281030Z 09007KT CAVOK 24/17 Q1021 RMK 7SC057 LRBC 281030Z 35010KT 7000 -RA FEW010 BKN019 OVC040 11/09 Q1007 R16/220395 YBCG 281030Z AUTO 11007KT 9999 // BKN029 BKN037 OVC045 24/18 Q1021 YBCK 281030Z AUTO 14005KT //// // ////// 29/11 Q1017 YAMB 281030Z AUTO 07005KT 9999 // OVC055 23/15 Q1021 LRAR 281030Z 01020KT 9999 FEW022 SCT026 BKN038 09/05 Q1010 R09/19//95 MHLC 281000Z 17003KT 9999 FEW024 BKN080 25/23 Q1015 A2997 NOSIG LRBM 281030Z 27009KT 9999 SCT030 BKN045 11/07 Q1008 R10/19//95 YBDG 281030Z AUTO 00000KT 9999 // NCD 12/05 Q1022 MHLE 280000Z 05008KT 9999 FEW024CB BKN200 18/15 CB S SW FU YBCS 281030Z 17007KT 9999 FEW028 SCT050 26/20 Q1015 RMK SHRA TO THE E LRBS 281030Z 05010KT 3000 -SHRA BR SCT005 BKN020 FEW030CB 09/08 Q1005 R07/29//95 NOSIG YBCV 281030Z AUTO 15008KT 9999 // NCD 25/M03 Q1019 LRCK 281030Z 04018KT 5000 BR FEW002 BKN003 09/09 Q1002 R36/290295 NOSIG SEGU 280900Z 25003KT 9999 FEW010 SCT023 BKN100 25/22 Q1011 NOSIG RMK A2986 MGTU 280000Z 23006KT 9999 SCT018 SCT070 30/23 LRCL 281030Z 29012KT 9999 SCT007 SCT016 BKN033 09/08 Q1008 MHLM 281000Z 20004KT 9999 FEW025 BKN090 23/23 Q1016 A3000 NOSIG LRCT 281000Z 35013KT 9999 FEW015 OVC020 10/06 Q1007 WHT WHT YBDV 281030Z AUTO 18008KT //// // ////// 26/M05 Q1018 LRCV 281030Z 04004KT 3000 FEW002 SCT004 BKN008 09/08 Q1005 R09/29//95 LQMO 281030Z 34011G22KT 280V050 9999 FEW045 15/M00 Q1009 BGBW 280950Z 07007KT 040V100 9999 FEW180 M15/M25 Q0994 ROAH 281030Z 26013KT 9999 SCT020 SCT045 BKN/// 21/17 Q1013 SFAL 281050Z 30015KT 9999 FEW007 10/10 Q1006 GMAD 281030Z VRB01KT CAVOK 24/08 Q1023 NOSIG MHNO 280000Z 35006KT 9999 TS SCT040CB 27/16 Q1016 CB TS SW TCU N NE SE FU GMAG 281000Z 31002KT CAVOK 20/09 Q1024 NOSIG FTTA 280000Z 18010KT CAVOK 30/20 Q1010 FTTC 280700Z 04004KT CAVOK 33/M01 Q1010 FTTD 280900Z 30017KT CAVOK 35/18 Q1012 HDAM 280800Z 08012KT 9999 SCT023 30/23 Q1014 YBHI 281030Z AUTO 11006KT 9999 // NCD 19/03 Q1022 KZPH 281035Z AUTO 00000KT 10SM CLR 08/05 A3012 RMK AO2 MGZA 280000Z 08012KT 9999 FEW022 FEW025CB OVC200 32/18 QFE 985.8 FEW070 CB ENE/SSW CB DIST W YBHM 281030Z AUTO 13019KT 9999 // SCT029 27/22 Q1017 FTTJ 280900Z 01008KT 330V040 7000 NSC 35/05 Q1011 NOSIG MHPL 280000Z 06005KT 9999 FEW028TCU 28/23 Q1010 TCU N HZ GMAT 281027Z VRB02KT 6000 BKN016 17/15 Q1025 NOSIG B2+3 YARG 281030Z AUTO 35005KT 9999 // NCD 33/11 Q1013 LRIA 281030Z 03005KT 350V100 9999 FEW022 SCT040 12/08 Q1008 R14/19//95 BGGH 280950Z 21007KT 8000 -SHSN DRSN BKN021 BKN033 M12/M15 Q0993 SELT 280800Z 01002KT 9999 FEW030 SCT100 09/09 Q1030 YARM 281030Z AUTO 08008KT 9999 // NCD 13/10 Q1025 FVBU 281000Z 06005KT 9999 -RA FEW020TCU BKN090 21/18 Q1022 TEMPO 7000 -TSRA RODN 280958Z AUTO 25009KT 10SM FEW021 SCT055 21/17 A2993 RMK AO2 SLP142 T02060167 $ FTTY 280900Z 08031KT 1500 SS SKC 30/M06 Q1012 YCBA 281030Z AUTO 14006KT //// // ////// 19/00 Q1021 YCBB 281030Z AUTO 24008KT //// // ////// 18/M01 Q1022 WSSL 281000Z 03016KT 9999 FEW018 BKN300 30/23 Q1008 RMK 0930Z Q1008 SEMT 280900Z 16007KT 9999 BKN026 26/23 Q1012 RMK A2990 LQSA 281030Z 31009KT 250V350 9999 -RA BKN030 BKN040 05/01 Q1015 NOSIG YBKE 281030Z AUTO 23004KT //// // ////// 20/01 Q1020 MHSC 272258Z 35024G28KT 210V030 9999 SCT060 BKN150 29/17 A2994 RMK AO2A PK WND 35029/2251 SLP096 LAST T02880171 MHRO 280000Z 00000KT 9999 SCT025 BKN200 28/24 Q1012 A2989 NOSIG YCAR 281030Z AUTO 18011KT 9999 // NCD 27/20 Q1014 YCAS 281030Z AUTO 18004KT //// // ////// 21/19 Q1021 WSSS 281030Z 04011KT 9999 FEW020CB SCT280 BKN300 29/23 Q1008 NOSIG FVCZ 271200Z 13005KT CAVOK 37/16 Q1015 FVFA 280600Z 17008KT 9999 SCT040 BKN300 22/18 Q1020 NOSIG MHTE 280000Z 00000KT 9999 SCT026 SCT250 29/21 Q1011 FU HZ YCBP 281030Z AUTO 15002KT //// // OVC115 25/M03 Q1021 MHTG 281000Z 35006KT 9999 SCT026 20/15 Q1017 A3003 NOSIG GMFF 281000Z 06005KT 010V100 CAVOK 18/12 Q1028 NOSIG YBMA 281030Z AUTO 07004KT 9999 // NCD 30/13 Q1014 YBKT 281030Z AUTO 35006KT //// // ////// 30/23 Q1012 MHSR 280000Z 03005KT 9999 BKN025TCU SCT100 BKN250 25/17 TCU ALL HZ YBLN 281030Z AUTO 19009KT //// // ////// 21/13 Q1019 GMFK 281000Z 16003KT 040V210 CAVOK 18/06 Q1030 NOSIG GMFM 281000Z 06005KT CAVOK 17/12 Q1028 NOSIG BGJN 280950Z AUTO 08012KT 9999NDV NCD M17/M24 Q0995 GMFO 281000Z VRB02KT FEW020 21/11 Q1027 NOSIG YBNA 281030Z AUTO 05004KT 9999 // BKN056 22/19 Q1021 YBLT 281030Z AUTO 17005KT 9999 // NCD 11/09 Q1022 MHTR 280000Z 00000KT 9999 FEW024TCU SCT250 28/24 TCU SW HZ YBMK 281030Z AUTO 12013KT 9999 // SCT028 BKN034 BKN040 28/22 Q1017 FVHA 281000Z 05009KT 010V090 9999 SCT030 BKN300 26/16 Q1022 NOSIG YCEE 281030Z AUTO 34006KT //// // ////// 17/04 Q1021 SEQM 281047Z 34004KT 270V010 0400 FG VV/// 12/12 Q1027 BECMG FM1130 0800 RMK A3035 YCDO 281030Z AUTO 00000KT //// // ////// 16/M02 Q1022 BGKK 280950Z 07005KT 9999 FEW013 BKN019 M09/M12 Q0986 YCCY 281030Z AUTO 08006KT //// // ////// 35/13 Q1013 ROIG 281000Z VRB02KT 9999 FEW025 BKN220 19/14 Q1016 LQTZ 281030Z 27007KT 9999 -RA BKN015 OVC025 06/06 Q1015 YCDU 281030Z AUTO 14005KT 9999 // BKN077 OVC086 20/10 Q1021 YCEM 281030Z AUTO 00000KT //// // ////// 08/07 Q1022 GLRB 280900Z 00000KT 9999 FEW014 BKN100 26/23 Q1014 NOSIG YBNS 281030Z AUTO 03003KT 9999 // BKN037 11/09 Q1023 YBOK 281030Z AUTO 05013KT 9999 // BKN022 22/17 Q1022 YCFL 281030Z AUTO 13017KT //// // ////// 26/21 Q1014 YAYE 281030Z AUTO 20009KT 9999 // BKN120 26/06 Q1020 LROD 281030Z 01013KT 350V050 9999 -RA OVC031 09/04 Q1011 R0129//95 YCFS 281030Z AUTO 27001KT 9999 // OVC035 19/17 Q1022 SGAS 281000Z 33004KT 2000 +DZ OVC003 20/20 Q1017 HEBA 281000Z 31013KT 9999 SCT020 20/15 Q1010 NOSIG FVKB 280900Z 28001KT 9999 FEW035CB SCT040 BKN300 32/21 Q1014 YBPN 281030Z AUTO 11007KT 9999 // NCD 26/21 Q1016 LSGC 281020Z VRB06KT CAVOK 07/M02 Q1021 LROP 281030Z 08010KT 3000 -SHRA BR SCT008 BKN019 FEW035CB OVC040 09/08 Q1005 R88/29//95 NOSIG LSGG 281020Z VRB03KT 9999 BKN095 09/01 Q1023 NOSIG YCHK 281030Z AUTO 16009KT 9999 // SCT100 32/12 Q1014 HEAR 281000Z 01008KT CAVOK 26/11 Q1010 NOSIG HECA 281030Z 33003KT 6000 NSC 28/05 Q1009 NOSIG HEAT 281000Z 02016KT CAVOK 31/05 Q1010 NOSIG HEBL 281000Z 18003KT CAVOK 40/06 Q1006 NOSIG HEAX 281000Z 30008KT 9999 SCT020 20/14 Q1010 NOSIG MHYR 280000Z 09006KT 9999 SCT028TCU 26/19 TCU ALL HZ YBRK 281030Z 15004KT 9999 FEW020 26/22 Q1018 YBRL 281030Z AUTO 01004KT //// // ////// 29/21 Q1012 LSGS 281020Z VRB03KT 9999 FEW120 10/M03 Q1022 YBRM 281030Z 07005KT CAVOK 27/24 Q1011 RMK 5CU050 YCIN 281030Z AUTO 12008KT //// // SCT010 SCT026 BKN035 23/22 Q1012 GMMB 281000Z 05004KT 360V150 5000 FEW013 18/17 Q1028 NOSIG GMMC 280900Z /////KT 9999 FEW016 16/13 Q1027 FWCL 281000Z 05010KT 9999 -SHRA FEW025CB BKN030 27/20 Q1016 NOSIG YBSG 281030Z AUTO 09005KT //// // NCD 27/21 Q1013 GMME 281030Z 32006KT 290V360 8000 NSC 18/13 Q1027 NOSIG GMMH 281000Z 02020KT 9999 FEW016 18/13 Q1024 NOSIG GMMI 281000Z AUTO 03010KT 9999NDV NCD 21/14 Q1024 NOSIG LRSB 281030Z 32004KT 9999 -RA FEW007 BKN012 OVC015 08/07 Q1007 R27/29//95 LTAC 281020Z 29008KT 260V340 8000 SHRA FEW004 BKN025 BKN080 09/07 Q1005 BECMG NSW LTAD 280203Z 09003KT 010V150 7000 -SHRA BKN025 BKN080 09/09 Q1009 RESHRA NOSIG RMK RWY29 VRB02KT SGEN 281000Z 11003KT 9999 BKN025 OVC070 21/20 Q1017 KZZV 280953Z AUTO 33008KT 10SM CLR M09/M14 A3011 RMK AO2 SLP209 T10891144 TSNO GMML 281000Z 06008KT CAVOK 18/13 Q1025 NOSIG YBRY 281030Z AUTO 14005KT 9999 // NCD 29/13 Q1016 YBTH 281030Z AUTO 34003KT 9999 // NCD 11/02 Q1024 ROMY 281000Z 34005KT 9999 FEW023 BKN/// 20/14 Q1016 LTAF 281020Z 35007KT 9999 SCT035 BKN100 20/05 Q1009 NOSIG GMMN 281050Z 03009KT 360V060 8000 FEW010 17/16 Q1027 TEMPO CAVOK LTAG 281020Z 08009KT 9999 SCT030 OVC100 18/08 Q1009 NOSIG SGES 281000Z VRB03KT 0200 +FG BKN003 20/20 Q1017 LTAI 281020Z 15011G22KT 9999 -SHRA FEW015CB BKN030 17/15 Q1006 NOSIG YBSU 281030Z AUTO 11009KT 9999 // SCT028 25/18 Q1020 YBTL 281030Z 09010KT 9999 SCT030 28/21 Q1015 LTBA 281020Z 27007KT 240V300 9999 SCT040 BKN070 14/08 Q1004 NOSIG LTAJ 281020Z 10016KT 9999 SCT040 BKN100 17/05 Q1014 NOSIG YBUD 281030Z AUTO 08010KT 9999 DZ BKN021 BKN028 OVC035 24/22 Q1019 YCKN 281030Z AUTO 11011KT 9999 // SCT020 BKN070 26/22 Q1014 LRTC 281030Z 01010KT 5000 -RA BR BKN005 OVC023 09/08 Q1005 RERA R16/29//95 LRSM 281030Z 36017KT 9999 BKN043 10/06 Q1009 R01/29//95 LTAN 280950Z 15009KT 9999 -SHRA BKN030 BKN090 13/09 Q1007 TEMPO -TSRA LTBF 280950Z 26001KT 9999 SCT035 SCT100 18/07 Q1004 NOSIG GMMW 281000Z 23003KT 180V310 CAVOK 20/11 Q1026 NOSIG LTBG 280501Z 17009KT 6000 -SHRA SCT035 BKN100 10/09 Q1005 NOSIG RMK RWY18 18010KT LTAP 281020Z 13009KT 9999 BKN040 BKN090 16/08 Q1005 NOSIG GMMX 281030Z VRB02KT CAVOK 21/14 Q1026 NOSIG LTBH 280828Z 02005KT 330V050 9999 -SHRA SCT035 BKN100 15/10 Q1004 RMK RWY22 03005KT 340V060 BGSF 280950Z AUTO 07008KT 9999NDV BKN065/// BKN090/// M18/M25 Q0995 LTAR 280950Z 14020KT 9999 -RA SCT030 BKN080 07/01 Q1015 GMMZ 281000Z 00000KT CAVOK 18/01 Q1028 NOSIG LTAS 280910Z 00000KT 9999 -SHRA SCT035 BKN100 15/12 Q1004 RMK RWY18 00000KT LTBJ 281020Z 15010KT 9999 -SHRA SCT030 BKN100 14/10 Q1005 NOSIG LTCA 280950Z VRB02KT 9999 SCT035 BKN100 11/05 Q1019 NOSIG LTAT 281020Z 36005KT 9999 BKN040 BKN100 13/07 Q1016 NOSIG LTBL 280210Z 10012KT 5000 -TSRA FEW020CB SCT030 BKN090 12/09 Q1005 RETSRA BECMG TL0250 9999 NSW RMK RWY17 /////KT LTAU 281020Z 11016KT 9999 BKN035 OVC090 12/04 Q1011 NOSIG LTCC 281020Z VRB02KT 9999 SCT040 BKN100 14/07 Q1018 NOSIG LTCD 280950Z 15005KT 9999 BKN036 BKN080 14/M02 Q1016 NOSIG LRSV 281030Z 35011KT 8000 SCT014 BKN048 09/09 Q1008 LRTM 281030Z 30006KT 9999 -RA SCT012 BKN024 OVC034 10/07 Q1007 R07/29//95 LTAW 281013Z 15022G42KT 100V200 9999 BKN035 BKN100 16/03 Q1008 RESHRA RMK RWY22 22011G28KT 190V250 YDBY 281030Z AUTO 12008KT //// // ////// 24/23 Q1012 LTCE 281020Z 08008KT 040V120 9999 SCT030 BKN080 10/M07 Q1019 NOSIG BIBD 271400Z 20013KT 9999 VCSH BKN025 M00/// Q0982 LTCF 280950Z 22004KT 160V290 9999 BKN035 BKN070 09/M03 Q1021 LTAY 280509Z 07008KT 9999 FEW010 SCT030 BKN090 08/07 Q1006 RESHRA RMK RWY06 07010KT LTCG 280950Z 12004G14KT 030V190 9000 FEW017 SCT035 BKN100 19/11 Q1007 RESHRA TEMPO 4000 BKN012 BKN030 LTAZ 281020Z 08011KT CAVOK 12/06 Q1008 LTBQ 281021Z 25004KT 220V280 6000 BKN035 BKN080 14/11 Q1004 RESHRA NOSIG RMK RWY09 VRB02KT LTBR 281020Z 06009KT 9999 SCT035 BKN090 15/13 Q1003 NOSIG LRTR 281030Z 35016KT 9999 OVC019 09/06 Q1009 R11/190095 LTCI 280950Z 26005KT 220V280 8000 SCT030 BKN070 07/01 Q1021 NOSIG LSMA 280950Z AUTO 04006KT 010V070 9999NDV NCD 08/01 Q1022 RMK BLU LTBS 281020Z 18013KT 9999 SCT030 BKN100 19/14 Q1006 TEMPO TL1200 4000 TSRA LTCJ 281020Z 23008KT 9999 SCT040 BKN100 15/09 Q1018 YCMM 281030Z AUTO 17005KT //// // ////// 17/08 Q1021 LTCK 280950Z 00000KT 9999 BKN030 OVC080 08/01 Q1021 BIAR 281000Z 19013KT 9999 FEW044 02/M07 Q0982 R88/CLRD LTBU 281020Z 23007KT 8000 SCT030 BKN090 14/10 Q1004 LSMD 280950Z AUTO VRB03KT 9999NDV NCD 09/00 Q1022 RMK BLU LSME 280950Z AUTO VRB02KT 9999NDV NCD 09/02 Q1023 RMK BLU BGTL 281010Z AUTO 10006KT 9000 HZ SCT004 OVC018 M17/M19 A2944 RMK AO2 CIG 003V018 $ LTCO 280926Z VRB02KT 6000 FEW030 BKN090 03/M03 Q1022 RMK RWY34 00000KT HEGN 281000Z 13006KT CAVOK 31/22 Q1007 NOSIG LTBY 280507Z 10009KT 9999 -SHRA FEW011 SCT030 BKN100 08/07 Q1006 RMK RWY27 10008KT LTBZ 280430Z 14015KT 6000 -SHRA BKN030 BKN080 06/05 Q1006 RMK RWY13 15013KT YCMT 281030Z AUTO 15003KT //// // ////// 29/17 Q1017 YCNK 281030Z AUTO 24004KT //// // ////// 14/12 Q1023 LTCT 280616Z VRB02KT 9999 SCT035 BKN080 10/01 Q1021 RMK RWY30 32003KT 280V350 YCNM 281030Z AUTO 20006KT //// // ////// 18/M03 Q1020 YCOE 281030Z AUTO 06004KT //// // ////// 25/21 Q1014 LSMM 280950Z AUTO 21004KT 170V250 9999NDV NCD 08/M01 Q1022 RMK BLU YBWP 281030Z AUTO 10006KT 9999 // NCD 28/21 Q1012 LSMP 280950Z AUTO VRB01KT 9999NDV FEW095 08/02 Q1023 RMK BLU RORS 281000Z 33011KT 9999 FEW026 BKN/// 19/14 Q1016 LSMS 280950Z VRB02KT 9999 FEW120 09/M02 Q1022 YCOM 281030Z AUTO 03008KT 9999 // NCD 08/07 Q1024 YBWW 281030Z AUTO 09017KT 9999 // NCD 21/15 Q1021 LTFC 281020Z 04006KT 330V090 9999 FEW025CB SCT035 14/06 Q1006 YBWX 281030Z AUTO 25008KT //// // ////// 30/21 Q1011 YCNY 281030Z AUTO 04006KT //// // ////// 29/18 Q1013 LTFE 281020Z 12005KT 080V170 9999 FEW020CB BKN035 17/11 Q1005 BECMG TL1050 18014KT TEMPO TL1200 -TSRA LTFG 280602Z 11010KT 060V140 9999 FEW020CB BKN030 19/10 Q1005 RESHRA RMK RWY26 11013KT 080V140 LTFH 280950Z 17017KT 9999 SCT036 BKN100 24/06 Q1003 NOSIG BIEG 281000Z 22013KT CAVOK 01/M07 Q0984 LTFJ 281020Z VRB01KT 9999 SCT038 BKN100 15/09 Q1003 NOSIG RPLB 281000Z 35005KT 9999 FEW020 SCT080 29/21 Q1012 RMK A2988 RPLC 281000Z 12009KT 9999 FEW025 SCT300 30/17 Q1013 NOSIG A2993 GMTA 281000Z 20002KT CAVOK 24/11 Q1026 NOSIG ROTM 280958Z 27011KT 9999 SCT025 BKN035 BKN060 21/17 A2994 RMK SLP126 T02110167 RPLI 281000Z 34008KT 9999 FEW019 BKN100 28/23 Q1012 NOSIG RMK A2988 FWKI 280700Z 06008KT 9999 BKN020 25/19 Q1020 NOSIG RPLL 281000Z 10010KT 070V130 9999 FEW025 SCT300 30/20 Q1012 NOSIG RMK A2988 RPMD 281000Z 36005KT 9999 SCT016 BKN090 OVC290 28/22 Q1012 RMK A2988 GMTN 281000Z 21009KT CAVOK 21/13 Q1026 HEMA 281000Z 13016KT CAVOK 30/17 Q1006 NOSIG GMTT 281030Z 29005KT 240V330 CAVOK 18/15 Q1028 NOSIG HEMM 281000Z 36012KT CAVOK 22/08 Q1010 NOSIG BIHN 271900Z 22011KT 9999 FEW015 SCT022 BKN040 01/// Q0992 RESHSN HELX 281000Z 00000KT CAVOK 35/14 Q1006 NOSIG RPMZ 281000Z 24004KT 9999 FEW017 31/24 Q1012 RMK A2988 NCAI 281000Z AUTO 34005KT //// ///// 27/24 Q1012 MKJP 281000Z 14010KT 9999 FEW024 27/21 Q1016 MKJS 281000Z 11006KT 9999 FEW022 24/21 Q1016 YCUN 281030Z AUTO 14004KT //// // ////// 24/10 Q1018 BIIS 281000Z 21010KT 2000 SHSN FEW018 BKN025 M02/M03 Q0981 LUBL 281030Z 08011KT 9999 BKN049 12/04 Q1008 YDLQ 281030Z AUTO 25004KT //// // ////// 15/02 Q1022 YCWA 281030Z AUTO 09005KT 9999 // NCD 27/15 Q1017 GOGG 280900Z VRB02KT CAVOK 23/18 Q1015 BIKF 281030Z 24006KT 9999 VCSH FEW027CB SCT200 M01/M04 Q0984 R20/750052 HEPS 281000Z 10011KT CAVOK 23/17 Q1009 NOSIG GOGS 280900Z 28004KT CAVOK 23/18 Q1015 YCWR 281030Z AUTO 00000KT //// // ////// 14/M01 Q1022 FYAB 280800Z AUTO 07003KT //// // ////// 28/06 Q1008 HESC 281000Z 17017KT CAVOK 27/06 Q1018 NOSIG HESH 281000Z 17008KT CAVOK 32/14 Q1007 NOSIG YDPO 281030Z AUTO 29013KT 9999 // NCD 14/11 Q1019 FYAN 280900Z AUTO 01007KT //// // ////// 26/14 Q1020 HESN 281000Z 19005KT CAVOK 37/07 Q1006 NOSIG FYBG 280900Z AUTO 13005KT //// // ////// 22/18 Q1019 LSZA 281020Z 18008KT CAVOK 17/M03 Q1016 NOSIG FYAS 280900Z AUTO 00007KT //// // ////// 30/04 Q1019 LSZB 281020Z VRB02KT CAVOK 09/M00 Q1022 NOSIG LSZC 281020Z AUTO 08005KT 9999 NCD 09/02 Q1022 LSZG 281020Z 21005KT 170V270 CAVOK 09/00 Q1022 NOSIG LSZH 281020Z VRB03KT 9999 FEW032 10/00 Q1022 NOSIG RPVM 281000Z 04008KT 9999 FEW020 29/23 Q1012 RMK A2988 LSZL 280950Z AUTO 24005KT 9999NDV NCD 14/M03 Q1016 RMK BLU LSZR 281020Z 29006KT CAVOK 08/03 Q1022 NOSIG RMK E LSZS 281020Z VRB02KT CAVOK 03/M23 Q1018 MMAA 280942Z 33002KT 7SM SCT300 23/22 A2994 RMK 8/002 HZY FXMM 281000Z 30006KT 9999 BKN035 22/07 Q1024 NOSIG YELD 281030Z AUTO 07003KT //// // ////// 28/21 Q1012 CAHR 281000Z AUTO 02007KT M02/M04 RMK AO1 SLP097 T10161044 51026 BIRK 281000Z 17007KT 9999 FEW022CB SCT040 M02/M03 Q0985 R19/490153 MMAN 280640Z 09005KT 10SM SKC 15/02 A3023 YFBS 281030Z AUTO 20004KT //// // ////// 16/02 Q1022 MMAS 281030Z RTD 04004KT 10SM SCT200 09/06 A3034 RMK 8/002 ISOL AC MMCB 280040Z 00000KT 10SM SCT020TCU BKN200 28/06 A3006 RMK 8/202 AC LUKK 281030Z 07006KT 9999 -RA BKN021 OVC037 09/05 Q1008 R08/290152 TEMPO 5000 -RA BKN008 OVC020 GOOK 280900Z 36004KT CAVOK 26/07 Q1015 FYGB 280900Z AUTO 05008KT //// // ////// 24/16 Q1023 YFDF 281030Z AUTO 14004KT 9999 // SCT098 30/12 Q1014 MMCE 280341Z 34011KT 5SM BKN010 OVC025 25/23 A3011 RMK 60105 8/4// RAE30 LWR SC VRB COND CBBC 281049Z AUTO 15004KT 9SM BKN013 OVC025 06/06 A3003 RMK SLP168 FYGF 280900Z AUTO 04005KT //// // ////// 21/16 Q1024 YEML 281030Z AUTO 05009KT 9999 // SCT070 27/20 Q1018 MMBT 280040Z 23010KT 7SM BKN030 28/24 A2993 RMK 8/100 HZY MMCL 280440Z 00000KT 10SM SKC 22/16 A2993 MMCM 280240Z 01005KT 7SM BKN012 BKN090 23/20 A3003 RMK 8/520 MMCN 280245Z 34002KT 10SM SKC 24/13 A2989 RMK SLP122 HZY MMCP 280641Z 02010KT 7SM SCT100 23/20 A3007 RMK 8/030 GOOY 281000Z 01013KT CAVOK 22/14 Q1016 NOSIG MMCS 280540Z 24006KT 10SM SKC 18/01 A3010 RMK SLP115 52007 /// MMCT 272143Z 36014KT 8SM SCT020 OVC060 28/22 A2993 RMK 8/8// MSGTX MMMD MMCU 280641Z 20009KT 10SM SKC 13/M03 A3025 RMK HZY MMCV 280940Z 29002KT 9SM SKC 12/11 A3017 RMK ISOL CI MMDO 280243Z 01005KT 8SM SCT200 15/01 A3030 RMK SLP162 52014 925 8/004 FYHN 280900Z AUTO 21006KT //// // ////// 15/14 Q1020 MMCZ 281010Z RTD 36016KT 7SM FEW015 BKN100 22/22 A3003 RMK 8/530 CI BIVM 281000Z 26007KT 9999 SCT025 SCT035 M00/// Q0985 R88/////// RMK BRAUTARHREINSUN I GANGI MMEP 280249Z 03004KT 6SM SCT060 BKN250 19/18 A3007 RMK SLP188 52018 912 8/058 FYKB 280900Z AUTO 06009KT //// // ////// 28/01 Q1017 GOSS 280900Z 04006KT 360V090 CAVOK 25/07 Q1016 GOTK 280900Z 28002KT CAVOK 29/18 Q1013 MMGL 280953Z 00000KT 8SM SCT090 BKN300 15/07 A3023 RMK 8/038 MMGM 280146Z 00000KT 10SM SKC 29/13 A2984 FYKM 280500Z 00000KT 9999 -RA BKN020 20/19 Q1018 MMIA 280343Z 00000KT 8SM SCT210 22/11 A3006 RMK 8/001 YERN 281030Z AUTO 33002KT //// // ////// 19/14 Q1022 GOTT 280900Z 10004KT CAVOK 30/M00 Q1014 FYKT 280900Z 09007KT CAVOK 30/11 Q1017 MMHO 281041Z 00000KT 10SM SKC 19/07 A2996 NCPY 281000Z AUTO ///// //// ///// 27/24 Q1012 NCRG 281000Z 23011KT 9999 SHRA FEW006 SCT015 OVC090 25/24 Q1011 FYKX 280900Z AUTO 03012KT //// // ////// 27/16 Q1021 FYMH 280900Z AUTO 00000KT //// // ////// 27/03 Q1021 FYML 280900Z AUTO 06006KT //// // ////// 29/15 Q1020 YESP 281030Z AUTO 18005KT 9999 // NCD 17/14 Q1020 FYND 280900Z AUTO 16004KT //// // ////// 31/06 Q1011 MMIO 280540Z 00000KT 10SM SKC 12/07 A3032 YGBI 281030Z AUTO 05003KT //// // ////// 28/24 Q1012 FYLZ 280900Z AUTO 22003KT //// // ////// 20/14 Q1014 MMIT 280200Z 32015G25KT 6SM SCT020 BKN180 25/16 A3000 RMK 8/506 HZ FYOA 281000Z 06012KT 9999 VCSH FEW025CB SCT100 25/19 Q1018 FYOG 280900Z AUTO 17001KT //// // ////// 17/14 Q1015 FYOH 280900Z AUTO 02004KT //// // ////// 24/18 Q1019 FYOJ 280900Z AUTO 05007KT //// // ////// 24/16 Q1019 MNBL 272300Z 09004KT 9999 FEW025 28/21 Q1012 FYOM 280900Z AUTO 04005KT //// // ////// 25/16 Q1021 YGDH 281030Z AUTO 08001KT //// // ////// 17/06 Q1020 FYOO 280900Z AUTO 03008KT //// // ////// 21/18 Q1020 MNCH 272100Z 18004KT 9999 FEW025 SCT300 33/22 Q1009 1AC090 FYOP 280700Z AUTO 22001KT //// // ////// 25/10 Q1017 MMMA 280342Z 00000KT 8SM SKC 15/14 A3025 FYOT 280900Z AUTO 08003KT //// // ////// 23/17 Q1014 MMLM 280440Z 33003KT 10SM SKC 22/15 A2996 MMMD 280952Z 36004KT 7SM SKC 21/16 A3000 MMLO 280942Z 00000KT 8SM SCT080 BKN200 11/09 A3036 RMK 8/038 FYOW 280900Z AUTO 05008KT //// // ////// 23/02 Q1020 MMLP 280548Z 18010KT 10SM SKC 20/14 A3002 RMK SLP165 52011 900 YGEL 281030Z AUTO 17014KT 9999 // NCD 22/17 Q1017 MMLT 280140Z 00000KT 8SM SKC 24/18 A2991 MMML 280447Z 18004KT 10SM SKC 23/05 A2996 MMMM 280942Z 00000KT 6SM -RA BKN030 BKN230 11/10 A3029 RMK 8/502 -RAB42 FYRH 280900Z AUTO 32003KT //// // ////// 24/11 Q1020 MMMT 280151Z 33017KT 8SM OVC120 23/20 A3011 RMK 8/05/ MMNL 280041Z 00000KT 10SM SKC 27/06 A3013 YGFN 281030Z AUTO 20004KT 9999 // BKN036 OVC045 OVC053 21/15 Q1022 MMMV 280440Z 00000KT 10SM SKC 19/06 A3017 RMK HZY FYRN 280900Z 18009KT 9999 BKN025 22/16 Q1020 MMMX 280947Z 06004KT 15SM FEW080 11/09 A3039 NOSIG RMK 8/030 SKBG 280500Z 03003KT 9999 FEW015 BKN080 22/19 A3007 MMMY 280940Z 00000KT 15SM SKC 11/04 A3015 FYSF 280900Z AUTO 11002KT //// // ////// 30/08 Q1018 SKAR 280500Z 00000KT 9999 SCT022 21/19 A3011 MMMZ 280945Z 06007KT 10SM SKC 16/15 A2994 RMK HZY MMPA 280145Z 12006KT 6SM OVC080 20/13 A3027 RMK 8/07/ HZY METAR MMPB 280142Z 33008KT 8SM SCT020 SCT100 BKN220 13/10 A3034 RMK 8/462 HZY MMPB 280750Z 31006KT 8SM SCT020 SCT100 BKN220 09/07 A3042 RMK 8/572 HZY SKCC 281030Z 00000KT 8000 SCT018 SCT090 25/23 A2998 RMK HZ SKBO 281030Z 03003KT 6000 BKN020 09/08 A3037 RMK BR SKCG 281000Z 02004KT 9999 FEW017 26/24 A2984 MMPG 272340Z 13005KT 10SM SKC 27/06 A3012 SKBQ 281000Z 03005KT 9999 SCT015 25/25 A2986 SKCL 281030Z 00000KT 9999 FEW040 BKN090 21/19 A3003 MMPN 280040Z 00000KT 12SM BKN250 23/12 A3016 RMK 8/008 HZY CU-AC FYTM 280900Z AUTO 04003KT //// // ////// 22/16 Q1021 FYTN 280900Z AUTO 06007KT //// // ////// 21/17 Q1019 MMOX 280446Z 00000KT 7SM SCT020 BKN100 15/13 A3036 RMK 8/430 CI MMPQ 280045Z 27003KT 3SM DZ BKN020 OVC080 22/21 A2996 RMK 8/52/ MSGTX MMMD MMPR 280943Z 00000KT 15SM OVC250 20/19 A2995 RMK 8/007 MMPS 280043Z 27003KT 7SM SCT015 BKN070 28/24 A3004 RMK 8/260 HZY YHBA 281030Z AUTO 13006KT 9999 // NCD 25/21 Q1019 SKEJ 272300Z 00000KT 9999 FEW015 BKN200 32/24 A2974 YFRT 281030Z AUTO /////KT //// // ////// 20/14 Q1019 MMQT 280945Z 09007KT 7SM SCT020 BKN100 11/10 A3037 RMK 8/460 BKPR 281030Z 34014KT 8000 -RA SCT014 OVC030 05/02 Q1009 NOSIG RMK 17190095 MMSD 280442Z 24005KT 10SM SKC 21/11 A2999 FYWE 280700Z 35007KT 9999 FEW025 19/12 Q1023 MNJG 272300Z 00000KT 9999 SCT020 28/16 Q1012 YGLA 281030Z AUTO 10008KT 9999 // SCT022 SCT027 SCT037 27/21 Q1018 YGLB 281030Z AUTO 10001KT //// // NCD 10/07 Q1024 FYWH 281000Z 29004KT 9999 SCT015 FEW020CB SCT025 20/14 Q1024 NOSIG TAPA 281000Z 10011KT 9999 FEW018 25/19 Q1019 NOSIG GQNI 280900Z 04018KT 2000 BLSA NSC 25/M02 Q1021 MMTB 280200Z 30012KT 7SM SCT020 BKN070 22/17 A3013 RMK 8/650 TS CI MMSL 280346Z 31009KT 8SM FEW220 23/13 A3001 RMK 8/008 MSGTX MMSD MMTC 280548Z 00000KT 10SM FEW200 19/06 A3024 RMK SLP167 51006 9// 8/002 YHAY 281030Z AUTO 00000KT //// // ////// 18/04 Q1022 MMRX 281014Z RTD 18004KT 7SM SKC 12/09 A3016 RMK HZY RTS GQNN 281000Z 07012KT 8000 NSC 28/M08 Q1017 NOSIG YGLI 281030Z AUTO 12005KT //// // ////// 13/12 Q1025 MMSP 280940Z 00000KT 10SM SCT080 08/07 A3032 RMK 8/030 HZY MMTG 280445Z 32016KT 10SM SCT080 21/16 A3013 RMK 8/030 ISOL SC MMTJ 280952Z 00000KT 1/16SM FG VV001 14/13 A3009 RMK 8//// GQPA 271800Z 00000KT CAVOK 33/10 Q1017 MNJU 272300Z 00000KT 9999 FEW025 34/20 Q1011 MMTM 280544Z 00000KT 8SM FEW100 SCT200 18/15 A3023 RMK 8/038 YFTZ 281030Z AUTO 19009KT //// // ////// 30/19 Q1012 MMTO 280943Z 00000KT 6SM SCT020 BKN070 06/04 A3043 RMK 8/530 HZY FYWW 280900Z 34007KT 9999 BKN025TCU 20/14 Q1024 MMTP 280940Z 00000KT 10SM FEW100 26/24 A2991 RMK 8/050 YGLS 281030Z 08010KT CAVOK 26/07 Q1018 SKIB 280000Z 34003KT 9999 BKN020 26/21 A3003 MMVA 280445Z 32009KT 3SM -DZ BR SCT005 BKN010 OVC020 22/21 A3017 RMK 60035 8/8// -DZB42 VRB CONDS MMUN 280944Z 02004KT 7SM SCT020 BKN080 OVC250 24/21 A3002 RMK 60005 8/577 -RAB03E16 K04V 281037Z AUTO 32014KT 10SM CLR 03/M06 A3029 RMK AO2 K06D 281035Z AUTO 18017KT 1/2SM FZFG OVC002 M03/M03 A2996 RMK AO2 K04W 281033Z AUTO 00000KT 10SM CLR M09/M11 A3019 RMK AO2 MNMG 281000Z 11004KT 9999 FEW021 25/20 Q1013 A2992 GQPP 280900Z 35018KT 8000 NSC 18/13 Q1020 NOSIG K05U 281040Z AUTO 21005KT 10SM CLR 03/M07 A3021 RMK AO1 SKIP 272300Z 00000KT 9999 SCT018 BKN070 12/09 A3043 MMVR 280744Z 00000KT 7SM SCT080 BKN100 18/13 A3019 RMK 8/070 RTS GQPZ 280900Z 16012KT 8000 NSC 22/M03 Q1023 LWOH 281030Z 36014KT 9999 OVC035 10/02 Q1005 SLAS 272300Z 16008KT 9999 BKN013 OVC070 19/18 Q1015 SLBJ 272100Z 36004KT 9999 SCT013 OVC070 20/17 Q1018 SLCA 281000Z 00000KT 9999 OVC023 16/15 Q1024 SLCB 281040Z 00000KT 0500 FG FEW025 SCT200 10/10 Q1029 SKLC 272300Z 33010KT 9000 FEW020 BKN300 28/24 A2981 RMK HZ LXGB 280950Z 22008KT CAVOK 19/12 Q1027 NOSIG MNPC 272300Z 10004KT 7000 SCT016 28/25 Q1011 HZ NFFN 281000Z 11005KT 9999 FEW028 SCT050 25/21 Q1013 NOSIG YHID 281030Z AUTO 12009KT 9999 // SCT022 SCT028 28/24 Q1012 SKMD 272300Z 04010KT 9999 FEW035 BKN200 27/12 A3006 MMZC 280945Z 00000KT 10SM SKC 06/02 A3033 SLCO 281000Z 18008KT 9999 -RA BKN003 OVC070 22/21 Q1014 SLCP 281000Z 18012KT 9999 BKN007 OVC070 18/17 Q1020 MMZH 280245Z 00000KT 8SM BKN100 OVC250 25/21 A2994 RMK 8/077 HZY SKLT 281000Z 00000KT 9999 BKN006 BKN080 25/24 A2989 RMK AD OPR IMC MMZO 280145Z 00000KT 10SM BKN250 24/21 A2988 RMK 8/006 SKMR 272200Z 30012KT 9999 FEW020 31/24 A2974 K11R 281035Z AUTO 00000KT 10SM CLR 11/08 A3015 RMK AO2 T01060077 YGTE 281030Z AUTO 00000KT 9999 // NCD 27/22 Q1012 YGTH 281030Z AUTO 34001KT 9999 // NCD 16/01 Q1022 K12N 280954Z AUTO VRB04KT M02/M08 A2980 RMK AO1 SLP099 T10221078 YHLC 281030Z AUTO 28002KT //// // ////// 29/08 Q1015 MNRS 272200Z 10004KT CAVOK 33/19 Q1009 SLET 281000Z 15007KT 9999 SCT010 BKN070 18/17 Q1019 TBPB 281000Z 07026KT 9999 BKN014 BKN036 24/21 Q1017 NOSIG SKPC 272300Z 00000KT 9999 TS SCT017CB BKN070 28/23 A2974 RMK CB/W LWSK 281030Z VRB03KT 9999 -DZ SCT022 OVC040 08/04 Q1008 NOSIG YGTN 281030Z AUTO 08005KT //// // ////// 28/12 Q1015 SKNV 280400Z 00000KT 9999 NSC 27/21 A2990 SKPE 281000Z 13004KT 5000 HZ SCT010 SCT070 20/17 A3008 LYBE 281030Z 31017KT 5000 -RA BR BKN013 07/06 Q1012 NOSIG MPBO 280200Z 00000KT 9999 FEW020 Q1016 SKPS 272300Z 01005KT 8000 BKN020 19/17 A3013 YHML 281030Z AUTO 04003KT 9999 // NCD 13/09 Q1022 MPDA 280300Z 00000KT 9999 FEW020 29/25 Q1011 LYBT 281030Z 32018KT 6000 SCT013 BKN030 08/05 Q1012 NOSIG SKPV 280000Z 00000KT 9999 FEW017 27/23 A//// SKRG 281000Z 00000KT 5000 BR BKN008 SCT080 14/13 A3032 SKRH 272300Z 08008G18KT CAVOK 33/19 A2980 K14Y 281034Z AUTO 10003KT 10SM CLR M05/M10 A3014 RMK AO2 NFNA 281000Z 00000KT 9999 BKN020 25/19 Q1014 K0A9 281035Z AUTO 30011KT 10SM FEW031 SCT046 OVC050 M03/M11 A3001 RMK SLJE 272200Z 18005KT 9999 OVC013 20/18 Q1018 SKSM 280300Z 00000KT 9999 FEW020 29/21 A2985 YHOO 281030Z AUTO 07003KT //// // ////// 27/06 Q1014 SLJO 281000Z 18006KT 3000 -DZ BKN006 OVC070 22/22 Q1015 SKSP 280900Z 00000KT 9999 FEW014 SCT200 26/23 A2992 YHOT 281000Z AUTO 29001KT 9999 // ////// 06/03 Q1024 SKUC 280000Z 00000KT 9999 SCT020 31/22 A2982 K19A 281035Z AUTO 31008KT 10SM CLR 02/M03 A3003 RMK AO2 TDCF 281000Z 10005KT 9999 -SHRA SCT020 25/18 Q1017 SKUI 280000Z 00000KT 8000 FEW040 28/25 A2982 RMK HZ NGFU 281000Z VRB01KT 9999 FEW020 SCT310 29/24 Q1011 K0E0 281035Z AUTO 00000KT 10SM CLR 01/M09 A3022 RMK AO2 T00061087 K21D 281031Z AUTO 00000KT 10SM CLR M07/M09 A3021 RMK AO2 SLMG 281000Z 16006KT 5000 -DZ BKN005 OVC070 21/21 Q1014 SLLP 281039Z 10005KT 0500 FG FEW002 SCT010 BKN200 02/02 Q1040 YJAB 281030Z AUTO 31005KT //// // ////// 29/23 Q1012 K20U 281035Z AUTO 17010G15KT 10SM CLR 03/02 A2985 RMK AO2 K20V 281036Z AUTO 00000KT 10SM CLR M01/M03 A3029 RMK AO2 K0F2 281035Z AUTO 14005KT 10SM CLR 08/05 A3006 RMK AO2 T00750045 SKVP 280000Z 08006KT 9999 SCT020 SCT200 35/20 A2982 K0CO 281035Z AUTO 30025G33KT 10SM CLR M03/M07 A3040 RMK AO2 YHSM 281030Z AUTO 12006KT 9999 // NCD 11/05 Q1022 SKVV 272300Z 00000KT 9999 FEW023 29/22 A2984 HKEL 281000Z 05014KT 9999 FEW023CB BKN024 24/09 Q1023 HKEM 280700Z 05004KT 9999 BKN022 23/07 YHUG 281030Z AUTO 09006KT //// // ////// 30/10 Q1015 NFTF 281000Z 00000KT 9999 FEW012 24/18 Q1013 SLOR 272000Z 01012G22KT 9999 FEW017 FEW020CB SCT070 OVC200 13/07 Q1033 HKGA 280500Z 18005KT 9999 SCT024 27/24 Q1012 K24J 281055Z AUTO 00000KT 4SM CLR 06/04 A3012 RMK AO1 NFTL 280600Z 16008KT 9999 FEW010 FEW018TCU SCT100 26/19 Q1010 SLPO 272100Z 06010KT 9999 SCT020 BKN200 14/04 Q1034 SLPS 281000Z 00000KT 9999 BKN008 OVC070 21/20 Q1017 SLRB 281000Z 00000KT 6000 -DZ OVC004 18/17 Q1021 NFTV 280600Z 17009KT 9999 FEW009 BKN016 BKN110 26/22 Q1009 LYKV 281030Z 30010KT 270V330 9999 SCT013 BKN030 06/04 Q1012 NOSIG MPMG 280300Z 32008KT 9999 FEW020 26/23 Q1013 NOSIG K0J4 280958Z AUTO 00000KT 10SM CLR 04/02 A3016 RMK AO2 SLP212 T00390017 SLRI 281000Z 21007KT 9999 SCT003 BKN015 OVC070 22/22 Q1015 K1A5 281035Z AUTO 00000KT 10SM M01/M08 A3001 RMK AO2 T10131085 SLSA 281000Z 14012KT 6000 -DZ BKN006 OVC070 20/20 Q1014 K1A6 281035Z AUTO 32006KT 10SM SCT038 OVC046 M02/M10 A3011 RMK AO2 T10161098 K1A9 281035Z AUTO 30003KT 10SM BKN110 03/01 A3014 RMK AO2 T00310014 SLRQ 281000Z 00000KT 9999 SCT013 BKN020 21/21 Q1017 SLSI 281000Z 18006KT 9999 OVC010 19/18 Q1018 LYNI 281030Z 30006KT 250V340 9999 -RA SCT008 BKN030 06/04 Q1009 SLRY 281000Z 16006KT 9999 FEW030 OVC080 OVC200 21/18 Q1018 SMJP 281000Z 00000KT 9999 FEW004 BKN035 24/23 Q1016 NOSIG SLTJ 281000Z 00000KT 9999 FEW010 BKN023 OVC070 12/10 Q1024 MPPA 280100Z 35004KT 9999 FEW020 Q1011 SLSU 281000Z 05006KT 0500 FG VV/// 09/09 Q1032 K28J 281035Z AUTO 29004KT 10SM CLR 06/06 A3009 RMK AO2 HKJK 281030Z 07015KT 9999 FEW027CB BKN028 27/16 Q1020 NOSIG LYPG 281030Z 01025G38KT 9999 FEW023 SCT050 BKN090 13/00 Q1007 NOSIG HKKG 280700Z 09005KT 9999 FEW024 BKN080 25/16 SLTR 281000Z 15005KT 9999 FEW020 BKN080 BKN200 20/19 Q1017 HKKI 281000Z 24014KT 9999 FEW027CB SCT028 BKN300 30/17 Q1016 ZBAA 281030Z 34004MPS CAVOK 21/M02 Q1013 NOSIG HKKR 280700Z 08009KT 9999 FEW024 SCT270 23/12 HKKS 281000Z 00000KT 9999 SCT024 BKN270 26/13 LZIB 281030Z 33017KT 9999 BKN039 09/01 Q1018 NOSIG HKMB 280700Z 11025KT 9999 BKN019 20/19 SLVM 281000Z 00000KT 9999 FEW005 SCT030 OVC070 17/16 Q1021 HKKT 281000Z 09005KT 9999 BKN027 32/12 K1F0 281035Z AUTO 00000KT 10SM CLR 07/03 A3007 RMK AO2 HKME 280700Z 16003KT 9999 FEW020 SCT090 23/18 SLVR 281000Z 17010KT 9999 FEW010 SCT070 18/18 Q1019 HKLU 281000Z 1804KT 9999 FEW023CB BKN025 33/25 HKNC 281000Z 07009KT 9999 BKN023 24/14 Q1022 HKML 281000Z 15013KT 9999 FEW023CB SCT024 32/24 Q1010 HKMO 281000Z 13009KT 9999 FEW025CB BKN280 32/23 Q1011 NOSIG GUCY 281000Z 33010KT CAVOK 27/18 Q1015 NOSIG SLYA 272300Z 18006KT 6000 -DZ BKN015 OVC070 17/16 Q1021 YJLC 281030Z AUTO 11005KT //// // ////// 33/13 Q1013 HKNI 280100Z 12001KT CAVOK 16/15 NGTA 280600Z VRB01KT 9999 -DZ SCT003 BKN100 BKN300 26/25 Q1010 TDPD 281000Z 11011G24KT 9999 SCT018 25/20 Q1018 HKNK 281000Z 36007KT 9999 BKN027 29/10 HKMU 280900Z 00000KT 9999 FEW026CB BKN027 27/20 K1H2 281035Z AUTO 00000KT 10SM CLR M04/M09 A3025 RMK AO2 T10451090 CERM 281000Z AUTO 34002KT M13/M15 RMK AO1 SLP137 T11331150 53015 HKNO 280700Z 14010KT 9999 SCT020 SCT080 22/14 HKMY 281000Z 15010KT 9999 BKN026 27/28 K33V 281036Z AUTO 13006KT 10SM CLR M01/M04 A3024 RMK AO2 HKNW 281000Z 08009KT 9999 BKN025 24/15 Q1020 MPTO 281000Z 00000KT CAVOK 27/22 Q1012 NOSIG HKNY 281000Z 03007KT 9999 FEW025CB SCT026 27/09 Q1021 NGTT 281000Z VRB03KT 9999 -RA SCT008CB BKN070 OVC280 26/24 Q1012 RMK RAIN SHOWERS K1J0 280958Z AUTO 32003KT 10SM CLR 06/02 A3014 RMK AO2 SLP191 T00560022 YIVO 281030Z AUTO 17004KT //// // ////// 20/03 Q1021 LYTV 281030Z 33013G36KT 9999 SCT040 16/00 Q1007 NOSIG LZKZ 281030Z 01014KT 9999 BKN026 BKN040 09/02 Q1013 NOSIG K1K1 281035Z AUTO 15006KT 10SM BKN110 05/00 A3000 RMK AO2 T00521002 HKRE 281000Z 03013KT 9999 SCT026 26/15 Q1021 LYUZ 281030Z 31016KT 0200 -SN FZFG VV001 M00/M00 Q1011 R10/////// LYVR 281030Z 35017KT 310V110 9999 BKN013 09/07 Q1009 NOSIG K1II 281035Z AUTO 00000KT 10SM CLR M07/M09 A3021 RMK AO2 K1L0 281035Z AUTO 04003KT 10SM CLR 10/05 A3018 RMK AO2 T00960048 GVAC 280900Z 05017KT 9999 SCT015 20/17 Q1019 NOSIG K36U 281035Z AUTO 00000KT 10SM CLR M01/M03 A3020 RMK AO2 SOCA 281030Z AUTO 00000KT 9999 BKN025/// OVC035/// 24/23 Q1015 GVBA 280900Z 04013KT 9999 SCT015 21/18 Q1019 NOSIG K2C8 281035Z AUTO 15006KT M04/M05 A3006 RMK AO2 K40B 281016Z AUTO 00000KT M13/M15 A2986 RMK AO1 SLP140 T11281150 52011 ZBHH 281000Z 22004MPS CAVOK 14/M11 Q1016 NOSIG K1M4 280956Z AUTO 00000KT 10SM OVC100 M02/M03 A3017 RMK AO2 T10161027 SLP227 K0V4 281035Z AUTO 31011G19KT 10SM OVC049 02/M07 A2993 RMK AO1 T00171067 K2D5 281035Z AUTO 16010KT 10SM M02/M02 A3006 RMK AO2 K40J 281035Z AUTO 27004KT 10SM CLR 05/03 A3012 RMK AO2 T00500033 YKII 281030Z AUTO 29011KT 9999 // OVC031 14/08 Q1022 LZPP 281030Z 34018KT 9999 FEW032 BKN055 09/01 Q1017 HLLM 281000Z 31016G29KT 7000 SCT025 BKN040 17/07 Q1013 AYGN 280200Z 15004KT 9999 SCT020 30/24 Q1012 K0VG 281035Z AUTO 31006KT 10SM SCT036 OVC044 M03/M12 A3009 RMK AO2 YLBD 281030Z AUTO 06009KT 9999 // SCT026 BKN036 BKN046 27/24 Q1010 K42J 281035Z AUTO 30006KT 8SM CLR 07/04 A3008 RMK AO1 TSNO K1P1 281035Z AUTO 28005KT 10SM -SN SCT028 SCT042 OVC050 M01/M04 A2978 RMK AO2 T10071038 TFFF 281030Z AUTO 07016KT 9999 BKN029 BKN035 BKN056 25/20 Q1018 HKVO 281000Z 09004KT 9999 BKN026 31/20 K2G4 281025Z AUTO 30009G17KT 272V332 10SM CLR M13/M13 A2983 RMK AO1 K2DP 281031Z AUTO 32010KT 10SM BKN017 BKN120 05/03 A2985 RMK AO2 HKWJ 280900Z 14005KT 9999 BKN031 32/22 K2G9 281035Z AUTO 32007G16KT 10SM OVC022 M12/M16 A2989 RMK AO2 LZSL 281030Z 36022KT 9999 FEW043 BKN070 10/M00 Q1014 TFFR 281030Z AUTO 10006KT 9999 NSC 24/18 Q1018 MRLB 280500Z 04005KT 9999 FEW040 27/18 A2993 K2I0 281035Z AUTO 02003KT 10SM CLR M03/M06 A3021 RMK AO2 T10271062 YLEC 281030Z AUTO 20009KT //// // ////// 21/01 Q1021 K1R7 281035Z AUTO 00000KT 02/02 A3020 RMK AO2 LZTT 281030Z 13005KT 100V180 9999 FEW030 BKN040 BKN080 06/00 Q1012 NOSIG MRLM 272100Z 11009KT 9999 FEW025 29/22 A2986 YKMP 281030Z AUTO 26005KT //// // ////// 17/15 Q1023 SMZO 281000Z 00000KT 9999 SCT010 BKN030 26/22 Q1016 NOSIG K46D 281035Z AUTO 16013G18KT 2 1/2SM BR OVC002 M02/M02 A3000 RMK AO2 K1S5 281035Z AUTO 22014G21KT 10SM CLR 11/02 A3002 RMK AO2 T01100017 K2J9 281035Z AUTO 30004KT 10SM FEW044 04/02 A3015 RMK AO1 YLEO 281030Z AUTO 15007KT 9999 // NCD 25/08 Q1017 YKNT 281030Z AUTO 14007KT //// // ////// 30/07 Q1018 MROC 281000Z 06007KT CAVOK 20/14 A3005 NOSIG K1QW 280956Z AUTO 24021G36KT M /// /// M 05/00 A2988 RMK AO2 PK WND 26039/0859 SLP120 T00490003 $ YKOW 281030Z AUTO 00000KT //// // NCD 28/23 Q1012 K3D2 281035Z AUTO 36003KT 10SM CLR M10/M14 A3025 RMK AO2 T11051140 YLHI 281030Z AUTO 20005KT 9999 // SCT037 SCT046 22/14 Q1021 K1V4 280954Z AUTO M03/M11 A2983 RMK AO1 SLP110 T10331111 K1V6 281035Z AUTO 30015KT 10SM CLR 10/M02 A3012 RMK AO2 SPCL 281000Z 07004KT 9999 SCT015 25/24 Q1012 RMK PP000 K3AU 281035Z AUTO 14005KT 10SM OVC110 05/00 A3000 RMK AO2 YLHR 281030Z AUTO 13007KT //// // NCD 26/22 Q1014 LZZI 281030Z 36007KT 310V050 9999 SCT026 BKN065 08/02 Q1017 YKSC 281030Z AUTO 32003KT 9999 // NCD 14/10 Q1021 AYNZ 280200Z 00000KT 9999 SCT020 BKN280 30/23 Q1012 HZ MRPV 280000Z 25004KT 9999 FEW035 BKN080 25/15 A3002 NOSIG YMBA 281030Z AUTO 15007KT //// // ////// 22/17 Q1017 YLIS 281030Z AUTO 00000KT 9999 // OVC049 21/19 Q1021 ZBSJ 281000Z 04002MPS CAVOK 21/01 Q1013 NOSIG OAHR 281013Z 28008KT 6000 -RA BKN007 OVC010 06/05 Q1019 RMK OVC VIS MIN 6000 GRN YMBD 281030Z AUTO 18003KT 9999 // NCD 15/11 Q1022 YKRY 281030Z AUTO 16004KT 100V180 //// // ////// 21/18 Q1022 ZBTJ 281030Z 34003MPS 3500 DU NSC 20/M00 Q1012 NOSIG AYPY 280700Z 18006KT 9999 FEW020CB SCT020 SCT130 29/24 Q1009 RMKS OAKB 281050Z 34010KT 9999 FEW015 BKN040 BKN070 12/09 Q1018 NOSIG RMK BLU BLU YMAV 281030Z AUTO 04003KT 9999 // NCD 13/09 Q1022 YLLE 281000Z AUTO 16008KT //// // ////// 25/M04 Q1018 YMAY 281030Z AUTO 00000KT 9999 // NCD 14/03 Q1021 GVNP 280900Z 03018KT CAVOK 21/15 Q1018 NOSIG OBBI 281000Z 36016KT 9999 FEW025 26/11 Q1015 NOSIG SPGM 272200Z /////KT 9999 FEW040 SCT150 29/23 Q1011 RMK BIRD HAZARD RWY 19 PP000 YMCO 281030Z AUTO 31005KT //// // ////// 12/09 Q1023 NIUE 272000Z 14009KT 9999 SHRA SCT018 BKN030 OVC100 26/25 Q1009 K3I2 281035Z AUTO 35005KT 10SM SCT031 SCT037 SCT060 M04/M08 A3016 RMK AO2 YMDG 281030Z AUTO 04007KT //// // NCD 13/03 Q1022 SPHI 281000Z 21004KT CAVOK 24/20 Q1012 RMK PP000 SPHO 281000Z VRB02KT 9999 FEW040 BKN080 12/10 Q1030 RMK RA NOCHE PP002 MSLP 280950Z VRB02KT CAVOK 24/20 Q1012 A2989 K4A6 281035Z AUTO 00000KT 10SM SCT038 00/M08 A3016 RMK AO2 YMEK 281030Z AUTO 12005KT 9999 // NCD 27/08 Q1017 K3J7 281035Z AUTO 29003KT 10SM CLR 03/00 A3000 RMK AO2 SPIM 281000Z 14008KT 9999 FEW008 BKN018 22/20 Q1014 NOSIG RMK PP000 K1YT 280956Z AUTO 19006KT 10SM SCT050 10/02 A2998 RMK AO2 LTG DSNT N SLPNO T01010024 K4A9 281035Z AUTO 36003KT 10SM CLR 00/M07 A3012 RMK AO2 YMEN 281030Z AUTO 17004KT 9999 // NCD 12/08 Q1022 SPHY 281000Z /////KT 9999 FEW015 02/M04 Q1033 RMK PP000 K3K3 281035Z AUTO 28007KT 10SM CLR 05/00 A3000 RMK AO2 YMER 281030Z AUTO 00000KT 9999 // SCT041 14/11 Q1023 YMES 281030Z AUTO 33004KT 9999 // BKN038 13/10 Q1023 SPJI 272100Z 00000KT 9999 SCT040 33/27 Q1016 RMK T.MAX 33.4 PP000 YMGB 281030Z AUTO 00000KT //// // ////// 28/24 Q1012 OAMS 280950Z 21001KT 9000 SCT017 BKN025 OVC050 12/07 Q1021 BLU BLU TEMPO WHT YMGD 281030Z AUTO 04003KT 9999 // SCT100 28/27 Q1012 SPJL 280400Z 00000KT 9999 BKN025 07/05 Q1040 RMK PP000 SPJR 281000Z 00000KT CAVOK 11/11 Q1030 RMK PP000 YMHB 281030Z 31004KT 9999 FEW050 11/09 Q1018 ZBYN 281030Z 15001MPS CAVOK 17/M12 Q1016 NOSIG AYWK 280400Z 00000KT 9999 FEW02 SCT040 OVC140 27/25 Q1010 K2V5 281035Z AUTO 25004KT 10SM CLR 04/00 A2999 RMK AO2 T00390000 YMIA 281030Z AUTO 00000KT 9999 // NCD 18/06 Q1022 YLRE 281030Z AUTO 07008KT 9999 // NCD 29/17 Q1015 SPME 280300Z VRB01KT 9999 OVC013 27/25 Q1013 RMK TS DISTANTE CDTE NE/E BIRD HAZARD RWY 32/14 PP000 SPLO 272100Z 10014KT CAVOK 26/21 Q1010 RMK PP000 GVSV 280900Z 06025KT 9999 FEW022 20/15 Q1019 NOSIG K4BM 281037Z AUTO 31011G18KT 270V330 10SM CLR 00/M07 A3039 RMK AO2 K3LF 281035Z AUTO 09006KT 10SM CLR M05/M07 A3023 RMK AO2 T10461073 K2W6 281028Z AUTO 30009G16KT 280V340 10SM SCT050 BKN060 OVC070 01/M07 A2990 RMK AO1 YMHU 281030Z AUTO 01005KT 9999 // NCD 31/21 Q1012 K3N8 281035Z AUTO 15006KT 10SM CLR M07/M11 A3011 RMK AO2 T10701110 YMIN 281030Z AUTO 11005KT //// // ////// 14/09 Q1021 SPMS 272300Z 31003KT 9999 FEW020 SCT150 29/25 Q1012 RMK BIRD HAZARD 09/27 PP000 YNAR 281030Z AUTO 00000KT //// // ////// 14/05 Q1022 YLST 281030Z AUTO 19007KT 9999 // NCD 26/07 Q//// YLTN 281030Z AUTO 19009KT //// // ////// 26/10 Q1018 DAAD 281000Z 34020KT 9999 FEW033 17/06 Q1023 YNBR 281030Z AUTO 09007KT //// // ////// 19/05 Q1020 DAAE 281000Z 34004KT 9999 SCT023 BKN040 17/12 Q1024 YMMB 281030Z AUTO 00000KT 9999 // ////// 13/09 Q1022 DAAG 281030Z 29005KT 9999 FEW023TCU SCT023 18/14 Q1025 MSSS 280550Z 36002KT CAVOK 22/20 Q1017 A3005 YLTV 281030Z AUTO 00000KT 9999 // NCD 11/11 Q1022 DAAJ 281000Z 34014KT CAVOK 18/02 Q1021 DABB 281030Z 34010KT 9999 FEW026TCU SCT033 17/11 Q1018 DABC 281030Z 32018KT 9999 FEW030 14/04 Q1021 K4I3 281036Z AUTO 30006KT 10SM CLR M12/M14 A3012 RMK AO2 MUCF 280958Z AUTO 09005KT 22/21 Q1016 K2WX 280956Z AUTO 15006KT 04/00 A2984 RMK AO1 SLP105 T00390000 YMLT 281030Z AUTO 35009KT 9999 // NCD 12/09 Q1019 DAAP 281000Z 27014KT CAVOK 17/M05 Q1021 K4I7 281055Z AUTO 35003KT 10SM CLR M07/M11 A3021 RMK AO2 K3R7 281035Z AUTO 00000KT 10SM CLR 09/06 A3018 RMK AO2 T00890063 YMML 281030Z 00000KT 9999 FEW035 13/08 Q1022 NOSIG YMNE 281030Z AUTO 18005KT //// // NCD 27/09 Q1017 MUCL 281005Z AUTO 36005KT 330V050 26/21 Q1015 DAAS 281000Z 30012KT 9999 FEW010 BKN026 09/05 Q1023 DAAT 281030Z 29006KT 260V360 CAVOK 20/M08 Q1022 MUCM 280950Z 10001KT 9000 FEW018 22/20 Q1017 DAAV 281000Z 30014KT 9999 FEW020 BKN100 17/12 Q1022 TGPY 281000Z 09012KT 9999 FEW018 25/22 Q1015 NOSIG DAAY 281000Z 35018KT 9999 SCT030 15/09 Q1030 K5A6 281035Z AUTO 00000KT 10SM SCT080 01/00 A3021 RMK AO2 T00090000 SPQT 281000Z 17005KT 8000 VCFG BKN004 OVC100 24/23 Q1011 TEMPO 2000 BCFG BKN002 RMK BIRD HAZARD PP000 K65S 281035Z AUTO 20005KT 9SM -RA SCT003 BKN038 OVC075 09/09 A2978 RMK AO2 P0005 SPQU 281000Z 03004KT CAVOK 09/06 Q1028 RMK PP000 YNEN 281030Z AUTO 09012KT 9999 // SCT022 SCT036 30/24 Q1011 DABS 281000Z 32027KT 9999 SCT040 12/03 Q1018 MUCU 280951Z 35004KT 9000 SCT020 23/20 Q1017 DABT 281000Z 31019KT 9999 FEW020 SCT023 13/04 Q1021 YMOG 281030Z AUTO 19006KT //// // ////// 27/07 Q1017 K3T5 281035Z AUTO 00000KT 10SM CLR 10/08 A3012 RMK AO2 T00990084 K66R 281035Z AUTO 36003KT 10SM CLR 10/08 A3013 RMK AO2 T01010077 SPRU 281000Z 12007KT 6000 OVC130 21/18 Q1012 RMK PP000 K5C1 281035Z AUTO 23010KT 10SM CLR 16/00 A3014 RMK AO1 SPSO 281000Z VRB02KT 9999 FEW010 21/20 Q1014 RMK PP000 YMOR 281030Z AUTO 19007KT 9999 // NCD 20/M00 Q1020 DAEF 281000Z 30010KT CAVOK 17/M01 Q1021 SPST 280100Z 00000KT 9999 FEW030 26/22 Q1011 RMK BIRD HAZARD RWY 17/35 PP000 SPTN 281000Z 35003KT 9999 BKN040 19/16 Q1017 RMK PP000 DAEN 281000Z /////KT CAVOK 20/04 Q1021 YMRB 281030Z AUTO 06007KT 9999 // NCD 27/17 Q1017 YNGU 281030Z AUTO 09005KT //// // ////// 29/23 Q1012 YNHL 281030Z AUTO 12005KT //// // ////// 15/07 Q1022 DAFH 281000Z 36012KT CAVOK 17/06 Q1024 MUHA 280955Z 35008KT 9000 SCT030 23/19 Q1016 SPTU 272300Z 33010KT 9999 TS SCT006CB BKN030 29/24 Q1009 RMK BIRD HAZARD RWY 01/19 PP000 DAER 281000Z 33014KT CAVOK 19/02 Q1022 K4M9 281035Z AUTO 00000KT 10SM 02/00 A3021 RMK AO2 MUGM 280956Z 31005KT 9999 FEW027 SCT032 OVC085 26/22 A3004 RMK RAE30 SLP171 P0002 T02560222 MTPP 272200Z VEB03KT 9000 FEW028 31// Q1014 A2995 MUHG 280952Z 10002KT 7000 VCFG FEW020 21/18 Q1017 K4O4 281035Z AUTO 00000KT 10SM CLR 03/00 A3012 RMK AO2 YMTG 281030Z AUTO 08002KT //// // NCD 12/09 Q1022 YMTI 281030Z AUTO 35005KT //// // ////// 28/23 Q1013 K4MR 280956Z AUTO 24011KT 10SM CLR 14/M04 A3007 RMK AO2 SLP137 T01401042 $ K5H4 281035Z AUTO 17009KT 5SM BR OVC002 M02/M02 A2997 RMK AO2 SPZA 272130Z 20015KT CAVOK 30/18 Q1012 SPYL 272100Z /////KT CAVOK 29/23 Q1009 RMK BIRD HAZARD RWY 17/35 SCT080 PP000 DBBB 280900Z 24009KT 190V270 8000 SCT012 31/26 Q1013 NOSIG K6A2 281035Z AUTO 31006KT 10SM CLR 03/01 A3005 RMK AO2 SPZO 281030Z VRB01KT 9999 SCT040 BKNK100 08/04 Q1031 UAAA 281030Z 03002MPS 9999 BKN050 BKN100 13/00 Q1016 R05L/CLRD65 R05R/1///60 NOSIG K6B0 281035Z AUTO 01015G20KT 10SM OVC023 M05/M10 A2988 RMK AO2 T10491100 UAAH 281030Z 21005MPS 3800 FU NSC 06/00 Q1015 R23/0///60 NOSIG RMK QFE722/0963 YMYB 281030Z AUTO 13004KT 9999 // NCD 23/21 Q1019 UACC 281030Z 03008MPS 2000 -SHSN DRSN SCT009CB OVC025 M10/M13 Q1026 R04/8/0060 NOSIG RMK QFE738/0984 DAOB 281000Z 33010KT 9999 FEW016 13/09 Q1026 TJBQ 280450Z 13004KT 10SM SKC 21/18 A3008 RMK RWY 08 - ATIS P DAOF 281000Z 24008KT CAVOK 23/M05 Q1025 YNRC 281030Z AUTO 11005KT //// // ////// 13/09 Q1022 UACK 281030Z 36009MPS 5000 -SHSN BLSN BKN015CB M11/M14 Q1032 R02/010065 NOSIG RMK QFE750/1000 DAOI 281000Z 24007KT 9999 SCT026 17/12 Q1026 K79J 280956Z AUTO 32004KT 10SM CLR 06/01 A3014 RMK AO2 SLP205 T00610011 UADD 281030Z 33002MPS 9999 NSC 12/01 Q1016 R31/0///65 NOSIG RMK QFE704/0939 K5M9 281035Z AUTO 04003KT 10SM CLR M04/M07 A3020 RMK AO2 T10381073 DAOL 281000Z 25014KT CAVOK 20/13 Q1027 UACP 281030Z 36008MPS 9999 FEW018 M10/M15 Q1035 R23/0/0060 NOSIG RMK QFE763/1018 DAON 281030Z 26006KT 9999 FEW026 22/15 Q1027 DAOO 281030Z 22013KT 9999 FEW020 21/13 Q1026 DAOR 281000Z 06003KT CAVOK 19/03 Q1028 YPAD 281030Z 00000KT CAVOK 17/07 Q1021 NOSIG K82C 281035Z AUTO 00000KT 10SM CLR M10/M11 A3022 RMK AO2 T10961111 DAOV 281000Z 30006KT 9999 FEW030 16/11 Q1027 DAOY 281000Z 36010KT 9999 BKN013 11/07 Q1026 YNSM 281030Z AUTO 16004KT //// // ////// 21/09 Q1018 OEAB 281000Z 19010KT 8000 SKC 26/04 Q1024 NOSIG MUSC 280935Z VRB01KT 9000 BKN040 20/19 Q1017 OEAH 281000Z 02011KT CAVOK 28/02 Q1015 NOSIG OEBA 281000Z 10011KT 3000 DU SKC 29/12 Q1019 NOSIG YPCC 281030Z AUTO 16009KT 9999 // ////// 29/25 Q1009 YOLD 281030Z AUTO 27004KT 9999 // NCD 20/M01 Q1021 YNTN 281030Z AUTO 31005KT //// // ////// 29/24 Q1012 YPBO 281030Z AUTO 13006KT 9999 // NCD 30/14 Q1015 K82V 281035Z AUTO 00000KT 10SM CLR 00/M03 A3005 RMK AO2 OEAO 281000Z 16014KT 7000 SKC 34/12 Q1012 OEBH 281000Z 10006KT 3400 DU VV020 31/11 Q1016 NOSIG OEAR 281000Z 19006KT 8000 SKC 38/13 Q1008 MWCB 280000Z 08002KT 9999 VCSH SCT016CB 26/24 Q1014 K6I2 281030Z AUTO 33004KT 10SM BKN032 M05/M09 A3017 RMK AO2 YPEA 281000Z AUTO 22010KT 9999 // NCD 22/12 Q1018 YPED 281030Z AUTO 06004KT 9999 // NCD 18/06 Q1021 K5R8 281035Z AUTO 00000KT 10SM CLR 07/07 A3017 RMK AO2 T00650065 YOLW 281030Z AUTO 27007KT //// // ////// 31/19 Q1011 DAUA 281000Z 01009KT CAVOK 22/06 Q1024 YPDN 281030Z 01006KT 9999 FEW020 SCT070 28/22 Q1012 DAUB 281000Z 33022G32KT 9999 SCT030 20/03 Q1018 TJIG 272250Z 11014KT 10SM FEW025 SCT035 26/20 A3007 RMK RWY09 IN USE ATIS M TWR CLSD 2300Z-1100Z DATM 281000Z 02018KT CAVOK 23/03 Q1019 OEDF 281000Z 01014KT CAVOK 28/02 Q1015 NOSIG DAUE 281000Z 34012KT CAVOK 20/M01 Q1024 UAII 281030Z 29003G08MPS CAVOK 14/02 Q1019 R28/0///70 NOSIG RMK QFE727/0970 MWCR 280250Z 00000KT 9999 FEW024 27/24 Q1016 NOSIG DAUG 281000Z 34019KT CAVOK 20/03 Q1023 DAUH 281030Z 34020KT CAVOK 19/07 Q1021 YOOD 281030Z AUTO 10009KT //// // ////// 26/M01 Q1020 DAUI 281000Z 10005KT 7000 NSC 21/01 Q1024 YNWN 281030Z AUTO 14005KT //// // NCD 27/14 Q1016 OEDM 281000Z 17012KT 8000 NSC 29/11 Q1017 DAUK 281000Z 32024KT 3000 DRSA NSC 20/03 Q1021 DAUL 281000Z 33018KT 9999 FEW026 18/05 Q1024 DAUO 281000Z 330//KT 8000 DRSA NSC 21/M01 Q1019 OEDR 281000Z 36012KT CAVOK 28/04 Q1014 NOSIG MUVR 280952Z 35007KT 9000 SCT020 23/19 Q1016 UBBB 281030Z 04009KT 9999 OVC014 12/09 Q1021 88CLRD70 NOSIG YOOM 281030Z AUTO 17007KT //// // ////// 25/M03 Q1019 UAKD 281000Z 01010G15MPS 7000 SCT009 BKN020 M06/M09 Q1022 R04/1///50 NOSIG RMK QFE733/0978 K5T9 281035Z AUTO 18004KT 10SM CLR 08/05 A3012 RMK A01 DAUT 281000Z 02008KT CAVOK 20/03 Q1025 DAUU 281000Z 35018KT 4000 DRSA NSC 22/M02 Q1021 ZGGG 281030Z 16003MPS 4500 HZ BKN043 26/17 Q1015 NOSIG UBBG 281030Z 09014KT 9999 BKN083 13/09 Q1018 R12/CLRD70 NOSIG K6L4 281035Z AUTO 32009G15KT 10SM BKN070 M05/M16 A3001 RMK AO2 ZGHA 281000Z 17002MPS 5000 BR SCT020 17/14 Q1016 NOSIG TIST 280953Z 11014KT 10SM FEW032 25/19 A3007 RMK AO2 SLP184 T02500189 DAUZ 281000Z 29012KT CAVOK 17/M02 Q1020 UAKK 281030Z 04012MPS 3300 BLSN BKN026 OVC074 M10/M12 Q1020 R05/990335 NOSIG RMK QFE717/0957 UBBL 281000Z 08004KT 9000 BKN200 14/10 Q1020 R33/CLRD70 RMK MT OP UBBN 281030Z VRB02KT 9999 OVC100 17/01 Q1018 R14R/CLRD60 NOSIG RMK MT OP QFE688 TISX 280953Z AUTO 11010KT 10SM FEW030 SCT035 25/19 A3008 RMK AO2 SLP185 T02500189 TSNO K5SM 281035Z AUTO 00000KT 10SM CLR 02/M05 A3042 RMK AO2 UBBQ 281000Z 17008KT 9999 NSC 15/10 Q1019 R16/CLRD70 NOSIG RMK MT OBSC YPGV 281030Z 15004KT 9999 FEW024 26/23 Q1012 YORG 281030Z AUTO 22005KT 9999 // NCD 10/M00 Q1024 OEGN 281000Z 21017KT 9000 SKC 32/24 Q1009 NOSIG K7BM 281035Z AUTO 30008KT 10SM CLR 05/M08 A3034 RMK AO2 UBBY 281000Z 16008KT 9999 BKN100 15/07 Q1021 R33/////// NOSIG RMK MT OP OEGS 281000Z 14009KT CAVOK 30/19 Q1015 OEGT 281000Z 17014KT 7000 FEW040 SCT100 27/01 Q1009 NOSIG OEHL 281000Z 22018KT 9999 FEW045 BKN200 30/13 Q1016 NOSIG UBEE 281000Z 14010KT 9999 SCT020 BKN070 14/10 Q1019 R30/CLRD70 NOSIG YPKA 281030Z AUTO 03009KT 9999 // NCD 32/19 Q1010 YPKG 281030Z AUTO 09005KT 9999 // NCD 22/12 Q1019 TJMZ 272150Z 26005KT 10SM BKN040 29/21 A3004 RMK LAST TJNR 280953Z AUTO 12012KT 10SM FEW025 FEW032 24/21 A3009 RMK AO2 SLP190 T02440206 $ YPJT 281030Z AUTO 21007KT 9999 // NCD 21/14 Q1019 YPLC 281030Z AUTO 00000KT 9999 // NCD 18/14 Q1021 ZHCC 281000Z 13002MPS CAVOK 23/M02 Q1013 NOSIG ZGKL 281000Z 00000MPS 1100 R19/1700 -DZ BR BKN020 OVC036 16/15 Q1016 NOSIG UAOO 281030Z 01010MPS CAVOK 06/01 Q1021 R24/CLRD70 NOSIG RMK QFE754/1006 OEJN 281000Z 18014KT 7000 SKC 38/09 Q1006 TEMPO 6000 YPKS 281030Z AUTO 12002KT //// // ////// 12/M01 Q1022 YPKT 281030Z AUTO 25002KT //// // ////// 28/23 Q1012 OEKJ 281000Z 18006KT CAVOK 32/07 Q1017 YPKU 281030Z AUTO 32001KT 9999 // NCD 29/22 Q1012 OEKK 281000Z 14005KT CAVOK 29/10 Q1017 NOSIG YPLM 281030Z AUTO 30003KT //// // NCD 31/18 Q1011 K6R3 281035Z AUTO 00000KT 10SM CLR 07/07 A3016 RMK AO2 T00740073 K6R6 280953Z AUTO 35005KT 10/05 A3009 RMK AO1 SLP163 T01000050 TJPS 280950Z 00000KT 10SM FEW020 23/19 A3002 OEMA 281000Z 09011KT 3000 DU SKC 35/08 Q1013 TEMPO 2000 K8A0 281035Z AUTO 35008KT 10SM CLR 00/M02 A3012 RMK AO2 K96D 281035Z AUTO 15004KT 10SM M06/M06 A3004 RMK AO2 YPMQ 281030Z AUTO 33001KT 9999 // OVC059 18/16 Q1023 SUAA 281000Z 03001KT 0200 FG NSC 12/12 Q1021 YPOD 281030Z AUTO 00000KT 9999 // NCD 10/08 Q1022 ZGNN 281000Z 15004MPS 120V180 CAVOK 25/20 Q1014 NOSIG UARR 281030Z 06009MPS CAVOK 01/M14 Q1043 R04/CLRD70 NOSIG RMK QFE778/1038 TJSJ 280956Z 13003KT 10SM FEW031 SCT039 BKN060 23/22 A3007 RMK AO2 RAE05 SLP183 P0000 T02330222 UASK 281030Z 33002MPS 3000 SHSN FEW008 OVC023CB M00/M01 Q1018 R30/250255 TEMPO 1000 SHSN SCT005 RMK QFE738/0984 YPPD 271400Z AUTO 15007KT 9999 // NCD 29/19 Q1013 YPPF 281030Z AUTO 06004KT 9999 // NCD 17/06 Q1021 UATE 281030Z 09006MPS CAVOK 18/01 Q1024 R12/0///70 NOSIG RMK QFE766/1021 K7L2 281035Z AUTO 15008KT 1/2SM FZFG OVC001 M03/M03 A2999 RMK AO2 YPPH 281030Z 21012KT CAVOK 21/12 Q1019 UATG 281030Z 06014G19MPS CAVOK 04/M16 Q1034 R14/CLRD70 NOSIG RMK QFE778/1037 UASP 281030Z 02007MPS 6000 -SHSN BKN015CB M08/M12 Q1025 R03/0///60 NOSIG RMK QFE758/1011 SUCA 272200Z 12005KT CAVOK 19/09 Q1019 UASS 281030Z 04005MPS 1900 SHSN BR BKN028CB OVC070 M03/M04 Q1020 R26/2///45 NOSIG RMK QFE746/0995 OEPA 281000Z 21003KT CAVOK 29/10 Q1017 NOSIG ZGOW 281000Z 12002MPS 7000 NSC 22/16 Q1016 NOSIG ZHHH 281000Z 24002MPS CAVOK 20/13 Q1016 NOSIG K8D3 280956Z AUTO 15007KT M04/M05 A3009 RMK AO1 SLP210 T10391050 UATT 281030Z 05009MPS CAVOK M05/M14 Q1040 R31/0///60 NOSIG RMK QFE759/1012 K7N0 281035Z AUTO 04007KT A3018 RMK AO1 CMGB 281045Z AUTO 01004KT M09/M15 RMK AO1 SOG 23 3015 SLP153 T10861152 CMFM 281000Z AUTO 31002KT M17/M19 RMK AO1 3PAST HR SOG 70 3007 SLP130 P0001 T11701194 50003 UAUU 281030Z 01009MPS 9999 BKN025 M08/M14 Q1039 R33/CLRD60 TEMPO 36012MPS RMK QFE763/1018 OERF 281000Z 15017KT CAVOK 28/M01 Q1017 SUDU 281000Z 00000KT 8000 SCT013 11/11 Q1021 METAR SUSO 281000Z 00000KT CAVOK 11/10 Q1020 OERK 281000Z 16005KT 8000 SKC 28/15 Q1018 NOSIG OERR 281000Z 12018KT 1000 BLDU NSC 28/09 Q1014 NOSIG OETB 281000Z 20019KT 9999 FEW040 SCT100 36/03 Q1010 NOSIG OESK 281000Z 14009KT 9999 FEW040 SCT100 31/08 Q1013 NOSIG UCFM 281030Z 29004MPS 9999 BKN033CB OVC083 11/03 Q1017 R26/CLRD70 NOSIG YPTN 281030Z AUTO 14005KT 9999 // NCD 27/21 Q1012 UCFO 281030Z 01002MPS 9999 -RA SCT011 BKN040 OVC083 10/07 Q1018 R12/29//55 NOSIG OETF 281000Z 15013KT 3500 HZ SKC 31/06 Q1018 NOSIG ZGSZ 281000Z 19003MPS CAVOK 23/18 Q1016 NOSIG OERY 281000Z 11008KT 9000 SKC 30/18 Q1018 TKPK 281000Z 09011KT 9999 SCT020 25/20 Q1019 TKPN 280000Z 10013KT 9999 FEW018 BKN050 26/20 Q1018 K7R4 272148Z 30003G18KT 7SM SKC 20/10 A3005 OETR 281000Z 14018KT 9000 NSC 28/09 Q1012 NOSIG SVAC 280000Z 020//KT CAVOK ///// Q1009 YREN 281030Z AUTO 34002KT //// // ////// 18/05 Q1022 YPWR 281030Z AUTO 20009KT 9999 // BKN110 23/00 Q1021 OEWJ 281000Z 19014KT 8000 SKC 31/21 Q1007 NOSIG YPXM 281035Z AUTO 08006KT 9999 // SCT010 BKN013 26/24 Q1011 SVBC 281000Z /////KT 9999 25/24 Q1013 SVBI 280000Z 05002KT CAVOK ///// Q1010 SVBM 281000Z 11005KT 9999 BKN016 22/19 Q1017 MYGF 280000Z 28015KT 9000 SHRA SCT015CB OVC100 22/21 A2990 RMK SHRA/CB W-N SVBS 280600Z 25003KT CAVOK 24/20 Q1016 HTAR 271400Z 06010KT 9999 FEW032CB BKN034 27/17 Q1016 NOSIG K9D7 281015Z AUTO 16010KT 3SM BR OVC003 M02/M02 A3000 RMK AO2 SVCN 272000Z 36008KT 9999 SCT080 ///// Q1017 OEYN 281000Z 17011KT CAVOK 35/15 Q1007 NOSIG K7W4 281035Z AUTO 35004G14KT 10SM OVC060 00/M08 A2992 RMK AO1 T00001080 SVCR 272200Z /////KT 9999 FEW016 36/24 Q1013 SULS 281000Z 00000KT 0030FG VV/// 11/10 Q1021 HTDA 271400Z 00000KT 9999 SCT027 FEW029CB BKN090 30/25 Q1010 NOSIG SVCU 272300Z 07016KT CAVOK 27/19 Q1011 HTBU 271400Z 12005KT 9999 FEW022 FEW024CB 26/19 Q1013 SVCZ 271400Z /////KT 9999 BKN020 29/25 Q1011 SUMU 281028Z 00000KT 1000 FG R19 500 R24 1000 NSC 11/11 Q1021 HTDO 271400Z 10010KT 9999 SCT029 29/15 Q1014 NOSIG YSBK 281030Z AUTO 20002KT 9999 // NCD 16/11 Q1024 YSCB 281030Z AUTO 07009KT 9999 // NCD 14/08 Q1023 TLPC 281000Z 09010KT 9999 BKN023 25/22 Q1017 TEMPO SHRA SVGD 280600Z 29002KT CAVOK 26/21 Q//// SVFM 272100Z /////KT 9999 SCT050 ///// Q1015 YRMD 281030Z AUTO 10006KT //// // ////// 32/12 Q1014 TLPL 281000Z 09020KT 8000 -SHRA FEW010 SCT038 OVC080 24/23 Q1017 TEMPO SHRA YSCN 281030Z AUTO 00000KT 9999 // BKN041 15/12 Q1024 YSCO 281030Z AUTO 19008KT //// // ////// 18/11 Q1022 YSCR 281030Z AUTO 11004KT //// // ////// 24/08 Q1018 SVGU 280900Z /////KT CAVOK 28/21 Q1012 MZBZ 280000Z 36006KT 9999 TS FEW010 28/24 A2993 Q1013 NOSIG RMK CB-W HRYR 281030Z 09007KT 9999 SCT023 SCT100 24/17 Q1020 NOSIG YSDU 281030Z AUTO 19007KT 9999 // NCD 16/00 Q1021 SVJC 272300Z 07026KT 9999 FEW013 XX/XX Q1010 YROM 281030Z AUTO 18003KT 9999 // NCD 20/02 Q1020 YSGE 281030Z AUTO 00000KT //// // ////// 18/M01 Q1019 SVJM 280000Z /////KT CAVOK 29/23 Q1013 SUSO 281000Z 00000KT CAVOK 11/10 Q1020 K9L2 280955Z AUTO 00000KT 10SM CLR 11/M02 A3008 RMK AO2 SLP174 T01061017 $ MYNN 281000Z 27008KT 9999 SHRA BKN018CB BKN040 23/20 A2997 TNCA 281000Z 09013KT 9999 FEW018 26/23 Q1013 A2993 NOSIG HTIR 271400Z 09006KT 9999 SCT023 FEW024CB 26/16 Q1018 TNCB 281000Z AUTO 07015KT //// ////// 26/22 Q1014 NOSIG HTKA 271400Z 00000KT 9999 FEW022 FEW023CB BKN080 27/22 Q1015 TNCC 281000Z 11010KT 9999 FEW016 26/22 Q1015 NOSIG TNCE 281000Z AUTO 09007G18KT //// ////// 25/19 Q1019 SVLF 272000Z 00000KT CAVOK XX/XX Q1009 DFFD 280900Z 06014KT CAVOK 30/M05 Q1016 NOSIG YSHK 281030Z AUTO 19013KT //// // ////// 25/18 Q1014 ZJHK 281000Z 06006MPS 9999 BKN016 BKN040 23/19 Q1015 NOSIG HTKJ 271400Z 10007KT 9999 FEW032CB SCT033 BKN090 29/17 Q1012 NOSIG SVMC 280600Z /////KT 9999 FEW013 26/22 Q1011 HSSS 281030Z 02004KT CAVOK Q1006 SVMD 280100Z 25001KT 5000 BR OVC013 20/19 Q1021 TNCM 281000Z 12010KT 9999 -SHRA BKN017TCU SCT040 26/20 Q1018 A3008 TEMPO SHRA TCU SE K8W2 281035Z AUTO 01006KT 10SM OVC065 M04/M11 A2995 RMK AO1 T10361115 SVMG 281000Z /////KT 9999 FEW010 24/23 Q1013 NOSIG SVMI 281000Z 11001KT 9999 FEW016 24/20 Q1014 NOSIG YSHT 281030Z AUTO 00000KT //// // ////// 14/07 Q1022 YSHW 281030Z AUTO 17003KT 9999 // SCT038 16/11 Q1024 HTMB 271400Z 09008KT 9999 SCT023 FEW024CB BKN090 23/16 SVMN 280600Z 02004KT 9999 SCT013 28/// Q1014 UEEE 281030Z 02002MPS CAVOK M15/M22 Q1015 NOSIG RMK QFE753 23710150 HTMG 271300Z 00000KT 9999 SCT026 31/21 Q1012 SVMT 272300Z 05008KT 9999 FEW013 29/17 Q1009 OIAA 281000Z 06004KT CAVOK 29/06 Q1017 OIAD 281000Z 16006KT CAVCOK 28/08 Q1017 A3005 K9MN 281034Z AUTO 11005KT 10SM CLR M06/M11 A3020 RMK AO1 T10641114 YTAR 281030Z AUTO 31005KT //// // ////// 24/00 Q1021 YRTI 281030Z AUTO 19019KT //// // ////// 20/15 Q1019 OIAG 281000Z 34002KT CAVOK 29/01 Q1017 OIAH 281000Z 00000KT CAVOK 25/M03 Q1019 OIAI 280951Z 24004KT CAVOK 26/07 Q1016 OIBA 281000Z 27010KT CAVOK 26/21 Q1013 SVPC 272100Z 07010KT 9999 SCT060 29/XX Q1012 OIBB 281000Z 28010KT CAVOK 25/15 Q1015 A2998 HTMT 271400Z 03010KT 9999 FEW024 FEW024CB BKN290 29/23 Q1012 DGAA 280857Z 25009KT 9999 FEW016 28/25 Q1013 NOSIG HTMU 271400Z 27010KT 9999 FEW024 FEW025CB 28/19 Q1012 OIAM 281000Z 24004KT CAVOK 28/09 Q1016 HTMW 271400Z 30006KT 9999FEW027 FEW028CB SCT280 28/18 Q1012 NOSIG HUEN 280900Z 20008KT 9999 FEW020 FEW022CB BKN120 24/20 Q1019 OIBJ 281000Z 04006KT CAVOK 25/09 Q1017 OIBK 281000Z 27012KT 7000 NSC 29/18 Q1013 SVPM 272000Z 18010KT 9999 FEW050 XX/XX Q1014 OICC 281030Z 00000KT 9999 FEW045 BKN170 18/M02 Q1021 A3016 NOSIG OIBL 281000Z 22008KT 6000 NSC 26/20 Q1013 OIAW 281025Z 06004KT CAVOK 27/11 Q1016 YSMH 281030Z AUTO 16002KT 9999 // SCT023 SCT035 25/21 Q1018 YSMI 281030Z AUTO 00000KT //// // ////// 11/11 Q1021 OIBP 281030Z 26012KT CAVOK 28/14 Q1012 A2991 OIBQ 281000Z 24008KT CAVOK 23/17 Q1016 OICI 281030Z 18004KT CAVOK 19/M01 Q1021 A3016 OICJ 280950Z 22010KT CAVOK 14/01 Q1023 OIBS 281000Z 24012KT CAVOK 26/21 Q1014 OICK 280950Z 28004KT CAVOK 19/M01 Q1021 YTEE 281030Z AUTO 21007KT 9999 // OVC100 35/09 Q1014 KMG 281030Z AUTO 14007KT 9999 // NCD 11/09 Q1022 YSNF 281030Z 30005KT 9999 FEW014 SCT022 BKN047 22/19 Q1018 OIBV 281000Z 29014KT CAVOK 26/18 Q1013 YTEF 281030Z AUTO 12006KT //// // ////// 33/09 Q1013 SVSA 280600Z /////KT 9999 SCT020 25/23 Q1016 OICS 281000Z 23002KT CAVOK 13/03 Q1021 YTEM 281030Z AUTO 21005KT //// // ////// 11/M01 Q1022 SVSE 271900Z 00000KT 9999 BKN040 ///// Q//// CPBT 280900Z AUTO 23011KT 04/01 RMK AO1 T00430013 UDSG 281030Z 23002MPS 190V260 9999 FEW050 BKN100 13/M02 Q1019 R02/CLRD70 NOSIG YSNW 281030Z AUTO 28005KT 9999 // NCD 13/12 Q1024 SVSO 271600Z 00000KT 9999 OVC017 26/19 Q1020 SVSP 271900Z 05020KT 9999 BKN060 XX/XX Q1013 SVST 272000Z 08015KT 9999 SCT080 ///// Q1014 HUJI 280900Z 18005KT 9999 BKN020 FEW022CB 27/19 CPEH 280900Z AUTO 22012KT 10/03 RMK AO1 PK WND 23021/0815 T01020027 YTGM 281030Z AUTO 13005KT //// // ////// 24/M04 Q1019 HUKA 280900Z 12005KT 9999 BKN023 FEW025CB 25/19 OIFK 281000Z 06008KT CAVOK 22/M05 Q1021 HTTB 271300Z 16008KT 9999 SCT028 FEW030CB 30/17 Q1015 OIFM 281030Z 17004KT 4000 HZ NSC 16/02 Q1021 A3017 SVSZ 271600Z 00000KT 9999 BKN016 XX/XX Q1013 HTSO 271400Z 10005KT 9999 SCT025 FEW027CB 26/19 Q1017 OIGG 281030Z 33006KT 5000 HZ NSC 17/12 Q1018 YTIB 281030Z AUTO 15007KT //// // ////// 22/// Q1021 SVVA 280200Z 02008KT 9999 FEW016 26/21 Q1015 OIFS 281000Z 35002KT 9999 BKN040 16/M00 Q1024 CPFI 281000Z AUTO 20011KT 09/03 RMK AO1 T00890028 OIGK 280951Z 26006KT CAVOK 13/M05 Q1022 K9V9 281035Z AUTO 11005KT 7SM CLR M05/M05 A3000 RMK AO2 T10501055 HTSU 271400Z 08004KT 9999 FEW021 FEW022CB OVC210 23/14 Q1021 SVVG 280900Z 00000KT CAVOK 25/21 Q//// YSRI 281030Z AUTO 12003KT 9999 // SCT039 BKN055 19/12 Q1023 DFOO 280900Z 02010KT CAVOK 29/M03 Q1016 OIHH 281000Z 35004KT 9999 FEW040 BKN100 12/00 Q1022 HULI 280900Z 25003KT 9999 TS BKN020 FEW022CB 30/XX SVVL 271500Z 02004KT 9999 FEW030 28/18 Q1019 HUKS 280600Z 14005KT 9999 BKN017 FEW020CB OVC110 22/21 YSRN 281030Z AUTO 02006KT 9999 // OVC029 OVC033 12/10 Q1020 OIHM 281000Z 30008KT 9999 FEW040 SCT090 13/04 Q1022 OIIE 281030Z 24006KT CAVOK 20/M06 Q1018 OIII 281030Z 24008KT 8000 FEW040 BKN200 18/M02 Q1020 A3012 NOSIG HUMI 280900Z 21002KT 9999 DZ BKN017 FEW019CB OVC100 25/20 OIIK 281000Z 12002KT CAVOK 16/M01 Q1021 PAAD 281035Z AUTO 23011KT 10SM OVC020 M23/M26 A2981 RMK AO2 YSTH 281030Z AUTO 24004KT 9999 // NCD 13/10 Q1018 OIIP 281000Z 32004KT CAVOK 17/M07 Q1020 OJAI 281000Z 28015KT 7000 FEW030 SCT080 24/05 Q1013 NOSIG PABA 280955Z 26010KT 10SM CLR M22/M24 A2981 RMK VIA PHONE OIIS 281000Z 21004KT CAVOK 18/01 Q1020 PAAK 281036Z 32016G23KT 10SM OVC036 01/M06 A2951 RMK AO1 OIKB 281030Z 19010KT 8000 FEW025 SCT200 31/16 Q1012 A2990 OJAM 281000Z 30008KT 4000 HZ NSG 23/05 Q1012 NOSIG YSSY 281030Z 12008KT 9999 SCT037 19/11 Q1023 NOSIG ZJSY 281000Z 14003MPS 100V190 9999 BKN026 SCT040 26/22 Q1014 NOSIG PABE 280953Z 08005KT 10SM FEW075 00/M02 A2942 RMK AO2 SLP964 T00001022 PAAP 280054Z 18008KT 10SM BKN020 BKN050 09/03 A2984 RMK LAST NO SPECI PAAQ 280953Z AUTO 01008KT 10SM CLR M01/M05 A2960 RMK AO2 SLP028 T10111050 TSNO OJAQ 280900Z 16008KT 6000 NSC 34/13 Q1008 NOSIG PABI 280953Z AUTO 18005KT 10SM CLR 02/M06 A2958 RMK AO2 SLP032 T00171061 TSNO CPIR 280900Z AUTO 23011KT 09/02 RMK AO1 T00930019 OIKK 280900Z 21010KT 9999 FEW025CB SCT030 BKN090 12/04 Q1025 A3027 PABL 281036Z AUTO 31010KT 10SM OVC009 M18/M23 A2969 RMK AO1 YSTW 281030Z AUTO 16009KT 9999 // NCD 18/02 Q1021 PACD 280953Z 31003KT 10SM OVC048 02/00 A2912 RMK AO2 SLP863 T00170000 OIKO 280950Z 33006KT CAVOK 32/09 Q1012 OIKQ 281000Z 20016KT 8000 FEW030 27/21 Q1013 PABR 280953Z 04006KT 10SM CLR M23/M25 A2982 RMK AO2 SLP100 T12281250 HTZA 271400Z 15010KT 9999 FEW018 FEW020CB BKN080 30/24 Q1010 NOSIG PABT 280953Z 36004KT 10SM -SN OVC041 M03/M05 A2955 RMK AO2 SLP021 PCPN VRY LGT T10281050 PNO OIMB 281000Z 30014KT 9999 FEW030TCU SCT030 15/08 Q1019 OIMC 281000Z 00000KT CAVOK 17/04 Q1021 YTMO 281030Z AUTO 19009KT //// // ////// 32/10 Q1015 PABV 281036Z AUTO 00000KT 10SM CLR M01/M03 A2959 RMK AO1 PACM 281046Z AUTO 28005KT 10SM BKN014 BKN070 OVC095 M07/M09 A2956 RMK AO2 PWINO FZRANO TSNO BKN V OVC $ OIMD 281000Z 34012KT 9999 FEW035 18/04 Q1015 YTNG 281030Z AUTO 05002KT 9999 // SCT100 25/20 Q1019 PADE 280953Z AUTO 27012KT 5SM -SN OVC010 M18/M21 A2967 RMK AO2 SLP049 P0000 T11831211 TSNO YSWG 281030Z 00000KT CAVOK 13/02 Q1021 YSWH 281030Z AUTO 23004KT 9999 // NCD 16/04 Q1022 PADG 271855Z 03004KT 15SM SKC M17/M19 A2952 UDYZ 281030Z VRB01MPS 9999 FEW050 BKN100 15/00 Q1019 R09/010070 NOSIG YTNK 281030Z AUTO 09003KT 9999 // NCD 28/12 Q1016 OINB 281000Z 01006KT CAVOK 17/10 Q1018 PADK 281036Z AUTO 33015G28KT 10SM FEW035 FEW045 OVC060 01/M05 A2969 RMK AO1 PAEC 280056Z 19005KT 20SM FEW015 SCT050 BKN100 06/M10 A2953 RMK NOSPECI PADL 281036Z 03010G16KT 10SM CLR 01/00 A2936 RMK AO1 PACV 280953Z 11008KT 10SM -RA FEW029 BKN044 BKN070 03/01 A2970 RMK AO2 RAB05 SLP057 P0001 T00330011 PADM 280956Z AUTO 08012KT 10SM CLR 02/M02 A2948 RMK AO2 TSNO T00221016 SLP971 $ PAED 280958Z AUTO 00000KT 10SM CLR 00/M03 A2958 RMK AO2 SLPNO T00021026 OIMM 281030Z 05008KT 9999 FEW040 15/05 Q1020 A3014 OIMN 281000Z 00000KT 9999 FEW040 14/05 Q1020 OINE 281000Z 30004KT CAVOK 22/08 Q1018 PAEG 280953Z AUTO 00000KT 10SM CLR M03/M07 A2957 RMK AO2 SLP021 T10331067 TSNO $ OING 281000Z 06006KT CAVOK 25/10 Q1019 PACZ 280955Z AUTO 01027G34KT 300V040 10SM BKN023 M06/M07 A2945 RMK AO2 PK WND 04034/0858 SLP983 T10611074 $ PADQ 280953Z 07024G30KT 4SM -RA BR OVC014 05/04 A2930 RMK AO2 PK WND 07036/0928 SLP921 P0003 T00500039 PAEH 280955Z AUTO 11006KT 10SM BKN070 02/00 A2935 RMK AO2 SLP944 T00191002 OIMQ 281000Z 27010KT 9999 FEW035 17/07 Q1018 PAEI 280958Z AUTO 00000KT 10SM CLR M03/M06 A2956 RMK AO2 SLP017 T10331065 $ NSFA 281000Z 12003KT 9999 FEW023 BKN140 26/25 Q1011 PAFA 280953Z 00000KT 10SM BKN080 BKN180 M02/M05 A2957 RMK AO2 SLP019 T10171050 OINK 281000Z 00000KT CAVOK 23/11 Q1016 PAFB 280956Z AUTO 10005KT 10SM OVC090 M01/M05 A2956 RMK SLP017 T10111050 $ VIA AUTODIAL PAEL 280048Z 00000KT 12SM -SHRA BKN035 05/05 A2983 RMK SEA 0 SWELL 2 SW NOSPECI LAST PADU 280956Z AUTO 33015KT 10SM -RA OVC012 03/01 A2917 RMK AO2 SLP882 P0004 T00330011 PAEM 281036Z AUTO 01010KT 10SM BKN046 M06/M09 A2951 RMK AO1 PAEN 280953Z AUTO 04007KT 10SM CLR M01/M04 A2955 RMK AO2 SLP008 T10111039 TSNO PAFE 281036Z AUTO 06005KT 10SM CLR 01/00 A2986 RMK AO1 OINN 281000Z 09008KT 8000 NSC 14/12 Q1018 OINR 281000Z 04004KT 6000 VCFG NSC 14/12 Q1018 PAGA 281041Z AUTO 31003KT 10SM SCT007 BKN055 OVC100 M04/M06 A2956 RMK AO2 FZRANO PAFM 281036Z AUTO 00000KT 10SM BKN023 M21/M23 A2966 RMK AO1 PAGH 280957Z AUTO 00000KT 10SM BKN024 OVC029 M18/M21 A2966 RMK AO2 SLP079 T11831206 FZRANO OINZ 281000Z 06012KT CAVOK 22/09 Q1017 SYCJ 281000Z 00000KT 9999 FEW016 SCT300 20/20 Q1016 NOSIG PAFS 280956Z AUTO 00000KT 10SM CLR M02/M07 A2952 RMK AO2 TSNO T10221072 SLP008 $ PAGK 280953Z AUTO 15006KT 10SM CLR M03/M07 A2965 RMK AO2 SLP063 T10281067 TSNO PAGL 280842Z 29010KT 10SM OVC035 M13/M17 A2959 RMK VIA PHONE PAHC 280956Z AUTO 00000KT 10SM UP CLR M03/M04 A2949 RMK AO2 TSNO T10331038 P0000 SLP990 $ YTRE 281030Z AUTO 24005KT //// // ////// 19/15 Q1023 PAGM 281036Z AUTO 03020KT 10SM OVC015 M09/M12 A2971 RMK AO1 PAGN 280956Z AUTO VRB06KT 10SM SCT050 03/02 A2983 RMK AO2 TSNO T00270016 SLP105 $ PAGS 281036Z AUTO 36003KT 10SM OVC060 01/00 A2982 RMK AO1 PNO PAHL 281036Z AUTO 32004KT 10SM M08/M09 A2956 RMK AO1 PAHN 281038Z AUTO 11007KT 10SM OVC016 04/02 A2983 RMK AO2 T00440017 TSNO PAHO 280953Z AUTO 12005KT 10SM FEW038 BKN049 04/01 A2950 RMK AO2 SLP991 T00440011 TSNO $ PAGY 280953Z AUTO 03003KT 10SM FEW055 OVC080 03/00 A2983 RMK AO2 SLP102 T00280000 TSNO PAHP 281036Z 03004KT 10SM CLR M07/M09 A2949 RMK AO1 PAIG 280956Z AUTO 05013KT CLR 01/M01 A2939 RMK AO2 TSNO T00111005 SLP956 $ PAII 281036Z AUTO 05012G16KT 10SM CLR 02/M02 A2927 RMK AO1 OISA 280955Z 00000KT CAVOK 13/M03 Q1024 NTAA 281030Z 10004KT 9999 FEW025 26/22 Q1013 NOSIG PAIK 281001Z AUTO 00000KT 10SM CLR M23/M26 A2968 RMK AO2 SLP099 T12281256 FZRANO PAIL 280953Z AUTO 05007KT 10SM FEW060 02/M02 A2945 RMK AO2 SLP974 T00171022 TSNO PAJC 281036Z AUTO 06016G24KT 8SM BKN013 OVC021 04/01 A2913 RMK AO1 P0002 PAIM 281026Z AUTO 00000KT 3SM -SN OVC017 M03/M05 A2951 RMK AO2 SLP014 $ PAIN 281036Z AUTO 26004KT 10SM CLR M02/M05 A2956 RMK AO1 OISF 280950Z 00000KT CAVOK 20/01 Q1018 PAHX 280956Z AUTO 01005KT 10SM CLR M03/M05 A2951 RMK AO2 SLP995 T10331050 FZRANO YTTI 281030Z AUTO 11010KT //// // ////// 27/28 Q1012 PAHY 281036Z AUTO 10SM CLR 04/01 A2983 RMK AO1 YTST 281030Z AUTO 11005KT 9999 // NCD 24/22 Q1011 OISL 281000Z 00000KT CAVOK 25/05 Q1016 PAJN 280953Z 08007KT 10SM FEW006 SCT065 03/02 A2984 RMK AO2 RAE0856 SLP105 P0000 T00280022 $ PAIW 281027Z AUTO 07016KT 1 1/4SM -SN BR M16/M17 A2974 RMK AO2 P0000 FZRANO $ DIAD 281000Z 00000KT 9999 SCT011 29/26 Q1013 NOSIG PAKF 281001Z AUTO 00000KT 10SM FEW042 SCT085 02/M01 A2913 RMK AO2 SLP957 T00221006 FZRANO $ CPRO 281000Z AUTO 27003KT 06/02 RMK AO1 T00600019 PAKH 280956Z AUTO 10SM -RA 04/01 A2913 RMK AO2 TSNO T00440011 P0000 SLP869 $ PAKI 280956Z AUTO 35011KT 10SM OVC004 M07/M08 A2942 RMK AO2 TSNO T10661083 SLP965 $ OISR 280900Z 00000KT CAVOK 27/09 Q1016 ZLLL 281000Z 11003MPS CAVOK 11/01 Q1017 NOSIG OISS 281030Z 15006KT CAVOK 18/M00 Q1021 A3016 OKBK 281000Z 34004KT CAVOK 29/02 Q1016 NOSIG PAKK 281036Z AUTO 35013G21KT 10SM SCT021 BKN036 OVC044 A2952 RMK AO1 OITK 281000Z 17010KT 9999 SCT040 BKN190 15/M02 Q1019 OITL 281030Z 19014KT 9999 SCT080 OVC190 17/M01 Q1018 OITM 281000Z 24004KT 9999 FEW035 BKN190 15/00 Q1020 SYGO 271800Z 01012KT 9999 SCT022 SCT300 29/22 Q1014 NOSIG PAKN 280954Z 04009KT 10SM BKN110 02/M03 A2929 RMK AO2 SLP919 T00221028 PAKP 281036Z AUTO 02007KT 7SM SCT032 OVC040 M19/M23 A2950 RMK AO1 PALG 280956Z AUTO 10007KT 10SM CLR 02/M03 A2945 RMK AO2 TSNO T00161027 SLP977 $ OISY 281000Z 00000KT 9999 SCT045 BKN090 17/M08 Q1023 PALH 280953Z 19003KT 10SM CLR 00/M02 A2960 RMK AO2 SLP024 T00001022 PAJZ 280956Z AUTO 09015KT 10SM CLR 01/M02 A2946 RMK AO2 TSNO T00111016 SLP965 $ YTWB 281030Z AUTO 09017KT 9999 // NCD 19/14 Q1024 CPRY 281000Z AUTO 22009KT 10/01 RMK AO1 T01010014 DIAP 281030Z 24005KT 200V320 6000 FEW011 30/25 Q1014 NOSIG OITR 281000Z 11004KT 9999 SCT040 BKN100 14/02 Q1020 NOSIG PALJ 280050Z 06012KT 30SM BKN100 08/01 A2947 RMK LAST 401000044 EST PASS OPEN NOSPECI PAKT 280953Z AUTO 13006KT 10SM CLR 03/02 A2987 RMK AO2 SLP117 T00330022 TSNO PAMB 280956Z AUTO 02016KT 10SM CLR 01/M01 A2931 RMK AO2 TSNO T00111011 SLP930 $ OITT 281030Z 31006KT 8000 FEW040 BKN180 13/02 Q1021 A3017 PAKU 280245Z 32004KT 10SM R24/P6000FT OVC011 M18/M20 A2973 RMK LAST OITU 280951Z 14006KT 9999 SCT035 OVC090 13/00 Q1020 PAMC 280953Z 00000KT 10SM SCT120 M04/M07 A2952 RMK AO2 SLP002 T10441072 DIBK 281000Z 24004KT CAVOK 30/21 Q1017 NOSIG CPST 281000Z AUTO 22007KT 06/00 RMK AO1 T00610000 PAKV 280953Z AUTO 05003KT 10SM FEW045 BKN055 OVC100 M03/M05 A2958 RMK AO1 SLP022 T10281050 TSNO PAMD 281036Z 10023G30KT 10SM BKN023 BKN033 OVC090 06/02 A2957 RMK AO1 PAKW 280953Z AUTO 00000KT 10SM CLR 02/01 A2983 RMK AO2 SLP101 T00170011 TSNO CPSV 281000Z AUTO 21009KT 10/04 RMK AO1 T00990035 PALP 280045Z 28002KT 10SM OVC013 M16/M19 A2972 PAMH 281036Z AUTO 00000KT 10SM CLR M03/M09 A2953 RMK AO1 OITZ 281000Z 20004KT 9999 BKN035 14/M03 Q1020 PANA 280956Z AUTO 08005KT 10SM FEW080 01/M02 A2941 RMK AO2 SLP959 T00061017 FZRANO PAMK 281046Z AUTO 04010KT 1 1/4SM BR SCT003 BKN008 OVC014 M07/M08 A2953 RMK AO2 PWINO TSNO BKN V SCT $ PANC 280953Z 12003KT 10SM FEW120 BKN200 01/M02 A2959 RMK AO2 SLP021 T00111022 PALU 280955Z AUTO 10011KT 040V110 10SM BKN009 M18/M19 A2984 RMK AO2 SNB0916E0933SHSNB0933E0945 SLP104 T11781191 PAMM 272236Z AUTO 26005KT 10SM CLR 08/04 A2990 RMK AO1 DIBU 281000Z 28004KT CAVOK 31/23 Q1016 NOSIG PAMO 280956Z AUTO 33008KT 10SM BKN046 M07/M08 A2947 RMK AO2 TSNO T10721077 SLP868 $ PAMR 280953Z 00000KT 10SM FEW075 BKN130 00/M03 A2959 RMK AO2 SLP021 T00001033 PANI 281036Z AUTO 11003KT 10SM CLR 01/M04 A2949 RMK AO1 UHBB 281030Z 20003MPS 180V240 9999 FEW033CB SCT200 02/M10 Q1009 NOSIG RMK QFE739/0986 36090060 DIDK 281000Z ///// CAVOK 28/24 Q1014 NOSIG DIDL 281000Z ///// 9999 FEW013 BKN100 29/25 Q1016 NOSIG PANN 280953Z AUTO 08003KT 10SM BKN120 01/M05 A2954 RMK AO2 SLP011 T00061050 TSNO PAMY 281036Z AUTO 03008KT 10SM OVC010 M05/M08 A2948 RMK AO1 PAOH 280956Z AUTO 00000KT 10SM FEW031 M01/M01 A2984 RMK AO2 TSNO T10051005 SLP106 $ PANT 280953Z 00000KT 10SM FEW002 02/02 A2987 RMK AO2 SLP114 T00220022 PAPB 281042Z AUTO 01027G33KT 1 1/4SM -SN BR OVC008 M02/M02 A2929 RMK AO2 PK WND 36037/1025 P0000 T10171022 TSNO PAOM 280953Z VRB03KT 10SM SCT200 M16/M20 A2956 RMK AO2 SLP010 T11611200 PANV 281036Z AUTO 05009KT 10SM CLR M02/M06 A2948 RMK AO1 PANW 280956Z AUTO 08013G21KT 10SM CLR 02/M01 A2940 RMK AO2 TSNO T00161005 SLP935 UGKO 281030Z 08016KT CAVOK 24/03 Q1009 R07/09//70 NOSIG PAOO 280956Z AUTO 35015KT CLR M06/M07 A2944 RMK AO2 TSNO T10611072 SLP972 $ PAPG 280556Z 00000KT 10SM PRFG FEW050 03/01 A2985 PAPH 281036Z AUTO 04012KT 10SM OVC050 03/M02 A2918 RMK AO1 PAOR 280953Z 00000KT 10SM FEW070 SCT110 M09/M11 A2960 RMK AO2 SLP053 T10891111 PNO PAOT 280953Z 00000KT 10SM CLR M28/M29 A2968 RMK AO2 SLP050 T12781289 OIZB 281030Z 33018KT 9999 FEW040TCU SCT100 16/07 Q1018 DIGA 281000Z 12004KT 8000 NSC 27/24 Q1015 NOSIG OIZC 280950Z 22016KT 4000 SA SKC 33/15 Q1009 A2981 PAOU 280956Z AUTO 03015KT 8SM BKN095 03/03 A2913 RMK AO2 TSNO T00270027 SLP868 $ PAPM 280956Z AUTO 02012KT 10SM OVC065 02/00 A2937 RMK AO2 TSNO T00160000 SLP945 $ CPXL 281000Z AUTO 22006KT 13/02 RMK AO1 PK WND 24021/0922 T01260015 PAPN 280956Z AUTO 05015KT 10SM CLR 03/M02 A2922 RMK AO2 PWINO TSNO T00331016 SLP896 $ PAPO 281036Z AUTO 01010KT 10SM CLR M18/ A2977 RMK AO1 PAQH 280956Z AUTO 04011KT 10SM CLR 01/M01 A2939 RMK AO2 SLP954 T00061011 FZRANO OIZH 281030Z 30012KT 9999 SCT035TCU FEW040CB 18/04 Q1018 A3008 OIZI 281000Z 28006KT 9999 SCT040TCU BKN200 28/10 Q1015 OIZJ 281000Z 28016KT 8000 NSC 28/20 Q1011 PAPT 272251Z 12010KT 25SM SCT027 BKN045 03/00 A2952 RMK 400281017 70000 931000 4/025 NO SPECI PARC 281036Z AUTO 00000KT 10SM CLR M14/ A2948 RMK AO1 OIYY 281000Z 26002KT CAVOK 19/02 Q1023 UGMS 271300Z /////KT CAVOK 19/M09 Q1016 RMK MT OPN QFE 854.3HPA PASA 281036Z AUTO 8SM OVC011 M10/ A2970 RMK AO1 PAQT 281011Z AUTO 27007KT 9SM OVC017 M18/M21 A2981 RMK AO2 UPE0956 P0000 T11831211 TSNO PASC 280953Z 23010KT 9SM -SN OVC019 M21/M24 A2979 RMK AO2 SLP089 P0000 T12111244 PASD 281036Z AUTO 02008KT 10SM 04/03 A2909 RMK AO1 YWCA 281030Z AUTO 15006KT //// // ////// 18/02 Q1021 PASH 280841Z 29003KT 10SM CLR M23/M27 A2975 RMK VIA PHONE PASI 280953Z 08005KT 10SM CLR 03/01 A2980 RMK AO2 SLP091 T00330011 YWBL 281030Z AUTO 00000KT 9999 // OVC037 13/10 Q1022 OLBA 281000Z VRB02KT 6000 HZ BKN200 22/13 Q1012 PATA 280952Z AUTO 00000KT 10SM OVC080 M01/M04 A2955 RMK AO2 SLP012 T10111044 TSNO PNO PARS 280956Z AUTO 00000KT 10SM CLR M03/M03 A2946 RMK AO2 TSNO T10271033 SLP982 $ PASK 281036Z AUTO 26004KT 1SM OVC003 M22/M23 A2969 RMK AO1 PASL 281036Z AUTO 00000KT 10SM CLR M04/M06 A2953 RMK AO1 PATC 280855Z AUTO 04025KT 1/4SM -SN BKN003 M19/M21 A2966 RMK AO2 PK WND 04028/0841 SNB0754 SLP054 P0000 60000 T11951211 411561199 54001 PASM 281036Z AUTO 04005KT 10SM CLR M04/M07 A2945 RMK AO1 PASN 281046Z 36024KT 4SM -SN OVC006 M03/M06 A2937 RMK AO2 PK WND 36030/1027 P0000 T10331056 $ PATE 280958Z AUTO 07006KT 10SM CLR M17/M19 A2965 RMK AO2 SLP053 T11671189 FZRANO PASO 280953Z AUTO 15003KT 10SM -RA FEW025 SCT038 BKN045 01/01 A2948 RMK AO2 SLP984 P0004 T00110011 TSNO YWBR 281030Z AUTO 13007KT //// // ////// 25/08 Q1018 PATG 281036Z AUTO 36010KT 10SM BKN080 OVC110 01/M01 A2937 RMK AO1 PARY 280956Z AUTO 07004KT 10SM FEW070 BKN100 00/M04 A2951 RMK AO2 TSNO T00001044 SLP004 $ MSV 281030Z AUTO 04002KT 9999 // SCT021 10/09 Q1025 PATK 280953Z AUTO 35005KT 10SM SCT110 00/M04 A2960 RMK AO2 SLP029 T00001044 TSNO PATL 280955Z AUTO 08005KT 10SM SCT180 02/M06 A2952 RMK AO2 SLP006 T00191058 $ PASV 280955Z AUTO 06007KT 10SM CLR 01/M07 A2945 RMK AO2 SLP983 T00121066 MUI 281030Z AUTO 14013KT 9999 // NCD 17/06 Q1023 PASW 280051Z 28004KT 25SM SCT025 BKN050 07/M03 A2961 RMK MAX 09 70017 NOSPECI LAST PATO 280953Z AUTO 15009G16KT 5SM RA BR BKN023 OVC027 03/01 A2961 RMK AO2 PK WND 11027/0928 SLP029 P0004 T00280006 TSNO PASX 281036Z AUTO 10004KT 10SM CLR M01/M06 A2953 RMK AO1 UHHH 281030Z 21002MPS CAVOK 03/M03 Q1010 NOSIG RMK QFE751/1001 55090060 PASY 280956Z AUTO 22009KT 10SM CLR 01/M06 A2984 RMK AO2 SLP106 T00111061 TSNO $ PATQ 280956Z AUTO 02003KT 6SM -SN BR OVC065 M22/M24 A2981 RMK AO2 TSNO T12161238 P0000 SLP101 $ PAVA 280957Z AUTO 36017KT 10SM FEW050 SCT070 OVC100 M07/M08 A2952 RMK AO2 PK WND 02026/0913 SLP998 T10671083 FZRANO PAVC 280956Z AUTO 27005KT OVC031 03/01 A2912 RMK AO2 TSNO T00270005 RAE44 P0001 SLP862 $ NSTU 280951Z VRB02KT 10SM FEW020 BKN120 26/24 A2984 RMK SLP107 T02640241 PAVD 281036Z 00000KT 10SM OVC075 01/M01 A2968 RMK AO1 PAUN 281036Z AUTO 11005KT 10SM BKN048 BKN060 M07/M09 A2954 RMK AO1 DIKO 281000Z 36002KT 8000 NSC 31/19 Q1016 NOSIG UIAA 281030Z VRB02MPS 9999 FEW050 OVC200 07/M14 Q1008 NOSIG RMK QFE698 29CLRD70 UGSB 281030Z VRB02KT CAVOK 21/08 Q1011 R13/CLRD70 NOSIG PAUT 281035Z AUTO 10SM OVC023 03/00 A2914 RMK AO2 T00300004 PAVL 280953Z AUTO 01009KT 10SM CLR M19/M22 A2970 RMK AO2 SLP057 I1000 T11941222 TSNO $ PAWD 280953Z AUTO 00000KT 10SM BKN055 OVC070 02/02 A2958 RMK AO2 RAB01E24 SLP017 P0001 T00170017 TSNO PAWG 281036Z AUTO 12011KT 10SM BKN004 03/01 A2987 RMK AO1 PAWI 280953Z AUTO 01006KT 10SM CLR M23/M24 A2981 RMK SLP095 I1000 T12281239 TSNO VIA AUTODIAL UIBB 281030Z 31003MPS 9999 SCT036CB OVC100 M01/M10 Q1010 NOSIG RMK QFE715/0953 30911060 UGTB 281030Z 14007KT 100V180 CAVOK 15/07 Q1020 R13R/CLRD80 NOSIG PAWM 272358Z AUTO 34008KT 9SM CLR M04/M16 A2953 RMK AO2 SLP010 T10441156 11044 21144 58003 FZRANO YWHA 281030Z AUTO 15004KT 9999 // NCD 19/11 Q1021 PAYA 280953Z 06003KT 10SM -RA SCT031 BKN044 02/01 A2977 RMK AO2 RAB49 SLP082 P0000 T00170011 PAWS 281036Z AUTO 06009KT 10SM CLR 04/M06 A2957 RMK AO1 ZLXY 281000Z 07005MPS 7000 NSC 18/04 Q1015 NOSIG UHMA 281000Z 00000MPS 9999 -SN SCT009 OVC080 M14/M16 Q1009 RMK QBB270 QFE753/1005 YWGT 281030Z AUTO 00000KT //// // ////// 12/02 Q1021 YVRD 281030Z AUTO 03003KT //// // ////// 29/12 Q1012 PAZK 281036Z AUTO 00000KT 10SM CLR M08/M11 A2953 RMK AO1 UHMM 281030Z 02006MPS 9999 SCT031 OVC100 M10/M18 Q1002 NOSIG RMK QFE737 88490532 YWIS 281030Z AUTO 11005KT //// // ////// 26/21 Q1018 OMAA 281000Z 31008KT 270V340 CAVOK 29/17 Q1013 A2992 NOSIG OMAD 281000Z 34009KT 310V010 CAVOK 29/17 Q1014 A2994 NOSIG ZMUB 281030Z 20006MPS 9999 BKN100 06/M05 Q1004 NOSIG RMK QFE646.8 44 MOP OMAL 281000Z 32008KT 280V360 CAVOK 33/12 Q1014 A2996 NOSIG YWLG 281030Z AUTO 19006KT 9999 // NCD 19/M02 Q1021 TQPF 272100Z 10013KT 9999 FEW020 27/22 Q1017 YWLM 281030Z AUTO 00000KT 9999 // NCD 14/12 Q1023 DITB 281000Z 20006KT 9999 FEW013 BKN260 30/25 Q1014 NOSIG UHPP 281000Z 33002MPS 9999 FEW030 M03/M14 Q0999 NOSIG RMK QFE745/0994 SC070 EBBE 281025Z AUTO 20016KT 9999 DZ BKN010/// OVC013/// 08/06 Q1017 GRN DISP 281000Z 20006KT 9999 FEW013 SCT300 29/24 Q1014 NOSIG OMDB 281000Z 32012KT CAVOK 28/19 Q1014 NOSIG DISS 281000Z ///// 9999 SCT015 BKN260 29/25 Q1014 NOSIG EBBL 281025Z 20010KT 9999 -RA BKN022 09/05 Q1017 WHT EBAW 281020Z 20011KT 170V230 7000 -DZRA BKN008 BKN009 08/06 Q1016 BECMG 4000 -DZRA BR BKN007 UIII 281030Z 31005MPS CAVOK 05/M04 Q1004 NOSIG RMK QFE709/0945 30CLRD60 EBCI 281020Z 19014KT 2500 -RADZ BKN005 07/06 Q1017 NOSIG EBBR 281020Z 20012KT 9000 -RADZ SCT008 BKN009 08/06 Q1016 TEMPO 4000 BR RADZ VAAH 280940Z 26007KT 5000 DU FEW080 42/16 Q1007 NOSIG YWOL 281030Z AUTO 21006KT 9999 // NCD 14/12 Q1024 VABB 281010Z 25013KT 3500 HZ FEW020 SCT100 32/26 Q1008 NOSIG KA08 281035Z AUTO 30005KT 10SM CLR 03/00 A3017 RMK AO2 T00270002 OMDW 281000Z 29010KT 260V340 CAVOK 30/16 Q1014 NOSIG EBCV 281025Z AUTO 20014KT 9999 SCT006/// OVC008/// 08/07 Q1017 YLO UHSS 281030Z 00000MPS 9999 NSC M00/M02 Q1014 NOSIG RMK QFE759/1012 19CLRD70 OMFJ 281000Z 05010KT 010V090 7000 NSC 28/21 Q1013 A2991 EBDT 281025Z AUTO 19011KT 9999 DZ BKN016/// OVC019/// 08/06 Q1017 WHT EBFN 281025Z 21012KT 9999 FEW003 BKN005 10/10 Q1015 YLO EBFS 281025Z 21013KT 9000 -RA SCT007 BKN010 07/06 Q1018 GRN DIYO 281000Z 00000KT 9999 SCT012 BKN100 28/24 Q1015 NOSIG YWUD 281030Z AUTO 19005KT //// // ////// 18/06 Q1021 YWTN 281030Z AUTO 03011KT //// // ////// 30/19 Q1015 UHWW 281030Z VRB02MPS 6000 OVC100 06/M03 Q1007 NOSIG RMK QFE754/1006 25CLRD70 TRPG 281000Z 11016KT 9999 HZ BKN023 24/18 Q1018 EBLB 281040Z AUTO 20010KT 3300 BR FEW009/// BKN013/// BKN017/// 05/03 Q1018 YLO EBLG 281020Z 19020KT 8000 -RADZ BKN016 08/05 Q1017 BECMG BKN012 TEMPO 20020G30KT YWWL 281030Z AUTO 00000KT //// // ////// 15/03 Q1022 UKBB 281030Z 11009MPS CAVOK 12/00 Q1013 88CLRD95 TEMPO 09012G17MPS YWYM 281030Z AUTO 25005KT //// // ////// 30/20 Q1011 CTNK 281000Z AUTO 00000KT M24/M26 RMK AO1 SOG 36 3008 SLP209 T12381264 UKDD 281030Z 11016G22MPS 4900 BL OVC100 10/01 Q1015 08090070 TEMPO 10015G22MPS UKDE 281030Z 09010G17MPS 050V150 3900 BLDU SCT050 BKN100 09/00 Q1014 02CLRD70 TEMPO 11017G22MPS 1500 DS YWYY 281030Z AUTO 27008KT 9999 // BKN018 12/10 Q1020 TTCP 280930Z 09009G29KT 3000 SHRA BKN016 25/21 Q1016 UIUU 281030Z 04001MPS 9999 SCT043CB OVC100 08/M02 Q1004 NOSIG RMK QFE709/0945 26CLRD60 EBOS 281020Z 20015KT 9000 BKN005 09/09 Q1015 TEMPO BKN004 UKDR 281030Z 11011G17MPS 080V150 CAVOK 11/01 Q1012 3609//70 TEMPO 11015G20MPS OMRK 281000Z 34011KT CAVOK 30/18 Q1013 A2993 CTRA 281000Z AUTO 22002KT M09/M16 RMK AO1 SLP220 T10851155 56006 VANP 280940Z 21008KT 6000 FEW020 SCT025 FEW030TCU W SW BKN100 39/15 Q1009 NOSIG OMSJ 281000Z 30011KT CAVOK 28/18 Q1013 EDAC 271650Z 28014KT 9999 SCT030 BKN075 07/02 Q1017 EDAH 281020Z 29005KT 220V010 9999 SCT033 08/M01 Q1019 EDBC 281020Z 21006KT 170V230 9999 BKN038 BKN043 07/M01 Q1020 UKHH 281030Z 12013MPS 9999 SCT040 BKN100 11/M03 Q1022 070///65 TEMPO 12015G21MPS PFCL 280956Z AUTO 03008KT 10SM CLR 00/M02 A2934 RMK AO2 SLP938 T00001017 FZRANO YYNG 281030Z AUTO 20004KT //// // ////// 09/01 Q1022 ULAA 281030Z 17007G12MPS 080V200 CAVOK 03/M13 Q1024 08CLRD70 NOSIG RMK QFE767/1023 EDDB 281020Z 27008KT 9999 SCT14 SCT025 BKN058 07/04 Q1020 NOSIG EDDC 281020Z 31008KT 9999 SCT024 BKN058 07/01 Q1020 NOSIG EDDE 281020Z 24008KT 9999 SCT040 08/M03 Q1020 NOSIG EDDF 281020Z 21007KT 150V310 9999 FEW044 SCT050 11/M00 Q1020 NOSIG EDDG 281020Z 20010KT CAVOK 11/03 Q1017 NOSIG EDDH 281020Z 21011KT 9999 BKN040 08/01 Q1018 NOSIG KAAA 281035Z AUTO 00000KT 10SM CLR M06/M08 A3027 RMK AO2 T10631078 PFEL 280958Z AUTO 01006KT 9SM -SN FEW015 BKN032 BKN040 M08/M12 A2957 RMK AO2 SLP017 P0000 T10831117 FZRANO KC09 281035Z AUTO 00000KT 10SM CLR M08/M11 A3025 RMK AO2 T10811107 EDDK 281020Z 19014KT 9999 FEW040 BKN075 12/01 Q1018 NOSIG EDDL 281020Z 20015KT 9999 FEW030 BKN070 12/02 Q1018 NOSIG EDDM 281020Z 28010KT 9999 BKN045 08/M01 Q1022 NOSIG KAAF 280953Z AUTO 34007KT 10SM CLR 08/02 A3012 RMK AO2 SLP198 T00830022 EDDN 281020Z 28006KT 240V330 9999 BKN045 08/M02 Q1021 NOSIG VCBI 281010Z 28009KT 240V320 9999 FEW016 FEW018CB 31/24 Q1007 NOSIG EDDP 281020Z 25006KT 9999 SCT025 BKN040 07/M01 Q1021 NOSIG UKKK 281030Z 10008MPS CAVOK 12/02 Q1013 08CLRD70 TEMPO 10011G18MPS EDDR 281020Z 23012KT 200V260 9999 FEW036 BKN040 10/00 Q1021 NOSIG EDDS 281020Z VRB05KT 9999 FEW043 09/M02 Q1022 NOSIG UKKM 281000Z AUTO 11007MPS 070V140 9999 NCD 11/03 Q1013 EDDT 281020Z 25007KT 9999 BKN015 BKN023 07/04 Q1020 NOSIG ZPPP 281000Z 10002MPS 050V120 9999 FEW023TCU SCT023 BKN040 15/12 Q1019 NOSIG KABE 280951Z 31005KT 10SM OVC065 M01/M08 A2983 RMK AO2 SLP103 T10061078 EDDV 281020Z 24008KT 200V260 9999 SCT032 08/01 Q1019 NOSIG EDFE 281020Z 23008KT 180V240 CAVOK 11/M02 Q1021 EDDW 281020Z 19011KT 150V220 9999 SCT033 09/02 Q1017 NOSIG KAAO 280954Z AUTO 15007KT 10SM SCT110 06/M01 A2999 RMK AO2 SLP161 T00611006 UKLI 281000Z 31003MPS 270V340 9999 OVC008 06/06 Q1011 28290565 NOSIG KABH 280956Z AUTO 00000KT 10SM CLR A3012 RMK AO2 SLPNO $ KABI 280952Z 14008KT 10SM CLR 10/04 A3007 RMK AO2 SLP167 T01000044 EDFH 281020Z 21014KT 180V240 9999 FEW035 BKN060 08/00 Q1019 UKLL 281030Z 33006MPS 9999 -SHRA BKN006 BKN020CB 07/06 Q1011 31220365 NOSIG KACB 281035Z AUTO 00000KT 10SM CLR M15/M16 A3028 RMK AO2 T11461165 KAAT 281017Z AUTO 32008KT 10SM BKN029 07/03 A3025 RMK AO2 T00720028 KC29 281035Z AUTO 00000KT 10SM CLR M08/M11 A3025 RMK AO1 T10811109 UKLN 281030Z 30005MPS 270V330 9999 SCT017CB BKN100 10/07 Q1009 3319//65 NOSIG EDFM 281020Z 21008KT 150V250 CAVOK 11/M01 Q1022 KC35 281035Z AUTO 00000KT 10SM CLR M09/M12 A3024 RMK AO2 T10871116 UKLR 281030Z VRB02MPS 9999 SCT026CB OVC100 13/05 Q1010 NOSIG KABQ 280952Z 11006KT 10SM CLR 08/M07 A3019 RMK AO2 SLP168 T00781072 KABR 280953Z AUTO 15008KT 10SM OVC028 00/M03 A3006 RMK AO2 SLP195 T00001033 UKLU 281000Z 34008G13MPS 9999 BKN040 10/01 Q1011 NOSIG KACJ 281035Z AUTO 30005KT 10SM CLR 03/01 A3010 RMK AO2 KACK 281047Z 03012KT 7SM -RA FEW008 BKN011 OVC036 03/02 A2965 RMK AO2 RAE12B40 P0001 KADC 281034Z AUTO 00000KT 10SM CLR M07/M10 A3013 RMK AO2 KADF 280956Z AUTO 00000KT 10SM CLR 05/04 A3017 RMK AO2 T00500044 SLP230 KADG 280953Z AUTO 35005KT 10SM CLR M09/M14 A3019 RMK AO2 SLP239 T10941144 TSNO KABY 280953Z AUTO 30005KT 10SM CLR 06/01 A3010 RMK AO2 SLP193 T00560006 KACP 281035Z AUTO 00000KT 10SM CLR 05/04 A3018 RMK AO2 T00460040 KACQ 281019Z AUTO 11004KT 10SM SCT070 OVC080 M06/M09 A3019 RMK AO2 KADH 281035Z AUTO 19009KT 10SM CLR 07/03 A3005 RMK AO2 EDHI 281020Z 19009KT 140V230 9999 SCT028 09/02 Q1018 EDGS 281020Z 23012KT 190V260 9999 SCT030 06/M01 Q1018 KACT 280951Z 16003KT 10SM CLR 09/04 A3012 RMK AO2 SLP197 T00890044 EDHK 281020Z 21007KT 160V250 9999 FEW018 BKN040 07/01 Q1017 EDHL 281020Z 20010KT 150V240 9999 SCT020 BKN048 08/02 Q1018 RMK ATIS JUL KACV 280953Z AUTO 07003KT 10SM CLR 07/07 A3032 RMK AO2 SLP274 T00670067 KADM 281035Z AUTO 00000KT 10SM CLR 04/03 A3007 RMK AO2 T00370030 KAEG 281035Z AUTO 29012KT 10SM CLR 09/M07 A3021 RMK AO2 T00851075 KACY 280954Z 33013KT 10SM BKN090 OVC100 02/M03 A2977 RMK AO2 SLPNO T00221033 $ KAEJ 281035Z AUTO 00000KT 10SM CLR 01/M05 A3028 RMK AO2 T00081048 KADS 281035Z AUTO 14008KT 10SM CLR 11/04 A3010 RMK AO2 T01050037 DNAA 272200Z VRB01KT CAVOK 29/19 Q1015 NOSIG EDJA 281020Z 23008KT 200V290 9999 SCT040 08/M02 Q1021 KAEL 281030Z AUTO 13004KT 10SM OVC080 M04/M08 A3018 RMK AO2 KADU 281035Z AUTO 10004KT 10SM CLR 00/M03 A3014 RMK AO2 UKON 281000Z 09012MPS 9999 FEW033CB OVC100 10/04 Q1008 NOSIG UKOO 281030Z 07005MPS 030V120 9999 -SHRA SCT046CB OVC100 09/06 Q1006 16290055 NOSIG KADW 280958Z AUTO 31016KT 10SM SCT070 01/M08 A2988 RMK AO2 SLP127 T00061082 $ CWAE 280100Z 18003KT 10SM FEW030 BKN045 OVC120 10/08 A2985 RMK SC1SC6AC1 LAST OBS/NEXT 281300UTC WND ESTD SLP118 KAFF 280958Z AUTO VRB05KT 10SM CLR 07/M05 A3014 RMK AO2 SLP151 T00711049 CWAF 281000Z AUTO M09/M13 RMK AO1 T10861134 KAFJ 281035Z AUTO 30005KT 10SM OVC030 M09/M15 A3005 RMK AO1 CWAJ 281000Z AUTO 34011G18KT M08/M14 RMK AO1 PK WND 34018/0951 SLP216 T10831135 53007 CWBA 281000Z AUTO 36004KT M20/M21 RMK AO1 SOG 50 T11961213 KAFK 281035Z AUTO 11010KT 10SM OVC065 00/M02 A3010 RMK AO2 T00011025 KAGC 280953Z AUTO 34010KT 4SM -SN BKN022 OVC028 M09/M15 A3000 RMK AO2 SNB46 SLP180 P0000 T10891150 TSNO TTPP 281000Z 00000KT 6000 -SHRA VCSH SCT014 23/22 Q1016 TEMPO 5000 SHRA SHWRS-NW N NE E SE S KAFN 280952Z AUTO 00000KT 10SM OVC033 00/M03 A2972 RMK AO2 SLP078 T00001033 CWBE 281000Z AUTO 31006KT M14/M19 RMK AO1 SLP243 T11381191 53004 KAEX 280953Z 09003KT 10SM CLR 07/05 A3015 RMK AO2 SLP214 T00720050 KAFO 281035Z AUTO 00000KT 10SM CLR 00/M02 A3017 RMK AO2 KAFP 281035Z AUTO 32005KT 10SM SCT080 03/M01 A2997 RMK AO2 T00331008 KC75 281035Z AUTO 00000KT 10SM CLR M08/M10 A3026 RMK AO2 T10851101 CWAQ 281000Z AUTO 12004KT 01/00 RMK AO1 SLP081 T00130000 58030 CWAR 281000Z AUTO 01004KT 01/01 RMK AO1 3026 SLP033 T00080008 50006 PFKT 280958Z AUTO 26004KT 10SM CLR M15/M18 A2969 RMK AO2 SLP055 T11501178 FZRANO CWCA 281000Z 31009KT 15SM FEW200 M18/M23 A2980 RMK CI1 SLP091 CWBK 281000Z AUTO 02003KT M01/M01 RMK AO1 SOG 87 3026 SLP093 T10081014 PFKW 280956Z AUTO 10008KT 10SM CLR 00/M02 A2942 RMK AO2 SLP962 T00001022 FZRANO $ KAFW 280953Z 15005KT 10SM SCT300 08/04 A3007 RMK AO2 SLP180 T00780039 CWCF 281000Z AUTO 18006KT M03/M04 RMK AO1 SOG 05 6022 SLP164 T10291035 CWBO 281000Z AUTO 24011G18KT 13/03 RMK AO1 SOG 02 8029 PK WND 25018/0959 SLP999 T01340031 CWCI 281000Z AUTO 30009KT M11/M11 RMK AO1 SLP248 T11061114 53001 KAIA 280953Z AUTO 27006KT 10SM CLR M01/M03 A2997 RMK AO2 SLP140 T10111033 KAGS 280953Z AUTO 30006KT 10SM CLR 04/M01 A3000 RMK AO2 SLP159 T00391006 EDMA 281020Z 31010KT CAVOK 09/M04 Q1022 RMK ATIS YAN CWDA 281000Z AUTO 07011KT M04/M04 RMK AO1 SLP057 T10361038 53019 CWCJ 281000Z AUTO 05002KT M22/M24 RMK AO1 SLP245 T12191239 55000 CWBS 281000Z AUTO 34017KT M09/M18 RMK AO1 PK WND 34020/0952 T10941183 KAIB 281035Z AUTO 12009KT 10SM CLR 04/M05 A3027 RMK AO2 CWBT 281000Z AUTO 34001KT M17/M19 RMK AO1 SLP125 T11741193 51030 KAID 271948Z 31015G20KT 10SM OVC045 M01/M09 A3006 CWDC 281000Z AUTO 25003KT M01/M01 RMK AO1 SLP005 T10121012 56013 CWBU 281000Z AUTO 20011KT 00/M01 RMK AO1 SOG 01 6035 SLP084 T00001010 CWBV 281000Z AUTO 02009KT M00/M01 RMK AO1 SLP081 T10031006 53023 KAHN 280951Z AUTO 31006KT 10SM CLR 03/M03 A3000 RMK AO2 SLP163 T00281033 EDLN 281020Z 20011KT 160V250 9999 SCT043 BKN065 12/03 Q1017 RMK ATIS H CWCO 282300Z AUTO 29017G22KT M07/M13 RMK AO1 PK WND 26022/2208 SLP176 T10711134 53008 KAIG 281035Z AUTO 16004KT 10SM CLR M11/M15 A3020 RMK AO2 T11121151 CWBY 281000Z AUTO 05002KT M12/M17 RMK AO1 SOG 24 1023 SLP113 T11241167 EDLP 281020Z 23011KT 200V260 9999 SCT040 08/M00 Q1018 RMK ATIS IND KAHQ 281035Z AUTO 11009KT 10SM CLR 00/M04 A3009 RMK AO2 T10021036 OOMS 280950Z 02007KT 340V060 9999 FEW025 SCT090 31/17 Q1012 NOSIG CWBZ 281000Z AUTO 01003KT M08/M11 RMK AO1 SLP165 T10751109 53012 UMBB 281030Z 32004G07MPS 8000 -SHRA OVC008CB 06/05 Q1013 R29/290050 NOSIG KD07 280956Z AUTO 17009KT 02/M01 A2993 RMK AO1 SLP140 T00221006 CWDJ 281000Z AUTO 14015G20KT 01/M01 RMK AO1 SOG 01 8034 PK WND 15020/0957 SLP095 T00071009 KBAB 280958Z AUTO 04005KT 10SM CLR 13/10 A3011 RMK AO2 SLP199 T01330104 $ KAIK 281035Z AUTO 28003KT 10SM CLR 01/00 A3003 RMK AO2 CWEB 281000Z AUTO 28028G33KT 09/08 RMK AO1 3040 PK WND 28040/0909 SLP166 T00940076 50002 CWDK 281000Z AUTO 21011KT 11/02 RMK AO1 SLP030 T01120019 56025 CWCT 281000Z AUTO 27008KT 06/M00 RMK AO1 SLP006 T00571004 56018 KBAC 281035Z AUTO 15007KT 10SM OVC023 M03/M03 A3005 RMK AO2 KBAD 280958Z AUTO 13003KT 10SM CLR 06/03 A3014 RMK AO2 SLP209 T00550032 CWDM 281000Z AUTO 01011KT M07/M09 RMK AO1 SOG 61 1030 PK WND 01018/0919 SLP075 T10661092 EDLV 281020Z 19013KT 170V230 CAVOK 11/03 Q1017 PFNO 281047Z AUTO 25003KT 1 1/4SM BR SCT003 M23/M26 A2969 RMK AO2 VIS 3/4V3 FZRANO KBAF 280953Z AUTO 34008KT 10SM OVC034 02/M03 A2973 RMK AO2 SLP074 T00171033 EDLW 281020Z 22013KT 9999 FEW044 11/01 Q1017 RMK ATIS M KAIO 281035Z AUTO 11005KT 10SM BKN050 OVC065 00/M03 A3013 RMK AO2 EDMO 281020Z 26008KT 220V300 9999 SCT040 08/M03 Q1021 RMK ATIS I CWEF 281000Z AUTO 35009KT M02/M02 RMK AO1 SLP080 T10191015 53019 CWDO 281000Z AUTO 05008KT M02/M03 RMK AO1 SOG 44 3032 SLP053 T10231033 KAJG 281035Z AUTO 36004KT 10SM CLR M02/M08 A3023 RMK AO2 CWDQ 281000Z AUTO 35007KT M16/M22 RMK AO1 SOG 39 3009 SLP186 T11551215 CWEH 281000Z AUTO 23006KT 08/01 RMK AO1 SLP051 T00800012 58025 EEEI 280950Z 28007KT 9999 -RA OVC004 03/02 Q1012 NOSIG KBAK 281030Z 35005KT 10SM SKC M07/M11 A3021 KAIT 281033Z AUTO 00000KT 10SM CLR M09/M12 A3015 RMK AO2 KBBB 281034Z AUTO 17008KT 10SM BKN047 M03/M06 A3014 RMK AO2 CWDT 281000Z AUTO 32001KT M23/M26 RMK AO1 SLP177 T12261261 52007 CWEK 281000Z AUTO 18009KT 08/ RMK AO1 SLP116 T0077 53005 KAJL 281035Z AUTO 24012KT 10SM CLR 00/M03 A3023 RMK AO2 T00001030 CWEL 281000Z AUTO 22012KT 12/04 RMK AO1 PK WND 24017/0907 SLP129 T01170041 53014 KBBD 281035Z AUTO 18006KT 10SM CLR 14/02 A3009 RMK NWWW 281030Z AUTO 12006KT 9999 BKN066 BKN140 22/17 Q1017 CWDV 281000Z AUTO 16002KT M21/M24 RMK AO1 SOG 38 5001 SLP237 T12131235 CWFD 281000Z AUTO 31009KT 9SM FEW060 FEW075 M25/ A2900 RMK SLP919 KBAN 280952Z AUTO VRB03KT 10SM CLR 08/M08 A3025 RMK AO2 SLP160 T00831078 $ KAJO 280956Z AUTO 00000KT 10SM CLR 11/07 A3007 RMK AO2 T01050066 SLP174 $ KBBF 281035Z AUTO 23014KT 10SM CLR 21/12 A3012 RMK A01 CWFF 281000Z AUTO 19017KT M00/M00 RMK AO1 SOG 00 8039 PK WND 19021/0948 SLP083 T10011002 ULLI 281030Z 15006G11MPS 110V200 CAVOK 06/M01 Q1017 88090070 NOSIG KBBG 281035Z AUTO 00000KT 10SM SCT040 BKN060 OVC070 04/M04 A3012 RMK AO2 KD25 281035Z AUTO 00000KT 10SM CLR M15/M17 A3016 RMK AO2 T11551169 CWEP 282300Z AUTO 31006KT M00/M01 RMK AO1 SOG 132 3017 SLP053 T10031010 KAIZ 281035Z AUTO 00000KT 4SM BKN032 BKN037 OVC060 02/M03 A3016 RMK AO1 KAKH 280954Z AUTO 33003KT 10SM CLR 03/M05 A2995 RMK AO2 SLP147 T00281050 CWDZ 281000Z AUTO 00000KT 03/M00 RMK AO1 SLP006 T00291003 58020 CWEQ 281000Z AUTO 22007KT M01/M02 RMK AO1 SLP131 T10081022 56027 CWER 281000Z AUTO 33006KT RMK AO1 CWFJ 281000Z AUTO 20010G15KT 11/01 RMK AO1 T01120008 KALB 280951Z 30007KT 8SM -SN OVC021 M02/M06 A2985 RMK AO2 SLP110 OCNL DRSN P0000 T10221061 KBCB 281035Z AUTO 30012G17KT 10SM OVC044 M05/M12 A2996 RMK AO2 T10531125 CWGB 281000Z AUTO 18002KT 11/05 RMK AO1 SLP126 T01070050 53021 CWEU 281000Z 00000KT 15SM FEW120 M38/M43 A2979 RMK AC1 SLP091 CWGD 281000Z AUTO 03006KT M12/M17 RMK AO1 SOG 03 3010 SLP222 T11151170 KBCE 280953Z AUTO 27009KT 10SM CLR 01/M04 A3032 RMK AO2 SLP183 T00061044 CWEW 281000Z AUTO 35008KT M09/M15 RMK AO1 SOG 02 3012 SLP177 T10941153 KAKO 280953Z AUTO 25012KT 10SM CLR 07/M01 A3003 RMK AO2 SLP137 T00671006 KBAX 281034Z AUTO 00000KT 10SM OVC040 M07/M14 A3019 RMK AO2 T10701139 KBBP 281035Z AUTO 35008KT 10SM RA SCT023 BKN049 OVC075 06/00 A2997 RMK AO2 KBAZ 280951Z AUTO 00000KT 10SM CLR 09/06 A3011 RMK AO2 SLP190 T00940056 EDOP 281020Z 21007KT 9999 BKN015 OVC055 07/03 Q1019 KAJZ 281035Z AUTO 07005KT 10SM CLR 07/M03 A3022 RMK AO2 T00711033 KAKQ 280954Z AUTO 33007KT 300V360 10SM OVC065 03/M02 A2988 RMK AO2 SLP119 T00331017 TSNO EDNY 281020Z 24004KT 160V310 9999 FEW035 10/M03 Q1022 CWEZ 281000Z AUTO 21019G26KT 09/07 RMK AO1 PK WND 21029/0922 SLP147 T00890074 53010 CWFQ 281000Z AUTO 01010G16KT M09/M15 RMK AO1 SOG 29 3011 PK WND 02018/0907 SLP135 T10871154 KALI 280953Z AUTO 23006KT 10SM 11/08 A3013 RMK AO2 SLP202 T01110078 PNO $ KAKR 281009Z AUTO 35006KT 10SM SCT023 OVC031 M09/M13 A3008 RMK AO2 SNE0959 P0000 T10891133 KAMA 280953Z AUTO 20005KT 10SM CLR 06/01 A3006 RMK AO2 SLP152 T00610011 ULMM 281030Z 16005MPS 9999 BKN025 BKN080 M01/M05 Q1006 NOSIG RMK QFE748 13420355 KD39 281032Z AUTO 00000KT 10SM CLR M05/M09 A3015 RMK AO2 T10501095 KALK 280956Z AUTO 23007KT 10SM CLR 14/M08 A3023 RMK AO2 SLP153 T01391078 KBCK 281035Z AUTO 00000KT 10SM CLR M13/M15 A3022 RMK AO2 T11341152 CWGL 281000Z AUTO 35008KT M13/M18 RMK AO1 SLP204 T11291181 53009 KALM 281035Z AUTO 05003KT 10SM CLR 10/M09 A3014 RMK AO2 CWGM 281000Z AUTO 22018G30KT 11/03 RMK AO1 PK WND 20030/0953 T01110028 KBDE 280953Z AUTO 00000KT 10SM CLR M09/M11 A3011 RMK AO2 SLP215 I1000 T10891111 TSNO KBBW 280953Z AUTO 36005KT 10SM CLR 01/M01 A2997 RMK AO2 SLP159 T00061011 KALN 281035Z AUTO 07004KT 10SM CLR M02/M06 A3023 RMK AO2 T10251065 KALO 280954Z 09004KT 10SM FEW100 M07/M09 A3019 RMK AO2 SLP236 T10671089 KAMG 280953Z AUTO 30005KT 10SM CLR 07/01 A3004 RMK AO2 SLP172 T00670006 KBDG 281035Z AUTO 02003KT 10SM CLR 06/M05 A3028 RMK AO1 T00561052 KBDH 281035Z AUTO 13006KT 10SM OVC050 M03/M06 A3016 RMK AO2 NZAA 281030Z AUTO 35003KT 9999 FEW027/// SCT055/// 19/18 Q1014 NOSIG OOSA 280950Z 17009KT CAVOK 30/15 Q1012 NOSIG CWHI 280900Z AUTO 27007KT 06/M01 RMK AO1 T00581012 CWGR 281000Z AUTO 32008KT M03/M04 RMK AO1 SLP090 T10331041 53016 ZSAM 281000Z 09004MPS CAVOK 19/12 Q1017 NOSIG KALS 280952Z AUTO 32009KT 10SM CLR 04/M07 A3027 RMK AO2 SLP182 T00441072 KBEA 281035Z AUTO 23004KT 10SM CLR 12/07 A3013 RMK AO2 T01200071 KBCT 280247Z 26010KT 10SM OVC100 21/18 A2992 RMK LAST KANB 280953Z AUTO 30004KT 10SM CLR 03/M02 A3011 RMK AO2 SLP203 T00281017 KD50 281035Z AUTO 18010KT 10SM CLR 00/00 A2983 RMK AO2 CWGT 281000Z AUTO 24021G26KT 11/06 RMK AO1 PK WND 24026/0957 SLP121 T01070063 51018 KBDL 280951Z 34007KT 10SM OVC032 03/M03 A2973 RMK AO2 SLP068 T00281028 CWHL 281000Z AUTO 13008KT 07/06 RMK AO1 SLP117 T00690055 53005 KAND 280956Z AUTO 30006KT 10SM CLR 03/M03 A2997 RMK AO2 SLP151 T00281028 KBED 280956Z 36006KT 10SM BKN049 BKN055 OVC075 02/M01 A2971 RMK AO2 SLP076 T00171011 EDQM 281020Z 27009KT 170V310 9999 BKN041 06/M04 Q1020 CWHM 281000Z AUTO 36011KT M08/M14 RMK AO1 PK WND 00018/0929 T10811135 KALW 280953Z AUTO 19018G24KT 4SM -RA FEW033 BKN045 OVC060 11/08 A3006 RMK AO2 PK WND 18030/0943 SLP176 P0019 T01110078 KANE 281034Z AUTO 00000KT 10SM CLR M07/M11 A3019 RMK AO2 KAMN 281032Z AUTO 33003KT 10SM CLR M11/M15 A3024 RMK AO2 T11121146 KBDN 281035Z AUTO 00000KT 10SM FEW055 05/00 A3021 RMK AO2 CWGW 281000Z AUTO 16010G18KT 10/06 RMK AO1 PK WND 16018/0953 SLP058 T01000055 56022 CWHN 281000Z AUTO 09003KT 9SM CLR 01/01 A2950 RMK SLP011 KALX 281035Z AUTO 32004KT 10SM CLR 04/01 A3012 RMK AO2 T00400005 CWGX 281000Z AUTO 21009KT M06/M09 RMK AO1 SLP098 T10571094 58022 CWHO 281000Z AUTO 26011KT M20/M24 RMK AO1 SLP082 T11951235 53001 PFSH 281043Z AUTO 02019KT 4SM -SN BR BKN026 OVC034 M11/M12 A2957 RMK AO2 P0000 FZRANO CWHP 281000Z AUTO 32009KT M06/M08 RMK AO1 SLP086 T10581075 53023 CWIG 281000Z AUTO 07009KT RMK AO1 CWGY 281000Z AUTO 20011KT 09/02 RMK AO1 PK WND 19017/0907 SLP011 T00940021 56021 KBEH 280953Z AUTO 04003KT 10SM CLR M10/M16 A3024 RMK AO2 SLP251 T11001156 CWGZ 280900Z 00000KT 15SM FEW080 M31/M35 A2967 RMK AC1 SLP055 CWHQ 281000Z AUTO 34005KT M10/M18 RMK AO1 T10951177 KBDR 280952Z AUTO 34011KT 10SM OVC046 02/M03 A2972 RMK AO2 SLP063 T00221033 KD57 281035Z AUTO 00000KT 10SM CLR M04/M05 A2992 RMK AO2 CWII 281000Z AUTO 17009KT M04/M07 RMK AO1 T10441070 KANJ 280955Z AUTO 26003KT 10SM CLR M16/M18 A3023 RMK AO2 SLP252 I1000 T11611183 CWIJ 281000Z AUTO 35008KT M11/M12 RMK AO1 SOG 74 3008 SLP990 T11081123 KD60 281035Z AUTO 15009KT 8SM CLR 00/00 A2989 RMK AO2 KANK 281035Z AUTO 33005KT 10SM CLR 04/M04 A3035 RMK AO1 T00381040 OPKC 281025Z 25012KT 7000 FEW100 SCT200 33/16 Q1009 240G25KT CWJB 281000Z AUTO 32004KT M08/M15 RMK AO1 SOG 30 T10821153 CWHT 281000Z AUTO 10001KT M07/M09 RMK AO1 SOG 22 2006 SLP079 T10681086 CWIK 281000Z AUTO 18010KT M00/M01 RMK AO1 SOG 00 8021 SLP129 T10021010 EDSB 281020Z 21010KT 160V250 CAVOK 11/M02 Q1022 KBDU 281037Z AUTO 22004KT 10SM CLR 10/M02 A3006 RMK AO2 CWJC 281000Z AUTO 24021KT M03/M04 RMK AO1 SOG 01 7026 PK WND 24023/0906 SLP955 T10291039 ULOO 281030Z 17006MPS P6000 FEW020CB OVC070 05/01 Q1016 NOSIG RMK QFE758 CWIL 281000Z AUTO 05007KT M33/ A2968 RMK SLP064 KBFD 281032Z AUTO 33010KT 2 1/2SM -SN OVC023 M11/M14 A2989 RMK AO2 SNB08 P0000 T11111139 CWHV 281000Z AUTO 33005KT M08/M12 RMK AO1 SLP126 T10841123 51012 CWJD 281000Z AUTO 22007KT M01/M03 RMK AO1 SLP132 T10101029 58030 UMGG 281030Z 12009G14MPS CAVOK 11/02 Q1019 R10/CLRD// NOSIG KAMW 280953Z AUTO 10003KT 10SM OVC075 M03/M08 A3017 RMK AO2 SLP224 T10281083 NZAP 281000Z 02004KT 20KM BKN022 16/15 Q1015 RMK ALT VATSIM USE ONLY KBFF 280953Z AUTO 34004KT 10SM CLR 02/M02 A2999 RMK AO2 SLP136 T00221017 CXAF 281000Z AUTO 25007KT 01/01 RMK AO1 T00050010 TUPJ 280300Z 11010KT 9999 SCT021 25/21 Q1020 RMK A3012 CXAG 280900Z AUTO 19002KT 01/M00 RMK AO1 T00091002 CWIP 281000Z AUTO 33007KT M11/ RMK AO1 T1112 KAOH 280953Z AUTO 01009KT 10SM OVC035 M07/M14 A3016 RMK AO2 SNE35 SLP225 P0000 T10671139 KANQ 281115Z AUTO 00000KT 10SM CLR M10/M14 A3020 RMK CWJH 281000Z AUTO 22003KT 01/M02 RMK AO1 SOG 29 6030 SLP047 T00051018 KBFI 281014Z 18014G20KT 10SM BKN013 12/07 A3008 RMK AO2 OPLA 281030Z 24004KT 8000 FEW100 SCT200 35/12 Q1009 CWJI 281000Z AUTO 14008KT 03/01 RMK AO1 SLP072 T00290013 58034 KAPA 280953Z 23010KT 10SM CLR 09/M03 A3010 RMK AO2 SLP150 T00941028 PHBK 280956Z AUTO 08005KT 10SM CLR 21/17 A3017 RMK AO2 SLP219 T02110167 402720189 CXBA 281000Z AUTO 18005KT 05/02 RMK AO1 T00490022 CXAJ 281000Z AUTO 01009KT 04/02 RMK AO1 T00360020 CWIS 281000Z AUTO 21009KT M19/M20 RMK AO1 SOG 94 3007 SLP125 T11861204 EEKA 280850Z 28004KT 9999 -RA BKN007 OVC030 03/03 Q1012 CXAK 281000Z AUTO 23006KT 04/M01 RMK AO1 T00401013 KAPC 280954Z AUTO 18003KT 10SM CLR 05/05 A3015 RMK AO2 SLP199 T00500050 KBFL 280954Z AUTO 05005KT 10SM CLR 17/09 A3011 RMK AO2 SLP189 T01670094 KBGD 280951Z AUTO 25007KT 10SM CLR 10/02 A3005 RMK AO2 SLP151 T01000017 KBFM 280953Z 35007KT 10SM CLR 07/02 A3018 RMK AO2 SLP221 T00720022 KBGE 281035Z AUTO 31006KT 10SM CLR 07/03 A3013 RMK AO2 KANW 281035Z AUTO 00000KT 10SM SCT075 00/M02 A2998 RMK AO2 T00001018 CWIW 281000Z AUTO 16012KT M00/M00 RMK AO1 SLP080 T10031002 58042 KAPF 280953Z 02005KT 10SM CLR 17/11 A3006 RMK AO2 SLP178 T01720106 KAOO 280953Z AUTO 30010KT 10SM CLR M08/M14 A2990 RMK AO2 SLP144 T10781139 EEKE 280950Z 31005KT 270V340 9999 FEW011 SCT015 BKN018 06/04 Q1013V R17/290295 KBGF 281035Z AUTO 36007KT 10SM CLR M02/M08 A3014 RMK KAPG 272353Z 02005KT 7SM BKN060 07/M01 A2979 RMK LAST CWJO 281000Z AUTO 24008KT M16/M21 RMK AO1 SLP187 T11641214 53014 NZCH 281030Z AUTO 05004KT 2900 BR OVC002/// 14/14 Q1005 BECMG 0400 FG NZCI 281000Z 04004KT 15KM VCSH BKN080 20/15 Q1012 RMK ALT NZNR VATSIM USE ONLY CWIY 281000Z AUTO 32003KT M10/M13 RMK AO1 SLP127 T11041131 53012 CWKG 281000Z AUTO 01003KT M00/M00 RMK AO1 SOG 76 0015 SLP077 T10041002 CWIZ 281000Z AUTO 35004KT M07/M12 RMK AO1 T10741115 CWKH 281000Z AUTO 07/04 RMK AO1 2PAST HR 3011 SLP135 P0001 T00650035 50002 CXBI 281000Z AUTO 35006KT M14/M19 RMK AO1 2PAST HR 3010 SLP213 P0001 T11361186 50002 CWJR 281000Z AUTO 09011G18KT 10/08 RMK AO1 PK WND 10018/0954 SLP080 T00960075 56020 CXCA 281000Z AUTO 00000KT M19/M21 RMK AO1 SLP249 T11891208 51002 KBHB 281035Z 01009KT 10SM OVC080 M01/M04 A2980 RMK AO1 NZCM 280555Z 35012KT 9999 IC FEW025 BKN060 BKN150 M18/M21 A2897 RMK SLP817 FG DSNT S CWKK 281000Z AUTO 18006KT M17/M19 RMK AO1 SOG 21 8002 SLP227 T11661189 CXAT 281000Z AUTO 30001KT M33/M36 RMK AO1 SOG 00 1004 SLP049 T13251359 CXBK 281000Z AUTO 13014KT 01/M00 RMK AO1 PK WND 14019/0947 SLP084 T00051003 58034 CWJT 281000Z AUTO 34002KT M13/M19 RMK AO1 SLP178 T11291194 53010 CWLB 281000Z AUTO 32005KT 03/02 RMK AO1 SLP014 T00330019 55006 KBHC 281035Z AUTO 31004KT 10SM CLR 06/02 A3005 RMK AO2 EDTL 280950Z 21008KT 170V300 CAVOK 11/M01 Q1022 CWJU 281000Z AUTO 16006KT 05/03 RMK AO1 SLP105 T00520034 58008 CWLC 281000Z AUTO 13009KT 07/06 RMK AO1 T00700061 KBGM 281001Z 35014KT 10SM SCT013 BKN120 M08/M11 A2983 RMK AO2 T10831111 CXCD 281000Z AUTO 24002KT 02/M01 RMK AO1 T00161007 CWJV 281000Z AUTO 34004KT 10/08 RMK AO1 SLP075 T00960075 55000 CWKM 281000Z AUTO 27011KT M18/ A2981 RMK SLP100 KAPN 280954Z AUTO 29003KT 10SM CLR M12/M14 A3022 RMK AO2 SLP249 T11221144 KBFW 281034Z AUTO 00000KT 10SM CLR M14/M16 A3017 RMK AO2 CWLE 281000Z AUTO 18014KT 04/03 RMK AO1 PK WND 16019/0913 SLP036 T00420026 58048 CWJW 281000Z AUTO 18003KT 04/04 RMK AO1 4PAST HR 8006 SLP043 P0005 T00350038 50019 VCRI 281010Z 09007KT 050V130 9999 SCT017 30/24 Q1007 NOSIG CXBO 281000Z AUTO 02003KT RMK AO1 CWJX 281000Z AUTO 20007KT 07/03 RMK AO1 SLP019 T00730034 57029 CWKO 281000Z AUTO 14010KT 02/01 RMK AO1 SLP084 T00240013 57029 UMII 281000Z 13006G10MPS P6000 FEW040 OVC100 06/01 Q1019 NOSIG UNAA 281030Z 34006MPS 3900 -SHSN SCT006 OVC030CB M02/M04 Q1017 NOSIG RMK QFE740 52290055 CWKP 281000Z AUTO 10011KT M20/ A2960 RMK SLP069 CXCH 281000Z AUTO M01/M03 RMK AO1 SOG 79 T10131031 KBGR 280953Z 10SM OVC048 M02/M08 A2984 RMK AO2 SLP105 T10171078 CXBR 281000Z AUTO 20010KT 07/01 RMK AO1 T00720006 CWLI 281000Z AUTO 07009KT M20/ A2969 RMK SLP072 KARA 280953Z AUTO 09004KT 10SM CLR 11/05 A3018 RMK AO2 SLP218 T01060050 KARB 280953Z AUTO 34008KT 10SM CLR M09/M14 A3018 RMK AO2 SLP233 T10941144 KBHK 280951Z AUTO 12005KT 10SM CLR 04/01 A2987 RMK AO2 SLP111 T00390006 CXCK 281000Z AUTO 00000KT M04/M05 RMK AO1 SOG 27 3008 SLP068 T10401047 CXDB 281000Z AUTO 16010KT 09/01 RMK AO1 T00920012 NZDN 281000Z 07008KT 45KM BKN095 13/12 Q1004 RMK ALT VATSIM USE ONLY KBHM 280953Z 30004KT 10SM OVC110 02/M01 A3015 RMK AO2 SLP211 T00221006 KBID 281035Z AUTO 01006KT 5SM BKN011 OVC018 03/01 A2968 RMK AO1 P0001 CWLM 281000Z AUTO 26022G34KT 09/07 RMK AO1 PK WND 26034/0955 SLP167 T00880073 53015 KBIE 281035Z AUTO 09008KT 10SM SCT090 OVC120 02/M03 A3005 RMK AO2 T00161032 EDVE 280920Z 22005KT 180V250 9999 FEW018 SCT021 OVC047 07/04 Q1020 CXBW 280900Z AUTO 21011KT 09/03 RMK AO1 T00850028 CWME 281000Z AUTO 20005KT 06/06 RMK AO1 SLP149 T00630056 51025 CXDE 281000Z AUTO 13002KT M06/M10 RMK AO1 SOG 11 3019 SLP031 T10641095 CWKW 281000Z AUTO ///// M20/ A2933 RMK SLP995 KBIF 280958Z AUTO 14009KT 10SM CLR 13/M07 A3012 RMK AO2 SLP150 T01321067 KAQO 281035Z AUTO 00000KT 10SM CLR 07/05 A3014 RMK AO2 CWKX 281000Z AUTO 34001KT M04/M06 RMK AO1 SOG 42 2002 SLP117 T10411056 KAQP 281034Z AUTO 15006KT 10SM OVC042 M01/M04 A3013 RMK AO2 KD95 281034Z AUTO 34005KT 10SM OVC037 M08/M12 A3018 RMK AO2 T10821122 OPNH 280955Z 31504KTS 6000M HZ NSC 39/14 Q1007 KAPY 280735Z AUTO 16005KT 10SM CLR 13/05 A3016 RMK AO2 T01350057 EDTY 271950Z 26005KT CAVOK 07/M02 Q1022 CXCP 281000Z AUTO 22009KT 06/01 RMK AO1 T00580013 CWLP 281000Z AUTO 31007KT 09/07 RMK AO1 SLP155 T00880071 51021 KBIH 280956Z AUTO 32007KT 10SM CLR 08/M05 A3015 RMK AO2 SLP172 T00831050 UNBB 281030Z 33004MPS 9999 BKN019CB BKN100 M05/M09 Q1021 NOSIG RMK QFE744/0992 24CLRD60 KAQR 281035Z AUTO 16003KT 10SM CLR 05/01 A3008 RMK AO2 CXDI 281000Z AUTO 35005KT M10/M15 RMK AO1 SLP194 T11031153 53006 OPMT 280958Z 23008KTS 5000 HZ FEW120 SCT200 35/16 Q1007 NOSIG KBIJ 281035Z AUTO 28003KT 10SM CLR 06/02 A3014 RMK AO2 CXCS 281000Z AUTO 25007KT 05/01 RMK AO1 T00520013 CXEA 281000Z AUTO 11002KT M14/M15 RMK AO1 SOG 24 6007 SLP216 T11381150 CWLS 281000Z AUTO 34004KT M15/M18 RMK AO1 SOG 00 3009 SLP214 T11461176 CWMJ 281000Z AUTO 35003KT M16/M21 RMK AO1 SOG 16 3007 SLP197 T11611207 CWNB 281000Z AUTO RMK AO1 53005 CXDK 281000Z AUTO 00000KT M09/M10 RMK AO1 SOG 34 3008 SLP033 T10921099 KBJC 281036Z AUTO 27009KT 10SM CLR 11/M02 A3009 RMK AO2 KBIL 280953Z 23011KT 10SM CLR 11/00 A2987 RMK AO2 SLP093 T01110000 EDVK 281020Z 20008KT 160V220 9999 SCT036 08/01 Q1018 RMK ATIS L KE11 281035Z AUTO 22010G16KT 10SM CLR 12/01 A3006 RMK AO2 T01150012 CXEC 271500Z AUTO 04/ RMK AO1 T0037 CWNC 281000Z AUTO 02007KT M10/M19 RMK AO1 SOG 00 3011 PK WND 03017/0929 SLP185 T11021190 KASD 280953Z AUTO 00000KT 10SM CLR 06/04 A3017 RMK AO2 SLP217 T00560039 KCAD 281035Z AUTO 00000KT 10SM CLR M16/M18 A3019 RMK AO2 T11581187 KAQV 280956Z AUTO 00000KT 10SM CLR 07/05 A3014 RMK AO2 SLP207 T00720050 KARM 281035Z AUTO 00000KT 1SM BR VV007 09/09 A3014 RMK AO2 T00930091 CWND 282218Z M01/M01 RMK SOG 12 8036 T10131008 CWMM 281000Z AUTO 17005KT 10/07 RMK AO1 1015 SLP147 T01010072 50005 KASE 280953Z AUTO 21006KT 10SM BKN085 01/M04 A3028 RMK AO2 SLP185 T00061044 KAQW 280952Z AUTO VRB05KT 4SM -SN OVC012 M02/M04 A2980 RMK AO2 SNB07 SLP097 P0001 T10171044 KCAE 280956Z 32006KT 10SM OVC055 07/M02 A2997 RMK AO2 SLP147 T00721017 CWNE 281000Z AUTO 36010KT M02/M04 RMK AO1 SLP102 T10191037 53024 KAQX 281035Z AUTO 00000KT 10SM CLR 06/02 A3000 RMK AO2 KASG 280148Z 30008KT 10SM OVC075 07/M04 A3017 CWLX 281000Z AUTO 08010KT M28/ A2944 RMK SLP998 KCAG 280953Z AUTO 00000KT 10SM CLR M01/M03 A3021 RMK AO2 SLP207 T10111033 CXEG 281000Z AUTO 06/M00 RMK AO1 T00641004 CXDP 281000Z AUTO 33007KT 03/02 RMK AO1 T00280023 CWLY 281000Z AUTO 20017G33KT 9SM -RA BKN050 OVC080 10/06 A2981 RMK SLP096 KASH 280951Z AUTO 35007KT 10SM OVC040 02/M02 A2974 RMK AO2 FZRANO T00221016 UPB0855E30 P0000 SLP325 $ KE16 281035Z AUTO 00000KT 10SM SCT021 09/09 A3017 RMK AO2 CWMQ 281000Z AUTO 19007KT 11/03 RMK AO1 SLP031 T01080026 56028 UMKK 281030Z 32005MPS 270V010 7000 SCT013 BKN200 08/04 Q1016 R24/29//60 NOSIG RMK QFE761/1015 CWNH 281000Z AUTO 01006KT M10/M15 RMK AO1 SOG 17 3013 SLP152 T11001154 ZSHC 281030Z 09001MPS CAVOK 19/10 Q1016 NOSIG KARR 280952Z AUTO 32005KT 9SM CLR M09/M12 A3024 RMK AO2 SLP251 I1000 T10891117 KBJI 281031Z AUTO 00000KT 10SM CLR M11/M14 A3012 RMK AO2 T11091136 PFWS 280956Z AUTO 05013KT 10SM BKN120 01/M02 A2933 RMK AO2 SLP937 T00111017 FZRANO KBIS 281016Z AUTO 16007KT 1 3/4SM R31/3500VP6000FT BR OVC002 M01/M02 A2999 RMK AO2 T10111017 VECC 281050Z 16009KT 3500 HZ FEW020 31/21 Q1008 NOSIG KBJJ 280956Z AUTO 34008KT 10SM CLR M09/M14 A3010 RMK AO2 SLP210 T10941139 TSNO KASJ 281035Z AUTO 31003KT 10SM SCT065 OVC075 03/01 A2991 RMK AO2 T00300010 KCAK 280951Z 35007KT 10SM -SN FEW025 M10/M15 A3007 RMK AO2 SNB50 SLP201 P0000 T11001150 $ KBKB 280954Z AUTO 00000KT 10SM CLR 08/04 A3014 RMK AO2 SLP235 T00780044 KART 280956Z AUTO 01005KT 10SM OVC085 M08/M16 A3002 RMK AO2 SLP174 T10831156 CWNK 281000Z AUTO 14006KT M07/M08 RMK AO1 T10731079 CWMT 281000Z AUTO 29005KT M02/M06 RMK AO1 SLP999 T10221059 52006 CWOB 281048Z AUTO 14004KT M22/ A2926 KASL 281035Z AUTO 00000KT 10SM SCT110 06/04 A3014 RMK AO1 T00550042 CWNL 281000Z AUTO 01003KT M10/M15 RMK AO1 SLP243 T11021146 53005 CWOC 281000Z AUTO 01004KT M08/M11 RMK AO1 SLP114 T10841106 53020 KBIV 280953Z AUTO 00000KT 10SM CLR M09/M16 A3025 RMK AO2 SLP254 T10941156 KARV 281035Z AUTO 00000KT 10SM CLR M14/M16 A3017 RMK AO2 T11381161 KBKD 281035Z AUTO 16008G14KT 7SM CLR 12/05 A3006 RMK AO2 T01180051 CWOD 281000Z AUTO 30009KT M20/M24 RMK AO1 SOG 03 3009 SLP177 T11981238 CWNM 281000Z AUTO 03008KT 08/08 RMK AO1 5PAST HR SOG 00 6026 SLP067 P0010 T00750078 50038 ZSFZ 281000Z 12002MPS 050V170 CAVOK 16/11 Q1017 NOSIG KCBE 281028Z AUTO 32012G17KT 301V001 10SM CLR M05/M15 A3003 RMK AO1 KARW 281035Z AUTO 29011G16KT 7SM CLR 08/05 A2999 RMK AO2 KBKE 280953Z AUTO 32008KT 270V360 10SM FEW025 BKN040 BKN050 09/06 A3000 RMK AO2 PK WND 32027/0900 SLP148 T00940056 TSNO KASN 281035Z AUTO 00000KT 10SM CLR 02/00 A3015 RMK AO2 T00211004 CXDW 281000Z AUTO 15004KT M04/M05 RMK AO1 T10351050 CWOE 281000Z AUTO 16004KT 09/02 RMK AO1 SLP047 T00890015 56026 KCAO 280955Z AUTO 26008KT 10SM CLR 10/M02 A3009 RMK AO2 SLP147 T01001022 KBIX 280958Z AUTO 03005KT 10SM CLR 08/03 A3018 RMK AO2 SLP223 T00790029 KCBF 281035Z AUTO 12007KT 10SM OVC055 00/M01 A3011 RMK AO2 KBKF 280958Z 21009KT 10SM CLR 08/M02 A3009 RMK AO2A SLP140 T00841020 KCBG 281036Z AUTO 00000KT 10SM CLR M08/M12 A3018 RMK AO2 CWNP 281000Z AUTO 11004KT 07/07 RMK AO1 2PAST HR 6030 SLP059 P0005 T00720069 50024 CWMZ 281000Z AUTO 02011KT M10/M16 RMK AO1 SLP222 T11031163 53008 CWNQ 281000Z AUTO 35007KT M09/M17 RMK AO1 SLP157 T10941168 51009 KCAR 280954Z AUTO 34010KT 10SM CLR M08/M13 A2985 RMK AO2 SLP122 T10831133 KCCA 281035Z AUTO 08004KT 10SM SCT090 05/00 A3018 RMK AO2 KAST 281029Z AUTO 26009KT 10SM BKN022 BKN033 OVC050 11/08 A3021 RMK AO2 RAB14E25 P0000 T01110083 KCBK 281035Z AUTO 28008KT 10SM CLR 04/01 A2998 RMK AO2 CXET 281000Z AUTO 34005KT M13/M18 RMK AO1 SOG 01 3010 SLP210 T11321177 50002 KBKL 280953Z AUTO 35008KT 10SM SCT048 M07/M12 A3013 RMK AO2 SLP210 T10721122 KATL 280952Z 31008KT 10SM SCT037 SCT250 03/M02 A3004 RMK AO2 SLP174 T00281017 EFET 281020Z AUTO 22007KT 9999 BKN014 M02/M04 Q1002 CWPC 281000Z AUTO 02011KT M08/M12 RMK AO1 PK WND 01020/0935 SLP189 T10761117 53008 KCBM 280958Z AUTO 32002KT 10SM BKN085 02/M02 A3019 RMK AO2 SLP227 T00241024 $ KCAV 281035Z AUTO 14011KT 10SM OVC070 M03/M07 A3016 RMK AO2 CXFM 281000Z AUTO 21014KT 10/03 RMK AO1 PK WND 21019/0900 T00950034 CWPD 281000Z AUTO 03002KT M21/M22 RMK AO1 SLP145 T12081215 53003 UMMG 281000Z 32004G07MPS 9999 BKN008 OVC066 04/03 Q1014 NOSIG KASW 281035Z AUTO 00000KT 10SM CLR M09/M12 A3022 RMK AO2 CWPE 281000Z AUTO 01008G15KT M00/M07 RMK AO1 SOG 08 1013 SLP092 T10011069 KASX 280953Z AUTO 00000KT 10SM CLR M12/M14 A3021 RMK AO2 SLP244 I1000 T11171139 KBLF 281007Z AUTO 34005KT 10SM SCT023 BKN027 OVC047 M06/M12 A2991 RMK AO2 T10611122 KAUG 280953Z AUTO 02013G20KT 10SM BKN038 OVC060 00/M08 A2980 RMK AO2 SLP094 T00001083 CWPF 281045Z AUTO 22015G22KT 10/07 RMK AO1 PK WND 23023/1007 T00970071 KATP 281035Z AUTO 32014KT 10SM FEW050 M40/ A3014 RMK A01 KBLH 280952Z AUTO 00000KT 10SM CLR 18/00 A2997 RMK AO2 SLP144 T01780000 PHHI 280958Z AUTO 29003KT 10SM CLR 17/15 A3018 RMK AO2 SLP213 T01730152 402610169 $ KAUH 281035Z AUTO 09005KT 10SM SCT110 00/M03 A3002 RMK AO2 T10051031 NZGS 281000Z 35002KT 35KM BKN085 18/14 Q1014 RMK ALT VATSIM USE ONLY CXGH 281000Z AUTO 15011KT M07/M08 RMK AO1 T10691082 CWNZ 281000Z AUTO 26005KT M19/M22 RMK AO1 SOG 94 5001 SLP221 T11901217 KBLI 280953Z AUTO 20007G17KT 160V250 10SM OVC070 11/05 A3000 RMK AO2 SLP166 T01060050 OPPS 280600Z 00000KT 3600 HZ SCT040 BKN120 27/16 Q1013 NZHK 281000Z 02009KT 15KM VCSH BKN016 18/17 Q1008 RMK ALT VATSIM USE ONLY CXFR 281000Z AUTO 25004KT 03/02 RMK AO1 T00300015 ULWC 281030Z 20010G15MPS CAVOK 02/M08 Q1030 TEMPO 16012G17MPS RMK QFE762/1016 SC060 KATS 281035Z AUTO 12004KT 10SM CLR 10/M03 A3008 RMK AO2 KCDA 281035Z AUTO 29007KT 10SM OVC075 M06/M12 A2985 RMK AO2 T10591118 KBKS 281035Z AUTO 20003KT 10SM CLR 10/08 A3015 RMK AO1 T01020079 KE38 281035Z AUTO 22008KT 10SM CLR 11/M02 A3024 RMK AO2 T01131025 CXHA 281000Z AUTO 33004KT M08/M13 RMK AO1 SLP228 T10771129 53005 UMMM 281030Z 12004MPS 6000 NSC 08/03 Q1015 R12/CLRD60 NOSIG RMK QFE741 EFHA 281020Z AUTO 18006KT 5000 -RA VCSH OVC008 03/02 Q1008 RERA KATT 280951Z AUTO 00000KT 10SM CLR 11/07 A3012 RMK AO2 SLP195 T01060067 PFYU 281036Z 00000KT 10SM CLR M08/M11 A2958 RMK AO1 KBKT 281035Z AUTO 36005KT 7SM SCT006 BKN012 OVC039 01/00 A2992 RMK AO1 T00050000 UNEE 281030Z 28006MPS 9999 BKN022CB OVC200 M05/M11 Q1021 NOSIG RMK QFE743 23451050 CWPK 281000Z AUTO 00000KT M29/M32 RMK AO1 SOG 52 3006 SLP202 T12851324 KCDC 280953Z AUTO 01003KT 10SM CLR 04/M04 A3020 RMK AO2 SLP180 T00441039 KAVC 281036Z AUTO 28003KT 10SM SCT030 BKN037 OVC048 02/01 A2997 RMK AO2 T00150007 KBMC 281035Z AUTO 32003KT 10SM CLR 05/02 A3010 RMK AO1 T00520016 NZHN 281000Z 03005KT 25KM BKN013 20/17 Q1015 RMK ALT NZTG VATSIM USE ONLY KCDD 281041Z AUTO 27000KT 10SM CLR M13/M14 A3018 RMK AO2 KBKV 280953Z AUTO 36006KT 10SM CLR 10/03 A3009 RMK AO2 SLP186 T01000028 $ KAUM 281036Z AUTO 00000KT 10SM OVC085 M06/M09 A3018 RMK AO2 KBLM 281035Z AUTO 31011G16KT 280V350 10SM OVC110 02/M07 A2976 RMK AO1 CXHD 281000Z AUTO 26011KT 07/M00 RMK AO1 T00701001 KBKW 280951Z AUTO 32009G20KT 10SM BKN047 M07/M16 A2993 RMK AO2 PK WND 34028/0903 SLP167 T10721161 KAUN 281035Z AUTO 00000KT 10SM CLR 14/07 A3013 RMK AO1 KATW 281045Z VRB03KT 10SM SKC M09/M12 A3026 EDXW 281020Z 18015KT 9999 FEW015 07/05 Q1015 RMK ATIS FOX KAUO 281035Z AUTO 31006KT 10SM CLR 01/M02 A3012 RMK AO1 KCCO 281035Z AUTO 32005KT 10SM CLR 02/01 A3007 RMK AO2 T00220006 CXHF 282300Z AUTO M05/M16 RMK AO1 T10521162 CWPO 281000Z AUTO 17013KT M03/M03 RMK AO1 SOG 03 6011 PK WND 17017/0950 SLP185 T10261032 KATY 280953Z AUTO 16010KT 10SM OVC033 M02/M04 A3006 RMK AO2 SLP200 T10221044 KBMG 280953Z AUTO 02004KT 10SM CLR M08/M11 A3019 RMK AO2 SLP231 T10781106 EFHF 281020Z 17007KT 2100 BR BKN004 04/03 Q1011 CWOY 281000Z AUTO 18016G21KT 01/M01 RMK AO1 PRESFR SOG 02 8040 PK WND 18021/0958 SLP088 T00111006 UMMS 281030Z 12006G09MPS 9000 NSC 09/02 Q1016 R13/CLRD// NOSIG KCDH 281035Z AUTO 00000KT 10SM CLR 03/02 A3018 RMK AO2 NZHS 281000Z 04004KT 15KM VCSH BKN080 20/15 Q1012 RMK ALT NZNR VATSIM USE ONLY CWQH 281000Z AUTO 33009KT M08/M14 RMK AO1 SOG 08 T10771140 KCCR 280953Z 20006KT 10SM CLR 12/09 A3014 RMK AO2 SLP193 T01220094 KBMI 280956Z AUTO 00000KT 10SM CLR M07/M09 A3023 RMK AO2 T10721094 SLP255 NZHT 281000Z 00000KT 10KM VCDZ SCT002 15/14 Q1007 RMK ALT VATSIM USE ONLY CWPR 281000Z AUTO 23004KT 09/01 RMK AO1 SOG 00 1015 SLP105 T00860006 KBNA 280953Z 34004KT 10SM CLR M02/M07 A3017 RMK AO2 SLP218 T10171072 KCDJ 280952Z AUTO 10003KT 03/M03 A3016 RMK AO1 SLP223 T00281033 KAUS 280953Z 00000KT 10SM CLR 07/06 A3012 RMK AO2 SLP197 T00670056 CWPS 281000Z AUTO M09/M14 RMK AO1 SLP187 T10861140 53007 CWRA 281000Z AUTO 02010KT 03/ RMK AO1 SLP021 T0028 53022 KAVK 281030Z AUTO 27003KT 10SM CLR 05/05 A2998 RMK AO2 CWQK 281000Z AUTO 24034G42KT 10/07 RMK AO1 PK WND 23042/0959 SLP149 T01020069 53005 CXIB 281000Z AUTO 33001KT 01/M04 RMK AO1 SLP080 T00081044 53024 KBML 280952Z AUTO 36008KT 10SM OVC075 M03/M10 A2980 RMK AO2 SLP103 T10281100 KBLU 280952Z AUTO 14005KT 10SM CLR 11/M02 A3026 RMK AO2 SLP182 T01111017 EFHK 281020Z 18007KT 3000 -RA BR FEW001 BKN003 04/03 Q1010 TEMPO 2500 KAVL 280954Z AUTO 35013G20KT 9SM BKN035 OVC043 M02/M08 A2994 RMK AO2 SNE50 SLP143 P0000 T10171083 $ KCCU 281035Z AUTO 28003KT 10SM SCT039 SCT046 01/M06 A3043 RMK AO2 KCEC 280956Z AUTO 04004KT 10SM CLR 08/08 A3036 RMK AO2 SLP280 T00830083 EEPU 280950Z 23003KT 200V260 2700 -RA FEW004 BKN005 OVC007 05/04 Q1012 KBLV 280958Z AUTO 00000KT 10SM CLR M03/M06 A3020 RMK AO2 SLP234 T10331061 OPRN 281000Z 130012T 6000 SCT040 BKN100 29/17 Q1011/29.87 CXHM 281000Z AUTO 02004KT M10/M17 RMK AO1 SLP203 T10951166 53012 KCDN 281035Z AUTO 31004KT 10SM BKN055 BKN070 04/01 A2998 RMK AO2 TSNO PGRO 280950Z 07012KT 7SM SCT025 26/24 A2996 KAUW 280954Z AUTO 10003KT 10SM CLR M09/M13 A3019 RMK AO2 SLP248 T10941133 KCEF 281043Z AUTO 36010G18KT 10SM -DZ OVC038 02/M03 A2973 RMK AO2 DZB43 PHJH 280345Z 06016G21KT 15SM FEW030 FEW040 24/18 A3011 RMK LAST CWQO 281000Z AUTO 35009G15KT M07/M14 RMK AO1 PK WND 35017/0937 T10711135 CWPX 281000Z AUTO 03022KT M29/ A2966 RMK SLP078 CWRF 281000Z AUTO ///// M31/ A2951 RMK SLP054 KAVP 280954Z AUTO 35013G18KT 10SM OVC025 M03/M09 A2984 RMK AO2 SLP110 T10281089 KCCY 281035Z AUTO 14005KT 10SM OVC075 M05/M10 A3020 RMK AO2 KAWG 281035Z AUTO 11004KT 10SM OVC110 M05/M06 A3023 RMK AO2 CWQP 282300Z AUTO 02008KT M04/M08 RMK AO1 T10391082 53021 CXHP 281000Z AUTO 21004KT 04/04 RMK AO1 T00350044 50034 KBMQ 280953Z AUTO 02005KT 10SM CLR 11/06 A3014 RMK AO2 SLP195 T01060056 KAVQ 281035Z AUTO 11006KT 10SM CLR 15/M03 A3007 RMK AO2 T01541030 CWPZ 281000Z AUTO 00000KT 01/01 RMK AO1 SOG 19 1012 SLP118 T00070005 CWRH 281000Z AUTO ///// M19/ A2933 RMK SLP980 KCDR 280953Z AUTO 23006KT 10SM CLR 02/M01 A2995 RMK AO2 SLP143 T00171011 CXHR 281000Z AUTO 24015KT 08/01 RMK AO1 PK WND 24020/0903 T00810008 CWQR 281000Z AUTO 35007KT M10/ RMK AO1 T1102 KCDS 280953Z AUTO 00000KT 10SM CLR 08/04 A3005 RMK AO2 SLP164 T00780039 OPSK 281000Z 18006KT 6000 HZ FEW040 FEW100 FEW200 39/20 Q.1006 RH.33 PC KAXA 281035Z AUTO 14007KT 10SM OVC050 M02/M06 A3016 RMK AO2 CWQS 281000Z AUTO 16013KT 08/05 RMK AO1 PK WND 16017/0949 SLP105 T00790047 58011 CWRJ 281000Z AUTO 17012KT 05/04 RMK AO1 SOG 01 6049 PK WND 17018/0921 SLP014 T00540036 CWSA 281000Z AUTO 03017KT 9SM FEW027 OVC043 EGAA 281020Z 27021G31KT 9999 BKN020 11/08 Q0997 KBMT 281035Z AUTO 00000KT 10SM CLR 09/08 A3015 RMK AO2 T00900076 CYAB 271600Z VRB02KT 25SM SKC M28/M33 A2956 RMK -28.1/-31.3/0.0/13 MEDIUM PACK LAST STFD OBS/NXT 281700Z SLP012 CWRK 281000Z AUTO 35005KT M15/M20 RMK AO1 SOG 02 3006 SLP192 T11521199 KBNL 281035Z AUTO 28003KT 10SM CLR 04/03 A3001 RMK AO2 EGAC 281020Z 24019G30KT 9999 FEW014 SCT018 BKN040 13/07 Q0995 UMOO 281030Z 12007G10MPS CAVOK 08/01 Q1019 NOSIG KAWM 280953Z AUTO 12006KT 10SM SCT090 OVC110 03/M04 A3019 RMK AO2 SLP225 T00281044 PGSN 280954Z 08019G24KT 10SM SCT010 SCT014 OVC055 25/23 A2996 RMK AO2 PK WND 07026/0903 SLP166 T02500233 $ KCFD 281035Z AUTO 08003KT 10SM CLR 09/06 A3015 RMK AO2 T00870058 CYAD 272000Z 30008KT 15SM SKC M15/M22 A2997 RMK LAST OBS/NEXT 301100 UTC SLP176 CWSD 281000Z AUTO 01002KT M02/M04 RMK AO1 SLP103 T10211036 52029 CWQV 281000Z AUTO 27020KT M11/M16 RMK AO1 PK WND 28027/0921 T11121160 CWRM 281000Z AUTO 30005KT M00/M04 RMK AO1 SOG 00 5010 SLP023 T10021036 KCDW 280953Z AUTO 33006KT 10SM BKN065 01/M08 A2978 RMK AO2 SLP092 T00061083 TSNO KCFE 281025Z AUTO 00000KT 10SM CLR M06/M09 A3019 RMK AO2 EGAE 281020Z 27026KT 9999 FEW017 BKN023 12/08 Q0996 CWRN 281000Z AUTO 31008KT M00/ RMK AO1 T1003 KAVX 280951Z AUTO 28007KT 10SM CLR 22/02 A3010 RMK AO2 SLP162 T02170017 KBNO 280953Z AUTO 24015KT 10SM OVC042 11/03 A3010 RMK AO2 SLP166 T01060028 KAWO 281035Z AUTO 26006KT 10SM OVC017 10/07 A3006 RMK AO1 CWSF 281000Z AUTO 33015KT M06/M11 RMK AO1 PK WND 33019/0956 SLP120 T10581113 53015 CWRO 281000Z AUTO 15003KT 04/04 RMK AO1 SLP112 T00420035 50000 NZKI 281000Z 05005KT 15KM VCDZ SCT010 15/13 Q1006 RMK ALT VATSIM USE ONLY CWSG 281000Z AUTO 01011KT M07/M12 RMK AO1 SLP135 T10691116 52018 ORBI 281000Z 20005KT 140V250 CAVOK 27/03 Q1016 NOSIG PHJR 280953Z 00000KT 10SM CLR 19/16 A3019 RMK AO2 SLP228 T01940161 402940183 KAXH 281035Z AUTO 00000KT 10SM CLR 13/13 A3014 RMK AO2 T01300130 CYAH 281000Z AUTO 21005KT 9SM BKN140 M22/M25 A2989 RMK SLP157 KBOI 280953Z 09003KT 10SM CLR 13/04 A2998 RMK AO2 SLP133 T01330039 PGUA 280958Z AUTO 06013KT 10SM SCT013 26/23 A2995 RMK AO2 SLP132 T02550232 $ NZKK 281010Z VRB05KT 25KM SCT022 BKN030 19/19 Q1014 RMK NZAA VATSIM USE ONLY KCFJ 281035Z AUTO 34003KT 10SM CLR M09/M12 A3021 RMK AO2 T10901125 CXKA 281000Z AUTO 20004KT M25/M28 RMK AO1 SLP226 T12511279 55002 KBOK 280956Z AUTO 00000KT 10SM CLR 08/08 A3036 RMK AO2 T00770077 SLP281 CYBB 272300Z 21004KT 190V320 20SM IC SKC M26/M31 A2967 RMK -21.8/-26.9/0.0/62/SNW CVR MUCH LOOSE/LAST OBS NXT281500Z SLP051 CWRT 281000Z AUTO 30008G15KT 10/05 RMK AO1 PK WND 30025/0907 T01010051 CWSK 281000Z AUTO 14005KT 10/08 RMK AO1 2PAST HR 1014 SLP119 P0001 T01000076 50027 EGBB 281020Z 20009KT 170V240 9999 -RA SCT020 BKN032 12/09 Q1008 KCEU 280954Z AUTO 31009KT 10SM CLR 03/M06 A2998 RMK AO2 SLP153 T00331056 KCGC 281035Z AUTO 35004KT 10SM CLR 09/02 A3010 RMK AO2 KBPC 281035Z AUTO 21004KT 10SM CLR 07/01 A3003 RMK AO2 CWRU 281000Z AUTO 31012KT 09/07 RMK AO1 SLP162 T00890071 53023 CWSL 281000Z AUTO 35004KT 08/08 RMK AO1 SOG 00 6011 SLP069 T00810075 CYBC 281000Z AUTO 35007KT 9SM CLR M11/M19 A2996 RMK SLP148 CYBD 280100Z 28007KT 3SM -RA BCFG FEW002 OVC050 08/07 A2980 RMK SF1NS7 LAST OBS/NEXT 281300UTC SLP091 VDPP 281030Z VRB04KT 9999 FEW017 24/20 Q1007 CYAM 281000Z 28003KT 15SM SKC M17/M18 A3025 RMK FROIN SLP261 KAXN 280953Z AUTO 15006KT 10SM OVC050 M04/M09 A3012 RMK AO2 SLP223 T10441089 KCEW 280953Z AUTO 33004KT 10SM CLR 05/02 A3016 RMK AO2 SLP212 T00500017 KCGE 281028Z AUTO 31010G16KT 10SM CLR 03/M06 A2985 RMK AO1 PHKO 280953Z AUTO 10004KT 10SM CLR 24/19 A3013 RMK AO2 SLP202 T02440189 402940222 TSNO EFIV 281020Z 19006KT 150V220 2000 SN OVC020 M00/M01 Q1003 KBNW 281035Z AUTO 12007KT 10SM OVC060 M02/M07 A3015 RMK AO2 KCGF 281045Z 01012G18KT 20SM FEW075 M08/M13 A3012 EGBE 281020Z 22016G28KT 9999 SCT014 BKN019 13/10 Q1008 CXKE 281000Z AUTO 34006KT M11/M18 RMK AO1 SOG 01 3009 SLP174 T11141180 EFKE 281020Z AUTO 17007KT 1100 RASN OVC003 00/00 Q1004 CWRX 281000Z AUTO 31015KT M29/ A2953 EFJO 281020Z AUTO 15015KT 110V190 CAVOK 03/M02 Q1012 KCEY 281035Z AUTO 08004KT 10SM CLR M03/M07 A3020 RMK AO1 KBPG 281035Z AUTO 17012KT 10SM CLR 15/02 A3007 RMK AO2 T01480015 CWRY 281000Z AUTO 21011KT 09/03 RMK AO1 SLP043 T00920031 58026 CWSP 281000Z AUTO 28030G39KT 09/08 RMK AO1 8PAST HR 3014 PK WND 27039/0950 SLP167 P0003 T00930083 50018 CWTG 281000Z AUTO 34005KT M11/M19 RMK AO1 SLP143 T11071190 53017 CYBG 281000Z 27010KT 25SM BKN090 M15/M18 A3002 RMK AC2 SLP180 ZSNB 281000Z 03002MPS 6000 NSC 18/12 Q1016 NOSIG KCEZ 280953Z AUTO 09007KT 10SM CLR 00/M06 A3024 RMK AO2 SLP201 T00001061 PHLI 281040Z 06007KT 10SM FEW009 SCT025 23/18 A3019 RMK AO2 $ CWRZ 281000Z AUTO 32003KT M07/M11 RMK AO1 SLP110 T10701111 53023 KCGI 280953Z AUTO 08003KT 10SM SCT120 M01/M06 A3020 RMK AO2 SLP230 T10111056 TSNO KBPI 280953Z AUTO 09004KT 10SM CLR M04/M06 A3020 RMK AO2 SLP182 T10391061 CXKI 281000Z AUTO M27/M30 RMK AO1 SOG 26 3005 SLP231 T12741295 50002 CWSR 281000Z AUTO 11007KT 01/M00 RMK AO1 SOG 02 8047 SLP014 T00141003 KCHA 280953Z 35008KT 10SM SCT050 01/M09 A3012 RMK AO2 SLP201 FIRST T00111089 EFKI 281020Z AUTO 16010KT 120V210 9999 OVC008 02/01 Q1008 KBOS 281021Z 02013KT 10SM -RA BKN026 OVC033 03/M01 A2973 RMK AO2 RAB19 P0000 KCFS 281034Z AUTO 33007KT 10SM BKN038 M08/M11 A3020 RMK AO2 T10821115 KAXS 281035Z AUTO 00000KT 10SM CLR 07/04 A3005 RMK AO2 T00660035 NZMC 281000Z 00000KT 10KM VCDZ SCT002 15/14 Q1007 RMK ALT NZHT VATSIM USE ONLY CYAS 272100Z 26015KT 15SM SCT080 BKN200 M21/M25 A2966 RMK AS2CS2 LAST OBS/NEXT 281200UTC SLP061 EGBJ 281020Z 22017G27KT 9999 -RA SCT010 BKN016 13/10 Q1010 CWSS 281000Z AUTO 35004KT M02/M07 RMK AO1 SOG 52 1015 SLP101 T10181070 KBPK 280953Z AUTO 13008KT 10SM OVC080 03/M03 A3012 RMK AO2 SLP203 T00281033 KE80 281035Z AUTO 00000KT 10SM CLR 08/M08 A3020 RMK AO2 T00751076 CXLB 281000Z AUTO 01005KT 02/ RMK AO1 SLP079 T0021 51018 CWST 281000Z AUTO 11003KT M09/M13 RMK AO1 SLP144 T10941131 53010 CYCB 281000Z 04009KT 15SM FEW140 SCT200 M35/M39 A2977 RMK AC2CI1 SLP086 CYAT 281000Z AUTO 25008KT 9SM CLR M14/M20 A2998 RMK SLP153 CYBK 281000Z 05006KT 15SM FEW010 BKN065 M24/M27 A2959 RMK SC1SC4 SLP023 PGUM 280954Z 06009KT 10SM FEW039 26/23 A2995 RMK AO2 SLP134 T02610233 EFKK 281020Z AUTO 20006KT 160V220 6000 -RA SCT003 BKN005 OVC007 01/01 Q1006 KAZC 281035Z AUTO 15004KT 10SM CLR 02/M04 A3023 RMK AO2 T00201040 CYBL 280400Z 13003KT 080V180 15SM SCT015 BKN065 10/09 A2979 RMK SC3SC4 LAST OBS/NEXT 281300 UTC SLP090 KCHD 280347Z 28006KT 15SM SKC 25/M03 A3000 RMK LAST KCFV 280952Z AUTO 15005KT 10SM -RA FEW060 BKN080 OVC095 06/01 A3005 RMK AO2 RAB0854 SLP179 P0000 T00560006 KAXV 281033Z AUTO 03008KT 10SM OVC020 M06/M08 A3019 RMK AO2 EGCC 281020Z 21017KT 9999 7000NE -RA FEW008 SCT012 BKN022 11/10 Q1004 RERA NZMF 281000Z 21003KT 30KM BKN039 14/11 Q1005 RMK ALT NZQN VATSIM USE ONLY CYCD 280400Z 19005KT 060V210 15SM BKN040 OVC060 12/09 A2985 RMK SC5SC3 LAST OBS/NEXT 081300 UTC SLP108 CXKM 281000Z AUTO 27007KT 04/M00 RMK AO1 T00381003 KBOW 281035Z AUTO 33006KT 10SM CLR 12/03 A3011 RMK AO2 KAZE 281035Z AUTO 29003KT 10SM CLR 06/02 A3005 RMK AO2 CWSW 280100Z 18007G17KT 140V230 20SM FEW055 SCT085 SCT200 17/03 A2988 RMK CU1AC2CC1 LAST OBS/NEXT 281300Z SLP122 DENSITY ALT 4800FT CYAW 271726Z 36005KT 6SM -SHRA BR BKN006 OVC040 04/04 A2960 RMK SF5SC3 DA-643FT LAST OBS/NEXT 300900 UTC SLP025 CWTN 281000Z AUTO 36010G17KT M08/M18 RMK AO1 PK WND 36018/0915 SLP149 T10801179 52010 CYBN 281000Z AUTO 30003KT 9SM CLR M14/M17 A3013 RMK SLP220 EETN 281020Z 26010KT 8000 -RA BKN005 OVC024 05/04 Q1011 R08/290195 TEMPO 2000 RADZ BR KAXX 281035Z AUTO 00000KT 10SM CLR M04/M06 A3032 RMK AO2 T10441059 ZSNJ 281000Z 25002MPS CAVOK 19/10 Q1015 NOSIG CYCG 280400Z 36004KT 15SM SCT060 BKN140 10/08 A2986 RMK SC3AC4 LAST OBS/NEXT 281300UTC SLP119 CYAY 281011Z AUTO 02013G18KT 9SM -SN OVC011 M07/M09 A2974 RMK SLP072 EFJY 281020Z AUTO 15008KT 9999 OVC017 04/01 Q1008 CYAZ 280100Z 14016G22KT 1SM -RA BR OVC004 11/11 A2986 RMK FG2SF6 LAST OBS/NEXT 281300UTC SLP110 CYBQ 281000Z AUTO 22010KT 9SM CLR M04/M07 A2954 RMK SLP019 CYBR 281000Z 19009KT 15SM OVC009 M02/M03 A2996 RMK ST8 SLP170 KCGS 281020Z AUTO 31009KT 10SM BKN085 01/M07 A2991 RMK AO1 PHMK 280954Z AUTO 06004KT 10SM CLR 21/16 A3018 RMK AO2 SLP222 T02060161 402670183 TSNO KAYS 281035Z AUTO 30004KT 10SM CLR 07/03 A3007 RMK AO2 T00660027 CYDA 272300Z CCA 20003KT 20SM FEW030 BKN220 05/M04 A2956 RMK CU1CI6 CU TR CLIMAT 5.9/-9.1/0.0 LAST STFD OBS/NXT 281400 UTC SLP031 EFMA 281020Z AUTO 26005KT 220V320 9999 OVC005 03/02 Q1011 KBPT 280953Z AUTO 05005KT 10SM CLR 12/06 A3014 RMK AO2 SLP205 T01220061 EFKS 281020Z AUTO 15012KT 9999 -FZDZ OVC007 M00/M01 Q1006 KBQK 281035Z AUTO 29004KT 10SM CLR 07/02 A3005 RMK AO1 KCHK 281035Z AUTO 20003KT 10SM CLR 06/04 A3004 RMK AO2 CYCK 272216Z AUTO 36019G25KT 9SM SCT027 BKN034 M05/M10 A3003 RMK TS/LTNG TEMPO UNAVBL SLP178 CWTT 281000Z AUTO 35007KT M09/M14 RMK AO1 T10861142 CXKT 281000Z AUTO 03002KT M00/M03 RMK AO1 SOG 78 1021 SLP089 T10031033 CYDB 281000Z AUTO 11005KT 9SM CLR M03/M08 A2962 RMK SLP069 ZSOF 281000Z 26002MPS CAVOK 21/11 Q1015 NOSIG EFKT 281020Z 17005KT 2500 -SN BKN005 OVC024 M00/M01 Q1003 R16/690195 KCIC 281035Z AUTO 33011KT 10SM CLR 14/04 A3013 RMK AO1 CYDC 280100Z 21010G17KT 25SM FEW045 FEW130 BKN230 19/01 A2983 RMK CU1AC2CI3 CU TR LAST OBS/NEXT 28 1300 UTC SLP104 DENSITY ALT 3400FT CXLL 281000Z AUTO 00000KT M07/M08 RMK AO1 SOG 65 1003 SLP017 T10671078 CWTU 281000Z AUTO 30025KT M22/ A2947 RMK SLP045 CYBU 281000Z AUTO 17012KT 7SM OVC006 00/M01 A2973 RMK PRESFR SLP086 KBRD 280953Z AUTO 00000KT 10SM CLR M10/M12 A3016 RMK AO2 SLP232 T11001122 EETU 280950Z 17012KT 9999 SCT025 BKN050 08/02 Q1013 KCID 280952Z 14003KT 10SM BKN120 M06/M10 A3020 RMK AO2 SLP238 T10611100 EFKU 281020Z AUTO 14013KT CAVOK 03/00 Q1010 CYBV 272100Z 22009G15KT 15SM FEW030 FEW080 SCT220 M00/M07 A3008 RMK SC1AC1CS1 SNW CVR/MUCH LOOSE/LAST OBS/NEXT 301200Z SLP206 CXMD 281000Z AUTO 17004KT M05/M06 RMK AO1 SOG 03 8007 SLP189 T10531060 CWVD 281000Z AUTO 31012KT M24/ A2919 RMK SLP965 CYBW 281000Z AUTO VRB02KT 9SM CLR 03/M04 A2959 RMK SLP025 KAZO 280953Z 02004KT 10SM CLR M09/M16 A3021 RMK AO2 SLP246 T10941156 EGCN 281020Z 20021KT 4600 -RA FEW015 SCT021 13/10 Q1005 KCHO 280953Z AUTO 33006KT 10SM BKN045 OVC055 00/M08 A2991 RMK AO2 SLP128 T00001083 PHNG 281027Z 08005KT BKN028 23/17 A3016 RMK AO2 T02280172 $ CWVF 281000Z AUTO 19010G15KT 10/06 RMK AO1 PK WND 20019/0916 T01030062 CYDF 281000Z 29003KT 190V360 15SM OVC014 M01/M04 A2973 RMK SC8 PRESRR SLP069 CYCO 281000Z 04009KT 6SM -SN FEW030 OVC055 M21/M23 A2971 RMK SC2SC6 SLP065 CYBX 281009Z 10015KT 3SM -SN OVC010 M06/M08 A2972 RMK SC8 SLP066 KF05 281035Z AUTO 00000KT 10SM CLR 08/03 A3004 RMK AO1 T00750025 KBQP 281035Z AUTO 00000KT 10SM CLR 02/02 A3019 RMK AO2 T00240021 CYCP 280100Z 00000KT 15SM FEW075 SCT120 BKN160 OVC300 06/05 A2981 RMK AC2AC2AC2CI2 LAST OB/NEXT 281300 UTC SLP115 CXMG 281000Z AUTO 01002KT 00/M01 RMK AO1 T00001010 CWTY 281000Z AUTO 33010G15KT M09/M17 RMK AO1 SLP161 T10941169 51009 CWUP 281000Z AUTO ///// M24/ A2932 RMK SLP982 EFLP 281020Z 16011KT 110V230 CAVOK 06/M00 Q1013 KCGZ 281035Z AUTO 00000KT 10SM CLR 13/M04 A3002 RMK AO1 CYCQ 280100Z 23008KT 10SM BKN030 OVC110 09/01 A2968 RMK SC6AS2 VIRGA N+S+NW DIST PCPN W LAST STFD OBS/NEXT 281300Z SLP070 CWVH 281000Z AUTO 28017KT M17/ A2964 RMK SLP071 CWVI 281000Z AUTO 24006KT 03/02 RMK AO1 SLP995 T00320023 56012 CXMI 281000Z AUTO 01006KT 02/M02 RMK AO1 SLP078 T00171016 51015 ZSPD 281030Z 17003MPS 6000 NSC 14/11 Q1016 NOSIG EFMI 281020Z AUTO 15012KT 110V200 9999 FEW025 BKN136 06/01 Q1011 KCHS 280956Z 29004KT 10SM FEW070 07/06 A2996 RMK AO2 SLP145 T00670056 KDAA 280958Z AUTO 32010G22KT 10SM OVC085 01/M08 A2992 RMK AO2 SLP136 T00081084 CYCS 272200Z 31017KT 15SM DRSN FEW150 M15/M19 A2962 RMK AC1 -13.1/-21.1/TR/19 SNW CVR/MED PACK LAST STFD OBS/NEXT 281400Z SLP031 CWWA 281000Z AUTO 07001KT 09/06 RMK AO1 SOG 00 1010 SLP138 T00900064 50008 CWUS 281000Z AUTO 35007G18KT 12/01 RMK AO1 PK WND 32019/0907 SLP097 T01190005 53019 KDAB 280953Z 30006KT 10SM FEW150 11/04 A3005 RMK AO2 SLP175 T01060044 PHNL 280953Z 07012KT 10SM FEW035 23/17 A3017 RMK AO2 SLP214 T02280167 402830211 CWWB 281000Z AUTO 34013G18KT M09/M16 RMK AO1 PK WND 34019/0918 SLP207 T10881162 53012 KBRL 280953Z AUTO 11004KT 10SM FEW120 M03/M09 A3021 RMK AO2 SLP238 T10331094 FZRANO $ EGEC 280220Z 15030KT 7000 RA SCT006 BKN048 07/06 Q1004 CYDL 281000Z AUTO 00000KT 9SM CLR M04/M04 A2976 RMK SLP101 EGDM 280950Z 22015KT 9999 FEW009 BKN200 12/09 Q1012 BLU CXMM 281000Z AUTO 19007KT 03/03 RMK AO1 8PAST HR SOG 04 8011 SLP011 P0007 T00340033 50065 CYED 281000Z AUTO 25006KT 9SM CLR 05/M01 A2950 RMK SLP003 KCIN 281035Z AUTO 12006KT 10SM OVC045 M01/M03 A3014 RMK AO2 NZNP 281000Z 32008KT 40KM BKN020 18/18 Q1013 RMK ALT VATSIM USE ONLY CWWE 281000Z AUTO 01004KT 02/02 RMK AO1 SLP075 T00190016 51014 CWVN 281000Z AUTO 22003KT 03/01 RMK AO1 SLP067 T00340010 58025 CYDN 281000Z AUTO 22009KT 9SM OVC013 M01/M03 A2993 RMK SLP153 CWUW 281000Z AUTO 07012KT 9SM SCT051 M26/ A2925 RMK SLP985 KBRO 280953Z 16004KT 9SM CLR 12/11 A3016 RMK AO2 SLP213 T01170106 PHOG 280954Z AUTO 10007KT 10SM CLR 23/18 A3017 RMK AO2 SLP220 T02280183 402830211 TSNO $ KBQX 281035Z AUTO 22011KT 10SM CLR 19/16 A3013 RMK A01 NZOH 280902Z 28004KT 10KM VCSH BKN014 17/16 Q1013 RMK NZPM VATSIM USE ONLY CXMO 281000Z AUTO 20007KT 05/M01 RMK AO1 T00461011 VDSR 281030Z 22005KT 9999 FEW020 32/21 Q1007 CWWF 281000Z AUTO 16013KT M00/M01 RMK AO1 SOG 00 8026 PK WND 16017/0935 SLP114 T10041008 CWUX 281000Z AUTO 26004KT M18/M23 RMK AO1 SLP178 T11781227 53014 CYCX 281000Z 01005KT 15SM BKN085 M03/M10 A2984 RMK AC6 DA-1855FT SLP108 KDAG 280950Z AUTO 31006KT 10SM CLR 18/M03 A3007 RMK AO2 SLP161 T01831033 NZNR 281000Z 04004KT 15KM VCSH BKN080 20/15 Q1012 RMK ALT VATSIM USE ONLY VEJS 280200Z 00000KT 2500 HZ FEW020 SCT100 22/21 Q1013 CYDP 281000Z 22009KT 15SM FEW200 M20/M26 A2971 RMK CI1 SLP062 ORER 281000Z 16009KT CAVOK 22/09 Q1019 NOSIG CWVP 281000Z AUTO 19006KT 06/M00 RMK AO1 SLP047 T00561002 56030 CYEG 281000Z 28009KT 15SM SCT240 07/M02 A2952 RMK CI4 SLP008 CYCY 281035Z AUTO 31016KT 2SM -SN SCT025 OVC038 M23/M26 A2957 RMK VIS VRB 1 1/4-3 SLP018 NZNS 281000Z 05003KT 20KM BKN025 18/16 Q1010 RMK ALT VATSIM USE ONLY CWVQ 281000Z AUTO 02007KT M08/M14 RMK AO1 SLP162 T10831142 51012 CYDQ 281000Z AUTO 29010KT 9SM BKN070 OVC080 05/02 A2963 RMK SLP050 KCIR 281035Z AUTO 02004KT 10SM CLR M01/M04 A3022 RMK AO2 T10121042 KF17 281035Z AUTO 00000KT 10SM CLR 05/04 A3015 RMK AO2 T00450039 UNKL 281030Z 30004MPS 9999 SCT033CB BKN083 M03/M11 Q1017 NOSIG RMK QFE737 29////65 ZSQD 281000Z 17002MPS 2500 HZ NSC 15/09 Q1013 BECMG TL1130 3000 PGWT 280950Z 07015KT 7SM SCT015 BKN100 25/24 A2995 RMK LAST EGDR 280950Z 23019G35KT 1500 -RADZ FEW000 BKN001 OVC003 10/10 Q1014 RED KBTA 281035Z AUTO 12009KT 10SM OVC050 01/M03 A3009 RMK AO2 T00061026 TVSV 281000Z 09013KT 9999 -SHRA BKN016 BKN032 24/22 Q1017 CWXA 281000Z AUTO 25012G20KT 08/02 RMK AO1 PK WND 25020/0950 SLP009 T00840015 56019 KCKB 280953Z AUTO 32010G16KT 10SM OVC070 M07/M14 A3001 RMK AO2 SLP169 T10671139 NZNV 281000Z 33009KT 6000 SHRA BKN007 14/12 Q1006 RMK ALT VATSIM USE ONLY CWWK 281000Z AUTO 19004KT 10/07 RMK AO1 SOG 00 0011 SLP150 T01020073 CWVT 281000Z AUTO 18004KT 03/02 RMK AO1 SOG 15 6023 SLP030 T00270019 50005 CYFB 281025Z 19002KT 6SM IC FEW040 SCT110 BKN160 M22/M26 A2940 RMK IC1SC1AC2AC1 SLP959 CYEK 281010Z AUTO 14009KT 9SM BKN009 BKN100 OVC130 M13/M14 A2950 RMK SLP991 KDAL 280953Z 12006KT 10SM FEW300 10/04 A3010 RMK AO2 SLP188 T01000039 KCIU 281035Z AUTO 00000KT 10SM CLR M17/M18 A3024 RMK AO1 KCKC 281034Z AUTO 27003KT 10SM SCT095 M19/M23 A3014 RMK AO2 CWWL 281000Z AUTO 15005KT 07/06 RMK AO1 SLP117 T00720059 52004 CWXC 281000Z AUTO 03003KT M24/M26 RMK AO1 SLP162 T12391261 53011 CWVU 281000Z AUTO 02013KT 02/M01 RMK AO1 SLP089 T00221013 50006 CYFC 281000Z AUTO 33005KT 9SM BKN240 M03/M08 A2985 RMK SLP109 KDAN 280953Z AUTO 35007KT 10SM OVC048 03/M06 A2993 RMK AO2 SLP130 T00281056 NZPG 280330Z 15003KT 9999 IC VCFG FEW000 SCT035 BKN070 M27/M30 A2901 RMK FG FEW000 VCFG GRID S FG DSNT GRID SE AND SW-NW GRID32003KT SDG/HDP HDG GRID N-E LAST CYEN 281000Z 12007KT 7SM OVC010 M01/M01 A2987 RMK ST8 FG SLP132 KCKF 281035Z AUTO 31004KT 10SM CLR 06/01 A3009 RMK AO2 T00550010 PHNY 280956Z AUTO RMK AO2 PWINO PNO TSNO SLPNO $ EGEO 280950Z 22027G38KT 4000 DZ FEW010 OVC015 10/09 Q0991 EGDX 280950Z AUTO 24017KT 6000 SHRA BKN008/// SCT050/// 10/09 Q1011 EGFF 281020Z AUTO 24013KT 9999 -RA OVC012/// //////TCU 10/09 Q1011 RERA CXMY 281000Z AUTO 01/M02 RMK AO1 T00051016 CXNP 281000Z AUTO 01009KT M01/M05 RMK AO1 SLP101 T10141046 53019 EGDY 280950Z AUTO 22017KT 9999 SCT025/// 14/09 Q1013 KCKI 281035Z AUTO 29005KT 10SM OVC065 08/07 A2997 RMK AO2 KCJR 281035Z AUTO 34010G16KT 10SM OVC055 M01/M09 A2996 RMK AO2 CWXI 281000Z AUTO M04/M04 RMK AO1 SLP055 T10381040 53014 CYER 281000Z AUTO 25010KT 9SM CLR M06/M12 A2981 RMK SLP096 KDCA 280952Z 31014G22KT 10SM OVC090 02/M08 A2991 RMK AO2 SLP129 T00221083 CWWS 281000Z AUTO 19018KT M03/M04 RMK AO1 SOG 65 8024 PK WND 19021/0957 SLP151 T10281041 CXPA 281000Z AUTO 22001KT 03/03 RMK AO1 T00280028 NZPM 280902Z 28004KT 10KM VCSH BKN014 17/16 Q1013 RMK VATSIM USE ONLY CYET 281000Z AUTO 33004KT 9SM OVC110 06/03 A2961 RMK SLP034 KBTL 280953Z 36004KT 10SM CLR M10/M15 A3021 RMK AO2 SLP244 T11001150 CWWU 281000Z 00000KT 8SM OVC004 01/00 A2963 RMK ST8 SLP034 CXOL 281000Z AUTO 22013KT 06/M01 RMK AO1 PK WND 22017/0954 T00641011 CXPC 281000Z AUTO M16/M19 RMK AO1 SOG 22 3007 SLP218 T11581188 CWXL 281000Z AUTO 24011KT 12/02 RMK AO1 T01210024 KBTM 280953Z AUTO 16007KT 10SM FEW085 01/M02 A2995 RMK AO2 SLP114 T00061022 KCKM 281035Z AUTO 11004KT OVC080 04/M01 A3022 RMK AO1 CYEV 281000Z 29005KT 5SM -SN BKN007 OVC039 M16/M18 A2972 RMK SN3ST3SC2 SLP073 EGGD 281020Z 24015G26KT 7000 -RA OVC016 12/09 Q1011 KCLE 280951Z 34008KT 10SM BKN037 BKN048 M08/M13 A3014 RMK AO2 SLP218 T10781133 KDAW 280951Z AUTO 36008KT 10SM OVC042 02/M03 A2974 RMK AO2 SLP070 T00171028 KCKN 281034Z AUTO 15007KT 10SM CLR M06/M09 A3012 RMK AO2 KDBN 281035Z AUTO 30003KT 10SM CLR 06/03 A3008 RMK AO2 NZPP 281000Z 01008KT 30KM BKN042 18/17 Q1012 RMK ALT VATSIM USE ONLY CYGE 280000Z 34004KT 300V360 20SM FEW085 FEW110 BKN210 16/05 A2986 RMK AC1AC1CI4 TR CU LAST OBS/NEXT 281200Z SLP123 DENSITY ALT 3300FT KBUF 280954Z 01010KT 9SM -SN SCT017 OVC037 M07/M12 A3004 RMK AO2 SLP184 P0000 T10721122 CYFO 272300Z 16005KT 130V190 15SM FEW040 SCT200 04/M07 A2998 RMK CF1CI3 SNW CVR MED PACK LAST OBS/ NEXT 28 1100 UTC SLP170 CWWX 281000Z AUTO 02009KT M10/M14 RMK AO1 SLP226 T10971137 53006 KBTP 281035Z AUTO 32003KT 10SM CLR M11/M15 A3003 RMK AO1 KDAY 280956Z 36004KT 10SM CLR M07/M11 A3015 RMK AO2 SLP225 T10721106 KCKP 281035Z AUTO 13004KT 10SM OVC046 M01/M02 A3013 RMK AO2 T10071022 KDBQ 280953Z AUTO 14007KT 10SM CLR M07/M11 A3021 RMK AO2 SLP245 T10671111 CYGH 272300Z 24007KT 15SM BKN120 BKN200 M02/M10 A2952 RMK AC5CI2 -0.8/-14.6/0.0/51 MEDIUM PACK LAST OBS/NXT 281300Z SLP003 CWWZ 281000Z AUTO 01016KT M07/M13 RMK AO1 SOG 00 3010 PK WND 01021/0907 SLP195 T10671127 KBTR 280953Z 05003KT 10SM CLR 07/05 A3018 RMK AO2 SLP217 T00670050 KCLI 281035Z AUTO 00000KT 10SM CLR M10/M12 A3025 RMK AO2 CYFR 272200Z 24003KT 210V280 15SM FEW030 FEW120 FEW280 07/M02 A2953 RMK CF1AC1CI1 CF TR AC TR /0/50 MUCH LOOSE LAST STFD OBS/NEXT301400Z SLP008 CWXR 281000Z AUTO 10009KT M21/ A2976 RMK SLP091 KCMA 280955Z 00000KT 10SM CLR 12/09 A3004 RMK AO2 SLP179 T01170089 NZRC 281000Z 33009KT 6000 SHRA BKN007 14/12 Q1006 RMK ALT NZNV VATSIM USE ONLY CYHA 271900Z 26006KT 15SM -SN OVC015 M17/M20 A2966 RMK SC7 SN COV/TR LOOSE LAST OBS/NEXT 301200UTC SLP049 CWZA 281000Z AUTO 34003KT 10/08 RMK AO1 3007 SLP155 T01040080 50060 CWYJ 281000Z AUTO 25008G16KT 09/07 RMK AO1 PK WND 22020/0949 SLP164 T00890072 53015 CYFS 281000Z 00000KT 15SM BKN070 M02/M08 A2954 RMK AC6 SLP013 KCLK 281035Z AUTO 15006KT 10SM CLR 05/02 A3004 RMK AO2 CYGK 281000Z 34013KT 15SM SCT085 M11/M17 A3004 RMK AC3 SLP180 CYFT 281000Z 25014G19KT 15SM SKC M20/M26 A2974 RMK SLP080 CWYK 281000Z AUTO ///// M20/ A2932 RMK SLP013 KDDC 280952Z AUTO 23011KT 10SM CLR 08/01 A2996 RMK AO2 SLP136 T00830011 KCLL 280953Z AUTO 00000KT 10SM CLR 12/06 A3013 RMK AO2 SLP200 T01170061 NZQN 281000Z 21003KT 30KM BKN039 14/11 Q1005 RMK ALT VATSIM USE ONLY CXPL 281000Z AUTO 24005KT 07/02 RMK AO1 T00700020 CWYL 281000Z AUTO 07003KT 02/02 RMK AO1 5PAST HR SOG 61 8027 SLP047 P0006 T00160015 50021 CYGL 281000Z 19011KT 15SM FEW240 M20/M23 A2989 RMK CI2 SLP144 KCKV 280952Z AUTO 01004KT 10SM CLR M03/M08 A3018 RMK AO2 SLP225 T10331078 EFOU 281020Z AUTO 18007KT 6000 -RA OVC005/// 02/01 Q1005 R12/29//95 KDCM 281055Z AUTO 31005KT 10SM CLR 03/M02 A2999 RMK AO2 KCLM 280953Z AUTO 28010KT 10SM OVC050 09/06 A3004 RMK AO2 RAB0857E06 SLP172 P0000 T00940061 KBTV 280954Z 34011KT 10SM OVC032 M05/M12 A2992 RMK AO2 SLP137 T10501117 $ KCMD 281035Z AUTO 36004KT 10SM CLR M01/M06 A3016 RMK AO2 T10111060 CYHD 281000Z AUTO 18006KT 9SM CLR M09/M16 A3010 RMK SLP221 CWYM 281000Z AUTO 11007KT M23/ A2915 RMK SLP950 KBVE 280951Z AUTO 03006KT 10SM FEW039 14/07 A3017 RMK AO2 SLP216 T01390072 EGHE 281020Z 23026G37KT 4000 -RA SCT004 BKN005 11/11 Q1014 CYHE 281028Z AUTO 28014G26KT 260V330 3SM RA BKN034 OVC046 09/ A2994 RMK SLP140 KF44 281035Z AUTO 00000KT 10SM CLR 06/04 A3011 RMK AO2 CXOX 281000Z AUTO 17003KT 01/M01 RMK AO1 SOG 19 6031 SLP047 T00071006 EFPO 281020Z AUTO 22006KT 9999 OVC004/// 03/02 Q1009 R12/290195 CWZG 281000Z AUTO 23008KT 05/04 RMK AO1 8023 SLP046 T00500038 50003 CXOY 281000Z AUTO 21011KT 09/04 RMK AO1 T00860036 CYGP 281000Z 28005KT 15SM FEW025 FEW120 M07/M12 A2986 RMK CU1AC1 CU TR SLP114 EGGP 281020Z 22021G34KT 9999 -SHRA SCT022 BKN042 12/09 Q1003 KCMH 280951Z 35009KT 10SM OVC048 M07/M12 A3014 RMK AO2 SLP216 T10721122 KDDH 281019Z AUTO VRB05KT 5SM -SN OVC016 M03/M06 A2979 RMK AO2 P0000 T10281056 $ KF46 281035Z AUTO 12006KT 10SM CLR 09/04 A3008 RMK AO2 T00850035 CYHH 272000Z 26009KT 15SM SKC M15/M23 A3002 RMK LAST OBS/NEXT 301100 UTC SLP193 KBVI 280047Z 34011G14KT 7SM -SN BKN015 OVC021 M05/M08 A2996 RMK LAST CYGQ 281000Z 23002KT 15SM SKC M19/M24 A3013 RMK SLP233 KBUR 280953Z 03003KT 10SM CLR 18/07 A3005 RMK AO2 SLP163 T01830072 KCMI 280953Z 01003KT 10SM CLR M07/M10 A3022 RMK AO2 SLP242 T10671100 EGHH 281020Z 23016KT 9999 BKN007 11/10 Q1014 CYGR 281000Z 33007KT 20SM SCT080 BKN240 M03/M04 A2980 RMK AC3CI3 OBS TAKEN +18 SLP091 EGHI 281020Z 23015KT 200V270 9999 FEW012 BKN015 11/08 Q1013 KCLS 281035Z AUTO 20003KT 5SM BR BKN022 OVC028 10/09 A3017 RMK AO2 KCLT 280952Z 32004KT 10SM FEW060 02/M04 A2995 RMK AO2 SLP145 T00221044 KCNB 281033Z AUTO 12004KT 10SM OVC032 M02/M03 A3013 RMK AO2 T10211030 CYGT 272100Z 36013KT 15SM FEW012 SCT240 M27/M30 A2949 RMK ST2CI2 LAST STFD OBS/NEXT 281500Z SLP994 CXRB 281000Z AUTO 32004KT M33/M36 RMK AO1 SOG 00 3002 SLP060 T13271360 CYHK 281000Z AUTO 01008KT 9SM CLR M33/M36 A2969 RMK SLP062 KDCU 280953Z AUTO 33004KT 10SM CLR M01/M06 A3017 RMK AO2 SLP218 T10111056 KDEC 280954Z 00000KT 10SM CLR M07/M09 A3023 RMK AO2 SLP245 T10671094 KCNC 281035Z AUTO 14007KT 10SM OVC060 M01/M09 A3017 RMK AO2 KBUU 281035Z AUTO 00000KT 10SM CLR M12/M13 A3026 RMK AO2 T11161129 CWZL 281000Z AUTO 00000KT 06/05 RMK AO1 SLP123 T00580047 58003 KDED 281035Z AUTO 31004KT 10SM A3007 RMK AO1 KBWD 281035Z AUTO 00000KT 10SM CLR 05/05 A3011 RMK AO2 NZRO 281000Z 03005KT 25KM BKN013 20/17 Q1015 RMK ALT NZTG VATSIM USE ONLY CYHM 281000Z 36011KT 15SM FEW040 FEW090 M11/M17 A3007 RMK SC1AC1 SC TR SLP198 CYGV 281000Z AUTO 33003KT 9SM CLR M13/M19 A2987 RMK SLP116 PHSF 280956Z AUTO 33002KT 10SM CLR 08/04 A3043 RMK AO2 SLP197 T00780036 402220070 $ KBVN 281035Z AUTO 13004KT 10SM SCT090 M01/M04 A3003 RMK AO2 T10121042 KCLW 281035Z AUTO 32008G17KT 10SM CLR 15/05 A3009 RMK AO2 CWZN 281000Z AUTO 00030KT M00/M00 RMK AO1 SLP040 T10011001 51022 CYGW 281048Z AUTO 20012G20KT 5SM -SN OVC031 M11/M16 A2974 RMK SLP073 KBVO 280953Z AUTO 11004KT 10SM SCT100 07/M01 A3007 RMK AO2 SLP178 T00671006 EGGW 281020Z 21013KT 9999 SCT011 SCT014 BKN017 12/11 Q1010 CWZO 281000Z AUTO 24024G29KT RMK AO1 PK WND 24029/0953 CYGX 281000Z 21008KT 15SM SKC M06/M10 A2979 RMK SLP099 ZSSS 281030Z 26002MPS 250V330 8000 NSC 18/10 Q1016 NOSIG KBWG 280953Z AUTO 36003KT 10SM CLR M03/M08 A3018 RMK AO2 SLP223 T10281083 KBUY 280954Z AUTO 31003KT 10SM CLR 02/M04 A2992 RMK AO2 SLP133 T00171044 KDCY 281035Z AUTO 04006KT 10SM CLR M05/M09 A3023 RMK AO2 T10501095 CWYY 281000Z AUTO 33004KT 13/08 RMK AO1 SLP066 T01260084 55006 KDEH 281035Z AUTO 15003KT 10SM BKN095 OVC110 M09/M12 A3020 RMK AO2 EGHQ 281020Z 23022G34KT 4500 -RA BR OVC004 10/09 Q1014 RERA CWZQ 281040Z AUTO 35004KT M01/M02 RMK AO1 T10091020 CXRH 281000Z AUTO 06001KT M03/M04 RMK AO1 SOG 80 T10321040 UNNT 281030Z 30005MPS 9999 SCT030 BKN200 M06/M12 Q1024 25150065 16150065 NOSIG RMK QFE758/1011 KBWI 280954Z 30011G15KT 10SM SCT065 BKN080 BKN110 01/M08 A2987 RMK AO2 SLP115 T00061083 KCMR 281035Z AUTO 16010KT 10SM CLR 00/M06 A3036 RMK AO2 KCNI 281035Z AUTO 30006KT 10SM CLR 01/M08 A3005 RMK AO2 KBXA 281035Z AUTO 00000KT 10SM 05/03 A3020 RMK AO2 T00470031 KBVS 281035Z AUTO 9SM OVC048 10/07 A3004 RMK A01 EGJA 281020Z 23021G31KT 200V270 6000 SCT002 BKN004 10/10 Q1018 CWZS 281000Z AUTO 33002KT M13/M14 RMK AO1 SLP126 T11261139 52015 EFSA 281020Z AUTO 14013KT 100V180 CAVOK 07/00 Q1012 KCNK 280955Z AUTO 08004KT 10SM BKN110 02/M03 A2998 RMK AO2 SLP159 T00171033 CYIK 272100Z 19021G26KT 3SM -SN DRSN FEW004 BKN220 M17/M21 A2953 RMK SN1ST1CS2 SN TR LOOSE LAST OBS/NEXT 281200UTC SLP004 EGJB 281020Z 22019KT 6000 FEW001 BKN002 10/10 Q1018 KBVU 281035Z AUTO 35004KT 10SM CLR 16/M03 A3005 RMK AO2 CXSC 281000Z AUTO 22010KT 11/04 RMK AO1 T01120039 UNOO 281030Z 35007G10MPS 9999 SCT020 M10/M17 Q1031 25CLRD60 NOSIG RMK QFE765 CXRL 281000Z AUTO 01/01 RMK AO1 T00050005 CYHU 281035Z AUTO 35012G17KT 9SM -SN OVC080 M08/M14 A3002 RMK SLP166 KCNM 280953Z AUTO 00000KT 10SM CLR 07/01 A3006 RMK AO2 SLP140 T00720011 $ KCOD 281035Z 23003KT 10SM CLR 14/M02 A2998 RMK AO1 CWZV 281000Z AUTO 20013KT 08/05 RMK AO1 SLP128 T00770048 50000 KDEN 280953Z 22011KT 10SM CLR 09/M01 A3007 RMK AO2 SLP130 T00891011 KCOE 281035Z AUTO 18011KT 10SM FEW020 SCT026 OVC048 09/07 A2987 RMK AO1 P0002 NZTG 281000Z 03005KT 25KM BKN013 20/17 Q1015 RMK ALT VATSIM USE ONLY NZSP 280550Z 10008KT 9000 BR FEW080 M62/ A2825 RMK CLN AIR 09010KT ALL WNDS GRID CXSE 281000Z AUTO 31008KT M32/M36 RMK AO1 SLP096 T13151360 51003 CWZW 281000Z AUTO 03001KT M04/M06 RMK AO1 SOG 35 3009 SLP100 T10371064 CYIN 281000Z AUTO 18007KT 9SM SCT095 BKN120 OVC140 07/M00 A2973 RMK PRESRR SLP065 DENSITY ALT 3700FT KCMX 280953Z AUTO 31003KT 10SM CLR M20/M22 A3019 RMK AO2 SLP249 I1000 T12001222 KCNO 280953Z AUTO 00000KT 6SM HZ CLR 14/08 A3007 RMK AO2 SLP177 T01440078 KBVX 281035Z 12005KT 10SM BKN070 OVC090 03/M03 A3018 RMK AO1 KCOF 280958Z AUTO 32016KT 10SM CLR 15/07 A3004 RMK AO2 SLP177 T01450067 CHINO RWY02 $ CYJF 272200Z 22009G15KT 200V280 15SM FEW035 SCT090 11/M07 A2961 RMK SC2AC1 11.7/-3.8/0/35 MEDIUM PACK LAST OB/NEXT 071400UTC SLP036 DENSITY ALT 800FT CYIO 281000Z AUTO 17006KT 9SM CLR M32/M35 A2962 RMK SLP042 KBVY 280953Z AUTO 02007KT 10SM OVC060 03/M02 A2971 RMK AO2 SLP058 T00281022 EFRO 281020Z AUTO 16006KT 1100 R21/1200U SN VV002 00/00 Q1004 KCMY 281035Z AUTO 00000KT 10SM CLR M12/M13 A3024 RMK AO2 T11191135 KBWP 281030Z AUTO 14009KT 10SM CLR M04/M07 A3012 RMK AO1 CYHY 281000Z 23005KT 15SM FEW100 M04/M07 A2953 RMK AC1 WND ESTD SLP009 ZUCK 281000Z VRB01MPS CAVOK 21/12 Q1012 NOSIG KDEQ 280953Z AUTO 11004KT 10SM CLR 03/03 A3011 RMK AO2 SLP195 T00330028 CXSH 281000Z AUTO 34011G16KT M11/M20 RMK AO1 PK WND 35020/0940 SLP159 T11131204 51008 CWZZ 281000Z AUTO 27011KT M17/ A2940 RMK SLP012 CYHZ 281000Z 36007KT 15SM OVC075 00/M01 A2976 RMK AC8 SLP082 KDFI 280953Z AUTO 01005KT 10SM CLR M08/M14 A3021 RMK AO2 SLP239 T10831139 EFSI 281020Z AUTO 22004KT 150V300 9999 -RA BKN007 BKN010 02/02 Q1007 EGKA 281020Z 24018G28KT 1800 BR BKN003 10/10 Q1015 CYKA 281000Z 30005KT 220V330 40SM FEW063 BKN110 13/03 A2974 RMK SC2AC5 SLP072 DENSITY ALT 1300FT KDET 280953Z VRB05KT 10SM OVC046 M07/M14 A3017 RMK AO2 SLP227 T10671144 EGJJ 281020Z 23017KT 9999 SCT009 BKN042 12/11 Q1020 NOSIG KF70 281035Z AUTO 00000KT 10SM CLR 12/03 A3008 RMK AO1 KBXK 281035Z AUTO 00000KT 10SM CLR 13/00 A3002 RMK AO1 EGKB 281020Z 22013KT 190V250 9999 BKN004 10/09 Q1013 KCNU 280952Z AUTO 12006KT 10SM FEW100 05/M02 A3007 RMK AO2 SLP182 T00501017 EHAK 281025Z AUTO 17032KT 1400 -SHRA FEW005/// SCT008/// BKN030/// 07/05 Q1006 KCPC 281035Z AUTO 01006KT 10SM SCT011 SCT030 BKN045 06/04 A2995 RMK AO2 T00550035 CXSL 281000Z AUTO 01004KT 01/01 RMK AO1 T00090005 KCOM 281035Z AUTO 00000KT 10SM CLR 08/05 A3010 RMK AO2 T00750045 CYKD 272300Z 35006KT 300V010 15SM SCT015 BKN080 M14/M18 A2966 RMK SC4AC2 -14.0/-19.7/0.0/24 TRACE LOOSE/LAST OBS/NXT 281300Z SLP043 KCNW 280352Z 03004KT 10SM SKC 13/07 A3016 CXTD 281000Z AUTO 33004KT M01/M02 RMK AO1 SOG 26 3028 SLP108 T10101016 CYIV 281000Z 20004KT 15SM SKC M07/ A2995 RMK VIA CYWG SLP159 KCON 280951Z AUTO 34007KT 10SM BKN046 BKN055 OVC075 01/M03 A2975 RMK AO2 SLP079 T00111028 PHTO 280953Z AUTO 24005KT 10SM SCT055 20/16 A3020 RMK AO2 SLP224 T02000156 402720189 TSNO KDEW 281041Z AUTO 21013KT 5SM RA BR BKN013 OVC041 09/08 A2988 RMK AO2 P0007 T00940083 EHAM 281025Z 18014KT 150V210 9999 RADZ OVC013 08/06 Q1014 TEMPO 5000 BKN010 CZBF 281000Z 32003KT 15SM FEW090 SCT130 BKN270 M06/M11 A2986 RMK AC2AS1CC2 CI ASOCTD SLP115 CYKF 281000Z AUTO 01009G15KT 9SM CLR M12/M17 A3008 RMK SLP207 KBYG 280953Z AUTO 00000KT 10SM CLR 13/M03 A2995 RMK AO2 SLP098 T01331028 KCNY 280953Z AUTO 00000KT 10SM CLR 07/M06 A3012 RMK AO2 SLP169 T00671061 KBYH 271953Z 36012G23KT 10SM BKN026 BKN065 07/01 A3012 CYKG 272000Z CCA 00000KT 8SM FEW090 FEW120 OVC220 M16/M21 A2954 RMK AS1AC1CS6 AC TR SLP025 CXSP 281000Z AUTO 14001KT M00/M00 RMK AO1 T10011004 KCOQ 281037Z AUTO 00000KT 10SM CLR M11/M13 A3017 RMK AO2 CXTH 281000Z AUTO 21005KT 03/01 RMK AO1 T00290013 KBYI 280953Z AUTO 20014KT 10SM CLR 13/M02 A3001 RMK AO2 SLP127 T01331017 VEPT 280950Z 08004KT 5000 HZ NSC 34/19 Q1008 NOSIG CXSR 281000Z AUTO 26007KT 03/01 RMK AO1 SOG 39 6009 SLP039 T00260012 50002 KCOS 280954Z 35008KT 10SM CLR 07/M04 A3014 RMK AO2 SLP158 T00721039 NZTU 281000Z 24002KT 40KM BKN022 15/13 Q1005 RMK ALT VATSIM USE ONLY CYLA 272100Z 26010G18KT 15SM FEW090 FEW230 M18/M22 A2974 RMK AC1CI1 SNW CVR/HARD PACK LAST OBS/NXT 281200Z SLP077 CYKJ 281000Z AUTO 21005KT 9SM OVC008 01/00 A2953 RMK SLP023 KCOT 280953Z AUTO 14004KT 10SM CLR 12/06 A3013 RMK AO2 SLP198 T01170061 KCPK 281035Z AUTO 32005KT 10SM SCT055 OVC070 06/M01 A2988 RMK AO2 KCQB 281035Z AUTO 00000KT 10SM CLR 06/05 A3004 RMK AO2 CYJT 281000Z 01003KT 15SM FEW005 SCT012 OVC018 M02/M03 A2973 RMK SF2SF2SC4 SLP068 KCQC 280953Z AUTO 29009KT 10SM CLR 04/M08 A3021 RMK AO2 SLP163 T00441083 EGKK 281020Z 22011KT 9999 BKN007 11/10 Q1014 KCOU 280954Z AUTO 11006KT 10SM OVC065 01/M05 A3015 RMK AO2 SLP216 T00061050 EHBK 281025Z AUTO 20015KT 160V230 9999 OVC025 10/04 Q1017 NOSIG CYKL 281000Z AUTO VRB04KT 9SM FEW100 M23/M26 A2970 RMK SLP112 EGLC 281020Z 23016KT 9999 BKN012 13/10 Q1012 CYLD 281000Z 00000KT 15SM SKC M25/M28 A3013 RMK SLP250 KDFW 280953Z 12005KT 10SM FEW300 09/04 A3008 RMK AO2 SLP183 T00890039 KCQF 281035Z AUTO 02003KT 10SM CLR 05/02 A3018 RMK AO2 EGLF 281020Z 22012KT 9999 BKN012 12/10 Q1013 CXTO 281000Z AUTO M09/M16 RMK AO1 SLP201 T10931163 53012 CXTP 281000Z AUTO 33003KT 01/00 RMK AO1 SOG 60 1028 SLP035 T00060000 50006 CYKP 281000Z AUTO 26007KT 9SM CLR M13/M20 A3006 RMK SLP194 EFTP 281020Z AUTO 22007KT 9999 -RA SCT002 BKN004 02/02 Q1009 RERA OSDI 281000Z 03002KT CAVOK 26/03 Q1011 CYKQ 272100Z 31008KT 280V350 15SM FEW025 M14/M19 A3015 RMK CF1 CF TR LAST OBS/NEXT 291300 UTC SLP212 CYLH 281000Z AUTO 24006KT 9SM CLR M17/M19 A3004 RMK SLP194 KCPR 280953Z AUTO 28004KT 10SM CLR 04/M03 A3004 RMK AO2 SLP136 T00441033 NZWB 281000Z 05003KT 20KM BKN025 18/16 Q1010 RMK ALT NZNS VATSIM USE ONLY KCPS 280953Z AUTO 00000KT 10SM CLR M02/M06 A3021 RMK AO2 SLP234 T10221056 KBYS 280955Z AUTO 23010KT 10SM CLR 19/M02 A3007 RMK AO2 SLP144 T01941023 $ CYLJ 280000Z 00000KT 6SM HZ FEW012 FEW080 FEW120 SCT250 06/03 A2982 RMK CF1AC1AC2CI2 CF TR AC TR LAST OB/NXT 281200 UTC SLP118 CYMA 281000Z VRB02KT 20SM FEW090 BKN220 M03/M05 A2963 RMK AC2CS5 HALO SLP060 EFVA 281020Z AUTO 25005KT 210V280 9999 OVC004/// 01/01 Q1007 R16/29//95 KCPT 281035Z AUTO 18006KT 10SM CLR 09/06 A3011 RMK AO2 CYLK 280000Z 22012G18KT 15SM FEW250 06/M03 A2944 RMK CI2 7.0/-9.0/0/33 MEDIUM PACK LAST OB/NEXT 281500Z SLP983 CZDB 281000Z AUTO 05005KT M03/M06 RMK AO1 SOG 103 1020 SLP091 T10281058 ORMM 281000Z 20004KT CAVOK 29/05 Q1016 NOSIG EGMC 281020Z 23016KT 9999 FEW009 BKN011 13/10 Q1012 CYLL 281000Z AUTO 18004KT 9SM SCT200 BKN220 02/00 A2948 RMK SLP004 EGLL 281020Z 21013KT 9999 BKN009 OVC010 12/10 Q1012 BECMG BKN014 EFTU 281020Z AUTO 26005KT 230V290 9999 OVC005/// 03/02 Q1010 R08/29//95 KCQM 281034Z AUTO 00000KT 10SM CLR M13/M14 A3015 RMK AO2 EGMD 281020Z 23024KT 0800 FG -DZ OVC002 09/09 Q1016 CXTV 281000Z AUTO 31007KT M15/M17 RMK AO1 SLP066 T11511166 53008 KCRE 281027Z 01005KT 4SM -RA BR FEW011 BKN031 OVC038 06/04 A2993 RMK AO1 RAB02 P0013 T00610044 KDGW 280953Z AUTO 33007KT 10SM CLR 04/M03 A3002 RMK AO2 SLP134 T00391028 KDHN 280953Z AUTO 31007KT 10SM CLR 04/01 A3015 RMK AO2 SLP208 T00440011 KCPW 281035Z AUTO 33005KT 10SM CLR 00/M11 A3049 RMK AO2 KBZN 280956Z AUTO 12004KT 10SM CLR 04/M01 A2992 RMK AO2 SLP113 T00391006 KCRG 280953Z AUTO 30009KT 10SM CLR 09/02 A3004 RMK AO2 SLP170 T00940022 KBYY 281035Z AUTO 00000KT 10SM CLR 11/11 A3013 RMK AO2 T01150115 CZCP 281042Z AUTO 07022KT 1 1/4SM CLR M20/ A2971 RMK ICG CYKY 281000Z 19009KT 15SM BKN080 OVC240 06/03 A2956 RMK AC5CI3 SLP017 ORNI 281000Z 12004KT CAVOK 28/01 Q1016 NOSIG CYKZ 281000Z 36007KT 15SM FEW020 M11/M16 A3010 RMK SC1 SC TR SLP207 CYMH 281048Z AUTO 34006KT 5SM -SN OVC030 M09/M13 A2979 RMK SLP087 NZWK 281000Z 03005KT 25KM BKN013 20/17 Q1015 RMK ALT NZTG VATSIM USE ONLY CZCR 280900Z AUTO 25005KT M07/M11 RMK AO1 SOG 29 3015 SLP118 T10681108 KDIJ 280956Z AUTO 13006KT 10SM FEW085 04/M01 A3013 RMK AO2 T00381005 SLP149 CYMJ 280034Z 07012KT 15SM FEW200 BKN280 10/06 A2990 RMK CC2CI2 LAST OBS/NEXT 301000 UTC SLP144 CYNA 281000Z AUTO 35008KT 9SM CLR M10/M14 A2980 RMK SLP093 KCQT 281047Z AUTO 00000KT 10SM CLR 17/13 A3005 RMK AO2 SLP173 T01670128 KDHT 280953Z AUTO 29007KT 10SM CLR 08/M01 A3008 RMK AO2 SLP150 T00781006 KDIK 280956Z AUTO 17010KT 10SM CLR 01/M02 A2988 RMK AO2 SLP123 T00111017 CYLT 271900Z 34008KT 1 3/4SM -SN OVC026 M28/M32 A2981 RMK SC7 LAST OBS/NEXT 291100 UTC SLP100 CXWB 281000Z AUTO M28/M33 RMK AO1 T12811329 EFUT 281020Z AUTO 16013KT 120V190 9999 FEW028 BKN083 05/00 Q1012 EGNC 271650Z 30011KT 9999 FEW022 SCT037 08/01 Q1017 NZWN 281030Z AUTO 35015KT 9999 SCT019/// SCT026/// BKN034/// 19/15 Q1010 NOSIG EHDL 281025Z AUTO 17011KT 9999 OVC041 09/04 Q1015 BLU TXKF 280955Z 19020G31KT 8000 BR SCT009 BKN017 OVC061 21/19 Q1015 RMK SCT009 V BKN  CYND 280100Z 35010KT 15SM BKN030 M05/M15 A2995 RMK SC7 SLP147 CXVM 281000Z AUTO 17004KT 01/00 RMK AO1 T00060000 CYMM 281000Z AUTO 18009KT 9SM -RA FEW029 OVC042 03/ A2956 RMK PCPN 1.8MM PAST HR SLP024 KCQW 281035Z AUTO 00000KT 10SM CLR 02/00 A2996 RMK AO2 NZWP 281010Z VRB05KT 25KM SCT022 BKN030 19/19 Q1014 RMK NZAA VATSIM USE ONLY CXVN 281000Z AUTO 02012G17KT M07/M14 RMK AO1 SOG 00 3009 PK WND 02017/0956 SLP193 T10671135 CYLW 281030Z AUTO 20013KT 130V210 9SM FEW070 OVC099 11/04 A2979 RMK SLP090 CYNE 281041Z AUTO 19011G16KT 8SM OVC006 M04/M05 A2986 RMK SLP125 KCQX 280952Z AUTO 04008KT 10SM -RA OVC012 03/02 A2967 RMK AO2 UPB44E46 SLP049 P0002 T00280017 CYMO 281000Z AUTO 21011KT 9SM FEW170 M19/M23 A3010 RMK SLP193 KCSG 280951Z AUTO 33007KT 10SM CLR 04/00 A3010 RMK AO2 SLP191 T00390000 KCRP 280951Z 22005KT 10SM CLR 13/10 A3014 RMK AO2 SLP206 T01280100 $ NZWR 281010Z VRB05KT 25KM SCT022 BKN030 19/19 Q1014 RMK NZAA VATSIM USE ONLY KCRQ 280953Z AUTO 00000KT 1/4SM R24/1400V2000FT FG VV002 14/14 A3005 RMK AO2 SLP172 T01440139 TSNO NZWS 281000Z 02011KT 10KM SHRA BKN020 18/17 Q1009 RMK ALT VATSIM USE ONLY EGNH 281020Z 23028G38KT 9999 VCSH FEW009 SCT028 10/09 Q1002 EHEH 281025Z AUTO 19012KT 9999 DZ OVC019 09/06 Q1016 WHT 19013KT 9999 DZRA BKN018 BECMG 21012G22KT BKN012 KCRS 280953Z AUTO 15004KT 10SM CLR 09/05 A3012 RMK AO2 SLP196 T00940050 EFVR 281020Z AUTO 15011KT 130V190 9999 FEW025 06/00 Q1011 NZWU 280902Z 28004KT 10KM VCSH BKN014 17/16 Q1013 RMK NZPM VATSIM USE ONLY CZFA 272200Z 30008G15KT 270V350 10SM VCSH FEW012 SCT033 OVC045 03/M03 A2961 RMK ST2SC2SC4 CLIMAT 2.5/-2.9/0.2CM/0.2MWE LAST STFD OBS/NEXT 281400Z SLP065 CYOA 272200Z 15008KT 15SM -SN OVC010 M05/M06 A2940 RMK SC8 SLP007 EGNJ 281020Z 20021KT 8000 -RA FEW007 SCT016 BKN022 12/10 Q1004 KCTB 280956Z AUTO 21004KT 10SM FEW090 10/02 A2973 RMK AO2 SLP050 T01000017 KDKB 281035Z AUTO 34003KT 10SM CLR M09/M11 A3025 RMK AO2 T10911111 CYMT 280000Z 32004KT 15SM SKC M16/M22 A2995 RMK SLP182 CYMU 271900Z 23010G15KT 6SM -SN DRSN OVC009 M19/M21 A2994 RMK ST7 LASTOBS/NEXT 30 1200Z SLP150 CYOC 280100Z 09002KT 35SM VCSH FEW021 FEW036 SCT080 BKN095 BKN200 M04/M13 A2951 RMK CF1SC2AC2AS2CI1 CF TR SH SW ACSL CLIMAT -4.0/-24.5/0.0 LAST STFD OBS/NEXT 281300 UTC SLP020 CZEL 281000Z AUTO 03009KT M12/M18 RMK AO1 SLP203 T11231179 53009 KCSM 280953Z AUTO 22017KT 10SM CLR 07/03 A3003 RMK AO2 SLP163 T00720033 CZEM 272000Z 26008KT 220V290 15SM BKN015 M15/M19 A3014 RMK SC7 LAST OBS/NEXT 291600 UTC SLP208 CXWM 281000Z AUTO 22007KT 09/01 RMK AO1 T00870013 CYOD 281000Z 06003KT 15SM BKN150 BKN240 03/02 A2950 RMK AC4CI1 SLP006 CYNM 281000Z AUTO VRB02KT 9SM CLR M28/M31 A3008 RMK SLP218 EGNM 281020Z 23017G28KT 180V280 9999 -RA SCT010 BKN015 10/10 Q1001 KCRW 280954Z 30008G15KT 10SM SCT065 M04/M12 A3006 RMK AO2 SLP188 T10441122 EHDV 281025Z AUTO 17033KT 9000 SCT003/// BKN005/// OVC006/// 06/05 Q1006 EHFD 281025Z AUTO 17031KT 6000 -RA FEW032/// SCT043/// BKN048/// 06/04 Q1009 RERA REDZ CXVW 281000Z AUTO 25003KT 05/04 RMK AO1 T00480044 50018 CXWN 281000Z AUTO 21002KT M04/M06 RMK AO1 SLP190 T10401055 58012 KCRX 281035Z AUTO 00000KT 10SM FEW085 M00/M04 A3020 RMK AO2 EGNO 271620Z 26005KT 220V280 9999 BKN049 09/02 Q1018 CYMX 281000Z 01007KT 45SM FEW050 BKN077 M10/M16 A3001 RMK SC2AC5 SLP168 KEBG 281035Z AUTO 18004KT 10SM CLR 13/11 A3016 RMK AO2 T01260105 KCSQ 281035Z AUTO 11007KT 10SM OVC050 M00/M06 A3014 RMK AO2 UNTT 281030Z 34003MPS 9999 -SHSN SCT020CB BKN066 BKN230 M06/M13 Q1022 NOSIG RMK QFE752 21800350 KEAR 281035Z 08003KT 10SM CLR M03/M06 A3000 RMK AO1 EGNR 281020Z 23022G32KT 9999 SCT017 BKN049 13/10 Q1004 KCTJ 280550Z AUTO 32007KT 10SM CLR 03/01 A3008 RMK AO2 CYPA 281000Z 14004KT 15SM SCT010 BKN160 01/M00 A2968 RMK SF3AC4 SLP070 CYOJ 281047Z AUTO 00000KT 1 1/4SM BR CLR M06/M06 A2961 RMK ICG PAST HR SLP047 KCUB 280953Z AUTO 32006KT 10SM BKN070 07/M01 A2998 RMK AO2 SLP152 T00671006 $ EGPA 281020Z 16023KT 9000 VCSH SCT009 BKN029 07/05 Q0985 KDKK 281020Z AUTO 30004KT 10SM OVC031 M10/M12 A3006 RMK AO2 T11001122 KEAT 280955Z AUTO 27021G35KT 10SM CLR 14/M01 A2987 RMK AO2 PK WND 29036/0941 SLP110 T01391011 EGNS 281020Z 22020KT 9999 FEW007 SCT016 10/09 Q0999 NOSIG EGNT 281020Z 22014KT 180V250 9000 -RA SCT020 BKN048 11/08 Q0997 EGPB 281020Z 14030G43KT 7000 RA BKN010 04/03 Q0990 BECMG BKN009 KEAU 280956Z AUTO 06003KT 10SM CLR M09/M12 A3020 RMK AO2 SLP242 T10891117 CYPC 272300Z 26010KT 15SM FEW030 FEW230 M16/M19 A2956 RMK SC1CI2 SC TR CC ASSCTD/60 HARD PACK SLP011 ZUGY 281000Z 01002MPS 9999 SCT020 18/14 Q1015 NOSIG KCSV 280953Z AUTO 33007KT 10SM SCT017 OVC040 M03/M07 A3006 RMK AO2 SLP190 T10281067 EGPC 281020Z AUTO 17018KT 150V210 9999 NCD 06/04 Q0986 CZFM 272300Z 36004KT 320V040 35SM BKN060 M11/M17 A2962 RMK SC6 -10.8/-18.4/0.0/78 MUCH LOOSE LAST OBS/NEXT 281300Z SLP035 EGNV 281020Z 19016KT 9000 -RA BKN023 11/09 Q1000 CZEV 281000Z AUTO 30004KT M16/M18 RMK AO1 SOG 47 3009 SLP073 T11581178 50002 EGOM 280950Z AUTO 22018KT 3900 RA BKN003/// 08/08 Q0996 CYPD 280900Z AUTO 30004KT M01/M01 A2974 RMK CLD MISG WX MISG VIS MISG PCPN MISG SLP076 EGPD 281020Z 19019KT 6000 -RA BKN005 07/06 Q0989 TEMPO BKN008 CZFN 272000Z 02003KT 30SM SCT090 BKN250 01/M07 A2949 RMK AC4CI1 SLP993 CYPE 281000Z 20005KT 15SM OVC050 02/02 A2960 RMK SC8 SLP041 EGPE 281020Z 23016KT 200V260 9999 FEW005 SCT025 11/07 Q0984 KDLF 280958Z AUTO 08005KT 10SM CLR 09/06 A3011 RMK AO2 SLP189 T00940061 $ CYOO 281000Z AUTO 35010KT 9SM CLR M11/M17 A3010 RMK SLP200 EGNX 281020Z 22019KT 9999 -SHRA SCT013 BKN042 12/09 Q1006 EGPF 281020Z AUTO 23016KT 4900 -RADZ OVC007 11/10 Q0992 KECG 280954Z AUTO 28009KT 7SM CLR 03/02 A2984 RMK AO2 SLP105 T00330022 TSNO CYPG 272200Z 15012KT 1 1/2SM -SN BR OVC013 M01/M02 A3004 RMK SN2SC6 LAST OBS/NEXT 301100 UTC SLP189 EHGG 281025Z AUTO 17013KT 140V200 9999 NSC 09/02 Q1015 NOSIG KDLH 280955Z 12003KT 10SM CLR M08/M11 A3015 RMK AO2 SLP235 T10781111 KCUH 281035Z AUTO 13004KT 10SM CLR 06/03 A3004 RMK AO2 EGOP 280950Z AUTO 22031KT 2600 // OVC004/// 10/09 Q1010 CXYH 281000Z AUTO 35001KT M05/M07 RMK AO1 SOG 52 3005 SLP011 T10521066 EGPH 281020Z 24017KT 9999 -RA FEW016 BKN025 12/10 Q0992 CYPH 281000Z AUTO 25011KT 9SM -SN OVC013 M13/M14 A2947 RMK SLP983 KDKR 281035Z AUTO 00000KT 10SM CLR 07/07 A3016 RMK AO2 KEBS 281035Z AUTO 12007KT 10SM OVC060 M03/M07 A3015 RMK AO2 KDMA 280958Z AUTO 14004KT 10SM CLR 13/M04 A3011 RMK AO2 SLP162 T01251036 $ EGPI 281020Z AUTO 26029G39KT 6000 BKN016/// 10/08 Q0993 EGQA 271250Z 21014KT 9999 FEW016 SCT026 08/// Q1012 BLU CZFS 281000Z AUTO 19002KT M02/M07 RMK AO1 SOG 25 3005 SLP011 T10151070 EGOS 280950Z AUTO 22017KT 7000 RA FEW022/// BKN032/// 12/10 Q1006 CYQA 281000Z AUTO 33003KT 9SM CLR M16/M19 A3009 RMK SLP211 EHFS 281025Z AUTO 19017KT 7000 OVC005/// 08/07 Q1014 KCVB 281035Z AUTO 30003KT 10SM CLR 09/04 A3015 RMK AO2 T00850042 CYQB 281000Z 34006KT 15SM BKN086 M08/M16 A2995 RMK AC7 SLP146 EGPK 281020Z 22019KT 9999 -SHRA FEW015 SCT035 13/10 Q0994 KEDC 281035Z AUTO 00000KT 10SM 10/07 A3013 RMK AO2 KCVC 281035Z AUTO 31008KT 10SM CLR 03/M02 A3005 RMK AO2 KCUL 281035Z AUTO 02005KT 10SM CLR M04/M07 A3023 RMK AO2 T10361070 KDLL 281030Z AUTO 00000KT 10SM CLR M09/M13 A3023 RMK AO2 T10861128 CYPL 280200Z 25005KT 15SM SKC M07/M18 A3007 RMK LAST STFD OB/NEXT 281100Z SLP218 EGPL 281020Z 28029KT 9999 FEW008 09/08 Q0983 CXZC 281000Z AUTO 21003KT M19/M23 RMK AO1 SOG 75 7008 SLP193 T11921230 50005 VGEG 280950Z 21005KT 3200M HZ FEW018 SCT120 29/23 Q1010 NOSIG CYQD 281000Z 17011KT 15SM OVC006 M02/M03 A2978 RMK SF8 SLP099 EGPM 281020Z AUTO 15025KT 1600 +RA BKN002/// OVC012/// 04/03 Q0990 KDLN 280953Z AUTO 27006KT 10SM CLR 07/M01 A2994 RMK AO2 SLP099 T00721011 KEDE 281035Z AUTO 33009KT 10SM BKN055 OVC070 05/01 A2988 RMK AO2 T00450008 EGOV 280950Z AUTO 21028KT 5000 BR OVC004/// 10/09 Q1003 RERA EGPN 281020Z 14002KT 9000 -RA BKN010 08/08 Q0990 EGOW 280950Z 21018G28KT 9999 SCT010 BKN020 10/09 Q1003 RERA GRN CYOW 281000Z 34012G17KT 15SM FEW100 M12/M18 A3004 RMK AC1 SLP181 CYPO 281000Z AUTO 25008KT 9SM CLR M09/M16 A2985 RMK SLP113 CYQF 281000Z VRB02KT 15SM SKC 04/M03 A2956 RMK SLP022 KECP 280953Z AUTO 30003KT 10SM CLR 04/02 A3012 RMK AO2 SLP212 T00440022 KCTY 280953Z AUTO 34003KT 06/03 A3008 RMK AO1 SLP184 T00610033 KCVG 280952Z 33006KT 10SM CLR M07/M11 A3015 RMK AO2 SLP216 T10671106 EGPO 281020Z 21018KT 9999 SCT006 BKN010 10/09 Q0981 KDLP 281035Z AUTO VRB06KT 10SM CLR 16/07 A3016 RMK A01 CYQG 281028Z 34008KT 15SM -SN OVC042 M08/M13 A3018 RMK SC8 SLP231 CYOY 281000Z AUTO 01008KT 9SM FEW049 OVC057 M10/M17 A2993 RMK SLP145 KCVH 281030Z AUTO 00000KT 10SM CLR 08/08 A3015 RMK AO1 KDMH 280954Z AUTO 02/M08 A2987 RMK AO1 SLP115 T00171083 KCTZ 281035Z AUTO 00000KT 10SM SCT025 BKN055 OVC065 05/03 A2994 RMK AO2 T00480034 CYPQ 281000Z AUTO 35010KT 9SM CLR M11/M18 A3007 RMK SLP196 CYQH 281000Z 00000KT 20SM SKC M08/M09 A2970 RMK SLP091 EHFZ 281025Z AUTO 17033KT 9999 FEW018/// BKN022/// BKN026/// 06/05 Q1009 CYQI 281000Z 06008KT 12SM -RA OVC025 02/00 A2974 RMK NS8 SLP073 CYPR 281000Z AUTO 08006KT 9SM FEW009 04/04 A2989 RMK SLP121 KDLS 280953Z AUTO 31005KT 10SM SCT065 10/06 A3013 RMK AO2 RAB0856E04 SLP203 P0000 T01000056 EHGR 281031Z AUTO 19014KT 9999 -RADZ SCT012 OVC015 09/07 Q1015 GRN KEDJ 281030Z AUTO 01006KT 10SM CLR M10/M12 A3016 RMK AO1 KCWA 281015Z AUTO 10004KT 10SM CLR M10/M12 A3021 RMK AO2 KECS 281035Z AUTO 01004KT 10SM CLR 02/M02 A2997 RMK AO2 CYRA 280000Z 00000KT 15SM FEW070 01/M07 A2946 RMK AS1 1.8/-14.0/0/15.0 MUCH LOOSE AC ASOCTD LAST OBS/NEXT 281500 SLP993 KCUT 280953Z AUTO 33004KT 10SM CLR 05/M04 A2999 RMK AO2 SLP123 T00501039 CYRB 281000Z 32005KT 15SM FEW160 M34/M37 A2969 RMK AC1 AC TR SLP068 KECU 281030Z AUTO 18007KT 10SM CLR 13/01 A3015 RMK AO2 EGQK 280950Z AUTO 22013KT 9999 FEW038/// 11/05 Q0986 CYQK 281000Z 19004KT 15SM SKC M07/M16 A3009 RMK SLP216 KCWC 281035Z AUTO 18005KT 10SM CLR 09/06 A3005 RMK AO2 T00900058 CYQL 281000Z AUTO 22011KT 9SM FEW110 07/01 A2966 RMK SLP047 EGQL 280950Z 24014KT 4000 RA OVC013 10/09 Q0991 GRN KEED 280956Z AUTO 33005KT 10SM CLR 19/M04 A3001 RMK AO2 SLP133 T01891044 EGPU 281020Z 28027KT 9999 VCSH BKN013 BKN030 09/07 Q0989 EGQM 280950Z AUTO 17015KT 6000 -SHRA BKN023/// SCT032/// 08/08 Q0996 CYQM 281000Z 36006KT 15SM FEW040 BKN200 M03/M09 A2983 RMK SC2CI5 SLP105 KDMN 280953Z AUTO 25007KT 10SM CLR 09/M07 A3016 RMK AO2 SLP159 T00891072 KCVN 281035Z AUTO 01008KT 10SM CLR 03/M01 A3006 RMK AO1 KEDN 281035Z AUTO 00000KT 10SM CLR 03/01 A3015 RMK AO2 CYPW 280200Z 13008KT 6SM -RA BR FEW003 FEW007 SCT045 OVC070 11/10 A2986 RMK SF1SF1SC3AS5 SF TR SF TR LAST OBS/NEXT281300UTC SLP113 KDMO 280953Z AUTO 11005KT 9SM -SN SCT025 OVC060 02/M01 A3014 RMK AO2 SLP212 P0001 T00171011 KCVO 281035Z AUTO 19007KT 10SM CLR 08/06 A3031 RMK AO1 KCWF 281015Z AUTO 07003KT 10SM CLR 09/06 A3016 RMK AO2 T00930065 CYPX 281044Z AUTO 26015KT 9SM -SN BKN023 OVC038 M14/M15 A2937 RMK SLP948 CYPY 281000Z AUTO 28003KT 9SM BKN220 M02/M02 A2954 RMK SLP016 KDLZ 281035Z AUTO 36008KT 10SM SCT110 M09/M13 A3016 RMK AO2 CYQQ 281000Z 34013G20KT 12SM -SHRA FEW005 OVC045 09/08 A2994 RMK SF2SC6 SLP140 KCWI 281035Z 13005KT 10SM CLR M06/M09 A3028 RMK AO1 CYQR 281000Z 14017KT 15SM FEW005 00/M00 A2978 RMK SC2 SLP103 KCVS 280958Z AUTO 31005KT 10SM CLR 10/M01 A3005 RMK AO2 SLP134 T01011015 $ CYRJ 281000Z 30011KT 40SM FEW100 M17/M23 A3004 RMK AC1 SLP187 EGQS 280950Z 20008KT 9999 FEW042 SCT050 09/05 Q0987 BLU EHJA 281025Z AUTO 16028KT 4300 BR FEW002/// SCT003/// BKN005/// 06/06 Q1008 OTBD 281030Z 01013KT CAVOK 27/06 Q1015 NOSIG CYQT 281000Z 29005KT 15SM SKC M15/M17 A3022 RMK SLP249 CYSB 281000Z 31004KT 15SM SKC M19/M22 A3012 RMK SLP230 KDNL 280953Z AUTO 29006KT 10SM CLR 06/M02 A3000 RMK AO2 SLP155 T00561017 KEDU 281035Z AUTO 00000KT 10SM CLR 10/09 A3011 RMK AO1 CYRL 281000Z 14002KT 15SM SKC M17/M19 A3006 RMK SLP211 EGSC 281020Z 21014KT 170V240 9999 BKN017 14/10 Q1009 CXZU 281000Z AUTO 06/03 RMK AO1 17 0908Z 0007 SLP027 T00550031 CYQU 281000Z 23004KT 25SM FEW056 BKN080 03/03 A2963 RMK SC2AC5 SLP053 CYSC 281000Z AUTO 30007KT 9SM OVC085 M08/M13 A2989 RMK SLP134 KEFD 280950Z 00000KT 10SM CLR 15/05 A3015 EGSD 280950Z 20014KT 7000 OVC004 10/10 Q1009 CXZV 281000Z AUTO 32005KT M20/M22 RMK AO1 1020 SLP138 T11961220 50002 CYQV 281000Z AUTO 17011KT 6SM BR OVC005 M00/M01 A2984 RMK SLP128 KDMW 281025Z AUTO 31010G18KT 10SM SCT041 OVC055 M02/M11 A2988 RMK AO2 KEEN 281035Z AUTO 35009KT 10SM OVC032 01/M05 A2977 RMK AO1 KCVW 281035Z AUTO 09007KT 10SM CLR 11/08 A3018 RMK A01 KCWN 280956Z AUTO 29006KT 10SM CLR 12/M07 A2985 RMK AO2 SLP050 T01161073 KCXE 281035Z AUTO 30006KT 10SM BKN035 BKN041 OVC060 02/00 A2992 RMK AO1 T00180000 KEDW 280958Z AUTO 22009KT 10SM CLR 13/00 A3008 RMK AO2 SLP168 T01291000 KDNN 281035Z AUTO 33010G14KT 10SM CLR 00/M06 A3011 RMK AO2 CYQW 281000Z AUTO 13012G18KT 6SM BR BKN190 BKN230 02/02 A2954 RMK SLP022 KEEO 280953Z AUTO 00000KT 10SM CLR 02/M03 A3023 RMK AO2 SLP189 T00221028 KCVX 281034Z AUTO 00000KT 10SM CLR M14/M16 A3029 RMK AO2 T11421158 CYQX 281031Z 33010KT 15SM BKN007 BKN120 M01/M02 A2965 RMK SF5AC2 SLP047 CYSF 281044Z AUTO 06002KT 4SM BR OVC016 M04/M04 A2948 RMK SLP999 CZHY 281000Z AUTO 26005KT M00/M07 RMK AO1 3PAST HR SOG 22 3003 SLP000 P0001 T10021066 50003 CYQY 281000Z 35010KT 15SM OVC086 M00/M03 A2976 RMK AS8 SLP080 CYRQ 281000Z AUTO 36013KT 9SM OVC080 M10/M18 A2999 RMK SLP161 EGSH 281020Z 22014KT 8000 BKN006 11/10 Q1009 CYQZ 281045Z AUTO 32010G16KT 9SM -RA SCT016 SCT023 OVC041 04/03 A2979 RMK SLP103 KDPA 280952Z 01004KT 10SM CLR M10/M12 A3023 RMK AO2 SLP247 T11001117 KDNS 281035Z AUTO 11006KT 10SM BKN048 OVC065 M01/M01 A3011 RMK AO2 OSKL 280900Z 07010KT 9999 SCT026 OVC100 18/10 Q1017 CYSJ 281000Z 01009KT 15SM FEW110 OVC170 M02/M07 A2980 RMK AC2AC6 SLP097 KEET 280953Z AUTO 33003KT 10SM SCT100 03/M01 A3013 RMK AO2 SLP204 T00331011 ORSU 281000Z 13010KT CAVOK 19/07 Q1022 KEFK 281035Z AUTO 34012KT 10SM OVC080 M08/M13 A2988 RMK AO2 T10831132 CYSK 272200Z 23015KT 15SM IC FEW030 M16/M18 A2990 RMK SC2 -15.4/-23.9/M/M SNOW COVER/HARD PACK LAST OBS/NEXT 301200UTC SLP130 CYRT 281000Z 05006KT 15SM FEW250 M26/M29 A2958 RMK CI2 SLP020 EGTC 281020Z 23018G30KT 9999 BKN017 13/10 Q1009 KCWV 281035Z AUTO 28004KT 10SM CLR 05/01 A3004 RMK AO2 KDNV 281035Z AUTO 32004KT 10SM CLR M08/M09 A3021 RMK AO2 T10801095 CZKD 281000Z AUTO 22005KT M06/M08 RMK AO1 SOG 48 6027 SLP094 T10601075 CYSM 281000Z 28007KT 15SM SCT080 01/M05 A2952 RMK AC3 AURBO SLP005 CYRV 281039Z AUTO VRB02KT 9SM -RA SCT011 BKN048 BKN070 OVC094 06/05 A2972 RMK LTNG DIST S PRESFR SLP070 EHKD 281042Z AUTO 17015KT 9999 -DZ FEW014 SCT017 BKN025 07/06 Q1012 WHT 17010KT 9999 DZRA BKN035 BECMG 18015KT SCT012 BKN015 KEGE 281035Z AUTO 00000KT 10SM CLR 00/M03 A3029 RMK AO1 CYSN 280100Z 33012KT 15SM SCT025 SCT040 BKN080 M06/M11 A3001 RMK SC3SC1AC3 LAST STFD OBS/NEXT 281100 UTC SLP167 EGTE 281020Z 22015KT 190V250 9999 FEW010 BKN015 11/09 Q1013 CYTE 281000Z AUTO 33004KT 290V360 9SM CLR M20/M22 A2930 RMK SLP928 KCXO 280953Z AUTO 00000KT 10SM CLR 07/05 A3014 RMK AO2 SLP205 T00670050 KCXP 281035Z AUTO 00000KT 10SM CLR 08/M03 A3020 RMK AO2 CYSP 272100Z 26007KT 240V300 15SM SKC M09/M15 A3015 RMK LAST STFD OBS/NEXT 281200UTC SLP240 CYTH 281000Z 20005KT 15SM FEW240 M06/M08 A2978 RMK CI2 SLP098 KEGI 280958Z AUTO 31005KT 10SM CLR 05/02 A3014 RMK AO2 SLP209 T00540018 $ EHJR 281025Z AUTO 17030G35KT //// ///////// 07/07 Q1009 W07/H14 OSLK 281000Z 36002KT CAVOK 23/12 Q1008 KEHA 281028Z AUTO 25009KT 11/M01 RMK AO1 PK WND 13 000 T01061005 CYUA 281037Z AUTO 27009KT 9SM OVC005 M17/ A2978 EGSS 281020Z 22014KT 9999 BKN014 12/10 Q1011 KEFT 281035Z AUTO 14003KT 10SM CLR M07/M08 A3023 RMK AO2 EGTK 281020Z 23016KT 9999 SCT019 13/11 Q1010 EGUB 281027Z 21017G32KT 9999 FEW018 SCT060 13/09 Q1011 BLU TEMPO 5000 RA SCT012 GRN CYUB 280500Z 34005KT 10SM FEW005 BKN080 M17/M22 A2968 RMK ST1AS4 -13.5/-20.8/0.4/29 TRACE LOOSE LAST OBS/NXT 281300UTC SLP053 KEHC 281035Z AUTO 34009KT 10SM CLR 19/14 A3014 RMK A01 KDPL 281035Z AUTO 34008KT 10SM SCT022 BKN028 OVC040 04/02 A2994 RMK AO2 T00430020 CYTL 281000Z AUTO 25006KT 9SM FEW230 M11/M16 A2997 RMK SLP166 KDOV 280958Z AUTO 30012KT 10SM OVC070 03/M01 A2981 RMK AO2 SLP098 T00281008 $ KCXY 281011Z AUTO 29012KT 3SM -SN BKN021 OVC030 M02/M05 A2989 RMK AO2 P0000 T10221050 CYSY 271900Z 09017KT 10SM DRSN FEW050 SCT080 M17/M20 A2964 RMK SC1AC3 SLP050 VGHS 280950Z 19008KT 5000 HZ SCT015 35/18 Q1008 NOSIG KDQH 281035Z AUTO 30004KT 10SM CLR 06/01 A3009 RMK AO2 CYTQ 272100Z 25015KT 15SM FEW024 M20/M24 A2979 RMK SC1 LAST OBS/NXT 281200Z SLP094 CYTR 281000Z 36011KT 15SM FEW100 SCT250 M10/M17 A3007 RMK AC2CI1 SLP189 KCYS 280953Z AUTO 28013KT 10SM CLR 08/M04 A3008 RMK AO2 SLP130 T00781044 KDRA 280952Z AUTO VRB03KT 10SM CLR 12/M06 A3009 RMK AO2 SLP153 T01221061 CYTS 281000Z 19004KT 15SM SKC M26/M28 A3012 RMK SLP232 EHMA 281025Z AUTO 18023KT 9999 SCT039/// BKN043/// 08/02 Q1013 EGVA 281043Z AUTO 24016G21KT 9999 -RA FEW016 BKN024 OVC030 13/11 A2982 RMK AO2 RAB43 $ EICK 281030Z 25021G32KT 9999 SCT014 BKN033 12/10 Q1007 NOSIG CYUL 281000Z 36011G17KT 15SM OVC080 M09/M15 A3001 RMK AC8 SLP163 CYVC 281000Z 16005KT 15SM OVC008 01/M00 A2962 RMK ST8 SLP050 EGUL 281022Z AUTO 23019G26KT 9999 SCT015 13/10 A2979 RMK AO2 KEGV 281030Z AUTO 00000KT 10SM CLR M18/M20 A3018 RMK AO2 T11761200 CZMD 281000Z AUTO 23004KT 9SM CLR M17/M19 A3000 RMK SLP182 EHKV 281025Z AUTO 19026KT 9999 FEW004/// SCT006/// BKN009/// 07/06 Q1010 EGUN 281043Z AUTO 23019G25KT 9999 BKN021 BKN075 14/11 A2979 RMK AO2 KEHO 281035Z AUTO 28003KT 10SM SCT050 00/M05 A2998 RMK AO2 T00041050 EGUO 271550Z 24008KT 9999 BKN030 10/03 Q1020 BLU EHMG 281025Z AUTO 18029KT 120V230 9000 -RADZ BKN034/// OVC041/// 07/03 Q1011 CYTZ 281000Z AUTO 01008G15KT 320V040 9SM CLR M09/M17 A3013 RMK SLP207 KEHR 281035Z AUTO 05008KT 10SM CLR M03/M09 A3022 RMK AO1 KDRI 281035Z AUTO 00000KT 10SM CLR 07/05 A3019 RMK AO2 T00720053 CZMJ 281000Z AUTO 13009KT 01/M00 RMK AO1 SOG 00 8036 SLP087 T00061003 CYWA 281000Z AUTO 33005KT 9SM CLR M14/M19 A3013 RMK SLP213 KEIK 281035Z AUTO 00000KT 10SM CLR 09/M02 A3007 RMK AO2 T00881016 KCZT 281035Z AUTO 00000KT 10SM CLR 07/06 A3012 RMK AO2 EGWC 271250Z 30005KT 9999 BKN040 10/M02 Q1019 BLU EIDL 281030Z 27024KT 7000 -RA BKN017 BKN022 OVC028 09/06 Q1000 CYVL 281000Z AUTO 35005KT 9SM CLR M16/M17 A2959 RMK SLP045 KDRM 281035Z AUTO 00000KT 10SM CLR M17/M19 A3024 RMK AO2 T11741191 CYVM 281014Z AUTO 07004KT 020V090 5SM -SN OVC029 M24/M27 A2948 RMK SLP984 EGUW 280950Z AUTO 22012KT 9999 OVC002/// 10/10 Q1011 CYWE 281049Z AUTO 26005KT 2 1/2SM BR FEW120 M13/M14 A2942 RMK VIS VRB 3/4-3 SLP993 KDRO 280953Z AUTO 16003KT 10SM CLR 04/M05 A3025 RMK AO2 SLP193 T00391050 EHLW 281025Z AUTO 17014KT 9999 BKN040 OVC049 09/02 Q1014 BLU EGVN 281009Z 23011G22KT 9999 FEW022 SCT060 13/09 Q1010 BLU TEMPO 4000 RA SCT012 GRN KFAF 280958Z AUTO 01011G18KT 10SM OVC065 04/M02 A2984 RMK AO2 SLP108 T00401017 $ EGVO 280950Z 21016KT 9999 BKN009 11/09 Q1013 GRN CYVO 281000Z 30003KT 15SM SKC M23/M25 A3008 RMK SLP224 CYUX 281027Z AUTO 32013KT 9SM -SN CLR M35/M38 A2962 RMK SLP031 KEHY 281035Z AUTO 26012KT 10SM CLR 07/M07 A3013 RMK AO2 CYWG 281000Z 17011KT 15SM SCT230 M04/M06 A3006 RMK CI3 SLP193 CYVP 281000Z 20005KT 10SM -SN SCT045 BKN090 M20/M24 A2965 RMK SC3AS4 VIS LWR SW SLP045 CYUY 281000Z 00000KT 15SM SKC M26/M30 A3011 RMK SLP230 KCZZ 280952Z AUTO 05007KT 07/M01 A3010 RMK AO1 SLP166 T00721006 EGVP 280950Z AUTO 21015KT 9999 // BKN006/// SCT200/// 12/10 Q1013 CYWH 280400Z 26016G24KT 10SM -RA BKN050 OVC070 12/09 A2991 RMK SC6AC2 LAST STFD OBS;NEXT 281300 UTC SLP129 CYVQ 281000Z 26005KT 30SM SCT090 M06/M11 A2963 RMK AC4 SLP039 KEIR 281035Z AUTO 06013KT 10SM CLR 17/10 A3017 RMK A01 CYVR 281000Z 17011KT 20SM BKN055 OVC095 10/06 A2994 RMK SC6AC2 SLP138 KDTA 281035Z AUTO 10004KT 10SM CLR 05/M01 A3013 RMK AO1 T00531014 CYWJ 272300Z 27009KT 40SM BKN080 07/M05 A2944 RMK AC6 7.6/7.0/0/28 MUCH LOOSE LAST STFD OBS/NEXT 291300 UTC SLP986 KDRT 280953Z AUTO 08008KT 10SM CLR 12/04 A3010 RMK AO2 SLP182 T01220044 CZMT 280100Z 34005KT 15SM FEW006 FEW016 FEW100 SCT200 09/07 A2988 RMK CF1CU1AC1CI2 CF TR AC TR SH SW LAST OBS/NEXT 281400 UTC SLP117 CYVT 280400Z 17008KT 15SM -SHRA SCT035 BKN065 04/01 A2968 RMK SC3SC4 SN COV/MEDIUM PACK LAST STFD OB/NXT 281200 UTC SLP070 CYWK 281000Z 23009KT 15SM SKC M23/M27 A2977 RMK SLP136 CZMU 281000Z AUTO 27008KT 04/02 RMK AO1 SOG 00 T00430017 CYWL 281000Z 14003KT 140V200 15SM OVC060 07/02 A2970 RMK SC8 SLP062 DENSITY ALT 3100FT CYXC 281044Z 21007G15KT 20SM -SHRA OVC055 10/06 A2970 RMK SC8 SLP051 DENSITY ALT 3500FT KDSM 280954Z 11004KT 10SM OVC070 01/M11 A3017 RMK AO2 SLP224 T00061111 KFAM 281035Z AUTO 00000KT 10SM SCT100 M03/M06 A3022 RMK AO1 EGXC 281038Z 21017KT 9999 SCT022 BKN050 12/10 Q1006 WHT EGXD 280950Z AUTO 22015KT 9999 // BKN017/// SCT037/// 12/10 Q1002 CYVV 281000Z 34003KT 15SM SKC M13/M16 A3016 RMK FROIN SLP230 CYXD 281000Z AUTO 25005KT 9SM CLR 05/02 A2951 RMK SLP004 CYXE 281000Z 15012KT 15SM BKN200 03/02 A2962 RMK CI6 PRESFR SLP048 EGXE 280950Z AUTO 21021KT 9999 -SHRA BKN070/// 12/09 Q1000 EIDW 281030Z 25025G36KT 9999 -RA FEW008 SCT014 BKN020 12/11 Q1000 NOSIG KFBG 281030Z AUTO 31006KT 10SM FEW100 04/02 A2994 RMK AO2 CYXH 281033Z AUTO 21021G26KT 9SM BKN180 OVC200 11/04 A2956 RMK SLP010 DENSITY ALT 2800FT KFAR 280953Z 15010KT 10SM CLR M03/M08 A3011 RMK AO2 SLP207 T10281083 KDUA 281035Z AUTO 17005KT 10SM CLR 05/03 A3007 RMK AO2 KELA 281035Z AUTO 00000KT 10SM CLR 10/09 A3014 RMK AO2 T01020086 CYXJ 281000Z 25009KT 15SM OVC120 03/M02 A2963 RMK AC8 SLP055 KFAT 280953Z 31012KT 10SM CLR 17/07 A3008 RMK AO2 SLP184 T01720072 KDUB 281035Z AUTO 31013G17KT 10SM CLR 03/M02 A3011 RMK AO2 CYYB 281000Z AUTO 02005KT 9SM CLR M19/M21 A3010 RMK SLP224 KFBL 281034Z AUTO 00000KT 10SM SCT070 M07/M12 A3019 RMK AO2 KDTL 281035Z AUTO 15006KT 10SM CLR M06/M08 A3012 RMK AO2 KDUC 281035Z AUTO 14003KT 10SM CLR 06/05 A3004 RMK AO2 KEKM 280055Z 32007G14KT 10SM CLR M06/M14 A3014 RMK AO2 LAST CZOL 281000Z AUTO 23002KT 04/04 RMK AO1 T00400035 CYYC 281000Z 00000KT 15SM SCT240 04/M04 A2959 RMK CI3 SLP027 CYXL 281000Z 18003KT 15SM SKC M18/M20 A3011 RMK SLP227 CZPC 281025Z AUTO 25020G26KT 9SM SCT060 SCT070 BKN230 BKN250 11/03 A2970 RMK SLP045 DENSITY ALT 4600FT EGWU 280950Z 23012KT 9999 BKN012 OVC020 12/10 Q1012 GRN BECMG SCT015 BKN020 WHT KELD 280953Z AUTO 00000KT 10SM CLR 03/02 A3016 RMK AO2 SLP211 T00330017 KDSV 281026Z AUTO 33011KT 9SM FEW012 SCT020 OVC040 M07/M11 A3000 RMK AO2 UPB23E25SNE23 P0000 T10671106 CYYD 281010Z AUTO VRB02KT 1/2SM FZFG VV003 M01/M01 A2984 RMK SLP123 KDTN 280953Z AUTO 13005KT 10SM CLR 08/03 A3014 RMK AO2 SLP206 T00780033 TSNO KEKN 281026Z AUTO 34009KT 4SM -SN BKN023 OVC037 M08/M12 A2995 RMK AO2 P0000 T10781117 TSNO EGYD 280950Z AUTO 21022KT 9999 // FEW020/// BKN050/// 12/09 Q1006 EGYE 271550Z 27013KT CAVOK ///// Q1018 BLU CYXN 272100Z 31016KT 15SM OVC020 M11/M13 A2967 RMK SC8 -10.5/-21.5/0.0MM/42.0CM/SNW CVR TRACE LOOSE/LAST OBS/NEXT 281300Z SLP047 CYYE 281000Z 19002KT 15SM FEW080 SCT210 M03/M07 A2968 RMK AC1CI2 SLP066 KDTO 280953Z AUTO 11005KT 10SM CLR 07/04 A3008 RMK AO2 SLP182 T00720044 KEKO 280956Z AUTO 00000KT 10SM CLR 03/M03 A3014 RMK AO2 SLP178 T00281033 OTHH 280900Z AUTO 03010KT CAVOK 26/12 Q1016 NOSIG CYYF 281000Z 36013KT 320V070 15SM BKN090 OVC150 13/02 A2980 RMK AC5AC3 SLP092 DENSITY ALT 1300FT KFAY 280953Z AUTO 34003KT 10SM BKN047 OVC075 04/02 A2992 RMK AO2 SLP127 T00440022 KDUG 280956Z AUTO 00000KT 10SM CLR 04/M04 A3017 RMK AO2 SLP173 T00441039 CYWY 272200Z 17002KT 15SM FEW220 06/M05 A2950 RMK CI1 6.2/-16.5/0/50 SNW CVR/MUCH LOOSE LAST OBS/NXT 301400Z SLP000 CYXP 272200Z 00000KT 12SM IC BKN210 M24/M28 A2950 RMK CS6 -23.5/-27.2/T 42 SNW CVR/MUCH LOOSE LAST STFD OBS/NEXT 281400Z SLP993 KEKQ 280956Z AUTO 35009KT 10SM BKN043 M02/M09 A3015 RMK AO2 T10221088 SLP220 EGXP 280950Z AUTO 21019G29KT 9999 // BKN021/// SCT070/// 11/11 Q1005 CYYG 281000Z 02008KT 15SM FEW040 SCT110 OVC160 M02/M05 A2982 RMK SC1AC2AS5 SLP101 KDUH 281034Z AUTO 33004KT 10SM SCT048 M07/M13 A3021 RMK AO2 EHPG 281025Z AUTO 18028KT 150V230 2300 DZRA BKN001/// OVC003/// 07/06 Q1011 CYXQ 272200Z 07007KT 360V130 30SM FEW075 FEW100 SCT140 OVC210 06/M08 A2957 RMK AC1AC1AC2CI4 CLIMAT 6.0/-9.0/0.0/LAST STFD OBS/NEXT 281600UTC SLP047 KFBR 281035Z AUTO 24009KT 10SM CLR 09/M04 A3022 RMK AO2 T00851043 CYYH 281000Z 02002KT 15SM IC FEW070 M35/M39 A2971 RMK AS1 AS TR FROIN SLP065 KFCI 280955Z AUTO 36007KT 10SM BKN055 OVC065 02/M09 A2991 RMK AO1 CYXR 281000Z AUTO 29007KT 9SM CLR M21/M23 A3015 RMK SLP233 KDUJ 281046Z AUTO 34007KT 1 1/4SM -SN BKN015 BKN021 OVC026 M08/M12 A2991 RMK AO2 SNB19 P0000 T10831117 KDTS 280953Z AUTO 34011KT 10SM CLR 08/03 A3015 RMK AO2 SLP208 T00830028 TSNO CYXS 281049Z AUTO 15006KT 9SM BKN010 BKN027 OVC065 02/02 A2977 RMK SLP101 CYYJ 281000Z VRB03KT 30SM FEW030 SCT040 BKN110 BKN140 BKN180 10/05 A2998 RMK SC2SC1AC3AC1AC1 AC TR SLP152 KELK 281035Z AUTO 22015G19KT 10SM CLR 07/03 A3006 RMK AO2 EGXS 280950Z AUTO 19021KT 9999 // SCT005/// BKN060/// 10/09 Q1005 EGXT 280950Z AUTO 21016KT 9999 OVC013/// 12/10 Q1008 CYXT 281000Z 15007KT 3SM BR SCT008 OVC015 05/04 A2990 RMK SF4SC4 SLP132 CYXU 281000Z 36010KT 15SM SKC M12/M17 A3010 RMK SLP211 CYYL 281000Z AUTO 21007KT 9SM OVC020 M02/M04 A2962 RMK SLP049 KELM 281042Z 04006KT 1 3/4SM -SN BKN023 OVC028 M07/M09 A2994 RMK AO2 P0000 T10671094 KFCM 280953Z AUTO 12005KT 10SM BKN080 M05/M12 A3018 RMK AO2 SLP231 T10501122 EGXU 280950Z AUTO 22017KT 9999 // FEW020/// BKN050/// 12/09 Q1002 EGXV 280950Z AUTO 21017KT 9999 FEW007/// SCT011/// BKN050/// 11/10 Q1003 KDTW 280953Z 32007KT 10SM OVC048 M08/M14 A3019 RMK AO2 SLP232 T10781144 KELN 280953Z AUTO 31022G29KT 10SM CLR 09/02 A2996 RMK AO2 PK WND 31034/0938 SLP140 T00890022 EGYM 280950Z AUTO 20016KT 9999 OVC006/// 11/10 Q1009 CYZE 281000Z AUTO 00000KT 9SM CLR M17/M19 A3021 RMK ICG SLP246 CYYN 281000Z AUTO 19013G18KT 9SM BKN150 07/03 A2963 RMK SLP039 KELO 281033Z AUTO 00000KT 10SM CLR M14/M16 A3015 RMK AO2 EGXW 280950Z 21022KT 9999 BKN016 BKN060 12/09 Q1006 WHT TEMPO 21025G35KT WHT EHQE 281025Z AUTO 18027KT 9999 SCT006/// BKN016/// BKN021/// 07/05 Q//// CYZF 281000Z 28006KT 15SM FEW120 M04/M09 A2947 RMK AC2 SLP994 CYXX 281007Z 20012KT 10SM -RA FEW015 OVC030 10/07 A2999 RMK SF1SC7 SLP157 KELP 280951Z 11008KT 10SM CLR 11/M04 A3012 RMK AO2 SLP149 T01111044 CYZG 272100Z 21022G31KT 2SM -SN BLSN OVC011 M19/M21 A2949 RMK BLSN1SC7 SNW CVR TRACE LOOSE LAST OBS/NEXT 281200 UTC SLP017 CYXY 281000Z 15009KT 15SM SKC M02/M08 A2970 RMK SLP090 EGYP 280950Z 28012KT 9999 FEW010 09/08 Q1005 BLU TEMPO SCT010 GRN CYXZ 280000Z 22004KT 15SM SKC M11/M14 A3016 RMK LAST OBS/NEXT 281100UTC SLP242 EGXZ 280950Z AUTO 21017KT 9999 -SHRA BKN018/// BKN060/// 12/10 Q1001 CYYQ 281000Z 23012KT 15SM SKC M03/M08 A2958 RMK SLP021 CYZH 281045Z AUTO 26005KT 9SM SCT029 OVC037 04/04 A2959 RMK SLP038 CYYR 281000Z 29008KT 15SM FEW110 M20/M27 A2985 RMK AC1 SLP114 KFCS 280958Z AUTO 28005KT 10SM CLR 06/M03 A3011 RMK AO2 SLP179 T00561027 $ CZPS 281000Z AUTO 27008KT 07/M03 RMK AO1 T00731033 KFDK 281045Z 29015KT 10SM SKC M02/M12 A2996 KEMK 281035Z AUTO 27005KT 10SM CLR 27/13 A3012 RMK A01 KDVK 281035Z AUTO 34005KT 10SM OVC035 M05/M09 A3016 RMK AO2 CYYT 281032Z 34005KT 2SM BR OVC004 01/01 A2962 RMK SF8 PRESRR SLP037 KDVL 281035Z AUTO 17012KT 10SM OVC005 M02/M04 A3000 RMK AO1 CYYU 281000Z 21003KT 15SM SKC M23/M26 A3013 RMK SLP225 KEND 280958Z AUTO 17007KT 10SM BKN120 06/03 A2998 RMK AO2 SLP156 T00550029 $ KEMM 280955Z AUTO 32005KT 10SM CLR 01/M02 A3021 RMK AO2 KDVN 280952Z AUTO 10006KT 10SM CLR M07/M11 A3024 RMK AO2 SLP248 T10671106 EHRD 281025Z AUTO 19013KT 160V220 9999 -RA FEW008 BKN009 OVC011 08/07 Q1014 RERA REDZ TEMPO 4000 SCT005 BKN009 KDUX 281035Z AUTO 26004KT 10SM CLR 04/M02 A3005 RMK AO2 T00421019 KDVO 281035Z AUTO 00000KT 10SM CLR 09/08 A3015 RMK AO2 KEMP 280953Z AUTO 16012KT 10SM BKN110 03/M03 A3000 RMK AO2 SLP167 T00331028 $ KELY 280953Z AUTO 20006KT 10SM CLR 07/M07 A3021 RMK AO2 SLP153 T00721072 KDVP 281033Z AUTO 00000KT 10SM OVC031 M03/M04 A3011 RMK AO2 T10291036 CYYY 281000Z 35011KT 30SM FEW050 M08/M14 A2994 RMK SC1 SLP142 CYZP 281000Z AUTO 18003KT 150V250 9SM BKN160 BKN190 05/04 A2987 RMK SLP117 KDWH 280953Z 00000KT 10SM CLR 12/07 A3014 RMK AO2 SLP203 T01170067 KELZ 281025Z AUTO 33007KT 2SM -SN BR OVC013 M10/M12 A2987 RMK AO2 P0000 T11001122 CYYZ 281000Z 36016KT 15SM FEW030 M11/M17 A3011 RMK SC1 SC TR SLP207 KFDR 280953Z AUTO 20006KT 8SM CLR 06/04 A3002 RMK AO2 SLP160 T00610039 $ CYZR 281000Z AUTO 04009KT 9SM CLR M10/M15 A3017 RMK SLP228 KFFA 281035Z AUTO 33005KT 280V360 10SM CLR 05/01 A2983 RMK AO2 T00500010 KEMT 280245Z 20005KT 10SM CLR 26/04 A3001 CYZS 281000Z 35015KT 15SM FEW050 M28/M32 A2946 RMK SC1 SLP985 EHSA 281025Z AUTO 19024G28KT 4700 ///////// 07/07 Q1012 W06/H11 KDVT 280953Z 01008KT 10SM CLR 19/M04 A3002 RMK AO2 SLP146 T01941039 CYZT 281000Z 22004KT 15SM OVC031 08/07 A3001 RMK SC8 SLP162 KFFC 280953Z AUTO 31008KT 7SM CLR 03/00 A3006 RMK AO2 SLP182 T00330000 KENL 281035Z AUTO 07004KT 10SM CLR M04/M07 A3023 RMK AO2 T10381070 CYZU 280400Z 12003KT 070V140 15SM BKN040 BKN080 10/02 A2959 RMK SC5AS2 LAST OBS/NEXT 281200Z SLP038 DENSITY ALT 3000FT EHSC 281025Z AUTO 19023G25KT 4500 ///////// 07/07 Q1013 W07/H9 KEMV 281035Z AUTO 28006KT 10SM SN SCT019 BKN024 OVC046 02/01 A2993 RMK AO2 CYZV 281000Z 34006KT 30SM FEW120 M21/M25 A2993 RMK AC1 AC TR SLP140 KFDW 281055Z AUTO 32003KT 10SM CLR 02/00 A2998 RMK AO1 KEOE 281035Z AUTO 32003KT 10SM SCT040 A3003 RMK AO2 CYZW 280000Z 25010G16KT 30SM BKN040 06/M08 A2965 RMK SC5 CLIMAT 6.2/-0.8/0.0/44043 SLP071 CYZX 281000Z 06008KT 12SM BKN020 OVC092 01/M02 A2981 RMK SC6AC2 WNDY HILL 05012G17KT SLP096 KFDY 280953Z AUTO 33004KT 10SM CLR M08/M14 A3017 RMK AO2 SLP225 T10831144 KFEP 281035Z AUTO 00000KT 10SM CLR M10/M11 A3027 RMK AO2 T10971112 CZRP 281000Z AUTO 28012KT M33/M37 RMK AO1 SLP106 T13251373 CYZY 281000Z AUTO 00000KT 1/2SM FG VV003 01/01 A2972 RMK SLP090 KDYA 281035Z AUTO 32003KT 10SM CLR 03/02 A3020 RMK AO2 T00300021 CZSJ 281000Z AUTO 19003KT 9SM SCT200 M12/M13 A3000 RMK SLP181 KDYB 281035Z AUTO 29003KT 10SM CLR 06/06 A2998 RMK AO1 KEOK 281035Z AUTO 11004KT 10SM BKN110 M03/M08 A3022 RMK AO2 KFET 281035Z AUTO 10006KT 10SM CLR 00/M03 A3009 RMK AO2 T00021035 CZTB 281000Z AUTO 26003KT M15/M17 RMK AO1 SLP247 T11541170 51002 KDWU 281035Z AUTO 36004KT 10SM CLR M04/M10 A3014 RMK AO1 KFFL 281035Z AUTO 11005KT 10SM SCT100 OVC140 M05/M09 A3021 RMK AO2 KFFM 281034Z AUTO 14007KT 10SM CLR M05/M09 A3015 RMK AO2 KENV 281035Z AUTO 00000KT 10SM CLR 07/M03 A3009 RMK AO1 CZSM 281000Z AUTO 24006KT 03/M05 RMK AO1 SOG 37 3003 SLP998 T00261053 KENW 280953Z AUTO 31003KT 10SM CLR M08/M11 A3024 RMK AO2 SLP252 T10831111 KFEW 280956Z AUTO 30009KT 10SM CLR 06/M04 A3004 RMK AO2 SLP124 T00611044 $ KFFO 280958Z AUTO 03004KT 10SM CLR M07/M10 A3015 RMK AO2 SLP224 T10741103 VHHH 281030Z 12006KT 080V210 9999 FEW015 23/17 Q1016 NOSIG KDWX 281035Z AUTO 00000KT 10SM CLR 00/M04 A3023 RMK AO2 T00021038 PLCH 281000Z 12004KT 9999 FEW019 BKN040 27/24 Q1012 CZSP 281000Z AUTO 02003KT M02/M04 RMK AO1 SOG 96 3023 SLP106 T10201040 KEPH 280953Z AUTO 24015G24KT 10SM CLR 14/M01 A2986 RMK AO2 PK WND 28026/0904 SLP106 T01391011 ZUUU 281000Z VRB01MPS 2700 BR SCT050 19/14 Q1013 BECMG TL1100 3000 KDXR 280953Z AUTO 34010G19KT 10SM BKN038 OVC049 00/M06 A2975 RMK AO2 SLP078 T00001056 PWINO FZRANO KH78 281040Z 36009KT 12SM SKC 17/09 A3016 RMK SEAS 2-4 KEQA 281035Z AUTO 16011KT 10SM SCT100 OVC120 07/00 A2999 RMK AO2 KFFT 280953Z AUTO 35005KT 10SM CLR M06/M12 A3014 RMK AO2 SLP215 T10561117 KDZB 281035Z AUTO 18004KT 10SM CLR 08/06 A3011 RMK AO2 T00760055 KFHB 281035Z AUTO 30008KT 10SM CLR 10/04 A3004 RMK AO1 CZST 280100Z 20006KT 15SM SCT060 11/04 A2983 RMK CU3 LAST STFD OBS/NEXT 281300Z/ SLP102 KDYL 280954Z AUTO 33008G18KT 10SM OVC070 M01/M06 A2979 RMK AO2 SLP095 T10111061 PKME 271458Z 07010KT 15SM FEW015 SCT050 BKN120 OVC300 28/24 A2980 RMK SLP093 8/878 T02790242 57024 FABL 281000Z VRB03KT 9999 SCT030 22/08 Q1022 NOSIG KFGN 281034Z AUTO 00000KT 10SM CLR M10/M14 A3011 RMK AO2 EIKN 281030Z 27016KT 9999 BKN015 BKN024 08/06 Q1002 NOSIG KDXX 281033Z AUTO 14006KT 10SM OVC035 M01/M03 A3013 RMK AO2 KFFX 281032Z AUTO 00000KT 10SM CLR M12/M17 A3025 RMK AO2 T11211166 KFFZ 280250Z 28005KT 40SM SKC 28/M05 2999 RMK WIND ESTIMATED PKMJ 280059Z 04012KT 15SM FEW015 SCT050 BKN120 BKN300 29/25 A2984 KDYR 281035Z 00000KT 10SM SCT110 01/M09 A3022 RMK AO1 KDYS 280958Z AUTO 13005KT 10SM CLR 10/04 A3005 RMK AO2 SLP152 T00970039 $ KDYT 281034Z AUTO 00000KT 10SM CLR M07/M11 A3022 RMK AO2 CZUM 281000Z AUTO 29003KT 9SM CLR M28/M30 A2976 RMK SLP128 EIME 281000Z 24022KT 9999 -RA FEW008 SCT012 BKN014 12/11 Q1000 KFGX 281035Z AUTO 01004KT 10SM SCT049 M05/M09 A3016 RMK AO2 T10501093 KFIG 280954Z AUTO 28005KT 8SM OVC016 M08/M12 A2990 RMK AO2 UPB06E18SNB18E47 SLP147 P0000 T10831122 EIKY 281000Z 27019KT 240V300 9999 -RA SCT012 BKN019 12/10 Q1006 PKMR 280954Z 04006KT 15SM FEW014 SCT050 BKN120 OVC300 26/25 A2990 RMK SHRAB10E40 SLP125 T02640249 KERI 280951Z 33006KT 10SM FEW026 OVC047 M08/M13 A3006 RMK AO2 SLP192 T10831133 KFHR 280953Z AUTO 22016G25KT 10SM SCT023 BKN090 BKN110 09/07 A3002 RMK AO2 PK WND 21028/0940 SLP166 T00940067 PNO $ FACT 281000Z 19007KT 160V230 CAVOK 26/13 Q1014 NOSIG EHVK 281029Z AUTO 19013KT 9999 BKN024 OVC027 10/05 Q1016 WHT KESC 281035Z AUTO 00000KT 10SM CLR M17/M19 A3027 RMK AO1 KFHU 280958Z AUTO 27011KT 10SM CLR 16/M08 A3020 RMK AO2 SLP200 T01601084 CZVL 281000Z AUTO 29009KT 9SM OVC110 07/02 A2952 RMK SLP005 EHVL 281025Z AUTO 18019KT 8000 -RA OVC037 07/05 Q1012 RERA REDZ BLU KGAD 281035Z 30005KT 10SM CLR 01/M04 A3013 RMK AO1 FACV 280926Z 09011KT CAVOK 27/05 Q1018 KFIN 280915Z AUTO 31005KT 10SM CLR 09/05 A3003 RMK AO2 T00920048 KESF 280953Z AUTO 00000KT 10SM CLR 06/04 A3016 RMK AO2 SLP212 T00560044 VIAR 281030Z VRB01KT 3000 DU SCT100 SCT200 32/19 Q1009 KEQY 280953Z AUTO 30003KT 10SM SCT055 04/M03 A2994 RMK AO2 SLP153 T00391028 KGAG 280953Z AUTO 24012KT 10SM CLR 09/03 A2999 RMK AO2 SLP145 T00890033 KI16 281035Z AUTO 10SM OVC060 M03/M11 A3007 RMK AO2 T10351113 KGAI 281035Z AUTO 30012G21KT 10SM CLR M03/M10 A2994 RMK AO1 KFKA 281034Z AUTO 00000KT 10SM SCT100 M09/M13 A3019 RMK AO2 T10861129 KFIT 280952Z AUTO 01008KT 10SM OVC037 02/M03 A2973 RMK AO2 SNB25E36 SLP071 P0000 T00221028 KETB 281030Z AUTO 00000KT 10SM CLR M10/M11 A3025 RMK AO2 VIBN 281030Z 29005KT 6000 NSC 36/18 Q1008 KETC 281035Z AUTO 31005KT 7SM RA BKN011 BKN016 OVC025 03/02 A2994 RMK AO2 T00310016 FAEL 281000Z 11006KT 080V140 9999 FEW013 SCT018 BKN042 20/16 Q1021 KGBD 281035Z AUTO 14006KT 10SM CLR 01/M02 A2995 RMK AO1 KERV 281035Z AUTO 01003KT 10SM CLR 06/04 A3013 RMK AO2 T00610040 KESN 280952Z AUTO 34009G18KT 10SM BKN080 03/M04 A2988 RMK AO2 T00281039 KGAO 281035Z AUTO 10SM CLR 13/07 A3018 RMK AO2 T01250068 EINN 281030Z 25020KT 6000 -DZ FEW008 SCT012 BKN018 11/10 Q1004 NOSIG FAEO 281002Z 29007KT 9999 BKN015 21/11 Q1025 EHWO 281041Z AUTO 19009KT 4200 -DZ SCT006 OVC007 08/07 Q1015 REDZ YLO KERY 281035Z AUTO 00000KT 10SM CLR M19/M21 A3024 RMK AO2 T11951209 KGBG 281035Z AUTO 10004KT 10SM CLR M06/M08 A3024 RMK AO2 T10611085 FADY 280652Z 11011KT CAVOK 15/10 Q1023 KETH 281035Z AUTO 14007KT 10SM OVC040 M03/M05 A3014 RMK AO2 KEST 280952Z AUTO 12005KT 10SM BKN050 OVC070 M02/M04 A3013 RMK AO2 SLP217 T10221039 KGBK 281035Z AUTO 33011KT 10SM CLR 22/11 A3015 RMK A01 KGCC 280953Z AUTO 00000KT 10SM CLR 08/M02 A2993 RMK AO2 SLP109 T00831017 TSNO KFKL 281035Z AUTO 33006G14KT 9SM BKN018 OVC024 M11/M15 A3000 RMK AO1 KFLD 280953Z AUTO 00000KT 10SM CLR M11/M13 A3025 RMK AO2 SLP258 I1000 T11061128 FAGC 281000Z AUTO 27007KT //// // ////// 21/// Q1024 KGCD 281035Z AUTO 26020G28KT 10SM BKN026 BKN044 OVC090 07/03 A3015 RMK AO2 T00650033 KFKN 281035Z AUTO 33009KT 10SM OVC065 03/M01 A2990 RMK AO2 T00301007 KEUF 280958Z AUTO 30005KT 10SM CLR 04/01 A3010 RMK AO2 SLP192 T00440006 $ KEUG 280954Z AUTO 18006KT 10SM FEW023 08/07 A3032 RMK AO2 SLP265 T00830067 KFLG 280957Z AUTO 00000KT 10SM CLR 01/M06 A3031 RMK AO2 SLP196 T00111061 TSNO FAGG 281000Z 10007KT 060V150 CAVOK 20/14 Q1018 KFKR 281035Z AUTO 32005KT 10SM CLR M08/M09 A3022 RMK AO2 T10761091 KFKS 281034Z AUTO 00000KT 10SM CLR M12/M16 A3028 RMK AO2 T11251164 KEVB 281047Z 000005KT 10SM SKC 10/04 A3007 RMK FIRST KGDB 281033Z AUTO 12005KT 10SM OVC044 M01/M03 A3016 RMK AO2 T10151035 KGCK 280954Z AUTO 28008KT 10SM CLR 07/02 A2996 RMK AO2 SLP138 T00670017 KI39 281035Z AUTO 32005KT 10SM BKN044 M05/M09 A3013 RMK AO2 KFLL 280953Z 33012G17KT 10SM FEW025 17/13 A3002 RMK AO2 SLP165 T01720128 KEUL 281035Z AUTO 18004KT 10SM CLR 08/02 A2999 RMK AO1 KGCM 281035Z AUTO 14007KT 10SM CLR 06/00 A3008 RMK AO2 FAGM 280900Z 33010KT CAVOK 22/16 Q1026 VIDP 281030Z 30007KT 5000 HZ NSC 35/09 Q1009 NOSIG KGCN 280954Z 00000KT 10SM CLR M03/M07 A3030 RMK AO2 SLP211 T10281072 KFLO 280953Z AUTO 33007KT 10SM OVC075 07/04 A2994 RMK AO2 SLP138 T00670039 KFLP 281035Z 08004KT 10SM BKN080 04/M03 A3015 RMK AO1 KFMH 281035Z AUTO 03007KT 7SM -DZ BKN014 OVC021 03/02 A2967 RMK AO2 KGDJ 281035Z AUTO 18004KT 10SM 10/06 A3010 RMK AO2 T00980056 CZZJ 281000Z AUTO 32001KT 06/02 RMK AO1 SOG 00 1010 SLP031 T00590023 KEWB 281021Z 35004KT 5SM -RA BR FEW017 BKN044 OVC060 03/02 A2968 RMK AO2 P0001 T00280022 KFNB 280953Z AUTO 10009KT 10SM OVC070 02/M03 A3009 RMK AO2 SLP194 T00221028 URFF 281030Z 05005MPS 4700 BR FEW033CB OVC100 13/12 Q1004 01290257 TEMPO -TSRA KEVM 281032Z AUTO 00000KT 10SM CLR M13/M15 A3017 RMK AO2 KFMM 281035Z AUTO 28010KT 10SM CLR 05/M02 A3004 RMK AO2 T00491020 KGED 280954Z AUTO 32005KT 10SM OVC070 03/M02 A2981 RMK AO2 SLP094 T00281017 $ KFMN 280953Z AUTO 02004KT 10SM CLR 03/M06 A3021 RMK AO2 SLP203 T00281061 KGDP 280951Z AUTO 24016KT 10SM CLR 14/M08 A3020 RMK AO2 SLP160 T01391078 KGEG 281037Z 20021G30KT 8SM -RA BKN012 OVC045 09/09 A2987 RMK AO2 PK WND 20030/1031 P0004 T00940089 KFLY 281035Z AUTO 31006KT 10SM CLR 07/M05 A3017 RMK AO2 T00671055 KGFA 280956Z AUTO 20012KT 10SM CLR 10/01 A2977 RMK AO2 SLP074 T00950013 TSNO $ KFOA 281035Z AUTO 03003KT 10SM CLR M04/M07 A3024 RMK AO2 T10421067 KEWK 281035Z AUTO 16008KT 10SM OVC110 05/M02 A3000 RMK AO1 FAJB 281000Z AUTO 29003KT //// // ////// 22/14 Q1024 KFNL 281035Z AUTO 00000KT 10SM CLR 07/M03 A3007 RMK AO1 KFOD 281035Z AUTO 12005KT 10SM OVC050 M02/M08 A3016 RMK AO1 KGDV 281035Z AUTO 17008KT 10SM 04/01 A2982 RMK AO1 KEVV 280954Z AUTO 02003KT 10SM CLR M03/M08 A3022 RMK AO2 SLP237 T10281078 DRRM 280900Z 04006KT CAVOK 29/M04 Q1015 KEVW 280953Z AUTO 17008KT 10SM CLR 04/M04 A3021 RMK AO2 SLP169 T00441039 KFOE 280953Z AUTO 10010KT 10SM OVC090 04/M04 A3005 RMK AO2 RAE02 SLP180 P0000 T00441039 KEWN 281044Z 30006KT 10SM SCT016 BKN041 OVC050 05/03 A2992 RMK AO2 T00500028 DRRN 280900Z 03008KT CAVOK 30/M09 Q1015 NOSIG KFMY 280953Z AUTO 01007KT 10SM CLR 16/11 A3006 RMK AO2 SLP181 T01560111 EISG 281030Z 27012KT 7000 BKN026 OVC033 09/07 Q1001 KEWR 280951Z 34012G21KT 10SM SCT060 OVC150 02/M07 A2977 RMK AO2 SLP080 T00171067 EKAH 281020Z AUTO 23006KT 160V270 9999NDV SCT019/// BKN035/// 07/00 Q1015 KI67 281035Z AUTO 00000KT 10SM CLR M06/M10 A3019 RMK AO1 KFNT 280953Z 31007KT 10SM FEW043 M09/M14 A3019 RMK AO2 SLP235 T10941144 $ KFOK 281037Z AUTO 34009KT 1 3/4SM -SN BR SCT005 BKN019 OVC024 01/M01 A2973 RMK AO2 P0000 T00061011 TSNO KGFK 280953Z AUTO 14007KT 10SM BKN033 M06/M08 A3009 RMK AO2 SLP202 T10561083 TSNO KI69 281035Z AUTO 34003KT 10SM CLR M05/M08 A3017 RMK AO1 KGEU 280255Z 00000KT 20SM SKC 27/M02 A2999 DRRT 280900Z 04010KT CAVOK 28/M08 Q1015 KGFL 280953Z AUTO 02010KT 10SM FEW022 BKN027 OVC037 M02/M07 A2986 RMK AO2 SNE07 SLP119 P0000 T10221067 KGEV 281035Z AUTO 31012G21KT 3SM -SN BKN018 OVC028 M06/M10 A2986 RMK AO2 T10591101 KEYE 280953Z AUTO 33007KT 10SM CLR M07/M11 A3019 RMK AO2 SLP233 T10721106 KGGE 281035Z AUTO 31007KT 10SM BKN070 07/05 A2996 RMK AO2 KEYF 281035Z AUTO 00000KT 10SM SCT033 BKN042 OVC049 04/03 A2994 RMK AO2 T00400030 KGEY 280953Z AUTO 00000KT 10SM CLR 07/M02 A2997 RMK AO2 SLP132 T00721017 KGGG 280953Z AUTO 00000KT 10SM CLR 06/04 A3013 RMK AO2 SLP202 T00610039 KI75 281035Z AUTO 13003KT 10SM OVC050 00/M07 A3016 RMK AO2 T00011069 KGEZ 280953Z AUTO 33005KT 10SM CLR M07/M10 A3018 RMK AO2 SLP229 T10671100 KGGI 281035Z AUTO 10004KT 10SM CLR M06/M09 A3019 RMK AO2 T10561095 EKBI 281020Z 20010KT 160V230 9999 SCT028 06/M01 Q1015 FALA 281000Z 29004KT 190V350 9999 SCT030 23/14 Q1024 NOSIG KFPK 281035Z AUTO 34004KT 10SM CLR M11/M15 A3021 RMK AO2 T11091147 KFOT 281035Z AUTO 29005KT 10SM CLR 08/M46 A3032 RMK AO1 KGHB 281035Z AUTO 32011KT 10SM CLR 21/13 A3015 RMK A01 KFQD 281035Z AUTO 00000KT 10SM SCT050 00/M06 A2998 RMK AO2 T00001064 FAKM 281000Z 12003KT CAVOK 24/08 Q1021 FALE 281000Z 18009KT 9999 BKN030 23/17 Q1019 NOSIG FAKN 281000Z AUTO 08007KT //// // ////// 20/16 Q1021 KEXX 281035Z AUTO 00000KT 10SM CLR 00/M04 A2996 RMK AO2 T10011040 KEZF 281035Z AUTO 34009G16KT 10SM CLR 01/M07 A2994 RMK AO2 T00081066 KGHG 281035Z AUTO 01005KT 7SM SCT005 SCT032 03/03 A2972 RMK AO2 KGGP 281035Z AUTO 35006KT 10SM CLR M08/M10 A3023 RMK AO2 WAAA 281030Z 16003KT 8000 SCT019 28/25 Q1009 NOSIG KFOZ 281033Z AUTO 00000KT 10SM CLR M11/M14 A3013 RMK AO2 PKWA 281040Z AUTO 05016KT 10SM SCT021 SCT028 SCT035 27/22 A2994 EKCH 281020Z 22011KT 9999 FEW012 BKN044 07/03 Q1017 NOSIG KFPR 280953Z AUTO 32007KT 10SM CLR 14/08 A3004 RMK AO2 SLP170 T01390083 KGIC 281035Z AUTO 10007KT 10SM BKN026 OVC035 10/06 A2998 RMK AO1 T01040061 KEZM 281035Z AUTO 31003KT 10SM CLR 05/02 A3009 RMK AO2 T00500020 KEYW 280953Z AUTO 35013G22KT 10SM CLR 22/13 A3003 RMK AO2 SLP169 T02170133 KGGW 280953Z AUTO 11010KT 10SM CLR 04/01 A2974 RMK AO2 SLP075 T00440011 KGIF 280953Z AUTO 33011KT 10SM CLR 13/05 A3009 RMK AO2 SLP186 T01280050 KFRG 280953Z AUTO 34011G17KT 10SM BKN034 OVC042 02/M05 A2974 RMK AO2 SLP070 T00221050 URKA 281030Z 10010G13MPS CAVOK 12/08 Q1008 NOSIG RMK QFE752/1003 SC070 KFRI 280958Z AUTO VRB02KT 10SM BKN120 04/M04 A3001 RMK AO2 SLP166 T00441041 KEZS 281035Z AUTO 00000KT 10SM CLR M10/M12 A3026 RMK AO2 T11051122 EKEB 281020Z AUTO 18013KT 150V210 9999NDV BKN015/// 08/04 Q1015 KFRM 281035Z AUTO 16005KT 10SM OVC055 M03/M08 A3015 RMK AO1 KFSD 280956Z 12009KT 10SM OVC041 M01/M04 A3009 RMK AO2 SLP206 T10111044 VIJP 281030Z 14004KT 4500 HZ FEW100 36/11 Q1010 NOSIG FAMM 281000Z 33005KT 9999 FEW035 SCT100 24/14 Q1021 KGHW 281034Z AUTO 13005KT 10SM OVC050 M04/M08 A3014 RMK AO2 KFSE 281035Z AUTO 14006KT 10SM CLR M07/M11 A3011 RMK AO2 KHAE 281035Z AUTO 10003KT 10SM CLR M01/M08 A3021 RMK AO2 FALW 281000Z AUTO 22003KT //// // ////// 29/09 Q1013 KHAF 281035Z AUTO 35006KT 5SM BR OVC009 12/12 A3017 RMK AO2 PMDY 280956Z AUTO 00000KT 10SM FEW023 BKN080 BKN095 17/17 A3022 RMK AO2 PWINO TSNO T01720172 BKN V SCT SLP546 $ EIWF 281030Z 24016G27KT 210V300 8000 BKN005 BKN019 11/10 Q1006 R21/1///// URKK 281030Z 08010G15MPS 9999 SCT043 BKN100 13/06 Q1011 NOSIG RMK QFE755 SC070 KHAI 281035Z AUTO 00000KT 10SM CLR M09/M14 A3024 RMK AO2 T10901136 KFRR 281035Z AUTO 32010G14KT 300V360 10SM BKN046 BKN050 M03/M13 A2996 RMK AO1 KFSI 280958Z AUTO 24003KT 10SM CLR 07/04 A3003 RMK AO2 SLP168 T00720042 USCC 281030Z 35008MPS CAVOK M07/M24 Q1042 27000060 NOSIG RMK QFE761 FAOB 281000Z AUTO 15015KT //// // ////// 21/13 Q1017 KFSM 280953Z 07007KT 10SM OVC110 08/01 A3011 RMK AO2 SLP197 T00780006 KHAO 280953Z AUTO 34005KT 10SM CLR M06/M10 A3018 RMK AO2 SLP226 T10611100 KFSO 281035Z AUTO 31011G16KT 10SM OVC041 M07/M14 A2997 RMK AO2 T10751143 KFTG 281037Z AUTO 22010KT 10SM CLR 10/00 A3008 RMK AO2 KHBG 280953Z AUTO 00000KT 10SM CLR 05/03 A3019 RMK AO2 SLP222 T00500033 VILK 281030Z 30006KT 6000 NSC 37/12 Q1008 NOSIG KHBI 281040Z AUTO 00000KT 10SM CLR 01/M02 A2998 RMK AO2 T00061024 KGKJ 280953Z AUTO 31005KT 10SM FEW013 OVC050 M12/M14 A2999 RMK AO2 SNE0857 SLP180 P0000 T11171139 TSNO WADD 281030Z 15007KT 9999 FEW017CB FEW017 29/24 Q1008 NOSIG RMK CB NW USCM 281030Z 07007MPS 9999 SCT030 M05/M21 Q1039 NOSIG 01090060 RMK QFE740 KFST 280953Z AUTO 22014KT 10SM CLR 13/M01 A3008 RMK AO2 SLP147 T01331006 KGJT 280953Z AUTO 12011KT 10SM CLR 08/M04 A3016 RMK AO2 SLP173 T00781039 KFTK 281034Z AUTO 34006KT 10SM CLR M06/M12 A3017 RMK AO2 KGLD 280953Z AUTO 27006KT 10SM CLR 06/01 A3000 RMK AO2 SLP140 T00610011 KHCD 281032Z AUTO 00000KT 10SM BKN060 M05/M08 A3018 RMK AO2 T10481085 KFTN 281130Z AUTO 16005KT 10SM CLR 11/05 A3013 RMK AO1 KFSW 281035Z AUTO 12004KT 10SM SCT120 M03/M08 A3023 RMK AO2 KGLE 281035Z AUTO 18005KT 10SM CLR 06/04 A3009 RMK AO2 T00600040 FAPE 281000Z 07012KT 9999 FEW015 20/15 Q1020 NOSIG KGLH 280953Z AUTO 00000KT 10SM CLR 03/02 A3019 RMK AO2 SLP230 T00330017 KHBR 280953Z AUTO 23010KT 9SM CLR 06/04 A3004 RMK AO2 SLP172 T00610039 URML 281030Z 02004MPS 1700 -DZ BR OVC003 08/07 Q1022 TEMPO 0900 DZ FG BKN002 RMK QBB090 MT OBSC QFE766/1021 SC060 WADL 281030Z 19002KT 8000 FEW015CB FEW016 29/25 Q1010 NOSIG FAOR 281030Z 30011KT 230V330 9999 FEW028TCU SCT042 22/14 Q1025 NOSIG DRZA 280900Z 18006KT CAVOK 28/M07 Q1016 URMM 281030Z 11010G13MPS 6000 -DZ OVC006 07/07 Q1018 R12/190160 NOSIG RMK MT OBSC QFE735/0981 KGKT 281035Z AUTO VRB03KT 10SM OVC049 M01/M09 A3009 RMK FBFT 281000Z 08006KT 040V120 9999 BKN020 SCT070 24/18 Q1020 URMN 281030Z 14001MPS 2500 -DZ BR OVC004 06/06 Q1019 NOSIG RMK MT OBSC OBST OBSC QFE727 SC055 KFUL 281046Z 16003KT 10SM FEW007 17/14 A3005 RMK AO2 T01670144 KHDC 281035Z AUTO 00000KT 10SM CLR 06/03 A3020 RMK AO2 URMO 281030Z 06006G09MPS 7000 BKN009 OVC012 07/04 Q1019 NOSIG RMK QFE720/0960 SC070 ZWSH 281000Z 25008MPS 9999 BKN040 15/M01 Q1009 NOSIG KFTW 280953Z 15006KT 10SM CLR 09/04 A3007 RMK AO2 SLP181 T00890039 KFVE 280953Z AUTO 34006KT 10SM CLR M10/M15 A2986 RMK AO2 SLP125 T11001150 KHDE 281035Z AUTO 04008KT 10SM CLR M02/M05 A2998 RMK AO2 T10221046 FAPN 281000Z AUTO 34005KT //// // ////// 28/13 Q1019 KHCO 281034Z AUTO 15007KT 10SM CLR M06/M08 A3009 RMK AO2 KFTY 280953Z 33007KT 10SM SCT034 OVC043 03/M02 A3005 RMK AO2 SLP178 T00331022 KGKY 280953Z AUTO 15005KT 10SM CLR 09/03 A3009 RMK AO2 SLP183 T00940028 FAPP 281000Z 03007KT 9999 SCT025 22/13 Q1021 NOSIG URMT 281030Z 11015G18MPS 4000 BR OVC003 06/05 Q1017 TEMPO 0500 FG OVC002 RMK QBB100 QFE723 SC060 KGLR 280953Z AUTO 00000KT 10SM CLR M15/M18 A3018 RMK AO2 SLP250 T11501178 KGLS 280952Z AUTO 07005KT 10SM CLR 16/12 A3014 RMK AO2 SLP206 T01560122 KFWA 280954Z 06007KT 10SM CLR M08/M12 A3019 RMK AO2 SLP237 T10781117 KGNA 280956Z AUTO 32004KT M12/M14 A3022 RMK AO1 SLP252 T11171139 KGMJ 281035Z AUTO 10003KT 10SM -DZ SCT080 OVC110 06/00 A3008 RMK AO2 KFWB 281035Z AUTO 11005KT 10SM SCT039 BKN075 OVC095 04/M05 A3011 RMK AO2 KGNC 281035Z AUTO 25009KT 10SM CLR 08/02 A3007 RMK AO2 T00780017 KFWC 281035Z AUTO 03003KT 10SM CLR M04/M07 A3023 RMK AO1 T10371072 KHDN 281035Z 10010KT 10SM CLR 02/M03 A3021 RMK AO1 KGLW 281030Z AUTO 36003KT 10SM CLR M04/M11 A3018 RMK AO2 T10451113 KHDO 280951Z AUTO 33005KT 10SM CLR 07/04 A3015 RMK AO2 SLP201 T00670039 KHEF 281030Z 34010G20KT 10SM BKN048 M01/M07 A2996 KGLY 281035Z AUTO 10006KT 10SM FEW040 SCT080 04/M02 A3014 RMK AO2 ZYCC 281000Z 32004MPS 3000 DU BKN023 08/00 Q1011 NOSIG KHEI 280953Z AUTO 17003KT 10SM CLR 01/M02 A2993 RMK AO2 SLP140 T00061017 DRZR 280900Z 02014KT CAVOK 29/M08 Q1015 FASB 280829Z 11004KT CAVOK 27/05 Q1018 KGMU 280953Z AUTO 35005KT 10SM CLR 02/M04 A2996 RMK AO2 SLP151 T00171044 KHFD 280953Z AUTO 34007KT 10SM OVC033 03/M03 A2974 RMK AO2 SLP070 T00281028 KFWN 280953Z AUTO 36004KT 10SM CLR M02/M08 A2981 RMK AO2 SLP096 T10171083 KFXE 280953Z 33009G16KT 10SM CLR 17/11 A3003 RMK AO2 SLP170 T01720111 KHFF 281028Z AUTO 35004KT 10SM OVC037 05/00 A2999 RMK AO2 SHRAB04E06RAB06E15SHRAB15E27 TSNO $ KFVX 281035Z AUTO 35003KT 5SM -SN BKN032 BKN039 OVC045 02/M02 A2992 RMK AO2 T00231021 KHEQ 281035Z AUTO 28004KT 10SM CLR 05/00 A2998 RMK AO2 KGNR 280956Z AUTO VRB04KT M07/M11 A2976 RMK AO1 SLP099 T10671106 FASI 281000Z AUTO /////KT //// // ////// 22/13 Q1024 KFWS 281035Z AUTO 18006KT 10SM CLR 09/04 A3010 RMK AO2 T00870038 KHFJ 281035Z AUTO 13007KT 10SM CLR 03/M02 A3008 RMK AO2 DTKA 281000Z 26026KT 9999 SCT020 SCT030 16/09 Q1018 NOSIG KGOK 280953Z AUTO 18005KT 9SM CLR 06/02 A3001 RMK AO2 SLP164 T00610022 $ EKKA 281020Z AUTO 18010KT 140V220 9999NDV BKN032/// 08/01 Q1014 KGNT 281035Z AUTO 30007KT 10SM CLR M01/M08 A3029 RMK AO2 T10111078 FCBB 280900Z 25005KT 9000 -RA FEW003 SCT016 23/22 Q1017 NOSIG KGNV 280953Z AUTO 29005KT 10SM CLR 07/02 A3007 RMK AO2 SLP181 T00720022 KGON 281041Z 35007KT 10SM -RA FEW007 BKN039 OVC049 02/01 A2970 RMK AO2 P0000 T00170011 FBKE 271600Z VRB05KT 9999 -TSRA BKN030 FEW035CB 27/18 Q1014 USHH 281030Z 25005MPS CAVOK M12/M21 Q1041 NOSIG RMK QFE777 24////60 KGOO 281035Z AUTO 00000KT 10SM CLR 13/04 A3018 RMK AO1 KFYG 281035Z AUTO 00000KT 10SM BKN075 OVC110 00/M08 A3022 RMK AO2 KHEY 280953Z AUTO 29003KT 10SM CLR 04/01 A3013 RMK AO2 SLP189 T00390011 KGOP 281035Z AUTO 00000KT 10SM CLR 08/05 A3014 RMK AO2 KGPH 281055Z AUTO 10005KT 10SM SCT070 OVC085 02/M01 A3014 RMK AO2 KHEZ 281035Z AUTO 00000KT 10SM CLR 04/02 A3018 RMK AO1 KFWZ 281035Z AUTO 26005KT 10SM CLR 04/M02 A3014 RMK AO2 KGPI 280955Z AUTO 03006KT 10SM SCT080 OVC100 07/06 A2978 RMK AO2 RAE03 SLP080 P0000 T00670056 KFYJ 281035Z AUTO 32009G14KT 290V350 10SM BKN060 OVC080 03/M06 A2991 RMK AO2 T00331056 KGPM 272350Z 03008KT 10SM SKC 19/06 A3012 KFYM 281035Z AUTO 00000KT 10SM CLR M03/M07 A3015 RMK KGOV 281034Z AUTO 00000KT 10SM CLR M16/M18 A3022 RMK AO2 T11591184 KHHF 281035Z AUTO 00000KT 10SM CLR 10/04 A3002 RMK AO2 T01000043 KFXY 281035Z AUTO 12004KT 10SM BKN075 M05/M08 A3017 RMK AO2 KFZG 281035Z AUTO 29003KT 10SM CLR 06/01 A3010 RMK AO2 T00570005 PWINO KHHG 281035Z AUTO 00000KT 10SM CLR M08/M13 A3021 RMK AO2 T10851130 WAHS 281000Z 31008KT 8000 FEW017CB FEW018 31/25 Q1007 NOSIG UTAA 281000Z 08003MPS 9999 FEW050 SCT230 19/00 Q1021 R12/CLRD70 NOSIG KHGR 280953Z AUTO 31017KT 10SM CLR M04/M12 A2991 RMK AO2 SLP146 T10391122 KHIB 280953Z AUTO 00000KT 10SM CLR M14/M17 A3015 RMK AO2 SLP237 T11441167 KGRB 280953Z AUTO 00000KT 10SM CLR M07/M11 A3026 RMK AO2 SLP259 T10721111 KGPT 280953Z AUTO 36003KT CLR 08/02 A3018 RMK AO2 SLP219 T00780022 RVRNO $ DTMB 281030Z 31023KT 8000 FEW020 17/09 Q1014 NOSIG KFYV 280953Z AUTO 00000KT 10SM OVC110 04/02 A3009 RMK AO2 RAB30E39 SLP190 P0000 T00440017 KGRD 280956Z AUTO 28003KT 10SM CLR 01/M02 A2998 RMK AO2 SLP155 T00061017 KHIE 280952Z AUTO 36004KT 10SM OVC034 M03/M08 A2979 RMK AO2 SLP103 T10281083 KGRF 280958Z AUTO 19010KT 10SM SCT030 BKN037 09/09 A3011 RMK AO2 SLP200 P0001 T00930091 $ KHIF 280958Z AUTO 11015KT 10SM CLR 11/M02 A3011 RMK AO2 SLP159 T01051017 URRR 281030Z 10015G21MPS 7000 -DS SCT023 BKN100 08/M01 Q1020 04CLRD70 TEMPO 10020G25MPS 3000 -DS BKN007 FAUP 281000Z 03003KT 9999 FEW030 28/01 Q1018 NOSIG KGPZ 281035Z AUTO 15004KT 10SM CLR M09/M15 A3014 RMK AO1 WAJJ 281000Z 28010KT 9999 FEW014 27/23 Q1009 UTAK 281000Z 10005MPS 050V150 CAVOK 20/M01 Q1020 R16/CLRD70 NOSIG KHHR 280953Z AUTO 00000KT 10SM CLR 17/13 A3005 RMK AO2 SLP174 T01670133 KGRI 280953Z AUTO 11004KT 10SM SCT110 M02/M04 A3002 RMK AO2 SLP184 T10171044 KHII 281035Z AUTO 00000KT 10SM CLR 20/M04 A2999 RMK AO2 UTAM 281000Z 04002MPS CAVOK 17/01 Q1022 NOSIG RMK SC07 ZWWW 281030Z VRB01MPS CAVOK 11/01 Q1016 NOSIG KGSB 281044Z AUTO 35006G15KT 10SM FEW009 SCT016 BKN025 OVC046 04/04 A2992 RMK AO2 UPE41 CIG 016V025 $ KGRK 280958Z AUTO 13002KT 4SM HZ CLR 11/06 A3011 RMK AO2 SLP191 T01140057 KIAB 280958Z AUTO 13007KT 10SM CLR 06/M01 A2999 RMK AO2 SLP162 T00591006 FAWB 271500Z 24005KT 9999 BKN030 25/00 Q1018 FAUT 281000Z 00000KT 9999 SCT015 BKN020 19/11 Q1022 KIAD 280952Z 33015G18KT 10SM FEW055 SCT080 M01/M09 A2992 RMK AO2 SLP134 T10111094 KHHV 281035Z AUTO 24010KT 10SM CLR 21/10 A3017 RMK A01 KHHW 281035Z AUTO 16003KT 10SM CLR 07/01 A3010 RMK AO2 T00680005 FBMN 281000Z 13004KT 9999 BKN025 FEW030CB SCT070 24/18 Q1020 KHIO 280953Z AUTO 20006KT 10SM BKN038 OVC047 10/07 A3022 RMK AO2 RAB01E11 SLP233 P0000 T01000067 KIAG 281037Z AUTO 01009KT 5SM -SN BKN026 OVC044 M08/M13 A3007 RMK AO2 SNE02B16 P0000 T10831128 KFZY 280954Z AUTO 35014KT 10SM OVC080 M08/M15 A3000 RMK AO2 SLP167 T10781150 URSS 281030Z 26002MPS 9999 OVC100 17/08 Q1008 NOSIG RMK R02/23001MPS QFE755 06000070 02////// ZYHB 281000Z 34003MPS 3000 BR FEW010 SCT040 05/03 Q1011 NOSIG KGSH 280953Z AUTO 36005KT 10SM CLR M10/M14 A3020 RMK AO2 SLP240 T11001139 KIAH 280953Z 00000KT 10SM CLR 12/07 A3013 RMK AO2 SLP204 T01170067 KHJH 281035Z AUTO 10003KT 10SM SCT120 01/M05 A3002 RMK AO2 T00051047 UTAT 281000Z 34003MPS CAVOK 16/02 Q1024 99CLRD70 NOSIG KGRR 280953Z 03003KT 10SM CLR M11/M16 A3022 RMK AO2 SLP248 T11061161 KHKA 280953Z AUTO 10005KT 10SM SCT095 02/M03 A3019 RMK AO2 SLP225 T00221028 UTAV 281000Z 34003MPS CAVOK 17/07 Q1021 NOSIG KGTB 280958Z AUTO 01008KT 10SM FEW025 OVC070 M11/M16 A2997 RMK AO2 CIG 026 RWY03 SLP162 T11071163 FAWK 281000Z AUTO 29005KT //// // ////// 23/14 Q1024 EKOD 281020Z 22011KT 9999 SCT020 BKN040 08/03 Q1016 FAVV 281000Z AUTO /////KT //// // ////// 23/11 Q1023 KGTF 280953Z 18011KT 10SM CLR 11/01 A2977 RMK AO2 SLP063 T01060011 $ KHJO 280953Z AUTO 32011KT 10SM CLR 18/09 A3008 RMK AO2 SLP185 T01780089 KGSO 280954Z 32006KT 10SM FEW120 01/M07 A2991 RMK AO2 SLP130 T00111067 KGSP 280953Z 36006KT 10SM CLR 01/M04 A2995 RMK AO2 SLP144 T00111044 KGRY 281040Z AUTO 35007G16KT 290V030 10SM CLR 21/12 A3015 RMK A01 WALL 281030Z 06010KT 9000 FEW018CB SCT018 29/25 Q1008 RMK CB TO W AND NW UTDD 281030Z 20002MPS 8000 -RA SCT008 OVC054 11/09 Q1019 R09/29//50 NOSIG RMK QFE695/0927 KHLC 280953Z AUTO 27005KT 10SM CLR 01/M01 A2995 RMK AO2 SLP146 T00111011 KGUC 281035Z 00000KT 10SM CLR M03/M07 A3036 RMK AO1 KIBM 281035Z AUTO 26005KT 10SM CLR 02/M03 A3001 RMK AO2 T00191027 KHLG 281031Z AUTO 29012G17KT 10SM OVC028 M09/M14 A3005 RMK AO2 T10941144 URWA 281030Z 08014G19MPS 7000 -DS NSC 08/M06 Q1029 TEMPO 08014G20MPS RMK QFE774/1032 SC070 UTDK 281030Z 27002MPS 9999 SCT013 BKN050 13/09 Q1017 0129//65 RMK QFE705/0941 KGTR 281035Z 34003KT 10SM BKN090 02/M02 A3020 RMK AO1 UTDL 281030Z 24006G09MPS 7000 -SHRA BKN055CB OVC110 12/08 Q1019 NOSIG RMK QFE727/0969 88CLRD70 KHKS 280953Z AUTO 00000KT 10SM CLR 04/02 A3020 RMK AO2 SLP220 T00440017 KIDA 280953Z AUTO 00000KT 10SM CLR 09/01 A3005 RMK AO2 SLP148 T00890006 WAMM 281030Z VRB01KT 9000 SCT021 26/25 Q1011 NOSIG KGTU 281035Z 00000KT 10SM CLR 07/04 A3012 RMK AO1 KGUL 281035Z AUTO 10SM CLR 22/11 A3014 RMK A01 KICL 281035Z AUTO 00000KT 10SM OVC065 01/M02 A3015 RMK AO2 KHLN 280953Z AUTO 29004KT 10SM CLR 07/01 A2984 RMK AO2 SLP104 T00670011 KGVE 281035Z AUTO 36003KT 10SM OVC060 00/M10 A2994 RMK AO1 T00001096 URWI 281000Z 10014G18MPS 9999 BKN048 08/M02 Q1025 NOSIG KGUP 280953Z AUTO 08003KT 10SM CLR M01/M11 A3029 RMK AO2 SLP177 T10061111 KHKY 280953Z AUTO VRB04KT 10SM CLR 01/M07 A2993 RMK AO2 SLP131 T00061072 UTFA 280430Z 05005KT 9999 BKN025CB OVC100 10/07 Q1021 R88/29//55 UTDT 281030Z 28003MPS 9999 BKN011CB OVC030 12/09 Q1018 35290650 RMK QFE724/0965 KICR 280953Z AUTO 12004KT 10SM OVC080 02/M02 A2998 RMK AO2 SLP159 T00171017 KIDI 281035Z AUTO 32009KT 6SM HZ SCT014 BKN019 OVC031 M09/M13 A3001 RMK A01 KHLR 280958Z AUTO 13003KT 10SM CLR 11/06 A3011 RMK AO2 SLP190 T01090057 KGUR 281035Z AUTO 26005KT 10SM 07/00 A3001 RMK AO2 T00680002 KGUS 280958Z AUTO 34006KT 10SM CLR M08/M11 A3018 RMK AO2 SLP235 T10821114 $ KICT 280953Z 15007KT 10SM BKN110 06/M01 A2999 RMK AO2 SLP158 T00561011 KHNB 281035Z AUTO 36006KT 10SM CLR M05/M11 A3022 RMK AO1 KGWB 281035Z AUTO 04003KT 10SM CLR M08/M12 A3022 RMK AO2 USNN 281030Z 28004MPS CAVOK M12/M22 Q1036 NOSIG RMK QFE773 03410265 KGVL 280953Z AUTO 32008KT 10SM FEW043 02/M05 A3001 RMK AO2 SLP163 T00171050 UTFF 281030Z 01006KT 7000 BKN012CB BKN100 11/08 Q1018 R18/19//60 KHND 280956Z AUTO 19007KT 10SM CLR 17/M04 A3007 RMK AO2 SLP164 T01721039 KHMN 280958Z AUTO 00000KT 10SM CLR 10/M08 A3012 RMK AO2 SLP150 T00981077 $ KHLX 281035Z AUTO 32014G18KT 10SM SCT026 BKN033 OVC041 M06/M10 A2988 RMK AO2 T10561097 KGUY 280953Z AUTO 25010KT 10SM CLR 09/01 A3002 RMK AO2 SLP141 T00940011 $ KIDP 281035Z AUTO 00000KT 10SM BKN100 05/01 A3004 RMK AO2 WBGB 281000Z 32007KT 260V040 9999 FEW015CB BKN300 29/26 Q1008 KIFA 281035Z AUTO 13003KT 10SM SCT075 M05/M07 A3018 RMK AO2 T10491075 KGXA 280955Z AUTO 24003KT 10SM CLR 14/M04 A3013 RMK AO2 SLP170 T01371040 TSNO $ KHOB 281035Z AUTO 21006KT 10SM CLR 08/00 A3008 RMK AO2 KGVT 281035Z AUTO 00000KT 10SM CLR 05/03 A3010 RMK AO2 EKSB 280950Z 19008KT 9999 FEW020 BKN045 07/02 Q1016 URWW 281030Z 09014G19MPS CAVOK 06/M18 Q1031 NOSIG RMK 11CLRD70 EKRK 281020Z AUTO 24007KT 9999NDV FEW015/// SCT024/// BKN042/// 06/03 Q1016 WAOO 281030Z 13003KT 9999 FEW017 27/25 Q1008 NOSIG WBGG 281030Z 34007KT 290V020 9999 FEW015CB SCT020 BKN300 28/24 Q1009 NOSIG KIEN 280952Z AUTO 00000KT 10SM CLR M01/M03 A2995 RMK AO2 SLP143 T10111033 $ KHOE 281035Z AUTO 00000KT 10SM CLR 06/04 A3008 RMK AO2 KGWO 280953Z AUTO 10004KT 10SM SCT085 04/M02 A3021 RMK AO2 SLP229 T00391022 EKRN 281020Z AUTO 26009KT 9999NDV BKN038/// 06/03 Q1018 KGXF 280958Z AUTO 16008KT 10SM CLR 18/M06 A2999 RMK AO2 SLP145 T01841058 WAPI 280500Z 10007KT 9999 SCT018 31/24 Q1011 NOSIG KHMZ 281035Z AUTO 29011KT 10SM BKN026 BKN032 M08/M15 A2995 RMK AO2 T10801150 KGWR 281035Z AUTO 12007KT BKN036 M01/M02 RMK A01 P000 KIER 281035Z AUTO 00000KT 10SM CLR 06/06 A3017 RMK AO2 T00600055 KHNR 281035Z AUTO 11003KT 10SM SCT050 OVC065 M01/M00 A3016 RMK AO2 DTTA 281030Z 30020G31KT 270V330 9999 SCT026TCU 17/10 Q1015 NOSIG KGYB 281035Z AUTO 00000KT 10SM CLR 10/06 A3017 RMK AO2 T00950064 DTTB 281000Z /////KT 9999 BKN020 SCT030 16/11 Q1016 FBSK 281000Z 33008KT 290V020 9999 SCT030 28/15 Q1019 NOSIG FDBB 281000Z AUTO 22007KT //// // ////// 25/17 Q1017 DTTD 280900Z 32012KT 280V010 CAVOK 16/01 Q1017 USPP 281030Z 23003MPS 210V270 CAVOK M01/M13 Q1044 21120055 NOSIG RMK QFE772/1030 KHON 280955Z AUTO 13010KT 10SM OVC028 M03/M04 A3006 RMK AO2 SLP195 T10281044 KGWW 281035Z AUTO 36007KT 10SM RA BKN008 OVC013 03/02 A2994 RMK AO2 T00290020 EKSN 271450Z 28010KT 9999 BKN020 07/04 Q1011 WBGR 281000Z 35009KT 9999 FEW016 BKN300 28/25 Q1008 DTTF 281000Z 34016G26KT 320V020 9999 SCT026 17/01 Q1016 NOSIG KIFP 281035Z AUTO 00000KT 10SM CLR 17/M03 A3001 RMK AO2 PWINO KHOP 280958Z AUTO 36002KT 10SM CLR M03/M07 A3018 RMK AO2 SLP227 T10271075 WBGS 281000Z 31005KT 9999 SCT018 BKN150 28/26 Q1008 DTTG 281000Z 28014KT 9999 FEW030 18/03 Q1017 NOSIG FBSP 281000Z 00000KT 9999 SCT020 BKN075 22/19 Q1020 EKSP 281020Z 21012KT 9999 SCT020 BKN043 07/02 Q1016 KHNZ 281035Z AUTO 30003KT 10SM SCT035 SCT110 01/M01 A2992 RMK AO2 T00131010 KGYH 281047Z 00000KT 10SM CLR M01/M04 A2999 KGYI 281035Z AUTO 16008KT 10SM CLR 09/05 A3008 RMK AO2 T00910048 DTTJ 281030Z 31016KT CAVOK 19/08 Q1015 NOSIG KHOT 280953Z AUTO 10005KT 10SM CLR 06/01 A3014 RMK AO2 SLP207 T00560011 DTTK 281000Z 32010G22KT 9999 FEW023 18/06 Q1015 KHOU 280953Z 09003KT 10SM CLR 14/07 A3013 RMK AO2 SLP208 T01440072 KGYL 281034Z AUTO 10003KT 10SM BKN065 OVC075 M07/M10 A3018 RMK AO2 T10671097 DTTL 281000Z 01012G25KT 9999 SCT033 16/12 Q1013 KIGM 280951Z AUTO 00000KT 10SM CLR 09/M03 A3014 RMK AO2 SLP150 T00891033 TSNO WBGY 281000Z 32005KT 250V020 9999 FEW015CB SCT150 BKN300 28/25 Q1008 KHPN 280956Z 33017G24KT 10SM SCT050 BKN070 01/M07 A2973 RMK AO2 PK WND 34026/0912 SLP071 T00061067 DTTN 281000Z 28014KT 8000 SCT020 SCT030 15/10 Q1018 KGXY 281035Z 00000KT CLR 01/M06 A3004 RMK AO1 KGZH 280953Z AUTO 00000KT 10SM CLR 04/02 A3016 RMK AO2 SLP210 T00390017 KIGQ 281035Z AUTO 00000KT 10SM CLR M05/M12 A3025 RMK AO2 T10551121 KGYR 280347Z 00000KT 10SM SKC 24/02 A3000 RMK LAST KHQI 281035Z AUTO 27010KT 10SM CLR 21/14 A3015 RMK A01 DTTR 280900Z 35008KT CAVOK 15/04 Q1019 KIIB 281035Z AUTO 13005KT 10SM SCT110 M06/M08 A3021 RMK AO2 KGZL 281035Z AUTO 14010G14KT 10SM FEW050 SCT080 OVC100 08/M04 A3008 RMK AO2 KHQM 281023Z AUTO 25014G21KT 8SM FEW021 SCT030 BKN037 11/08 A3016 RMK AO2 RAB11E21 P0000 T01060083 EKVD 281020Z 19011KT 160V220 9999 FEW024 SCT045 07/02 Q1015 KIGX 280956Z AUTO 30004KT 10SM FEW070 02/M03 A2992 RMK AO2 SLP133 T00221033 TSNO $ WARR 281030Z 05008KT 9999 SCT020CB 29/23 Q1007 USRR 281030Z 28006MPS 7000 SCT070 M13/M20 Q1038 NOSIG RMK QFE773 25////60 DTTX 281000Z 32021G33KT CAVOK 18/04 Q1014 NOSIG KGYY 281045Z 04010KT 10SM SKC M04/M13 A3026 EKVG 281050Z AUTO 12010KT 9999NDV DZ OVC007/// 03/02 Q0988 DTTZ 281000Z 20005G15KT 110V270 CAVOK 18/M01 Q1019 NOSIG KHRI 280953Z AUTO 24022G35KT 10SM OVC100 12/04 A3005 RMK AO2 PK WND 25035/0939 SLP173 T01170044 KHSA 280155Z 00000KT 10SM CLR 12/03 A3007 KHRJ 281035Z AUTO 00000KT 10SM SCT060 04/00 A2994 RMK AO2 T00400000 EKVJ 280950Z 20012KT 9999 FEW020 07/03 Q1016 KHSB 281035Z AUTO 02004KT 10SM CLR M03/M06 A3024 RMK AO2 T10351060 KHRL 280952Z 20007KT 10SM CLR 12/11 A3015 RMK AO2 SLP209 T01170106 KJAC 281035Z 35005KT 10SM CLR M02/M03 A3015 RMK AO1 KHQU 281035Z AUTO 00000KT 10SM CLR 04/00 A3007 RMK AO1 T00420002 KIJD 280952Z AUTO 35004KT 10SM OVC025 02/M01 A2971 RMK AO2 SLP062 T00221011 $ KHSE 280951Z AUTO 32012G19KT 10SM -RA FEW019 BKN027 OVC037 06/02 A2982 RMK AO2 RAB05 SLP097 P0000 T00560017 TSNO KHRO 280953Z AUTO 15006KT 10SM SCT070 BKN085 04/M03 A3010 RMK AO2 SLP197 T00441033 ELLX 281020Z 20010KT 160V240 9999 FEW026 BKN036 08/03 Q1020 NOSIG USSS 281030Z 02006MPS CAVOK M05/M21 Q1041 7625//50 NOSIG RMK QFE760 KHQZ 281035Z AUTO 00000KT 10SM CLR 07/05 A3010 RMK AO1 T00650048 WBKK 281030Z 01003KT 9999 FEW015 BKN290 29/25 Q1008 NOSIG KHSI 280953Z AUTO 05006KT 10SM CLR M03/M06 A2999 RMK AO2 SLP173 T10331056 WBKL 281000Z 01008KT 330V060 9999 FEW014 BKN300 28/24 Q1008 KL18 281035Z AUTO 04003KT 10SM CLR 13/11 A3006 RMK AO2 KHRT 280958Z AUTO 34008KT 10SM CLR 06/01 A3014 RMK AO2 SLP208 T00610005 $ FCOD 271522Z VRB02KT 5000 -TSRA FEW010 SCT016 FEW033CB 23/// Q1012 RERA UUBP 281000Z 09007G10MPS CAVOK 06/M04 Q1025 NOSIG 16CLRD70 RMK QFE750 KJAN 280954Z 00000KT 10SM CLR 03/02 A3019 RMK AO2 SLP224 T00330017 KHRX 281035Z AUTO 00000KT 10SM CLR 02/00 A3006 RMK AO2 T00241005 USTR 281030Z 35005MPS CAVOK M08/M18 Q1042 NOSIG RMK QFE772/1029 30CLRD65 03CLRD65 KHSP 281035Z AUTO 28012G20KT 7SM -SN BKN013 BKN019 OVC030 M10/M13 A2976 RMK AO2 T10961128 KIIY 281035Z AUTO 28008KT 10SM CLR 05/00 A3003 RMK AO2 WBKS 281000Z 08009KT 050V120 9999 SCT016 BKN300 28/24 Q1009 WATT 280800Z 32005KT 9999 FEW017CB SCT018 30/26 Q1009 NOSIG RMK CB TO NE AND E WBKT 281000Z 07010KT 9999 FEW015 BKN270 28/24 Q1010 KJAS 281035Z AUTO 00000KT 10SM CLR 08/07 A3018 RMK AO2 T00750067 KHUA 280958Z AUTO 33004KT 10SM CLR M01/M05 A3014 RMK AO2 SLP211 T10091049 UUDD 281030Z 14011MPS CAVOK 03/M10 Q1032 64010095 14010095 NOSIG KHST 280958Z AUTO 33007KT 10SM CLR 18/14 A3003 RMK AO2 SLP172 T01760142 KIKK 281035Z AUTO 00000KT 10SM CLR M06/M09 A3025 RMK AO2 T10571087 UUBW 281030Z 13010MPS CAVOK 04/M12 Q1034 NOSIG WBKW 281000Z 15003KT 9999 FEW017 BKN300 29/25 Q1009 KHTL 280953Z AUTO 00000KT 10SM CLR M15/M18 A3020 RMK AO2 SLP251 T11501178 KHSV 280953Z AUTO 33004KT 10SM CLR 00/M04 A3015 RMK AO2 SLP211 T00001044 KILE 281035Z AUTO 10SM CLR 12/04 A3011 RMK AO1 KHTO 272255Z 00000KT 10SM BKN040 06/04 A2972 KHUF 280953Z AUTO 01003KT 10SM CLR M06/M10 A3022 RMK AO2 SLP241 T10611100 KJAX 280956Z 30006KT 10SM CLR 07/02 A3003 RMK AO2 SLP171 T00720022 KIJX 281035Z AUTO 10005KT 10SM SCT120 M04/M07 A3023 RMK AO2 T10381066 KILG 280951Z 34013G16KT 10SM OVC065 02/M04 A2982 RMK AO2 SLP097 T00221044 KL35 281035Z AUTO 00000KT 10SM CLR 00/M04 A3031 RMK AO2 KJBR 280953Z AUTO 00000KT 10SM BKN085 OVC110 02/M02 A3020 RMK AO2 SLP226 T00221017 UUDL 281030Z 15007G14MPS 110V190 CAVOK 04/M16 Q1035 NOSIG RMK QFE768 23000060 KHTS 280951Z 33005KT 10SM FEW060 M04/M14 A3010 RMK AO2 SLP201 T10441139 KL38 281035Z AUTO 00000KT 10SM CLR 08/04 A3018 RMK AO2 T00830042 KIKT 281035Z AUTO 03009G15KT 10SM CLR 17/09 A3014 RMK A01 UUEE 281030Z 15008G14MPS CAVOK 04/M09 Q1031 07190062 57////// NOSIG KHUL 280953Z AUTO 02006KT 10SM CLR M07/M12 A2986 RMK AO2 SLP117 T10671117 KILM 281041Z AUTO 33016KT 6SM -RA BR SCT013 BKN028 OVC046 06/04 A2994 RMK AO2 RAE0956B31 P0000 T00610039 KHUM 281035Z AUTO 07003KT 7SM CLR 09/06 A3018 RMK AO2 T00870060 KJDD 281035Z AUTO 15003KT 10SM CLR 05/04 A3012 RMK AO2 KIKV 281035Z AUTO 10004KT 10SM OVC070 M02/M08 A3018 RMK AO2 KIKW 281034Z AUTO 33004KT 10SM CLR M11/M15 A3023 RMK AO2 T11101148 KILN 280954Z AUTO 02006KT 10SM CLR M07/M10 A3013 RMK AO2 SLP235 T10721100 $ KHVE 281035Z AUTO 00000KT 10SM CLR 03/M06 A3016 RMK AO2 FCPP 281000Z 31005KT 250V010 9999 SCT013 BKN023 FEW030CB 28/24 Q1014 NOSIG KHUT 280952Z AUTO 14007KT 10SM FEW100 04/00 A2998 RMK AO2 SLP148 T00440000 KJCT 280951Z AUTO 00000KT 10SM CLR 09/03 A3011 RMK AO2 SLP171 T00890033 UTNN 281030Z 33013KT CAVOK 15/00 Q1024 R33/CLRD60 NOSIG EKYT 281020Z 24007KT 9999 FEW012 BKN035 07/05 Q1014 KIML 280953Z AUTO 00000KT 10SM 01/M03 A2997 RMK AO2 SLP147 T00111028 $ KIMM 281035Z AUTO 00000KT 10SM CLR A3008 RMK A01 P000 KHWD 280954Z 21004KT 10SM CLR 14/11 A3015 RMK AO2 SLP220 T01390111 KIND 280954Z 33006KT 10SM SCT025 M08/M11 A3018 RMK AO2 SLP230 T10781111 KJDN 281048Z AUTO 22003KT 01/M01 A2976 RMK AO1 SLP085 T00061006 KHVN 280953Z 34011G19KT 10SM OVC046 02/M03 A2970 RMK AO2 SLP058 T00221028 KJEF 280953Z AUTO 10008KT 10SM OVC065 02/M04 A3017 RMK AO2 SLP209 T00171044 KINF 281035Z AUTO 00000KT 10SM CLR A3011 RMK AO2 ZYTL 281030Z 08004MPS 4000 BR FEW040 08/06 Q1014 NOSIG KHVR 280953Z AUTO 23008KT 10SM CLR 07/02 A2971 RMK AO2 SLP055 T00720017 UTNU 281030Z 020054KT CAVOK 16/M00 Q1023 R31/CLRD70 NOSIG KHVS 281035Z AUTO 00000KT 10SM SCT060 SCT075 04/01 A2997 RMK AO2 KIMS 281034Z AUTO 34003KT 10SM CLR M05/M10 A3020 RMK AO1 KINJ 281035Z AUTO 16006KT 10SM CLR 09/04 A3010 RMK AO2 T00850037 KINK 280953Z AUTO 14007KT 10SM CLR 08/03 A3006 RMK AO2 SLP148 T00830028 KIMT 280954Z AUTO 00000KT 10SM CLR M16/M19 A3020 RMK AO2 SLP253 T11611194 TSNO KIOB 281035Z AUTO 03004KT 10SM OVC042 M04/M09 A3015 RMK AO2 KINL 280955Z AUTO 14004KT 10SM CLR M11/M14 A3013 RMK AO2 SLP224 I1000 T11061139 KHXD 280935Z AUTO 31005KT 10SM CLR 09/06 A2999 RMK AO2 P0000 KHWO 280953Z AUTO 33011KT 10SM CLR 18/13 A3004 RMK AO2 SLP172 T01780133 KJER 280953Z AUTO 12005KT 10SM CLR 10/00 A3001 RMK AO2 SLP139 T01000000 KHYA 280956Z 03007KT 10SM -RA BKN013 OVC055 03/02 A2965 RMK AO2 SLP042 P0002 T00280017 KJES 281035Z AUTO 30004KT 10SM CLR 07/03 A3006 RMK AO2 KINS 280958Z AUTO 00000KT 10SM CLR 12/M04 A3009 RMK AO2 SLP154 T01221041 KJFK 280951Z 35016G26KT 10SM BKN055 OVC100 03/M08 A2975 RMK AO2 PK WND 36026/0942 SLP075 T00281078 $ KINT 280954Z AUTO 30003KT 10SM CLR 01/M06 A2993 RMK AO2 SLP139 T00111056 ZYTX 281030Z 16002MPS 120V180 6000 OVC040 09/04 Q1014 NOSIG ENAL 281020Z 18011KT 9999 SCT050 08/00 Q1003 KHWV 281039Z AUTO 34010KT 2SM -SN BR OVC022 01/M01 A2974 RMK AO2 P0001 T00061011 TSNO KINW 280956Z AUTO 18004KT 10SM CLR 06/M06 A3022 RMK AO2 SLP189 T00561061 ENAN 281020Z 19013KT 9999 FEW020 SCT200 03/M01 Q1000 NOSIG KHWY 281035Z AUTO 32015G18KT 10SM SCT040 SCT048 SCT060 M01/M06 A2995 RMK AO2 T10061065 KJGG 281035Z AUTO 35013G21KT 320V020 10SM OVC060 04/M01 A2990 RMK AO1 KHYI 281035Z 00000KT 10SM CLR 08/04 A3013 RMK AO1 FDJR 281000Z AUTO 14003KT //// // ////// 20/14 Q1022 KIPJ 281035Z AUTO 33004KT 10SM CLR 01/M05 A2996 RMK AO2 T00101053 KIPL 280953Z AUTO 31006KT 10SM CLR 22/02 A2994 RMK AO2 SLP140 T02170017 ENAT 281000Z 06006KT CAVOK 02/M03 Q1002 RMK WIND 700FT 08004KT FDLB 281000Z AUTO 07002KT //// // ////// 22/17 Q1022 ENBL 281020Z 17009KT 130V210 9999 BKN030 04/M02 Q1004 KIOW 280952Z AUTO 00000KT 10SM CLR M06/M10 A3024 RMK AO2 SLP247 T10561100 KIPN 281035Z AUTO VRB04G13KT 10SM SCT025 SCT040 19/10 A3014 RMK A01 KHZE 281035Z AUTO 00000KT 9SM CLR M04/M04 A2993 RMK AO2 ENBN 281020Z 19014KT 9999 VCSH BKN030 05/M00 Q1004 KJFX 281035Z AUTO 00000KT 10SM CLR 01/00 A3018 RMK A02 P-128 ENBO 281020Z 09014KT 9999 FEW030 BKN050 04/M01 Q1002 TEMPO 20012KT 4000 SHSN BKN012CB UTSA 281030Z 36008KT 5000 FU NSC 16/02 Q1020 R07/CLRD70 NOSIG KJFZ 281035Z AUTO 31008G16KT 10SM SCT019 SCT031 OVC043 M06/M12 A2995 RMK AO2 T10611124 UTSB 281030Z 31005KT CAVOK 17/M00 Q1020 R01/CLRD70 NOSIG WBSB 281030Z 35008KT 9000 FEW016 FEW017CB SCT140 BKN300 28/25 Q1009 NOSIG KHYR 280953Z AUTO 00000KT 10SM CLR M10/M14 A3018 RMK AO2 SLP240 T11001139 ENBR 281020Z 15017G28KT 9999 FEW020 SCT045 BKN150 06/M00 Q1005 TEMPO 15017KT RMK WIND 1200FT 14034KT KHYS 281035Z AUTO 31007KT 10SM CLR 01/M04 A2994 RMK AO1 ENBS 280950Z /////KT 9999 DRSN FEW015 SCT028 M01/M08 Q0999 RMK WIND RWY03 23026KT KIPT 280954Z AUTO 31008KT 10SM BKN060 OVC075 M03/M10 A2991 RMK AO2 SLP133 T10331100 KHZL 281035Z AUTO 34009G14KT 4SM -SN OVC017 M04/M07 A2982 RMK AO2 FDLM 280600Z AUTO 00000KT //// // ////// ///// Q//// ENBV 280950Z 23020KT CAVOK 00/M04 Q1000 KHYW 281035Z AUTO 00000KT 7SM SCT025 BKN085 07/07 A2995 RMK AO2 KJHN 281035Z AUTO 27008KT 10SM CLR 08/01 A3000 RMK AO2 T00800006 ENCN 281020Z 20005KT 9999 SCT016 05/02 Q1012 KHYX 281035Z AUTO 31007KT 10SM CLR M09/M13 A3023 RMK AO2 UTSK 281030Z 34008KT 290V360 9999 FEW036CB BKN100 16/01 Q1020 R16/CLRD70 KHZR 281035Z AUTO 09004KT 10SM CLR 08/04 A3018 RMK AO2 T00770037 KIRK 280955Z AUTO 11005KT 10SM OVC090 M02/M07 A3018 RMK AO2 SLP230 T10171072 TSNO KJHW 281035Z 33006KT 7SM FEW013 BKN019 OVC060 M11/M14 A2995 RMK AO1 FDND 281000Z AUTO /////KT //// // ////// 23/15 Q1018 KHZX 281034Z AUTO 00000KT 10SM CLR M10/M11 A3017 RMK AO2 KHZY 280953Z AUTO 34005KT 10SM CLR M10/M14 A3007 RMK AO2 SLP196 T11001144 UTSS 281030Z 11005KT 080V140 9999 SCT031 SCT066CB 12/06 Q1019 R88/CLRD70 NOSIG UTST 281030Z 25005KT 9999 BKN013 OVC033CB 10/08 Q1020 R88/190265 NOSIG ENDR 281020Z AUTO 20027KT 05/04 Q1002 KIRS 281035Z AUTO 00000KT 10SM CLR M10/M14 A3021 RMK AO2 KJKA 281035Z AUTO 00000KT 10SM CLR 06/03 A3019 RMK AO2 T00600026 FDMS 281000Z 00000KT 9999 SCT015 BKN030 20/17 Q1020 NOSIG KM19 280956Z AUTO 14007KT 10SM OVC070 04/M01 A3021 RMK AO2 T00381011 SLP231 ENFB 281020Z AUTO 17038KT 9999NDV BKN016/// 07/04 Q0997 W///S4 ENEK 281020Z 15038KT 7000 RA SCT015 BKN040 06/03 Q1003 W07/S3 KISM 281050Z 28005KT 10SM SKC 11/07 A3010 RMK FIRST ENDU 281020Z 13003KT 090V180 9999 FEW030 SCT045 03/M04 Q1002 NOSIG RMK WIND AT 1100FT 20010KT FDMV 280900Z AUTO 24004KT //// // ////// 21/19 Q1026 KISN 280952Z AUTO 01003KT 10SM CLR M01/M02 A2985 RMK AO2 SLP121 T10111017 KISO 281035Z AUTO 33011G15KT 5SM -RA OVC012 04/03 A2994 RMK AO2 P0001 T00350025 FEFF 280900Z 22004KT 150V270 9999 SCT020 28/22 Q1014 NOSIG KM25 281115Z AUTO 10SM CLR M02/M05 A3022 RMK AO2 KISP 280956Z 34010G18KT 8SM -SN BKN037 OVC048 02/M03 A2971 RMK AO2 SNB47 SLP061 FIRST AUGMENTED OBSERVATION P0000 T00171033 LBBG 281030Z 14006KT 4900 DZ BKN005 OVC011 10/10 Q1003 NOSIG FDMY 280900Z AUTO 22004KT //// // ////// 02/02 Q1029 ENFG 271620Z 30006KT 9999 FEW009 SCT035 BKN200 M01/M05 Q1005 KISQ 281034Z AUTO 29003KT 10SM CLR M17/M19 A3027 RMK AO2 T11731186 KITH 281030Z 34008KT 10SM -SN SCT022 OVC039 M08/M12 A2994 RMK AO2 SNE0959B30 P0000 UTTT 281030Z 26009KT 220V290 CAVOK 15/02 Q1019 R88/CLRD70 NOSIG KJKJ 281031Z AUTO 15008KT 10SM CLR M04/M07 A3012 RMK AO2 KM30 281035Z AUTO 00000KT 10SM CLR M04/M04 A3021 RMK AO2 T10411041 KJKL 280953Z AUTO 33004KT 10SM OVC050 M04/M09 A3007 RMK AO2 SLP193 T10391089 ENFL 281020Z 14017KT 9999 FEW035 SCT050 BKN060 06/01 Q1003 ENGC 281020Z 19039KT 9999 BKN015 07/03 Q0998 W06/S5 ENEV 280950Z 22004KT 9999 BKN029 02/M03 Q1003 RMK WIND 1400FT 17009KT KISW 280954Z AUTO 00000KT 10SM CLR M12/M14 A3023 RMK AO2 SLP255 T11221144 FDNY 281000Z AUTO 21003KT //// // ////// 20/15 Q1029 KITR 280953Z AUTO 27010KT 10SM CLR 06/01 A3001 RMK AO2 SLP136 T00560006 KM40 281035Z AUTO 00000KT 10SM BKN085 01/M05 A3023 RMK AO2 FDOT 280600Z AUTO /////KT //// // ////// 20/16 Q1020 UUMO 281030Z 14007G10MPS CAVOK 03/M13 Q1032 NOSIG RMK QFE759/1012 08190055 ENHD 281020Z 14020KT 9999 BKN020 06/02 Q1006 ENGM 281020Z 16004KT 120V190 3000 BR BCFG BKN002 M00/M01 Q1011 TEMPO 9999 BKN005 KJLN 280953Z AUTO 13004KT 10SM FEW100 05/M03 A3009 RMK AO2 SLP191 T00501028 ENHE 281020Z 22016KT 9999 VCSH FEW015CB SCT025 BKN080 06/01 Q0999 W///S5 ENHF 280950Z 22010KT 9999 FEW014 SCT035 BKN090 02/M02 Q1000 RMK WIND 1254FT 20014KT UUOB 281030Z 10011G15MPS CAVOK 08/M06 Q1023 29090060 NOSIG KIWA 281035Z AUTO 10008KT 10SM CLR 13/M03 A3005 RMK AO2 ENHK 271550Z 11013KT CAVOK 02/M04 Q1007 KIWD 281035Z AUTO 08003KT 10SM CLR M15/M17 A3016 RMK AO1